N/A Airport Information

Runway Information
Airport Frequencies
Airport Navaids
Airport Weather Information & NOTAM
SPECI for:CYXS (Prince George Arpt, BC, CA)
Text:CYXS 200613Z AUTO 00000KT 3SM BR CLR 12/11 A3016 RMK SLP229
Conditions at:0613 UTC 20 Jul 2024
Temperature: 12.0°C ( 54°F)
Dewpoint: 11.0°C ( 52°F) [RH = 94%]
Pressure (altimeter):30.16 inches Hg (1021.4 mb) [Sea level pressure: 1022.9 mb]
Winds:calm
Visibility:3 sm (5 km)
Ceiling:at least 12,000 feet AGL
Clouds:sky clear below 12,000 feet AGL
Weather:BR (mist)
SPECI for:KOAJ (Jacksonville/Ellis Arpt, NC, US)
Text:KOAJ 200612Z AUTO 18005KT 10SM -RA OVC100 23/23 A3010 RMK AO2 TSE01 P0002
Conditions at:0612 UTC 20 Jul 2024
Temperature: 23.0°C ( 73°F)
Dewpoint: 23.0°C ( 73°F) [RH = 100%]
Pressure (altimeter):30.10 inches Hg (1019.4 mb)
Winds:from the S (180 degrees) at 6 MPH (5 knots; 2.6 m/s)
Visibility:10 or more sm (16+ km)
Ceiling:10000 feet AGL
Clouds:overcast cloud deck at 10000 feet AGL
Weather:-RA (light rain)
QC Flag:automated observation with no human augmentation
TAF for:KOAJ (Jacksonville/Ellis Arpt, NC, US) issued at 0544 UTC 20 Jul 2024
Text:KOAJ 200544Z 2006/2106 19010KT P6SM -TSRA BKN012 OVC040CB
Forecast period:0600 to 0700 UTC 20 July 2024
Forecast type:FROM: standard forecast or significant change
Winds:from the S (190 degrees) at 12 MPH (10 knots; 5.1 m/s)
Visibility:6 or more sm (10+ km)
Ceiling:1200 feet AGL
Clouds:broken clouds at 1200 feet AGL, overcast cloud deck at 4000 feet AGL
Weather:-TSRA (light rain associated with thunderstorm(s))
Text:FM200700 VRB06KT P6SM SCT025
Forecast period:0700 to 1600 UTC 20 July 2024
Forecast type:FROM: standard forecast or significant change
Winds:variable direction winds at 7 MPH (6 knots; 3.1 m/s)
Visibility:6 or more sm (10+ km)
Ceiling:at least 12,000 feet AGL
Clouds:scattered clouds at 2500 feet AGL
Text:FM201600 22010KT P6SM SCT035 AMD LTD TO CLD VIS AND WIND
Forecast period:1600 UTC 20 July 2024 to 0600 UTC 21 July 2024
Forecast type:FROM: standard forecast or significant change
Winds:from the SW (220 degrees) at 12 MPH (10 knots; 5.1 m/s)
Visibility:6 or more sm (10+ km)
Ceiling:at least 12,000 feet AGL
Clouds:scattered clouds at 3500 feet AGL
SPECI for:CYYW (Armstrong Arpt, ON, CA)
Text:CYYW 200612Z AUTO 00000KT 2 1/2SM BR FEW050 BKN086 16/16 A2999 RMK SLP152 DENSITY ALT 1400FT
Conditions at:0612 UTC 20 Jul 2024
Temperature: 16.0°C ( 61°F)
Dewpoint: 16.0°C ( 61°F) [RH = 100%]
Pressure (altimeter):29.99 inches Hg (1015.7 mb) [Sea level pressure: 1015.2 mb]
Winds:calm
Visibility:2.50 sm (4.02 km)
Ceiling:8600 feet AGL
Clouds:few clouds at 5000 feet AGL, broken clouds at 8600 feet AGL
Weather:BR (mist)
SPECI for:CYVT (Buffalo Narrows Arpt, SK, CA)
Text:CYVT 200612Z AUTO 34005KT 1 1/4SM HZ BKN030 OVC036 21/18 A3010 RMK SLP198 DENSITY ALT 2300FT
Conditions at:0612 UTC 20 Jul 2024
Temperature: 21.0°C ( 70°F)
Dewpoint: 18.0°C ( 64°F) [RH = 83%]
Pressure (altimeter):30.10 inches Hg (1019.4 mb) [Sea level pressure: 1019.8 mb]
Winds:from the NNW (340 degrees) at 6 MPH (5 knots; 2.6 m/s)
Visibility:1.25 sm (2.01 km)
Ceiling:3000 feet AGL
Clouds:broken clouds at 3000 feet AGL, overcast cloud deck at 3600 feet AGL
Weather:HZ (haze)
SPECI for:CYNM (Matagami Arpt, QC, CA)
Text:CYNM 200612Z AUTO 03005KT 9SM OVC026 09/08 A2987 RMK SLP126
Conditions at:0612 UTC 20 Jul 2024
Temperature: 9.0°C ( 48°F)
Dewpoint: 8.0°C ( 46°F) [RH = 93%]
Pressure (altimeter):29.87 inches Hg (1011.6 mb) [Sea level pressure: 1012.6 mb]
Winds:from the NNE (30 degrees) at 6 MPH (5 knots; 2.6 m/s)
Visibility:9 sm (14 km)
Ceiling:2600 feet AGL
Clouds:overcast cloud deck at 2600 feet AGL
SPECI for:CWSA (Sable Island, NS, CA)
Text:CWSA 200612Z AUTO 23006KT 1SM BR 15/15 A3004 RMK CLD MISG SLP175
Conditions at:0612 UTC 20 Jul 2024
Temperature: 15.0°C ( 59°F)
Dewpoint: 15.0°C ( 59°F) [RH = 100%]
Pressure (altimeter):30.04 inches Hg (1017.4 mb) [Sea level pressure: 1017.5 mb]
Winds:from the SW (230 degrees) at 7 MPH (6 knots; 3.1 m/s)
Visibility:1.00 sm (1.61 km)
Weather:BR (mist)
SPECI for:KHWO (Hollywood/North Perry Aprt, FL, US)
Text:KHWO 200611Z 10SM CLR 27/21 A3013 RMK AO2 LTG DSNT NE T02670211 $
Conditions at:0611 UTC 20 Jul 2024
Temperature: 26.7°C ( 80°F)
Dewpoint: 21.1°C ( 70°F) [RH = 71%]
Pressure (altimeter):30.13 inches Hg (1020.4 mb)
Visibility:10 or more sm (16+ km)
Ceiling:at least 12,000 feet AGL
Clouds:sky clear below 12,000 feet AGL
QC Flag:SOME DATA ABOVE MAY BE INACCURATE!!!"$" is an indication the sensor requires maintenance.
SPECI for:KGRD (Greenwood Cnty, GA, US)
Text:KGRD 200611Z AUTO 25004KT 10SM SCT005 22/21 A3011 RMK AO2 T02170211
Conditions at:0611 UTC 20 Jul 2024
Temperature: 21.7°C ( 71°F)
Dewpoint: 21.1°C ( 70°F) [RH = 96%]
Pressure (altimeter):30.11 inches Hg (1019.7 mb)
Winds:from the WSW (250 degrees) at 5 MPH (4 knots; 2.1 m/s)
Visibility:10 or more sm (16+ km)
Ceiling:at least 12,000 feet AGL
Clouds:scattered clouds at 500 feet AGL
QC Flag:automated observation with no human augmentation
SPECI for:KGLS (Galveston/Scholes Intl, TX, US)
Text:KGLS 200611Z AUTO 11007KT 1 1/2SM +TSRA BR OVC037 24/24 A3001 RMK AO2 LTG DSNT ALQDS P0030 T02390239
Conditions at:0611 UTC 20 Jul 2024
Temperature: 23.9°C ( 75°F)
Dewpoint: 23.9°C ( 75°F) [RH = 100%]
Pressure (altimeter):30.01 inches Hg (1016.3 mb)
Winds:from the ESE (110 degrees) at 8 MPH (7 knots; 3.6 m/s)
Visibility:1.50 sm (2.41 km)
Ceiling:3700 feet AGL
Clouds:overcast cloud deck at 3700 feet AGL
Weather:+TSRA BR (heavy rain associated with thunderstorm(s), mist)
QC Flag:automated observation with no human augmentation
TAF for:KGLS (Galveston/Scholes Intl, TX, US) issued at 0559 UTC 20 Jul 2024
Text:KGLS 200559Z 2006/2106 VRB05KT 3SM -TSRA BR SCT020 SCT035CB BKN060
Forecast period:0600 to 1000 UTC 20 July 2024
Forecast type:FROM: standard forecast or significant change
Winds:variable direction winds at 6 MPH (5 knots; 2.6 m/s)
Visibility:3 sm (5 km)
Ceiling:6000 feet AGL
Clouds:scattered clouds at 2000 feet AGL, scattered clouds at 3500 feet AGL, broken clouds at 6000 feet AGL
Weather:-TSRA BR (light rain associated with thunderstorm(s), mist)
Text:TEMPO 2006/2009 2SM +TSRA BR SCT020 BKN035CB
Forecast period:0600 to 0900 UTC 20 July 2024
Forecast type:TEMPORARY: The following changes expected for less than half the time period
Visibility:2.00 sm (3.22 km)
Ceiling:3500 feet AGL
Clouds:scattered clouds at 2000 feet AGL, broken clouds at 3500 feet AGL
Weather:+TSRA BR (heavy rain associated with thunderstorm(s), mist)
Text:FM201000 29006KT P6SM VCSH SCT025 SCT250
Forecast period:1000 to 1500 UTC 20 July 2024
Forecast type:FROM: standard forecast or significant change
Winds:from the WNW (290 degrees) at 7 MPH (6 knots; 3.1 m/s)
Visibility:6 or more sm (10+ km)
Ceiling:at least 12,000 feet AGL
Clouds:scattered clouds at 2500 feet AGL, scattered clouds at 25000 feet AGL
Weather:VCSH (showers in vicinity)
Text:FM201500 33006KT P6SM VCSH SCT025 SCT250
Forecast period:1500 to 1900 UTC 20 July 2024
Forecast type:FROM: standard forecast or significant change
Winds:from the NNW (330 degrees) at 7 MPH (6 knots; 3.1 m/s)
Visibility:6 or more sm (10+ km)
Ceiling:at least 12,000 feet AGL
Clouds:scattered clouds at 2500 feet AGL, scattered clouds at 25000 feet AGL
Weather:VCSH (showers in vicinity)
Text:FM201900 17006KT P6SM SCT030 SCT250
Forecast period:1900 UTC 20 July 2024 to 0600 UTC 21 July 2024
Forecast type:FROM: standard forecast or significant change
Winds:from the S (170 degrees) at 7 MPH (6 knots; 3.1 m/s)
Visibility:6 or more sm (10+ km)
Ceiling:at least 12,000 feet AGL
Clouds:scattered clouds at 3000 feet AGL, scattered clouds at 25000 feet AGL
SPECI for:KARB (Ann Arbor Muni, MI, US)
Text:KARB 200611Z AUTO 24003KT 1 1/4SM BR CLR 12/11 A3013 RMK AO2 T01170111
Conditions at:0611 UTC 20 Jul 2024
Temperature: 11.7°C ( 53°F)
Dewpoint: 11.1°C ( 52°F) [RH = 96%]
Pressure (altimeter):30.13 inches Hg (1020.4 mb)
Winds:from the WSW (240 degrees) at 3 MPH (3 knots; 1.5 m/s)
Visibility:1.25 sm (2.01 km)
Ceiling:at least 12,000 feet AGL
Clouds:sky clear below 12,000 feet AGL
Weather:BR (mist)
QC Flag:automated observation with no human augmentation
SPECI for:KAMA (Amarillo Intl Arpt, TX, US)
Text:KAMA 200611Z AUTO 34012G21KT 2SM TSRA SCT043 SCT060 OVC070 23/16 A3021 RMK AO2 VIS 1V5 LTG DSNT ALQDS P0011 T02280161 $
Conditions at:0611 UTC 20 Jul 2024
Temperature: 22.8°C ( 73°F)
Dewpoint: 16.1°C ( 61°F) [RH = 66%]
Pressure (altimeter):30.21 inches Hg (1023.1 mb)
Winds:from the NNW (340 degrees) at 14 MPH (12 knots; 6.2 m/s) gusting to 24 MPH (21 knots; 10.8 m/s)
Visibility:2.00 sm (3.22 km)
Ceiling:7000 feet AGL
Clouds:scattered clouds at 4300 feet AGL, scattered clouds at 6000 feet AGL, overcast cloud deck at 7000 feet AGL
Weather:TSRA (rain associated with thunderstorm(s))
QC Flag:automated observation with no human augmentation; SOME DATA ABOVE MAY BE INACCURATE!!!"$" is an indication the sensor requires maintenance.
TAF for:KAMA (Amarillo Intl Arpt, TX, US) issued at 0528 UTC 20 Jul 2024
Text:KAMA 200528Z 2006/2106 17012KT P6SM VCTS SCT090CB BKN200
Forecast period:0600 to 0900 UTC 20 July 2024
Forecast type:FROM: standard forecast or significant change
Winds:from the S (170 degrees) at 14 MPH (12 knots; 6.2 m/s)
Visibility:6 or more sm (10+ km)
Ceiling:20000 feet AGL
Clouds:scattered clouds at 9000 feet AGL, broken clouds at 20000 feet AGL
Weather:VCTS (thunderstorm in vicinity)
Text:FM200900 26007KT P6SM SCT200
Forecast period:0900 to 2000 UTC 20 July 2024
Forecast type:FROM: standard forecast or significant change
Winds:from the W (260 degrees) at 8 MPH (7 knots; 3.6 m/s)
Visibility:6 or more sm (10+ km)
Ceiling:at least 12,000 feet AGL
Clouds:scattered clouds at 20000 feet AGL
Text:FM202000 04010KT P6SM SCT150
Forecast period:2000 UTC 20 July 2024 to 0600 UTC 21 July 2024
Forecast type:FROM: standard forecast or significant change
Winds:from the NE (40 degrees) at 12 MPH (10 knots; 5.1 m/s)
Visibility:6 or more sm (10+ km)
Ceiling:at least 12,000 feet AGL
Clouds:scattered clouds at 15000 feet AGL
SPECI for:ETEB (Katterbach Arpt(MIL), BY, DE)
Text:ETEB 200611Z AUTO 00000KT 9999 FEW065 22/16 A2992 RMK AO2 DZB05E11 SLP135 $
Conditions at:0611 UTC 20 Jul 2024
Temperature: 22.0°C ( 72°F)
Dewpoint: 16.0°C ( 61°F) [RH = 69%]
Pressure (altimeter):29.92 inches Hg (1013.3 mb) [Sea level pressure: 1013.5 mb]
Winds:calm
Visibility:6 or more sm (10+ km)
Ceiling:at least 12,000 feet AGL
Clouds:few clouds at 6500 feet AGL
QC Flag:automated observation with no human augmentation; SOME DATA ABOVE MAY BE INACCURATE!!!"$" is an indication the sensor requires maintenance.
SPECI for:CYWK (Wabush Lake Arpt, NL, CA)
Text:CYWK 200611Z AUTO 19012KT 9SM -RA BKN076 OVC091 14/12 A2974 RMK SLP083 DENSITY ALT 2300FT
Conditions at:0611 UTC 20 Jul 2024
Temperature: 14.0°C ( 57°F)
Dewpoint: 12.0°C ( 54°F) [RH = 88%]
Pressure (altimeter):29.74 inches Hg (1007.2 mb) [Sea level pressure: 1008.3 mb]
Winds:from the S (190 degrees) at 14 MPH (12 knots; 6.2 m/s)
Visibility:9 sm (14 km)
Ceiling:7600 feet AGL
Clouds:broken clouds at 7600 feet AGL, overcast cloud deck at 9100 feet AGL
Weather:-RA (light rain)
SPECI for:CYPO (Peawanuck Arpt, ON, CA)
Text:CYPO 200611Z AUTO 34006KT 310V040 7SM -RA OVC008 05/04 A3003 RMK SLP172
Conditions at:0611 UTC 20 Jul 2024
Temperature: 5.0°C ( 41°F)
Dewpoint: 4.0°C ( 39°F) [RH = 93%]
Pressure (altimeter):30.03 inches Hg (1017.0 mb) [Sea level pressure: 1017.2 mb]
Winds:from the NNW (340 degrees) at 7 MPH (6 knots; 3.1 m/s)
Visibility:7 sm (11 km)
Ceiling:800 feet AGL
Clouds:overcast cloud deck at 800 feet AGL
Weather:-RA (light rain)
SPECI for:YMAV (Avalon Arpt, VI, AU)
Text:YMAV 200610Z AUTO 27017G27KT 9999 // SCT029 BKN048 BKN071 12/09 Q1004
Conditions at:0610 UTC 20 Jul 2024
Temperature: 12.0°C ( 54°F)
Dewpoint: 9.0°C ( 48°F) [RH = 82%]
Pressure (altimeter):29.65 inches Hg (1004.0 mb)
Winds:from the W (270 degrees) at 20 MPH (17 knots; 8.7 m/s) gusting to 31 MPH (27 knots; 13.9 m/s)
Visibility:6 or more sm (10+ km)
Ceiling:4800 feet AGL
Clouds:scattered clouds at 2900 feet AGL, broken clouds at 4800 feet AGL, broken clouds at 7100 feet AGL
TAF for:YMAV (Avalon Arpt, VI, AU) issued at 0527 UTC 20 Jul 2024
Text:TAF YMAV 200527Z 2006/2106 26020G35KT 9999 -SHRA BKN020
Forecast period:0600 to 1000 UTC 20 July 2024
Forecast type:FROM: standard forecast or significant change
Winds:from the W (260 degrees) at 23 MPH (20 knots; 10.3 m/s) gusting to 40 MPH (35 knots; 18.0 m/s)
Visibility:6 or more sm (10+ km)
Ceiling:2000 feet AGL
Clouds:broken clouds at 2000 feet AGL
Weather:-SHRA (light rain showers)
Text:FM201000 27014KT 9999 NSW SCT030
Forecast period:1000 to 1800 UTC 20 July 2024
Forecast type:FROM: standard forecast or significant change
Winds:from the W (270 degrees) at 16 MPH (14 knots; 7.2 m/s)
Visibility:6 or more sm (10+ km)
Ceiling:at least 12,000 feet AGL
Clouds:scattered clouds at 3000 feet AGL
Weather:NSW (no significant weather)
Text:FM201800 28010KT 9999 SCT030
Forecast period:1800 UTC 20 July 2024 to 0200 UTC 21 July 2024
Forecast type:FROM: standard forecast or significant change
Winds:from the W (280 degrees) at 12 MPH (10 knots; 5.1 m/s)
Visibility:6 or more sm (10+ km)
Ceiling:at least 12,000 feet AGL
Clouds:scattered clouds at 3000 feet AGL
Text:FM210200 29013KT 9999 SCT030
Forecast period:0200 to 0600 UTC 21 July 2024
Forecast type:FROM: standard forecast or significant change
Winds:from the WNW (290 degrees) at 15 MPH (13 knots; 6.7 m/s)
Visibility:6 or more sm (10+ km)
Ceiling:at least 12,000 feet AGL
Clouds:scattered clouds at 3000 feet AGL
Text:INTER 2006/2009 25022G38KT 4000 SHRA BKN015
Forecast period:0600 to 0900 UTC 20 July 2024
Forecast type:TEMPORARY: The following changes expected for less than half the time period
Winds:from the WSW (250 degrees) at 25 MPH (22 knots; 11.3 m/s) gusting to 44 MPH (38 knots; 19.5 m/s)
Visibility:2.49 sm (4.01 km)
Ceiling:1500 feet AGL
Clouds:broken clouds at 1500 feet AGL
Weather:SHRA (rain showers)
SPECI for:PPIZ (Point Lay Arpt, AK, US)
Text:PPIZ 200610Z AUTO 27010KT 5SM BR BKN003 BKN006 OVC027 06/05 A3002 RMK AO2
Conditions at:0610 UTC 20 Jul 2024
Temperature: 6.0°C ( 43°F)
Dewpoint: 5.0°C ( 41°F) [RH = 93%]
Pressure (altimeter):30.02 inches Hg (1016.7 mb)
Winds:from the W (270 degrees) at 12 MPH (10 knots; 5.1 m/s)
Visibility:5 sm (8 km)
Ceiling:300 feet AGL
Clouds:broken clouds at 300 feet AGL, broken clouds at 600 feet AGL, overcast cloud deck at 2700 feet AGL
Weather:BR (mist)
QC Flag:automated observation with no human augmentation
SPECI for:KWRB (Warner Robins AFB, GA, US)
Text:KWRB 200610Z AUTO 00000KT 1 7/8SM BR OVC001 23/22 A3009 RMK AO2 VIS 1 3/8 RWY15 SLP189
Conditions at:0610 UTC 20 Jul 2024
Temperature: 23.0°C ( 73°F)
Dewpoint: 22.0°C ( 72°F) [RH = 94%]
Pressure (altimeter):30.09 inches Hg (1019.0 mb) [Sea level pressure: 1018.9 mb]
Winds:calm
Visibility:1.88 sm (3.03 km)
Ceiling:100 feet AGL
Clouds:overcast cloud deck at 100 feet AGL
Weather:BR (mist)
QC Flag:automated observation with no human augmentation
METAR for:KUKF (Wilkesboro/Wilkes Cnty, NC, US)
Text:KUKF 200610Z AUTO 00000KT 10SM BKN015 OVC021 20/20 A3021 RMK AO2
Conditions at:0610 UTC 20 Jul 2024
Temperature: 20.0°C ( 68°F)
Dewpoint: 20.0°C ( 68°F) [RH = 100%]
Pressure (altimeter):30.21 inches Hg (1023.1 mb)
Winds:calm
Visibility:10 or more sm (16+ km)
Ceiling:1500 feet AGL
Clouds:broken clouds at 1500 feet AGL, overcast cloud deck at 2100 feet AGL
QC Flag:automated observation with no human augmentation
METAR for:KSUT (Southport/Cape Fear Rgnl, NC, US)
Text:KSUT 200610Z AUTO 00000KT 10SM SCT045 SCT050 SCT065 24/23 A3011 RMK AO2 P0001 T02350225
Conditions at:0610 UTC 20 Jul 2024
Temperature: 23.5°C ( 74°F)
Dewpoint: 22.5°C ( 72°F) [RH = 94%]
Pressure (altimeter):30.11 inches Hg (1019.7 mb)
Winds:calm
Visibility:10 or more sm (16+ km)
Ceiling:at least 12,000 feet AGL
Clouds:scattered clouds at 4500 feet AGL, scattered clouds at 5000 feet AGL, scattered clouds at 6500 feet AGL
QC Flag:automated observation with no human augmentation
SPECI for:KSBA (Santa Barbara Muni, CA, US)
Text:KSBA 200610Z AUTO 14004KT 3/4SM R07/P6000FT BR VV002 15/15 A2994 RMK AO2 T01500150
Conditions at:0610 UTC 20 Jul 2024
Temperature: 15.0°C ( 59°F)
Dewpoint: 15.0°C ( 59°F) [RH = 100%]
Pressure (altimeter):29.94 inches Hg (1014.0 mb)
Winds:from the SE (140 degrees) at 5 MPH (4 knots; 2.1 m/s)
Visibility:0.75 sm (1.21 km)
Ceiling:indefinite ceiling with vertical visibility of 200 feet AGL
Clouds:obscured sky
Weather:BR (mist)
QC Flag:automated observation with no human augmentation
TAF for:KSBA (Santa Barbara Muni, CA, US) issued at 0551 UTC 20 Jul 2024
Text:KSBA 200551Z 2006/2106 VRB03KT 3SM BR OVC003
Forecast period:0600 to 1700 UTC 20 July 2024
Forecast type:FROM: standard forecast or significant change
Winds:variable direction winds at 3 MPH (3 knots; 1.5 m/s)
Visibility:3 sm (5 km)
Ceiling:300 feet AGL
Clouds:overcast cloud deck at 300 feet AGL
Weather:BR (mist)
Text:FM201700 19008KT P6SM SCT008
Forecast period:1700 to 2100 UTC 20 July 2024
Forecast type:FROM: standard forecast or significant change
Winds:from the S (190 degrees) at 9 MPH (8 knots; 4.1 m/s)
Visibility:6 or more sm (10+ km)
Ceiling:at least 12,000 feet AGL
Clouds:scattered clouds at 800 feet AGL
Text:FM202100 22008KT P6SM SKC
Forecast period:2100 UTC 20 July 2024 to 0500 UTC 21 July 2024
Forecast type:FROM: standard forecast or significant change
Winds:from the SW (220 degrees) at 9 MPH (8 knots; 4.1 m/s)
Visibility:6 or more sm (10+ km)
Ceiling:at least 12,000 feet AGL
Clouds:clear skies
Text:FM210500 VRB03KT 6SM HZ SKC
Forecast period:0500 to 0600 UTC 21 July 2024
Forecast type:FROM: standard forecast or significant change
Winds:variable direction winds at 3 MPH (3 knots; 1.5 m/s)
Visibility:6 sm (10 km)
Ceiling:at least 12,000 feet AGL
Clouds:clear skies
Weather:HZ (haze)
METAR for:KRCZ (Rockingham/Richmond Cnty, NC, US)
Text:KRCZ 200610Z AUTO 00000KT 10SM SCT009 22/21 A3009 RMK AO2 T02160212
Conditions at:0610 UTC 20 Jul 2024
Temperature: 21.6°C ( 71°F)
Dewpoint: 21.2°C ( 70°F) [RH = 98%]
Pressure (altimeter):30.09 inches Hg (1019.0 mb)
Winds:calm
Visibility:10 or more sm (16+ km)
Ceiling:at least 12,000 feet AGL
Clouds:scattered clouds at 900 feet AGL
QC Flag:automated observation with no human augmentation
METAR for:KQFX (MIL, --, --)
Text:KQFX 200610Z AUTO 15003KT 9999 SCT220 28/23 A2973 RMK A02 TSNO
Conditions at:0610 UTC 20 Jul 2024
Temperature: 28.0°C ( 82°F)
Dewpoint: 23.0°C ( 73°F) [RH = 74%]
Pressure (altimeter):29.73 inches Hg (1006.9 mb)
Winds:from the SSE (150 degrees) at 3 MPH (3 knots; 1.5 m/s)
Visibility:6 or more sm (10+ km)
Ceiling:at least 12,000 feet AGL
Clouds:scattered clouds at 22000 feet AGL
QC Flag:automated observation with no human augmentation
METAR for:KQFV (MIL, --, --)
Text:KQFV 200610Z AUTO 10006KT 9999 FEW110 BKN160 28/23 A2978 RMK A02 TSNO
Conditions at:0610 UTC 20 Jul 2024
Temperature: 28.0°C ( 82°F)
Dewpoint: 23.0°C ( 73°F) [RH = 74%]
Pressure (altimeter):29.78 inches Hg (1008.5 mb)
Winds:from the E (100 degrees) at 7 MPH (6 knots; 3.1 m/s)
Visibility:6 or more sm (10+ km)
Ceiling:16000 feet AGL
Clouds:few clouds at 11000 feet AGL, broken clouds at 16000 feet AGL
QC Flag:automated observation with no human augmentation
METAR for:KQFU (MIL, --, --)
Text:KQFU 200610Z AUTO 14006G12KT 9999 BKN130 BKN170 29/23 A2974 RMK A02 TSNO
Conditions at:0610 UTC 20 Jul 2024
Temperature: 29.0°C ( 84°F)
Dewpoint: 23.0°C ( 73°F) [RH = 70%]
Pressure (altimeter):29.74 inches Hg (1007.2 mb)
Winds:from the SE (140 degrees) at 7 MPH (6 knots; 3.1 m/s) gusting to 14 MPH (12 knots; 6.2 m/s)
Visibility:6 or more sm (10+ km)
Ceiling:13000 feet AGL
Clouds:broken clouds at 13000 feet AGL, broken clouds at 17000 feet AGL
QC Flag:automated observation with no human augmentation
METAR for:KQFT (MIL, --, --)
Text:KQFT 200610Z AUTO 17004KT 9999 FEW022 BKN140 29/24 A2970 RMK A02 TSNO
Conditions at:0610 UTC 20 Jul 2024
Temperature: 29.0°C ( 84°F)
Dewpoint: 24.0°C ( 75°F) [RH = 74%]
Pressure (altimeter):29.70 inches Hg (1005.8 mb)
Winds:from the S (170 degrees) at 5 MPH (4 knots; 2.1 m/s)
Visibility:6 or more sm (10+ km)
Ceiling:14000 feet AGL
Clouds:few clouds at 2200 feet AGL, broken clouds at 14000 feet AGL
QC Flag:automated observation with no human augmentation
METAR for:KQFB (MIL, --, --)
Text:KQFB 200610Z AUTO 30004KT 9999 BKN014 29/25 A2987 RMK A02 TSNO
Conditions at:0610 UTC 20 Jul 2024
Temperature: 29.0°C ( 84°F)
Dewpoint: 25.0°C ( 77°F) [RH = 79%]
Pressure (altimeter):29.87 inches Hg (1011.6 mb)
Winds:from the WNW (300 degrees) at 5 MPH (4 knots; 2.1 m/s)
Visibility:6 or more sm (10+ km)
Ceiling:1400 feet AGL
Clouds:broken clouds at 1400 feet AGL
QC Flag:automated observation with no human augmentation
METAR for:KQEX (MIL, --, --)
Text:KQEX 200610Z AUTO 18005G12KT 9999 FEW015 28/24 A2971 RMK A02 TSNO
Conditions at:0610 UTC 20 Jul 2024
Temperature: 28.0°C ( 82°F)
Dewpoint: 24.0°C ( 75°F) [RH = 79%]
Pressure (altimeter):29.71 inches Hg (1006.2 mb)
Winds:from the S (180 degrees) at 6 MPH (5 knots; 2.6 m/s) gusting to 14 MPH (12 knots; 6.2 m/s)
Visibility:6 or more sm (10+ km)
Ceiling:at least 12,000 feet AGL
Clouds:few clouds at 1500 feet AGL
QC Flag:automated observation with no human augmentation
METAR for:KQEW (MIL, --, --)
Text:KQEW 200610Z AUTO 12002KT / // FEW016 SCT160 BKN220 27/26 A2977 RMK A02 TSNO
Conditions at:0610 UTC 20 Jul 2024
Temperature: 27.0°C ( 81°F)
Dewpoint: 26.0°C ( 79°F) [RH = 94%]
Pressure (altimeter):29.77 inches Hg (1008.2 mb)
Winds:from the ESE (120 degrees) at 2 MPH (2 knots; 1.0 m/s)
Ceiling:22000 feet AGL
Clouds:few clouds at 1600 feet AGL, scattered clouds at 16000 feet AGL, broken clouds at 22000 feet AGL
QC Flag:automated observation with no human augmentation
METAR for:KQEV (MIL, --, --)
Text:KQEV 200610Z AUTO 08003KT 9999 FEW020 SCT170 BKN190 30/25 A2970 RMK A02 TSNO
Conditions at:0610 UTC 20 Jul 2024
Temperature: 30.0°C ( 86°F)
Dewpoint: 25.0°C ( 77°F) [RH = 75%]
Pressure (altimeter):29.70 inches Hg (1005.8 mb)
Winds:from the E (80 degrees) at 3 MPH (3 knots; 1.5 m/s)
Visibility:6 or more sm (10+ km)
Ceiling:19000 feet AGL
Clouds:few clouds at 2000 feet AGL, scattered clouds at 17000 feet AGL, broken clouds at 19000 feet AGL
QC Flag:automated observation with no human augmentation
METAR for:KQEQ (MIL, --, --)
Text:KQEQ 200610Z AUTO 15003KT 9999 BKN140 28/24 A2971 RMK A02 TSNO
Conditions at:0610 UTC 20 Jul 2024
Temperature: 28.0°C ( 82°F)
Dewpoint: 24.0°C ( 75°F) [RH = 79%]
Pressure (altimeter):29.71 inches Hg (1006.2 mb)
Winds:from the SSE (150 degrees) at 3 MPH (3 knots; 1.5 m/s)
Visibility:6 or more sm (10+ km)
Ceiling:14000 feet AGL
Clouds:broken clouds at 14000 feet AGL
QC Flag:automated observation with no human augmentation
METAR for:KQEP (MIL, --, --)
Text:KQEP 200610Z AUTO 13006G11KT 9999 BKN019 29/24 A2974 RMK A02 TSNO
Conditions at:0610 UTC 20 Jul 2024
Temperature: 29.0°C ( 84°F)
Dewpoint: 24.0°C ( 75°F) [RH = 74%]
Pressure (altimeter):29.74 inches Hg (1007.2 mb)
Winds:from the SE (130 degrees) at 7 MPH (6 knots; 3.1 m/s) gusting to 13 MPH (11 knots; 5.7 m/s)
Visibility:6 or more sm (10+ km)
Ceiling:1900 feet AGL
Clouds:broken clouds at 1900 feet AGL
QC Flag:automated observation with no human augmentation
METAR for:KQEJ (MIL, --, --)
Text:KQEJ 200610Z AUTO 16004KT 9999 BKN028 28/22 A2973 RMK A02 TSNO
Conditions at:0610 UTC 20 Jul 2024
Temperature: 28.0°C ( 82°F)
Dewpoint: 22.0°C ( 72°F) [RH = 70%]
Pressure (altimeter):29.73 inches Hg (1006.9 mb)
Winds:from the SSE (160 degrees) at 5 MPH (4 knots; 2.1 m/s)
Visibility:6 or more sm (10+ km)
Ceiling:2800 feet AGL
Clouds:broken clouds at 2800 feet AGL
QC Flag:automated observation with no human augmentation
METAR for:KQEI (MIL, --, --)
Text:KQEI 200610Z AUTO 28003KT 9999 SCT033 SCT160 SCT180 BKN1100 28/23 A2975 RMK A02 TSNO
Conditions at:0610 UTC 20 Jul 2024
Temperature: 28.0°C ( 82°F)
Dewpoint: 23.0°C ( 73°F) [RH = 74%]
Pressure (altimeter):29.75 inches Hg (1007.5 mb)
Winds:from the W (280 degrees) at 3 MPH (3 knots; 1.5 m/s)
Visibility:6 or more sm (10+ km)
Ceiling:at least 12,000 feet AGL
Clouds:scattered clouds at 3300 feet AGL, scattered clouds at 16000 feet AGL, scattered clouds at 18000 feet AGL
QC Flag:automated observation with no human augmentation
SPECI for:KMMT (Columbia/McEntire JNGB, SC, US)
Text:KMMT 200610Z AUTO 17004KT 1SM BR VV003 23/22 A3007 RMK AO2 SLP183 RVRNO $
Conditions at:0610 UTC 20 Jul 2024
Temperature: 23.0°C ( 73°F)
Dewpoint: 22.0°C ( 72°F) [RH = 94%]
Pressure (altimeter):30.07 inches Hg (1018.4 mb) [Sea level pressure: 1018.3 mb]
Winds:from the S (170 degrees) at 5 MPH (4 knots; 2.1 m/s)
Visibility:1.00 sm (1.61 km)
Ceiling:indefinite ceiling with vertical visibility of 300 feet AGL
Clouds:obscured sky
Weather:BR (mist)
QC Flag:automated observation with no human augmentation; SOME DATA ABOVE MAY BE INACCURATE!!!"$" is an indication the sensor requires maintenance.
METAR for:KHRJ (Erwin/Harnett Rgnl, NC, US)
Text:KHRJ 200610Z AUTO 00000KT 5SM -RA BR SCT110 23/23 A3009 RMK AO2 P0001 T02280228
Conditions at:0610 UTC 20 Jul 2024
Temperature: 22.8°C ( 73°F)
Dewpoint: 22.8°C ( 73°F) [RH = 100%]
Pressure (altimeter):30.09 inches Hg (1019.0 mb)
Winds:calm
Visibility:5 sm (8 km)
Ceiling:at least 12,000 feet AGL
Clouds:scattered clouds at 11000 feet AGL
Weather:-RA BR (light rain, mist)
QC Flag:automated observation with no human augmentation
METAR for:KGWW (Goldsboro/Wayne Muni, NC, US)
Text:KGWW 200610Z AUTO 00000KT 7SM SCT045 SCT060 23/23 A3009 RMK AO2 T02270227
Conditions at:0610 UTC 20 Jul 2024
Temperature: 22.7°C ( 73°F)
Dewpoint: 22.7°C ( 73°F) [RH = 100%]
Pressure (altimeter):30.09 inches Hg (1019.0 mb)
Winds:calm
Visibility:7 sm (11 km)
Ceiling:at least 12,000 feet AGL
Clouds:scattered clouds at 4500 feet AGL, scattered clouds at 6000 feet AGL
QC Flag:automated observation with no human augmentation
SPECI for:KFXE (Ft Lauderdale Exec, FL, US)
Text:KFXE 200610Z AUTO 11010KT 8SM -RA BKN022 BKN040 30/25 A3012 RMK AO2 LTG DSNT NE AND E RAB10 P0001 T03000250
Conditions at:0610 UTC 20 Jul 2024
Temperature: 30.0°C ( 86°F)
Dewpoint: 25.0°C ( 77°F) [RH = 75%]
Pressure (altimeter):30.12 inches Hg (1020.1 mb)
Winds:from the ESE (110 degrees) at 12 MPH (10 knots; 5.1 m/s)
Visibility:8 sm (13 km)
Ceiling:2200 feet AGL
Clouds:broken clouds at 2200 feet AGL, broken clouds at 4000 feet AGL
Weather:-RA (light rain)
QC Flag:automated observation with no human augmentation
METAR for:KFFA (Kill Devil Hill/First Flight Arpt, NC, US)
Text:KFFA 200610Z AUTO 13003KT 10SM SCT002 OVC065 22/22 A3008 RMK AO2 T02210221
Conditions at:0610 UTC 20 Jul 2024
Temperature: 22.1°C ( 72°F)
Dewpoint: 22.1°C ( 72°F) [RH = 100%]
Pressure (altimeter):30.08 inches Hg (1018.7 mb)
Winds:from the SE (130 degrees) at 3 MPH (3 knots; 1.5 m/s)
Visibility:10 or more sm (16+ km)
Ceiling:6500 feet AGL
Clouds:scattered clouds at 200 feet AGL, overcast cloud deck at 6500 feet AGL
QC Flag:automated observation with no human augmentation
METAR for:KEYF (Elizabethtown/Brown Fld, NC, US)
Text:KEYF 200610Z AUTO 00000KT 10SM CLR 22/22 A3010 RMK AO2 LTG DSNT SE T02210217
Conditions at:0610 UTC 20 Jul 2024
Temperature: 22.1°C ( 72°F)
Dewpoint: 21.7°C ( 71°F) [RH = 98%]
Pressure (altimeter):30.10 inches Hg (1019.4 mb)
Winds:calm
Visibility:10 or more sm (16+ km)
Ceiling:at least 12,000 feet AGL
Clouds:sky clear below 12,000 feet AGL
QC Flag:automated observation with no human augmentation
METAR for:K2W6 (Leonardtown/St Marys, MD, US)
Text:K2W6 200610Z AUTO 00000KT 10SM CLR 21/20 A3012 RMK AO1
Conditions at:0610 UTC 20 Jul 2024
Temperature: 21.0°C ( 70°F)
Dewpoint: 20.0°C ( 68°F) [RH = 94%]
Pressure (altimeter):30.12 inches Hg (1020.1 mb)
Winds:calm
Visibility:10 or more sm (16+ km)
Ceiling:at least 12,000 feet AGL
Clouds:sky clear below 12,000 feet AGL
QC Flag:automated observation with no human augmentation
METAR for:K24A (Sylva/Jackson Cnty, NC, US)
Text:K24A 200610Z AUTO 14003KT 1/4SM -RA FG OVC002 18/18 A3020 RMK AO2 LTG DSNT SE T01790178
Conditions at:0610 UTC 20 Jul 2024
Temperature: 17.9°C ( 64°F)
Dewpoint: 17.8°C ( 64°F) [RH = 99%]
Pressure (altimeter):30.20 inches Hg (1022.8 mb)
Winds:from the SE (140 degrees) at 3 MPH (3 knots; 1.5 m/s)
Visibility:0.25 sm (0.40 km)
Ceiling:200 feet AGL
Clouds:overcast cloud deck at 200 feet AGL
Weather:-RA FG (light rain, fog)
QC Flag:automated observation with no human augmentation
SPECI for:EGVA (Fairford(RAF), EN, GB)
Text:EGVA 200610Z AUTO 21006KT 9999 -DZ BKN006 OVC010 17/16 A2977 RMK AO2 SLP083 $
Conditions at:0610 UTC 20 Jul 2024
Temperature: 17.0°C ( 63°F)
Dewpoint: 16.0°C ( 61°F) [RH = 94%]
Pressure (altimeter):29.77 inches Hg (1008.2 mb) [Sea level pressure: 1008.3 mb]
Winds:from the SSW (210 degrees) at 7 MPH (6 knots; 3.1 m/s)
Visibility:6 or more sm (10+ km)
Ceiling:600 feet AGL
Clouds:broken clouds at 600 feet AGL, overcast cloud deck at 1000 feet AGL
Weather:-DZ (light drizzle)
QC Flag:automated observation with no human augmentation; SOME DATA ABOVE MAY BE INACCURATE!!!"$" is an indication the sensor requires maintenance.
METAR for:KRHP (Andrews/W Carolina Rgnl, NC, US)
Text:KRHP 200609Z AUTO 00000KT 10SM DZ BKN004 BKN033 OVC060 20/19 A3016 RMK AO2 T01950187
Conditions at:0609 UTC 20 Jul 2024
Temperature: 19.5°C ( 67°F)
Dewpoint: 18.7°C ( 66°F) [RH = 95%]
Pressure (altimeter):30.16 inches Hg (1021.4 mb)
Winds:calm
Visibility:10 or more sm (16+ km)
Ceiling:400 feet AGL
Clouds:broken clouds at 400 feet AGL, broken clouds at 3300 feet AGL, overcast cloud deck at 6000 feet AGL
Weather:DZ (moderate drizzle)
QC Flag:automated observation with no human augmentation
SPECI for:KOZR (Ozark/Cairns AAF, AL, US)
Text:KOZR 200609Z AUTO 00000KT 10SM SCT140 25/24 A3005 RMK AO2 DZB0559E09 SLP175
Conditions at:0609 UTC 20 Jul 2024
Temperature: 25.0°C ( 77°F)
Dewpoint: 24.0°C ( 75°F) [RH = 94%]
Pressure (altimeter):30.05 inches Hg (1017.7 mb) [Sea level pressure: 1017.5 mb]
Winds:calm
Visibility:10 or more sm (16+ km)
Ceiling:at least 12,000 feet AGL
Clouds:scattered clouds at 14000 feet AGL
QC Flag:automated observation with no human augmentation
SPECI for:KINT (Winston-Salem/Reynolds Arpt, NC, US)
Text:KINT 200609Z AUTO 00000KT 10SM FEW010 BKN021 BKN100 23/21 A3010 RMK AO2 T02330206
Conditions at:0609 UTC 20 Jul 2024
Temperature: 23.3°C ( 74°F)
Dewpoint: 20.6°C ( 69°F) [RH = 85%]
Pressure (altimeter):30.10 inches Hg (1019.4 mb)
Winds:calm
Visibility:10 or more sm (16+ km)
Ceiling:2100 feet AGL
Clouds:few clouds at 1000 feet AGL, broken clouds at 2100 feet AGL, broken clouds at 10000 feet AGL
QC Flag:automated observation with no human augmentation
TAF for:KINT (Winston-Salem/Reynolds Arpt, NC, US) issued at 0520 UTC 20 Jul 2024
Text:KINT 200520Z 2006/2106 11003KT P6SM OVC015
Forecast period:0600 to 0700 UTC 20 July 2024
Forecast type:FROM: standard forecast or significant change
Winds:from the ESE (110 degrees) at 3 MPH (3 knots; 1.5 m/s)
Visibility:6 or more sm (10+ km)
Ceiling:1500 feet AGL
Clouds:overcast cloud deck at 1500 feet AGL
Text:FM200700 VRB03KT 5SM BR OVC007
Forecast period:0700 to 1500 UTC 20 July 2024
Forecast type:FROM: standard forecast or significant change
Winds:variable direction winds at 3 MPH (3 knots; 1.5 m/s)
Visibility:5 sm (8 km)
Ceiling:700 feet AGL
Clouds:overcast cloud deck at 700 feet AGL
Weather:BR (mist)
Text:FM201500 VRB04KT P6SM OVC015
Forecast period:1500 to 1800 UTC 20 July 2024
Forecast type:FROM: standard forecast or significant change
Winds:variable direction winds at 5 MPH (4 knots; 2.1 m/s)
Visibility:6 or more sm (10+ km)
Ceiling:1500 feet AGL
Clouds:overcast cloud deck at 1500 feet AGL
Text:FM201800 24004KT P6SM VCTS OVC050CB
Forecast period:1800 UTC 20 July 2024 to 0600 UTC 21 July 2024
Forecast type:FROM: standard forecast or significant change
Winds:from the WSW (240 degrees) at 5 MPH (4 knots; 2.1 m/s)
Visibility:6 or more sm (10+ km)
Ceiling:5000 feet AGL
Clouds:overcast cloud deck at 5000 feet AGL
Weather:VCTS (thunderstorm in vicinity)
SPECI for:KILM (Wilmington Intl, NC, US)
Text:KILM 200609Z AUTO 16003KT 6SM TSRA BR FEW042 BKN110 24/22 A3011 RMK AO2 LTG DSNT NE-SE TSB03 P0002 T02390222 $
Conditions at:0609 UTC 20 Jul 2024
Temperature: 23.9°C ( 75°F)
Dewpoint: 22.2°C ( 72°F) [RH = 90%]
Pressure (altimeter):30.11 inches Hg (1019.7 mb)
Winds:from the SSE (160 degrees) at 3 MPH (3 knots; 1.5 m/s)
Visibility:6 sm (10 km)
Ceiling:11000 feet AGL
Clouds:few clouds at 4200 feet AGL, broken clouds at 11000 feet AGL
Weather:TSRA BR (rain associated with thunderstorm(s), mist)
QC Flag:automated observation with no human augmentation; SOME DATA ABOVE MAY BE INACCURATE!!!"$" is an indication the sensor requires maintenance.
TAF for:KILM (Wilmington Intl, NC, US) issued at 0521 UTC 20 Jul 2024
Text:KILM 200521Z 2006/2106 00000KT P6SM SCT110
Forecast period:0600 to 1400 UTC 20 July 2024
Forecast type:FROM: standard forecast or significant change
Winds:calm
Visibility:6 or more sm (10+ km)
Ceiling:at least 12,000 feet AGL
Clouds:scattered clouds at 11000 feet AGL
Text:TEMPO 2006/2007 VRB15G25KT 3SM -TSRA BKN020CB
Forecast period:0600 to 0700 UTC 20 July 2024
Forecast type:TEMPORARY: The following changes expected for less than half the time period
Winds:variable direction winds at 17 MPH (15 knots; 7.7 m/s) gusting to 29 MPH (25 knots; 12.9 m/s)
Visibility:3 sm (5 km)
Ceiling:2000 feet AGL
Clouds:broken clouds at 2000 feet AGL
Weather:-TSRA (light rain associated with thunderstorm(s))
Text:FM201400 24005KT P6SM BKN060
Forecast period:1400 UTC 20 July 2024 to 0000 UTC 21 July 2024
Forecast type:FROM: standard forecast or significant change
Winds:from the WSW (240 degrees) at 6 MPH (5 knots; 2.6 m/s)
Visibility:6 or more sm (10+ km)
Ceiling:6000 feet AGL
Clouds:broken clouds at 6000 feet AGL
Text:PROB30 2018/2024 4SM TSRA BKN030CB
Forecast period:1800 UTC 20 July 2024 to 0000 UTC 21 July 2024
Forecast type:PROBABLE: 30 percent likelihood of the following during this time
Visibility:4 sm (6 km)
Ceiling:3000 feet AGL
Clouds:broken clouds at 3000 feet AGL
Weather:TSRA (rain associated with thunderstorm(s))
Text:FM210000 21008KT P6SM VCTS BKN040CB
Forecast period:0000 to 0600 UTC 21 July 2024
Forecast type:FROM: standard forecast or significant change
Winds:from the SSW (210 degrees) at 9 MPH (8 knots; 4.1 m/s)
Visibility:6 or more sm (10+ km)
Ceiling:4000 feet AGL
Clouds:broken clouds at 4000 feet AGL
Weather:VCTS (thunderstorm in vicinity)
METAR for:KFME (Fort Meade/Tipton Fld, MD, US)
Text:KFME 200609Z AUTO 00000KT 10SM SCT095 18/17 A3014 RMK AO1
Conditions at:0609 UTC 20 Jul 2024
Temperature: 18.0°C ( 64°F)
Dewpoint: 17.0°C ( 63°F) [RH = 94%]
Pressure (altimeter):30.14 inches Hg (1020.7 mb)
Winds:calm
Visibility:10 or more sm (16+ km)
Ceiling:at least 12,000 feet AGL
Clouds:scattered clouds at 9500 feet AGL
QC Flag:automated observation with no human augmentation
SPECI for:K1M4 (Haleyville/Posey Fld, AL, US)
Text:K1M4 200609Z AUTO 15005KT 10SM BKN005 22/22 A3009 RMK AO2 $
Conditions at:0609 UTC 20 Jul 2024
Temperature: 22.0°C ( 72°F)
Dewpoint: 22.0°C ( 72°F) [RH = 100%]
Pressure (altimeter):30.09 inches Hg (1019.0 mb)
Winds:from the SSE (150 degrees) at 6 MPH (5 knots; 2.6 m/s)
Visibility:10 or more sm (16+ km)
Ceiling:500 feet AGL
Clouds:broken clouds at 500 feet AGL
QC Flag:automated observation with no human augmentation; SOME DATA ABOVE MAY BE INACCURATE!!!"$" is an indication the sensor requires maintenance.
SPECI for:EGWU (Northolt(RAF), EN, GB)
Text:EGWU 200609Z 25008KT 7000 -DZ BKN004 BKN005 17/16 Q1010 BECMG 9999 NSW BKN007 RMK YLO2 BECMG GRN
Conditions at:0609 UTC 20 Jul 2024
Temperature: 17.0°C ( 63°F)
Dewpoint: 16.0°C ( 61°F) [RH = 94%]
Pressure (altimeter):29.82 inches Hg (1010.0 mb)
Winds:from the WSW (250 degrees) at 9 MPH (8 knots; 4.1 m/s)
Visibility:4 sm (7 km)
Ceiling:400 feet AGL
Clouds:broken clouds at 400 feet AGL, broken clouds at 500 feet AGL
Weather:-DZ (light drizzle)
TAF for:EGWU (Northolt(RAF), EN, GB) issued at 0610 UTC 20 Jul 2024
Text:TAF EGWU 200610Z 2006/2024 23008KT 9999 BKN005
Forecast period:0600 to 0700 UTC 20 July 2024
Forecast type:FROM: standard forecast or significant change
Winds:from the SW (230 degrees) at 9 MPH (8 knots; 4.1 m/s)
Visibility:6 or more sm (10+ km)
Ceiling:500 feet AGL
Clouds:broken clouds at 500 feet AGL
Text:TEMPO 2006/2007 5000 -DZ BKN004
Forecast period:0600 to 0700 UTC 20 July 2024
Forecast type:TEMPORARY: The following changes expected for less than half the time period
Visibility:3 sm (5 km)
Ceiling:400 feet AGL
Clouds:broken clouds at 400 feet AGL
Weather:-DZ (light drizzle)
Text:BECMG 2007/2010 BKN022
Forecast period:0700 to 1000 UTC 20 July 2024
Forecast type:BECOMING: Conditions expected to become as follows by 1000 UTC 20 July 2024
Winds:from the SW (230 degrees) at 9 MPH (8 knots; 4.1 m/s)
Visibility:6 or more sm (10+ km)
Ceiling:2200 feet AGL
Clouds:broken clouds at 2200 feet AGL
Text:BECMG 2010/2012 FEW022 BKN030
Forecast period:1000 UTC 20 July 2024 to 0000 UTC 21 July 2024
Forecast type:BECOMING: Conditions expected to become as follows by 1200 UTC 20 July 2024
Winds:from the SW (230 degrees) at 9 MPH (8 knots; 4.1 m/s)
Visibility:6 or more sm (10+ km)
Ceiling:3000 feet AGL
Clouds:few clouds at 2200 feet AGL, broken clouds at 3000 feet AGL
Text:TEMPO 2012/2021 SCT024
Forecast period:1200 to 2100 UTC 20 July 2024
Forecast type:TEMPORARY: The following changes expected for less than half the time period
Ceiling:at least 12,000 feet AGL
Clouds:scattered clouds at 2400 feet AGL
Text:PROB40
Forecast period:1200 to 1600 UTC 20 July 2024
Forecast type:TEMPORARY: The following changes expected for less than half the time period
Visibility:4 sm (7 km)
Weather:SHRA (rain showers)
Text:TEMPO 2012/2016 7000 SHRA
Forecast period:1400 to 1600 UTC 20 July 2024
Forecast type:TEMPORARY: The following changes expected for less than half the time period
Visibility:2.49 sm (4.01 km)
Weather:+SHRA (heavy rain showers)
Text:PROB30
Forecast period:2100 UTC 20 July 2024 to 0000 UTC 21 July 2024
Forecast type:TEMPORARY: The following changes expected for less than half the time period
Ceiling:1000 feet AGL
Clouds:broken clouds at 1000 feet AGL
Text:TEMPO 2014/2016 4000 +SHRA
Forecast period:2100 UTC 20 July 2024 to 0000 UTC 21 July 2024
Forecast type:TEMPORARY: The following changes expected for less than half the time period
Visibility:4 sm (7 km)
Weather:-RA (light rain)
SPECI for:KTCS (Truth or Consequence Muni, NM, US)
Text:KTCS 200608Z AUTO 01018G29KT 10SM -RA BKN090 OVC110 24/14 A3023 RMK AO2 PK WND 01029/0608 LTG DSNT N AND NE RAB04 P0000 T02440144
Conditions at:0608 UTC 20 Jul 2024
Temperature: 24.4°C ( 76°F)
Dewpoint: 14.4°C ( 58°F) [RH = 54%]
Pressure (altimeter):30.23 inches Hg (1023.8 mb)
Winds:from the N (10 degrees) at 21 MPH (18 knots; 9.3 m/s) gusting to 33 MPH (29 knots; 14.9 m/s)
Visibility:10 or more sm (16+ km)
Ceiling:9000 feet AGL
Clouds:broken clouds at 9000 feet AGL, overcast cloud deck at 11000 feet AGL
Weather:-RA (light rain)
QC Flag:automated observation with no human augmentation
TAF for:KTCS (Truth or Consequence Muni, NM, US) issued at 0535 UTC 20 Jul 2024
Text:KTCS 200535Z 2006/2106 30005KT P6SM SCT130 BKN250
Forecast period:0600 to 0700 UTC 20 July 2024
Forecast type:FROM: standard forecast or significant change
Winds:from the WNW (300 degrees) at 6 MPH (5 knots; 2.6 m/s)
Visibility:6 or more sm (10+ km)
Ceiling:25000 feet AGL
Clouds:scattered clouds at 13000 feet AGL, broken clouds at 25000 feet AGL
Text:TEMPO 2006/2007 VRB10G20KT 4SM TSRA OVC080CB
Forecast period:0600 to 0700 UTC 20 July 2024
Forecast type:TEMPORARY: The following changes expected for less than half the time period
Winds:variable direction winds at 12 MPH (10 knots; 5.1 m/s) gusting to 23 MPH (20 knots; 10.3 m/s)
Visibility:4 sm (6 km)
Ceiling:8000 feet AGL
Clouds:overcast cloud deck at 8000 feet AGL
Weather:TSRA (rain associated with thunderstorm(s))
Text:FM200700 34006KT P6SM OVC100
Forecast period:0700 to 1400 UTC 20 July 2024
Forecast type:FROM: standard forecast or significant change
Winds:from the NNW (340 degrees) at 7 MPH (6 knots; 3.1 m/s)
Visibility:6 or more sm (10+ km)
Ceiling:10000 feet AGL
Clouds:overcast cloud deck at 10000 feet AGL
Text:FM201400 04006KT P6SM FEW100
Forecast period:1400 to 1900 UTC 20 July 2024
Forecast type:FROM: standard forecast or significant change
Winds:from the NE (40 degrees) at 7 MPH (6 knots; 3.1 m/s)
Visibility:6 or more sm (10+ km)
Ceiling:at least 12,000 feet AGL
Clouds:few clouds at 10000 feet AGL
Text:FM201900 18010KT P6SM BKN100
Forecast period:1900 UTC 20 July 2024 to 0200 UTC 21 July 2024
Forecast type:FROM: standard forecast or significant change
Winds:from the S (180 degrees) at 12 MPH (10 knots; 5.1 m/s)
Visibility:6 or more sm (10+ km)
Ceiling:10000 feet AGL
Clouds:broken clouds at 10000 feet AGL
Text:PROB30 2021/2101 VRB20G30KT 4SM TSRA BKN080CB
Forecast period:2100 UTC 20 July 2024 to 0100 UTC 21 July 2024
Forecast type:PROBABLE: 30 percent likelihood of the following during this time
Winds:variable direction winds at 23 MPH (20 knots; 10.3 m/s) gusting to 34 MPH (30 knots; 15.4 m/s)
Visibility:4 sm (6 km)
Ceiling:8000 feet AGL
Clouds:broken clouds at 8000 feet AGL
Weather:TSRA (rain associated with thunderstorm(s))
Text:FM210200 02010KT P6SM BKN090
Forecast period:0200 to 0600 UTC 21 July 2024
Forecast type:FROM: standard forecast or significant change
Winds:from the NNE (20 degrees) at 12 MPH (10 knots; 5.1 m/s)
Visibility:6 or more sm (10+ km)
Ceiling:9000 feet AGL
Clouds:broken clouds at 9000 feet AGL
SPECI for:KRKP (Rockport/Aransas Cnty, TX, US)
Text:KRKP 200608Z AUTO 16006KT 9SM SCT022 SCT029 29/26 A2998 RMK AO2 T02940256
Conditions at:0608 UTC 20 Jul 2024
Temperature: 29.4°C ( 85°F)
Dewpoint: 25.6°C ( 78°F) [RH = 80%]
Pressure (altimeter):29.98 inches Hg (1015.3 mb)
Winds:from the SSE (160 degrees) at 7 MPH (6 knots; 3.1 m/s)
Visibility:9 sm (14 km)
Ceiling:at least 12,000 feet AGL
Clouds:scattered clouds at 2200 feet AGL, scattered clouds at 2900 feet AGL
QC Flag:automated observation with no human augmentation
METAR for:KMTN (Baltimore/Martin State Arpt, MD, US)
Text:KMTN 200608Z AUTO 16004KT 10SM CLR 25/21 A3012 RMK AO2
Conditions at:0608 UTC 20 Jul 2024
Temperature: 25.0°C ( 77°F)
Dewpoint: 21.0°C ( 70°F) [RH = 79%]
Pressure (altimeter):30.12 inches Hg (1020.1 mb)
Winds:from the SSE (160 degrees) at 5 MPH (4 knots; 2.1 m/s)
Visibility:10 or more sm (16+ km)
Ceiling:at least 12,000 feet AGL
Clouds:sky clear below 12,000 feet AGL
QC Flag:automated observation with no human augmentation
TAF for:KMTN (Baltimore/Martin State Arpt, MD, US) issued at 0539 UTC 20 Jul 2024
Text:KMTN 200539Z 2006/2106 17005KT P6SM FEW050 BKN200
Forecast period:0600 to 1500 UTC 20 July 2024
Forecast type:FROM: standard forecast or significant change
Winds:from the S (170 degrees) at 6 MPH (5 knots; 2.6 m/s)
Visibility:6 or more sm (10+ km)
Ceiling:20000 feet AGL
Clouds:few clouds at 5000 feet AGL, broken clouds at 20000 feet AGL
Text:FM201500 15006KT P6SM SCT060 BKN120
Forecast period:1500 to 2300 UTC 20 July 2024
Forecast type:FROM: standard forecast or significant change
Winds:from the SSE (150 degrees) at 7 MPH (6 knots; 3.1 m/s)
Visibility:6 or more sm (10+ km)
Ceiling:12000 feet AGL
Clouds:scattered clouds at 6000 feet AGL, broken clouds at 12000 feet AGL
Text:FM202300 17005KT P6SM SCT070 BKN150
Forecast period:2300 UTC 20 July 2024 to 0200 UTC 21 July 2024
Forecast type:FROM: standard forecast or significant change
Winds:from the S (170 degrees) at 6 MPH (5 knots; 2.6 m/s)
Visibility:6 or more sm (10+ km)
Ceiling:15000 feet AGL
Clouds:scattered clouds at 7000 feet AGL, broken clouds at 15000 feet AGL
Text:FM210200 00000KT P6SM BKN150
Forecast period:0200 to 0600 UTC 21 July 2024
Forecast type:FROM: standard forecast or significant change
Winds:calm
Visibility:6 or more sm (10+ km)
Ceiling:15000 feet AGL
Clouds:broken clouds at 15000 feet AGL
SPECI for:KBGD (Borger/Hutchinson Cnty, TX, US)
Text:KBGD 200608Z AUTO 27014G28KT 2SM VCTS +RA BR FEW014 BKN033 OVC075 21/19 A3024 RMK AO2 PK WND 29028/0601 WSHFT 0538 LTG DSNT ALQDS P0022 T02110189
Conditions at:0608 UTC 20 Jul 2024
Temperature: 21.1°C ( 70°F)
Dewpoint: 18.9°C ( 66°F) [RH = 87%]
Pressure (altimeter):30.24 inches Hg (1024.1 mb)
Winds:from the W (270 degrees) at 16 MPH (14 knots; 7.2 m/s) gusting to 32 MPH (28 knots; 14.4 m/s)
Visibility:2.00 sm (3.22 km)
Ceiling:3300 feet AGL
Clouds:few clouds at 1400 feet AGL, broken clouds at 3300 feet AGL, overcast cloud deck at 7500 feet AGL
Weather:VCTS +RA BR (thunderstorm in vicinity, heavy rain, mist)
QC Flag:automated observation with no human augmentation
SPECI for:CZUM (Churchill Falls Arpt, NL, CA)
Text:CZUM 200608Z AUTO 13004KT 9SM -RA OVC076 15/12 A2979 RMK SLP095 DENSITY ALT 2000FT
Conditions at:0608 UTC 20 Jul 2024
Temperature: 15.0°C ( 59°F)
Dewpoint: 12.0°C ( 54°F) [RH = 82%]
Pressure (altimeter):29.79 inches Hg (1008.9 mb) [Sea level pressure: 1009.5 mb]
Winds:from the SE (130 degrees) at 5 MPH (4 knots; 2.1 m/s)
Visibility:9 sm (14 km)
Ceiling:7600 feet AGL
Clouds:overcast cloud deck at 7600 feet AGL
Weather:-RA (light rain)
SPECI for:CYZP (Sandspit Arpt, BC, CA)
Text:CYZP 200608Z AUTO 14013KT 5SM BR BKN003 OVC040 15/15 A3011 RMK SLP199
Conditions at:0608 UTC 20 Jul 2024
Temperature: 15.0°C ( 59°F)
Dewpoint: 15.0°C ( 59°F) [RH = 100%]
Pressure (altimeter):30.11 inches Hg (1019.7 mb) [Sea level pressure: 1019.9 mb]
Winds:from the SE (140 degrees) at 15 MPH (13 knots; 6.7 m/s)
Visibility:5 sm (8 km)
Ceiling:300 feet AGL
Clouds:broken clouds at 300 feet AGL, overcast cloud deck at 4000 feet AGL
Weather:BR (mist)
METAR for:VEAT (Agartala Arpt, TR, IN)
Text:VEAT 200607Z 16007KT 5000 HZ SCT018 SCT025 32/26 Q1001 NOSIG
Conditions at:0607 UTC 20 Jul 2024
Temperature: 32.0°C ( 90°F)
Dewpoint: 26.0°C ( 79°F) [RH = 71%]
Pressure (altimeter):29.56 inches Hg (1001.0 mb)
Winds:from the SSE (160 degrees) at 8 MPH (7 knots; 3.6 m/s)
Visibility:3 sm (5 km)
Ceiling:at least 12,000 feet AGL
Clouds:scattered clouds at 1800 feet AGL, scattered clouds at 2500 feet AGL
Weather:HZ (haze)
SPECI for:PASN (St Paul Island Arpt, AK, US)
Text:PASN 200607Z AUTO 13017G28KT 2 1/2SM BR OVC002 08/07 A3001 RMK AO2 PK WND 11028/0600 T00780072 TSNO
Conditions at:0607 UTC 20 Jul 2024
Temperature: 7.8°C ( 46°F)
Dewpoint: 7.2°C ( 45°F) [RH = 96%]
Pressure (altimeter):30.01 inches Hg (1016.3 mb)
Winds:from the SE (130 degrees) at 20 MPH (17 knots; 8.7 m/s) gusting to 32 MPH (28 knots; 14.4 m/s)
Visibility:2.50 sm (4.02 km)
Ceiling:200 feet AGL
Clouds:overcast cloud deck at 200 feet AGL
Weather:BR (mist)
QC Flag:automated observation with no human augmentation
SPECI for:PADK (Adak (NAS), AK, US)
Text:PADK 200607Z AUTO 18010KT 10SM OVC015 13/11 A2973 RMK AO2 $
Conditions at:0607 UTC 20 Jul 2024
Temperature: 13.0°C ( 55°F)
Dewpoint: 11.0°C ( 52°F) [RH = 88%]
Pressure (altimeter):29.73 inches Hg (1006.9 mb)
Winds:from the S (180 degrees) at 12 MPH (10 knots; 5.1 m/s)
Visibility:10 or more sm (16+ km)
Ceiling:1500 feet AGL
Clouds:overcast cloud deck at 1500 feet AGL
QC Flag:automated observation with no human augmentation; SOME DATA ABOVE MAY BE INACCURATE!!!"$" is an indication the sensor requires maintenance.
SPECI for:KNJM (Swansboro/Bogue Fld, NC, US)
Text:KNJM 200607Z AUTO 25009KT 3SM +TSRA BR SCT009 BKN090 OVC100 24/23 A3011 RMK AO2 P0004 T02440233
Conditions at:0607 UTC 20 Jul 2024
Temperature: 24.4°C ( 76°F)
Dewpoint: 23.3°C ( 74°F) [RH = 94%]
Pressure (altimeter):30.11 inches Hg (1019.7 mb)
Winds:from the WSW (250 degrees) at 10 MPH (9 knots; 4.6 m/s)
Visibility:3 sm (5 km)
Ceiling:9000 feet AGL
Clouds:scattered clouds at 900 feet AGL, broken clouds at 9000 feet AGL, overcast cloud deck at 10000 feet AGL
Weather:+TSRA BR (heavy rain associated with thunderstorm(s), mist)
QC Flag:automated observation with no human augmentation
SPECI for:KNCA (New River MCAS, NC, US)
Text:KNCA 200607Z AUTO 18004KT 7SM SCT110 23/23 A3010 RMK AO2 TSE01 P0002 T02280228 $
Conditions at:0607 UTC 20 Jul 2024
Temperature: 22.8°C ( 73°F)
Dewpoint: 22.8°C ( 73°F) [RH = 100%]
Pressure (altimeter):30.10 inches Hg (1019.4 mb)
Winds:from the S (180 degrees) at 5 MPH (4 knots; 2.1 m/s)
Visibility:7 sm (11 km)
Ceiling:at least 12,000 feet AGL
Clouds:scattered clouds at 11000 feet AGL
QC Flag:automated observation with no human augmentation; SOME DATA ABOVE MAY BE INACCURATE!!!"$" is an indication the sensor requires maintenance.
SPECI for:KGVL (Gainesville/Gilmer Mem, GA, US)
Text:KGVL 200607Z AUTO 00000KT 10SM SCT004 OVC008 22/21 A3015 RMK AO2 T02170206
Conditions at:0607 UTC 20 Jul 2024
Temperature: 21.7°C ( 71°F)
Dewpoint: 20.6°C ( 69°F) [RH = 93%]
Pressure (altimeter):30.15 inches Hg (1021.1 mb)
Winds:calm
Visibility:10 or more sm (16+ km)
Ceiling:800 feet AGL
Clouds:scattered clouds at 400 feet AGL, overcast cloud deck at 800 feet AGL
QC Flag:automated observation with no human augmentation
SPECI for:KDHT (Dalhart Muni, TX, US)
Text:KDHT 200607Z AUTO 08019G26KT 10SM -RA SCT055 BKN100 19/18 A3021 RMK AO2 PK WND 07026/0602 P0001 T01940178
Conditions at:0607 UTC 20 Jul 2024
Temperature: 19.4°C ( 67°F)
Dewpoint: 17.8°C ( 64°F) [RH = 90%]
Pressure (altimeter):30.21 inches Hg (1023.1 mb)
Winds:from the E (80 degrees) at 22 MPH (19 knots; 9.8 m/s) gusting to 30 MPH (26 knots; 13.4 m/s)
Visibility:10 or more sm (16+ km)
Ceiling:10000 feet AGL
Clouds:scattered clouds at 5500 feet AGL, broken clouds at 10000 feet AGL
Weather:-RA (light rain)
QC Flag:automated observation with no human augmentation
TAF for:KDHT (Dalhart Muni, TX, US) issued at 0535 UTC 20 Jul 2024
Text:KDHT 200535Z 2006/2106 06015G28KT P6SM VCTS FEW060CB SCT200
Forecast period:0600 to 0900 UTC 20 July 2024
Forecast type:FROM: standard forecast or significant change
Winds:from the ENE (60 degrees) at 17 MPH (15 knots; 7.7 m/s) gusting to 32 MPH (28 knots; 14.4 m/s)
Visibility:6 or more sm (10+ km)
Ceiling:at least 12,000 feet AGL
Clouds:few clouds at 6000 feet AGL, scattered clouds at 20000 feet AGL
Weather:VCTS (thunderstorm in vicinity)
Text:FM200900 32006KT P6SM SCT200
Forecast period:0900 to 1800 UTC 20 July 2024
Forecast type:FROM: standard forecast or significant change
Winds:from the NW (320 degrees) at 7 MPH (6 knots; 3.1 m/s)
Visibility:6 or more sm (10+ km)
Ceiling:at least 12,000 feet AGL
Clouds:scattered clouds at 20000 feet AGL
Text:FM201800 05013KT P6SM SCT250
Forecast period:1800 UTC 20 July 2024 to 0100 UTC 21 July 2024
Forecast type:FROM: standard forecast or significant change
Winds:from the NE (50 degrees) at 15 MPH (13 knots; 6.7 m/s)
Visibility:6 or more sm (10+ km)
Ceiling:at least 12,000 feet AGL
Clouds:scattered clouds at 25000 feet AGL
Text:FM210100 03009KT P6SM SCT150
Forecast period:0100 to 0600 UTC 21 July 2024
Forecast type:FROM: standard forecast or significant change
Winds:from the NNE (30 degrees) at 10 MPH (9 knots; 4.6 m/s)
Visibility:6 or more sm (10+ km)
Ceiling:at least 12,000 feet AGL
Clouds:scattered clouds at 15000 feet AGL
SPECI for:KCRQ (Carlsbad/Palomar Arpt, CA, US)
Text:KCRQ 200607Z AUTO 28003KT 8SM SCT006 19/17 A2993 RMK AO2 T01940172
Conditions at:0607 UTC 20 Jul 2024
Temperature: 19.4°C ( 67°F)
Dewpoint: 17.2°C ( 63°F) [RH = 87%]
Pressure (altimeter):29.93 inches Hg (1013.6 mb)
Winds:from the W (280 degrees) at 3 MPH (3 knots; 1.5 m/s)
Visibility:8 sm (13 km)
Ceiling:at least 12,000 feet AGL
Clouds:scattered clouds at 600 feet AGL
QC Flag:automated observation with no human augmentation
TAF for:KCRQ (Carlsbad/Palomar Arpt, CA, US) issued at 0520 UTC 20 Jul 2024
Text:KCRQ 200520Z 2006/2106 VRB04KT P6SM SCT009
Forecast period:0600 to 0700 UTC 20 July 2024
Forecast type:FROM: standard forecast or significant change
Winds:variable direction winds at 5 MPH (4 knots; 2.1 m/s)
Visibility:6 or more sm (10+ km)
Ceiling:at least 12,000 feet AGL
Clouds:scattered clouds at 900 feet AGL
Text:FM200700 VRB04KT P6SM BKN006
Forecast period:0700 to 1200 UTC 20 July 2024
Forecast type:FROM: standard forecast or significant change
Winds:variable direction winds at 5 MPH (4 knots; 2.1 m/s)
Visibility:6 or more sm (10+ km)
Ceiling:600 feet AGL
Clouds:broken clouds at 600 feet AGL
Text:FM201200 VRB04KT 4SM BR BKN005
Forecast period:1200 to 1600 UTC 20 July 2024
Forecast type:FROM: standard forecast or significant change
Winds:variable direction winds at 5 MPH (4 knots; 2.1 m/s)
Visibility:4 sm (6 km)
Ceiling:500 feet AGL
Clouds:broken clouds at 500 feet AGL
Weather:BR (mist)
Text:FM201600 VRB04KT P6SM FEW008
Forecast period:1600 to 1800 UTC 20 July 2024
Forecast type:FROM: standard forecast or significant change
Winds:variable direction winds at 5 MPH (4 knots; 2.1 m/s)
Visibility:6 or more sm (10+ km)
Ceiling:at least 12,000 feet AGL
Clouds:few clouds at 800 feet AGL
Text:FM201800 27009KT P6SM SKC
Forecast period:1800 UTC 20 July 2024 to 0600 UTC 21 July 2024
Forecast type:FROM: standard forecast or significant change
Winds:from the W (270 degrees) at 10 MPH (9 knots; 4.6 m/s)
Visibility:6 or more sm (10+ km)
Ceiling:at least 12,000 feet AGL
Clouds:clear skies
SPECI for:KCEC (Crescent City/McNama, CA, US)
Text:KCEC 200607Z AUTO 16008KT 3SM BR OVC003 13/13 A3012 RMK AO2 T01280128
Conditions at:0607 UTC 20 Jul 2024
Temperature: 12.8°C ( 55°F)
Dewpoint: 12.8°C ( 55°F) [RH = 100%]
Pressure (altimeter):30.12 inches Hg (1020.1 mb)
Winds:from the SSE (160 degrees) at 9 MPH (8 knots; 4.1 m/s)
Visibility:3 sm (5 km)
Ceiling:300 feet AGL
Clouds:overcast cloud deck at 300 feet AGL
Weather:BR (mist)
QC Flag:automated observation with no human augmentation
TAF for:KCEC (Crescent City/McNama, CA, US) issued at 0520 UTC 20 Jul 2024
Text:KCEC 200520Z 2006/2106 18006KT 1/4SM FG VV002
Forecast period:0600 to 2000 UTC 20 July 2024
Forecast type:FROM: standard forecast or significant change
Winds:from the S (180 degrees) at 7 MPH (6 knots; 3.1 m/s)
Visibility:0.25 sm (0.40 km)
Ceiling:indefinite ceiling with vertical visibility of 200 feet AGL
Clouds:obscured sky
Weather:FG (fog)
Text:FM202000 23008KT 4SM BR OVC003
Forecast period:2000 UTC 20 July 2024 to 0000 UTC 21 July 2024
Forecast type:FROM: standard forecast or significant change
Winds:from the SW (230 degrees) at 9 MPH (8 knots; 4.1 m/s)
Visibility:4 sm (6 km)
Ceiling:300 feet AGL
Clouds:overcast cloud deck at 300 feet AGL
Weather:BR (mist)
Text:FM210000 30009KT 1SM BR OVC002
Forecast period:0000 to 0600 UTC 21 July 2024
Forecast type:FROM: standard forecast or significant change
Winds:from the WNW (300 degrees) at 10 MPH (9 knots; 4.6 m/s)
Visibility:1.00 sm (1.61 km)
Ceiling:200 feet AGL
Clouds:overcast cloud deck at 200 feet AGL
Weather:BR (mist)
SPECI for:KAGS (Augusta Rgnl, GA, US)
Text:KAGS 200607Z AUTO 00000KT 10SM OVC008 23/22 A3009 RMK AO2 T02280222
Conditions at:0607 UTC 20 Jul 2024
Temperature: 22.8°C ( 73°F)
Dewpoint: 22.2°C ( 72°F) [RH = 96%]
Pressure (altimeter):30.09 inches Hg (1019.0 mb)
Winds:calm
Visibility:10 or more sm (16+ km)
Ceiling:800 feet AGL
Clouds:overcast cloud deck at 800 feet AGL
QC Flag:automated observation with no human augmentation
TAF for:KAGS (Augusta Rgnl, GA, US) issued at 0609 UTC 20 Jul 2024
Text:KAGS 200609Z 2006/2106 00000KT P6SM SCT010 SCT120
Forecast period:0600 to 1400 UTC 20 July 2024
Forecast type:FROM: standard forecast or significant change
Winds:calm
Visibility:6 or more sm (10+ km)
Ceiling:at least 12,000 feet AGL
Clouds:scattered clouds at 1000 feet AGL, scattered clouds at 12000 feet AGL
Text:TEMPO 2006/2009 BKN010
Forecast period:0600 to 0900 UTC 20 July 2024
Forecast type:TEMPORARY: The following changes expected for less than half the time period
Ceiling:1000 feet AGL
Clouds:broken clouds at 1000 feet AGL
Text:FM201400 VRB03KT P6SM SCT025
Forecast period:1400 to 2100 UTC 20 July 2024
Forecast type:FROM: standard forecast or significant change
Winds:variable direction winds at 3 MPH (3 knots; 1.5 m/s)
Visibility:6 or more sm (10+ km)
Ceiling:at least 12,000 feet AGL
Clouds:scattered clouds at 2500 feet AGL
Text:FM202100 24006KT P6SM VCSH BKN060
Forecast period:2100 UTC 20 July 2024 to 0600 UTC 21 July 2024
Forecast type:FROM: standard forecast or significant change
Winds:from the WSW (240 degrees) at 7 MPH (6 knots; 3.1 m/s)
Visibility:6 or more sm (10+ km)
Ceiling:6000 feet AGL
Clouds:broken clouds at 6000 feet AGL
Weather:VCSH (showers in vicinity)
SPECI for:CYDL (Dease Lake Arpt, BC, CA)
Text:CYDL 200607Z AUTO 24003KT 230V330 4SM +RA BR BKN050 BKN076 OVC088 14/14 A3020 RMK SLP227 DENSITY ALT 2900FT
Conditions at:0607 UTC 20 Jul 2024
Temperature: 14.0°C ( 57°F)
Dewpoint: 14.0°C ( 57°F) [RH = 100%]
Pressure (altimeter):30.20 inches Hg (1022.8 mb) [Sea level pressure: 1022.7 mb]
Winds:from the WSW (240 degrees) at 3 MPH (3 knots; 1.5 m/s)
Visibility:4 sm (6 km)
Ceiling:5000 feet AGL
Clouds:broken clouds at 5000 feet AGL, broken clouds at 7600 feet AGL, overcast cloud deck at 8800 feet AGL
Weather:+RA BR (heavy rain, mist)
SPECI for:YMML (Melbourne Intl, VI, AU)
Text:YMML 200606Z 25021KT 5000 -SHRA FEW016 SCT023 BKN040 10/09 Q1005
Conditions at:0606 UTC 20 Jul 2024
Temperature: 10.0°C ( 50°F)
Dewpoint: 9.0°C ( 48°F) [RH = 93%]
Pressure (altimeter):29.68 inches Hg (1005.0 mb)
Winds:from the WSW (250 degrees) at 24 MPH (21 knots; 10.8 m/s)
Visibility:3 sm (5 km)
Ceiling:4000 feet AGL
Clouds:few clouds at 1600 feet AGL, scattered clouds at 2300 feet AGL, broken clouds at 4000 feet AGL
Weather:-SHRA (light rain showers)
TAF for:YMML (Melbourne Intl, VI, AU) issued at 0526 UTC 20 Jul 2024
Text:TAF YMML 200526Z 2006/2112 26018G32KT 9999 -RA BKN025
Forecast period:0600 to 0900 UTC 20 July 2024
Forecast type:FROM: standard forecast or significant change
Winds:from the W (260 degrees) at 21 MPH (18 knots; 9.3 m/s) gusting to 37 MPH (32 knots; 16.5 m/s)
Visibility:6 or more sm (10+ km)
Ceiling:2500 feet AGL
Clouds:broken clouds at 2500 feet AGL
Weather:-RA (light rain)
Text:BECMG 2009/2010 25014KT 9999 NSW SCT030
Forecast period:0900 to 1500 UTC 20 July 2024
Forecast type:BECOMING: Conditions expected to become as follows by 1000 UTC 20 July 2024
Winds:from the WSW (250 degrees) at 16 MPH (14 knots; 7.2 m/s)
Visibility:6 or more sm (10+ km)
Ceiling:at least 12,000 feet AGL
Clouds:scattered clouds at 3000 feet AGL
Weather:NSW (no significant weather)
Text:FM201500 32010KT 9999 SCT040
Forecast period:1500 UTC 20 July 2024 to 0300 UTC 21 July 2024
Forecast type:FROM: standard forecast or significant change
Winds:from the NW (320 degrees) at 12 MPH (10 knots; 5.1 m/s)
Visibility:6 or more sm (10+ km)
Ceiling:at least 12,000 feet AGL
Clouds:scattered clouds at 4000 feet AGL
Text:FM210300 33014KT 9999 FEW040
Forecast period:0300 to 1200 UTC 21 July 2024
Forecast type:FROM: standard forecast or significant change
Winds:from the NNW (330 degrees) at 16 MPH (14 knots; 7.2 m/s)
Visibility:6 or more sm (10+ km)
Ceiling:at least 12,000 feet AGL
Clouds:few clouds at 4000 feet AGL
Text:INTER 2006/2009 24020G38KT 5000 RA BKN015
Forecast period:0600 to 0900 UTC 20 July 2024
Forecast type:TEMPORARY: The following changes expected for less than half the time period
Winds:from the WSW (240 degrees) at 23 MPH (20 knots; 10.3 m/s) gusting to 44 MPH (38 knots; 19.5 m/s)
Visibility:3 sm (5 km)
Ceiling:1500 feet AGL
Clouds:broken clouds at 1500 feet AGL
Weather:RA (moderate rain)
METAR for:VETJ (Tezu Arpt, AP, IN)
Text:VETJ 200606Z 00000KT 3000 BR SCT018 FEW025CB BKN100 29/26 Q1003 NOSIG
Conditions at:0606 UTC 20 Jul 2024
Temperature: 29.0°C ( 84°F)
Dewpoint: 26.0°C ( 79°F) [RH = 84%]
Pressure (altimeter):29.62 inches Hg (1003.0 mb)
Winds:calm
Visibility:1.86 sm (2.99 km)
Ceiling:10000 feet AGL
Clouds:scattered clouds at 1800 feet AGL, few clouds at 2500 feet AGL, broken clouds at 10000 feet AGL
Weather:BR (mist)
SPECI for:PAOU (Nelson Lagoon Arpt, AK, US)
Text:PAOU 200606Z AUTO 03007KT 10SM SCT002 08/07 A3027 RMK AO2 PNO $
Conditions at:0606 UTC 20 Jul 2024
Temperature: 8.0°C ( 46°F)
Dewpoint: 7.0°C ( 45°F) [RH = 93%]
Pressure (altimeter):30.27 inches Hg (1025.1 mb)
Winds:from the NNE (30 degrees) at 8 MPH (7 knots; 3.6 m/s)
Visibility:10 or more sm (16+ km)
Ceiling:at least 12,000 feet AGL
Clouds:scattered clouds at 200 feet AGL
QC Flag:automated observation with no human augmentation; SOME DATA ABOVE MAY BE INACCURATE!!!"$" is an indication the sensor requires maintenance.
SPECI for:LTCE (Erzurum Intl, EZ, TR)
Text:LTCE 200606Z 34010KT 8000 -SHRA FEW025CB BKN035 15/14 Q1012 RESHRA NOSIG RMK RWY08R 02008KT 350V070 RWY26R 35009KT RWY08L 06008G19KT 040V100 2CB025 5CU035
Conditions at:0606 UTC 20 Jul 2024
Temperature: 15.0°C ( 59°F)
Dewpoint: 14.0°C ( 57°F) [RH = 94%]
Pressure (altimeter):29.88 inches Hg (1012.0 mb)
Winds:from the NNW (340 degrees) at 12 MPH (10 knots; 5.1 m/s)
Visibility:5 sm (8 km)
Ceiling:3500 feet AGL
Clouds:few clouds at 2500 feet AGL, broken clouds at 3500 feet AGL
Weather:-SHRA (light rain showers)
TAF for:LTCE (Erzurum Intl, EZ, TR) issued at 0542 UTC 20 Jul 2024
Text:TAF AMD LTCE 200542Z 2006/2106 VRB02KT 9999 SCT035
Forecast period:0600 to 0800 UTC 20 July 2024
Forecast type:FROM: standard forecast or significant change
Winds:variable direction winds at 2 MPH (2 knots; 1.0 m/s)
Visibility:6 or more sm (10+ km)
Ceiling:at least 12,000 feet AGL
Clouds:scattered clouds at 3500 feet AGL
Text:TEMPO 2006/2008 -SHRA FEW025CB BKN035
Forecast period:0600 to 0800 UTC 20 July 2024
Forecast type:TEMPORARY: The following changes expected for less than half the time period
Ceiling:3500 feet AGL
Clouds:few clouds at 2500 feet AGL, broken clouds at 3500 feet AGL
Weather:-SHRA (light rain showers)
Text:BECMG 2008/2010 FEW025CB BKN035
Forecast period:0800 to 1500 UTC 20 July 2024
Forecast type:BECOMING: Conditions expected to become as follows by 1000 UTC 20 July 2024
Winds:variable direction winds at 2 MPH (2 knots; 1.0 m/s)
Visibility:6 or more sm (10+ km)
Ceiling:3500 feet AGL
Clouds:few clouds at 2500 feet AGL, broken clouds at 3500 feet AGL
Text:TEMPO 2009/2012 -TSRA
Forecast period:0900 to 1200 UTC 20 July 2024
Forecast type:TEMPORARY: The following changes expected for less than half the time period
Weather:-TSRA (light rain associated with thunderstorm(s))
Text:TEMPO 2012/2015 -TSRA
Forecast period:1200 to 1500 UTC 20 July 2024
Forecast type:TEMPORARY: The following changes expected for less than half the time period
Weather:-TSRA (light rain associated with thunderstorm(s))
Text:BECMG 2015/2017 05012KT SCT035
Forecast period:1500 to 1800 UTC 20 July 2024
Forecast type:BECOMING: Conditions expected to become as follows by 1700 UTC 20 July 2024
Winds:from the NE (50 degrees) at 14 MPH (12 knots; 6.2 m/s)
Visibility:6 or more sm (10+ km)
Ceiling:at least 12,000 feet AGL
Clouds:scattered clouds at 3500 feet AGL
Text:BECMG 2018/2021 VRB02KT CAVOK
Forecast period:1800 UTC 20 July 2024 to 0600 UTC 21 July 2024
Forecast type:BECOMING: Conditions expected to become as follows by 2100 UTC 20 July 2024
Winds:variable direction winds at 2 MPH (2 knots; 1.0 m/s)
Visibility:6 or more sm (10+ km)
Clouds:missing
Weather:NSW (no significant weather)
METAR for:K14Y (Long Prairie Muni, MN, US)
Text:K14Y 200606Z AUTO 00000KT 10SM CLR 17/16 A3009 RMK AO2
Conditions at:0606 UTC 20 Jul 2024
Temperature: 17.0°C ( 63°F)
Dewpoint: 16.0°C ( 61°F) [RH = 94%]
Pressure (altimeter):30.09 inches Hg (1019.0 mb)
Winds:calm
Visibility:10 or more sm (16+ km)
Ceiling:at least 12,000 feet AGL
Clouds:sky clear below 12,000 feet AGL
QC Flag:automated observation with no human augmentation
SPECI for:CYQV (Yorkton Muni, SK, CA)
Text:CYQV 200606Z AUTO VRB02KT 5SM BR CLR 20/18 A3006 RMK SLP184 DENSITY ALT 2500FT
Conditions at:0606 UTC 20 Jul 2024
Temperature: 20.0°C ( 68°F)
Dewpoint: 18.0°C ( 64°F) [RH = 88%]
Pressure (altimeter):30.06 inches Hg (1018.0 mb) [Sea level pressure: 1018.4 mb]
Winds:variable direction winds at 2 MPH (2 knots; 1.0 m/s)
Visibility:5 sm (8 km)
Ceiling:at least 12,000 feet AGL
Clouds:sky clear below 12,000 feet AGL
Weather:BR (mist)
SPECI for:UADD (Taraz Arpt, ZH, KZ)
Text:UADD 200605Z VRB01MPS 9999 -TSRA SCT050CB OVC100 24/15 Q1007 NOSIG RMK QFE699/0932
Conditions at:0605 UTC 20 Jul 2024
Temperature: 24.0°C ( 75°F)
Dewpoint: 15.0°C ( 59°F) [RH = 57%]
Pressure (altimeter):29.73 inches Hg (1007.0 mb)
Winds:variable direction winds at 2 MPH (2 knots; 1.0 m/s)
Visibility:6 or more sm (10+ km)
Ceiling:10000 feet AGL
Clouds:scattered clouds at 5000 feet AGL, overcast cloud deck at 10000 feet AGL
Weather:-TSRA (light rain associated with thunderstorm(s))
SPECI for:PAGS (Gustavus Arpt, AK, US)
Text:PAGS 200605Z AUTO 00000KT 1 3/4SM BR OVC003 13/13 A3017 RMK AO2 VIS 3/4V5 TSNO
Conditions at:0605 UTC 20 Jul 2024
Temperature: 13.0°C ( 55°F)
Dewpoint: 13.0°C ( 55°F) [RH = 100%]
Pressure (altimeter):30.17 inches Hg (1021.8 mb)
Winds:calm
Visibility:1.75 sm (2.82 km)
Ceiling:300 feet AGL
Clouds:overcast cloud deck at 300 feet AGL
Weather:BR (mist)
QC Flag:automated observation with no human augmentation
TAF for:PAGS (Gustavus Arpt, AK, US) issued at 0523 UTC 20 Jul 2024
Text:PAGS 200523Z 2006/2106 30005KT P6SM -RA OVC004
Forecast period:0600 to 1200 UTC 20 July 2024
Forecast type:FROM: standard forecast or significant change
Winds:from the WNW (300 degrees) at 6 MPH (5 knots; 2.6 m/s)
Visibility:6 or more sm (10+ km)
Ceiling:400 feet AGL
Clouds:overcast cloud deck at 400 feet AGL
Weather:-RA (light rain)
Text:FM201200 33003KT P6SM OVC007
Forecast period:1200 to 1800 UTC 20 July 2024
Forecast type:FROM: standard forecast or significant change
Winds:from the NNW (330 degrees) at 3 MPH (3 knots; 1.5 m/s)
Visibility:6 or more sm (10+ km)
Ceiling:700 feet AGL
Clouds:overcast cloud deck at 700 feet AGL
Text:FM201800 VRB03KT P6SM SCT010 OVC020
Forecast period:1800 to 2100 UTC 20 July 2024
Forecast type:FROM: standard forecast or significant change
Winds:variable direction winds at 3 MPH (3 knots; 1.5 m/s)
Visibility:6 or more sm (10+ km)
Ceiling:2000 feet AGL
Clouds:scattered clouds at 1000 feet AGL, overcast cloud deck at 2000 feet AGL
Text:FM202100 21004KT P6SM OVC035 AMD LTD TO CLD VIS AND WIND
Forecast period:2100 UTC 20 July 2024 to 0600 UTC 21 July 2024
Forecast type:FROM: standard forecast or significant change
Winds:from the SSW (210 degrees) at 5 MPH (4 knots; 2.1 m/s)
Visibility:6 or more sm (10+ km)
Ceiling:3500 feet AGL
Clouds:overcast cloud deck at 3500 feet AGL
METAR for:KXER (Green Canyon 19, LA, US)
Text:KXER 200605Z AUTO 20013KT 10SM 29/26 A3003 RMK A01
Conditions at:0605 UTC 20 Jul 2024
Temperature: 29.0°C ( 84°F)
Dewpoint: 26.0°C ( 79°F) [RH = 84%]
Pressure (altimeter):30.03 inches Hg (1017.0 mb)
Winds:from the SSW (200 degrees) at 15 MPH (13 knots; 6.7 m/s)
Visibility:10 or more sm (16+ km)
QC Flag:automated observation with no human augmentation
METAR for:KW40 (Mt Olive Muni, NC, US)
Text:KW40 200605Z AUTO 16005KT 5SM -RA BR SCT002 SCT020 OVC110 23/23 A3009 RMK AO2 P0001 T02290226
Conditions at:0605 UTC 20 Jul 2024
Temperature: 22.9°C ( 73°F)
Dewpoint: 22.6°C ( 73°F) [RH = 98%]
Pressure (altimeter):30.09 inches Hg (1019.0 mb)
Winds:from the SSE (160 degrees) at 6 MPH (5 knots; 2.6 m/s)
Visibility:5 sm (8 km)
Ceiling:11000 feet AGL
Clouds:scattered clouds at 200 feet AGL, scattered clouds at 2000 feet AGL, overcast cloud deck at 11000 feet AGL
Weather:-RA BR (light rain, mist)
QC Flag:automated observation with no human augmentation
METAR for:KW29 (Stevensville/Bay Bridge Arpt, MD, US)
Text:KW29 200605Z AUTO 16006KT 10SM CLR 24/21 A3012 RMK AO2 T02430208
Conditions at:0605 UTC 20 Jul 2024
Temperature: 24.3°C ( 76°F)
Dewpoint: 20.8°C ( 69°F) [RH = 81%]
Pressure (altimeter):30.12 inches Hg (1020.1 mb)
Winds:from the SSE (160 degrees) at 7 MPH (6 knots; 3.1 m/s)
Visibility:10 or more sm (16+ km)
Ceiling:at least 12,000 feet AGL
Clouds:sky clear below 12,000 feet AGL
QC Flag:automated observation with no human augmentation
METAR for:KVUJ (Albemarle/Stanly Cnty, NC, US)
Text:KVUJ 200605Z AUTO 00000KT 7SM BKN003 OVC008 23/22 A3013 RMK AO2 T02250222
Conditions at:0605 UTC 20 Jul 2024
Temperature: 22.5°C ( 72°F)
Dewpoint: 22.2°C ( 72°F) [RH = 98%]
Pressure (altimeter):30.13 inches Hg (1020.4 mb)
Winds:calm
Visibility:7 sm (11 km)
Ceiling:300 feet AGL
Clouds:broken clouds at 300 feet AGL, overcast cloud deck at 800 feet AGL
QC Flag:automated observation with no human augmentation
SPECI for:KVBG (Vandenberg AFB, CA, US)
Text:KVBG 200605Z AUTO 00000KT 5/8SM R12/3000V4500FT BR VV001 13/12 A2998 RMK AO2 SLP155 TSNO $
Conditions at:0605 UTC 20 Jul 2024
Temperature: 13.0°C ( 55°F)
Dewpoint: 12.0°C ( 54°F) [RH = 94%]
Pressure (altimeter):29.98 inches Hg (1015.3 mb) [Sea level pressure: 1015.5 mb]
Winds:calm
Visibility:0.63 sm (1.01 km)
Ceiling:indefinite ceiling with vertical visibility of 100 feet AGL
Clouds:obscured sky
Weather:BR (mist)
QC Flag:automated observation with no human augmentation; SOME DATA ABOVE MAY BE INACCURATE!!!"$" is an indication the sensor requires maintenance.
METAR for:KTTA (Sanford/Lee Cnty, NC, US)
Text:KTTA 200605Z AUTO 00000KT 7SM CLR 22/22 A3007 RMK AO2 T02210221
Conditions at:0605 UTC 20 Jul 2024
Temperature: 22.1°C ( 72°F)
Dewpoint: 22.1°C ( 72°F) [RH = 100%]
Pressure (altimeter):30.07 inches Hg (1018.4 mb)
Winds:calm
Visibility:7 sm (11 km)
Ceiling:at least 12,000 feet AGL
Clouds:sky clear below 12,000 feet AGL
QC Flag:automated observation with no human augmentation
METAR for:KTDF (Roxboro/Person Cnty, NC, US)
Text:KTDF 200605Z AUTO 00000KT 10SM OVC005 21/20 A3012 RMK AO2
Conditions at:0605 UTC 20 Jul 2024
Temperature: 21.0°C ( 70°F)
Dewpoint: 20.0°C ( 68°F) [RH = 94%]
Pressure (altimeter):30.12 inches Hg (1020.1 mb)
Winds:calm
Visibility:10 or more sm (16+ km)
Ceiling:500 feet AGL
Clouds:overcast cloud deck at 500 feet AGL
QC Flag:automated observation with no human augmentation
METAR for:KSVH (Statesville Muni, NC, US)
Text:KSVH 200605Z AUTO 00000KT 10SM CLR 23/22 A3010 RMK AO2 T02300216
Conditions at:0605 UTC 20 Jul 2024
Temperature: 23.0°C ( 73°F)
Dewpoint: 21.6°C ( 71°F) [RH = 92%]
Pressure (altimeter):30.10 inches Hg (1019.4 mb)
Winds:calm
Visibility:10 or more sm (16+ km)
Ceiling:at least 12,000 feet AGL
Clouds:sky clear below 12,000 feet AGL
QC Flag:automated observation with no human augmentation
METAR for:KSIF (Eden/Shiloh Arpt, NC, US)
Text:KSIF 200605Z AUTO 00000KT 7SM BKN011 OVC016 23/22 A3010 RMK AO2 T02300221
Conditions at:0605 UTC 20 Jul 2024
Temperature: 23.0°C ( 73°F)
Dewpoint: 22.1°C ( 72°F) [RH = 95%]
Pressure (altimeter):30.10 inches Hg (1019.4 mb)
Winds:calm
Visibility:7 sm (11 km)
Ceiling:1100 feet AGL
Clouds:broken clouds at 1100 feet AGL, overcast cloud deck at 1600 feet AGL
QC Flag:automated observation with no human augmentation
METAR for:KSCR (Siler City Muni, NC, US)
Text:KSCR 200605Z AUTO 00000KT 10SM CLR 22/22 A3009 RMK AO2 T02220222
Conditions at:0605 UTC 20 Jul 2024
Temperature: 22.2°C ( 72°F)
Dewpoint: 22.2°C ( 72°F) [RH = 100%]
Pressure (altimeter):30.09 inches Hg (1019.0 mb)
Winds:calm
Visibility:10 or more sm (16+ km)
Ceiling:at least 12,000 feet AGL
Clouds:sky clear below 12,000 feet AGL
QC Flag:automated observation with no human augmentation
METAR for:KRUQ (Salisbury/Rowan Cnty, NC, US)
Text:KRUQ 200605Z AUTO 00000KT 10SM BKN009 22/22 A3009 RMK AO2 T02210215
Conditions at:0605 UTC 20 Jul 2024
Temperature: 22.1°C ( 72°F)
Dewpoint: 21.5°C ( 71°F) [RH = 96%]
Pressure (altimeter):30.09 inches Hg (1019.0 mb)
Winds:calm
Visibility:10 or more sm (16+ km)
Ceiling:900 feet AGL
Clouds:broken clouds at 900 feet AGL
QC Flag:automated observation with no human augmentation
SPECI for:KPOB (Pope AAF, NC, US)
Text:KPOB 200605Z AUTO 00000KT 10SM SCT011 OVC160 24/23 A3007 RMK AO2 SLP183 $
Conditions at:0605 UTC 20 Jul 2024
Temperature: 24.0°C ( 75°F)
Dewpoint: 23.0°C ( 73°F) [RH = 94%]
Pressure (altimeter):30.07 inches Hg (1018.4 mb) [Sea level pressure: 1018.3 mb]
Winds:calm
Visibility:10 or more sm (16+ km)
Ceiling:16000 feet AGL
Clouds:scattered clouds at 1100 feet AGL, overcast cloud deck at 16000 feet AGL
QC Flag:automated observation with no human augmentation; SOME DATA ABOVE MAY BE INACCURATE!!!"$" is an indication the sensor requires maintenance.
METAR for:KPGV (Greenville/Pitt Arpt, NC, US)
Text:KPGV 200605Z AUTO 15004KT 10SM SCT006 SCT021 SCT026 23/23 A3008 RMK AO2
Conditions at:0605 UTC 20 Jul 2024
Temperature: 23.0°C ( 73°F)
Dewpoint: 23.0°C ( 73°F) [RH = 100%]
Pressure (altimeter):30.08 inches Hg (1018.7 mb)
Winds:from the SSE (150 degrees) at 5 MPH (4 knots; 2.1 m/s)
Visibility:10 or more sm (16+ km)
Ceiling:at least 12,000 feet AGL
Clouds:scattered clouds at 600 feet AGL, scattered clouds at 2100 feet AGL, scattered clouds at 2600 feet AGL
QC Flag:automated observation with no human augmentation
TAF for:KPGV (Greenville/Pitt Arpt, NC, US) issued at 0544 UTC 20 Jul 2024
Text:KPGV 200544Z 2006/2106 VRB06KT P6SM -SHRA SCT025 BKN100
Forecast period:0600 to 0900 UTC 20 July 2024
Forecast type:FROM: standard forecast or significant change
Winds:variable direction winds at 7 MPH (6 knots; 3.1 m/s)
Visibility:6 or more sm (10+ km)
Ceiling:10000 feet AGL
Clouds:scattered clouds at 2500 feet AGL, broken clouds at 10000 feet AGL
Weather:-SHRA (light rain showers)
Text:TEMPO 2007/2009 -RA BKN025
Forecast period:0700 to 0900 UTC 20 July 2024
Forecast type:TEMPORARY: The following changes expected for less than half the time period
Ceiling:2500 feet AGL
Clouds:broken clouds at 2500 feet AGL
Weather:-RA (light rain)
Text:FM200900 VRB06KT P6SM SCT015
Forecast period:0900 to 1600 UTC 20 July 2024
Forecast type:FROM: standard forecast or significant change
Winds:variable direction winds at 7 MPH (6 knots; 3.1 m/s)
Visibility:6 or more sm (10+ km)
Ceiling:at least 12,000 feet AGL
Clouds:scattered clouds at 1500 feet AGL
Text:FM201600 22010KT P6SM BKN035
Forecast period:1600 UTC 20 July 2024 to 0000 UTC 21 July 2024
Forecast type:FROM: standard forecast or significant change
Winds:from the SW (220 degrees) at 12 MPH (10 knots; 5.1 m/s)
Visibility:6 or more sm (10+ km)
Ceiling:3500 feet AGL
Clouds:broken clouds at 3500 feet AGL
Text:FM210000 21008KT P6SM SHRA VCTS BKN040CB
Forecast period:0000 to 0300 UTC 21 July 2024
Forecast type:FROM: standard forecast or significant change
Winds:from the SSW (210 degrees) at 9 MPH (8 knots; 4.1 m/s)
Visibility:6 or more sm (10+ km)
Ceiling:4000 feet AGL
Clouds:broken clouds at 4000 feet AGL
Weather:SHRA VCTS (rain showers, thunderstorm in vicinity)
Text:FM210300 VRB06KT P6SM SCT040 AMD LTD TO CLD VIS AND WIND
Forecast period:0300 to 0600 UTC 21 July 2024
Forecast type:FROM: standard forecast or significant change
Winds:variable direction winds at 7 MPH (6 knots; 3.1 m/s)
Visibility:6 or more sm (10+ km)
Ceiling:at least 12,000 feet AGL
Clouds:scattered clouds at 4000 feet AGL
SPECI for:KOFF (Bellevue/Offutt AFB, NE, US)
Text:KOFF 200605Z 13006KT 10SM BKN065 OVC080 20/18 A3008 RMK AO2A RAE05 SLP183
Conditions at:0605 UTC 20 Jul 2024
Temperature: 20.0°C ( 68°F)
Dewpoint: 18.0°C ( 64°F) [RH = 88%]
Pressure (altimeter):30.08 inches Hg (1018.7 mb) [Sea level pressure: 1018.3 mb]
Winds:from the SE (130 degrees) at 7 MPH (6 knots; 3.1 m/s)
Visibility:10 or more sm (16+ km)
Ceiling:6500 feet AGL
Clouds:broken clouds at 6500 feet AGL, overcast cloud deck at 8000 feet AGL
METAR for:KMWK (Mt Airy/Surry Cnty, NC, US)
Text:KMWK 200605Z AUTO 00000KT 5SM BR BKN003 OVC015 22/21 A3014 RMK AO2 T02150213
Conditions at:0605 UTC 20 Jul 2024
Temperature: 21.5°C ( 71°F)
Dewpoint: 21.3°C ( 70°F) [RH = 99%]
Pressure (altimeter):30.14 inches Hg (1020.7 mb)
Winds:calm
Visibility:5 sm (8 km)
Ceiling:300 feet AGL
Clouds:broken clouds at 300 feet AGL, overcast cloud deck at 1500 feet AGL
Weather:BR (mist)
QC Flag:automated observation with no human augmentation
METAR for:KMRN (Morganton/Foothills Rgnl, NC, US)
Text:KMRN 200605Z AUTO 00000KT 10SM SCT018 SCT120 22/21 A3011 RMK AO2 T02160212
Conditions at:0605 UTC 20 Jul 2024
Temperature: 21.6°C ( 71°F)
Dewpoint: 21.2°C ( 70°F) [RH = 98%]
Pressure (altimeter):30.11 inches Hg (1019.7 mb)
Winds:calm
Visibility:10 or more sm (16+ km)
Ceiling:at least 12,000 feet AGL
Clouds:scattered clouds at 1800 feet AGL, scattered clouds at 12000 feet AGL
QC Flag:automated observation with no human augmentation
METAR for:KMQI (Manteo/Dare Cnty, NC, US)
Text:KMQI 200605Z AUTO 16004KT 10SM BKN060 OVC070 24/23 A3010 RMK AO2 T02360228
Conditions at:0605 UTC 20 Jul 2024
Temperature: 23.6°C ( 74°F)
Dewpoint: 22.8°C ( 73°F) [RH = 95%]
Pressure (altimeter):30.10 inches Hg (1019.4 mb)
Winds:from the SSE (160 degrees) at 5 MPH (4 knots; 2.1 m/s)
Visibility:10 or more sm (16+ km)
Ceiling:6000 feet AGL
Clouds:broken clouds at 6000 feet AGL, overcast cloud deck at 7000 feet AGL
QC Flag:automated observation with no human augmentation
METAR for:KMCZ (Williamston/Martin Cnty, NC, US)
Text:KMCZ 200605Z AUTO 00000KT 10SM OVC004 23/23 A3009 RMK AO2 T02310228
Conditions at:0605 UTC 20 Jul 2024
Temperature: 23.1°C ( 74°F)
Dewpoint: 22.8°C ( 73°F) [RH = 98%]
Pressure (altimeter):30.09 inches Hg (1019.0 mb)
Winds:calm
Visibility:10 or more sm (16+ km)
Ceiling:400 feet AGL
Clouds:overcast cloud deck at 400 feet AGL
QC Flag:automated observation with no human augmentation
METAR for:KJQF (Concord Rgnl, NC, US)
Text:KJQF 200605Z AUTO 00000KT 10SM CLR 21/21 A3011 RMK AO2
Conditions at:0605 UTC 20 Jul 2024
Temperature: 21.0°C ( 70°F)
Dewpoint: 21.0°C ( 70°F) [RH = 100%]
Pressure (altimeter):30.11 inches Hg (1019.7 mb)
Winds:calm
Visibility:10 or more sm (16+ km)
Ceiling:at least 12,000 feet AGL
Clouds:sky clear below 12,000 feet AGL
QC Flag:automated observation with no human augmentation
METAR for:KJNX (Smithfield/Johnston Rgnl, NC, US)
Text:KJNX 200605Z AUTO 00000KT 7SM RA BKN008 OVC100 23/23 A3008 RMK AO2 LTG DSNT SE
Conditions at:0605 UTC 20 Jul 2024
Temperature: 23.0°C ( 73°F)
Dewpoint: 23.0°C ( 73°F) [RH = 100%]
Pressure (altimeter):30.08 inches Hg (1018.7 mb)
Winds:calm
Visibility:7 sm (11 km)
Ceiling:800 feet AGL
Clouds:broken clouds at 800 feet AGL, overcast cloud deck at 10000 feet AGL
Weather:RA (moderate rain)
QC Flag:automated observation with no human augmentation
METAR for:KISO (Kinston Rgnl, NC, US)
Text:KISO 200605Z AUTO 16006KT 10SM SCT018 BKN024 BKN029 23/22 A3009 RMK AO2 T02300221
Conditions at:0605 UTC 20 Jul 2024
Temperature: 23.0°C ( 73°F)
Dewpoint: 22.1°C ( 72°F) [RH = 95%]
Pressure (altimeter):30.09 inches Hg (1019.0 mb)
Winds:from the SSE (160 degrees) at 7 MPH (6 knots; 3.1 m/s)
Visibility:10 or more sm (16+ km)
Ceiling:2400 feet AGL
Clouds:scattered clouds at 1800 feet AGL, broken clouds at 2400 feet AGL, broken clouds at 2900 feet AGL
QC Flag:automated observation with no human augmentation
TAF for:KISO (Kinston Rgnl, NC, US) issued at 0544 UTC 20 Jul 2024
Text:KISO 200544Z 2006/2106 VRB06KT P6SM -SHRA SCT015 BKN070
Forecast period:0600 to 0800 UTC 20 July 2024
Forecast type:FROM: standard forecast or significant change
Winds:variable direction winds at 7 MPH (6 knots; 3.1 m/s)
Visibility:6 or more sm (10+ km)
Ceiling:7000 feet AGL
Clouds:scattered clouds at 1500 feet AGL, broken clouds at 7000 feet AGL
Weather:-SHRA (light rain showers)
Text:TEMPO 2006/2008 -RA BKN015
Forecast period:0600 to 0800 UTC 20 July 2024
Forecast type:TEMPORARY: The following changes expected for less than half the time period
Ceiling:1500 feet AGL
Clouds:broken clouds at 1500 feet AGL
Weather:-RA (light rain)
Text:FM200800 VRB06KT P6SM SCT015
Forecast period:0800 to 1400 UTC 20 July 2024
Forecast type:FROM: standard forecast or significant change
Winds:variable direction winds at 7 MPH (6 knots; 3.1 m/s)
Visibility:6 or more sm (10+ km)
Ceiling:at least 12,000 feet AGL
Clouds:scattered clouds at 1500 feet AGL
Text:FM201400 22010KT P6SM SCT027
Forecast period:1400 to 1700 UTC 20 July 2024
Forecast type:FROM: standard forecast or significant change
Winds:from the SW (220 degrees) at 12 MPH (10 knots; 5.1 m/s)
Visibility:6 or more sm (10+ km)
Ceiling:at least 12,000 feet AGL
Clouds:scattered clouds at 2700 feet AGL
Text:FM201700 22009KT P6SM BKN040 AMD LTD TO CLD VIS AND WIND
Forecast period:1700 UTC 20 July 2024 to 0600 UTC 21 July 2024
Forecast type:FROM: standard forecast or significant change
Winds:from the SW (220 degrees) at 10 MPH (9 knots; 4.6 m/s)
Visibility:6 or more sm (10+ km)
Ceiling:4000 feet AGL
Clouds:broken clouds at 4000 feet AGL
METAR for:KIPJ (Lincolnton/Lincoln Cnty, NC, US)
Text:KIPJ 200605Z AUTO 00000KT 10SM CLR 22/21 A3009 RMK AO2 T02170212
Conditions at:0605 UTC 20 Jul 2024
Temperature: 21.7°C ( 71°F)
Dewpoint: 21.2°C ( 70°F) [RH = 97%]
Pressure (altimeter):30.09 inches Hg (1019.0 mb)
Winds:calm
Visibility:10 or more sm (16+ km)
Ceiling:at least 12,000 feet AGL
Clouds:sky clear below 12,000 feet AGL
QC Flag:automated observation with no human augmentation
SPECI for:KIJD (Willimantic/Windham Arpt, CT, US)
Text:KIJD 200605Z AUTO 00000KT 10SM BKN002 17/16 A3013 RMK AO2 T01670156
Conditions at:0605 UTC 20 Jul 2024
Temperature: 16.7°C ( 62°F)
Dewpoint: 15.6°C ( 60°F) [RH = 93%]
Pressure (altimeter):30.13 inches Hg (1020.4 mb)
Winds:calm
Visibility:10 or more sm (16+ km)
Ceiling:200 feet AGL
Clouds:broken clouds at 200 feet AGL
QC Flag:automated observation with no human augmentation
METAR for:KHBI (Asheboro Muni, NC, US)
Text:KHBI 200605Z AUTO 15003KT 10SM OVC010 22/22 A3011 RMK AO2 T02230215
Conditions at:0605 UTC 20 Jul 2024
Temperature: 22.3°C ( 72°F)
Dewpoint: 21.5°C ( 71°F) [RH = 95%]
Pressure (altimeter):30.11 inches Hg (1019.7 mb)
Winds:from the SSE (150 degrees) at 3 MPH (3 knots; 1.5 m/s)
Visibility:10 or more sm (16+ km)
Ceiling:1000 feet AGL
Clouds:overcast cloud deck at 1000 feet AGL
QC Flag:automated observation with no human augmentation
METAR for:KGEV (Jefferson/Ashe Cnty, NC, US)
Text:KGEV 200605Z AUTO 00000KT 7SM OVC009 17/17 A3020 RMK AO2 T01740171
Conditions at:0605 UTC 20 Jul 2024
Temperature: 17.4°C ( 63°F)
Dewpoint: 17.1°C ( 63°F) [RH = 98%]
Pressure (altimeter):30.20 inches Hg (1022.8 mb)
Winds:calm
Visibility:7 sm (11 km)
Ceiling:900 feet AGL
Clouds:overcast cloud deck at 900 feet AGL
QC Flag:automated observation with no human augmentation
METAR for:KFQD (Rutherfordton/Marchman Fld, NC, US)
Text:KFQD 200605Z AUTO 00000KT 10SM SCT015 SCT019 BKN095 21/21 A3012 RMK AO2
Conditions at:0605 UTC 20 Jul 2024
Temperature: 21.0°C ( 70°F)
Dewpoint: 21.0°C ( 70°F) [RH = 100%]
Pressure (altimeter):30.12 inches Hg (1020.1 mb)
Winds:calm
Visibility:10 or more sm (16+ km)
Ceiling:9500 feet AGL
Clouds:scattered clouds at 1500 feet AGL, scattered clouds at 1900 feet AGL, broken clouds at 9500 feet AGL
QC Flag:automated observation with no human augmentation
METAR for:KEXX (Lexington/Davidson Cnty, NC, US)
Text:KEXX 200605Z AUTO 00000KT 10SM OVC014 23/23 A3009 RMK AO2 T02300230
Conditions at:0605 UTC 20 Jul 2024
Temperature: 23.0°C ( 73°F)
Dewpoint: 23.0°C ( 73°F) [RH = 100%]
Pressure (altimeter):30.09 inches Hg (1019.0 mb)
Winds:calm
Visibility:10 or more sm (16+ km)
Ceiling:1400 feet AGL
Clouds:overcast cloud deck at 1400 feet AGL
QC Flag:automated observation with no human augmentation
METAR for:KESN (Easton Muni, MD, US)
Text:KESN 200605Z AUTO 09003KT 10SM CLR 21/19 A3012 RMK AO2 T02080194
Conditions at:0605 UTC 20 Jul 2024
Temperature: 20.8°C ( 69°F)
Dewpoint: 19.4°C ( 67°F) [RH = 92%]
Pressure (altimeter):30.12 inches Hg (1020.1 mb)
Winds:from the E (90 degrees) at 3 MPH (3 knots; 1.5 m/s)
Visibility:10 or more sm (16+ km)
Ceiling:at least 12,000 feet AGL
Clouds:sky clear below 12,000 feet AGL
QC Flag:automated observation with no human augmentation
METAR for:KDPL (Kenansville/Duplin Arpt, NC, US)
Text:KDPL 200605Z AUTO 00000KT 5SM -RA BKN100 BKN120 23/ A3009 RMK AO2
Conditions at:0605 UTC 20 Jul 2024
Temperature: 23.0°C ( 73°F)
Pressure (altimeter):30.09 inches Hg (1019.0 mb)
Winds:calm
Visibility:5 sm (8 km)
Ceiling:10000 feet AGL
Clouds:broken clouds at 10000 feet AGL, broken clouds at 12000 feet AGL
Weather:-RA (light rain)
QC Flag:automated observation with no human augmentation
METAR for:KDMW (Westminster/Carroll Cnty Rgnl, MD, US)
Text:KDMW 200605Z AUTO 21003KT 10SM CLR 24/18 A3014 RMK AO2
Conditions at:0605 UTC 20 Jul 2024
Temperature: 24.0°C ( 75°F)
Dewpoint: 18.0°C ( 64°F) [RH = 69%]
Pressure (altimeter):30.14 inches Hg (1020.7 mb)
Winds:from the SSW (210 degrees) at 3 MPH (3 knots; 1.5 m/s)
Visibility:10 or more sm (16+ km)
Ceiling:at least 12,000 feet AGL
Clouds:sky clear below 12,000 feet AGL
QC Flag:automated observation with no human augmentation
METAR for:KCTZ (Clinton/Sampson Cnty, NC, US)
Text:KCTZ 200605Z AUTO 00000KT 7SM SCT002 BKN006 23/23 A3009 RMK AO2 T02330233
Conditions at:0605 UTC 20 Jul 2024
Temperature: 23.3°C ( 74°F)
Dewpoint: 23.3°C ( 74°F) [RH = 100%]
Pressure (altimeter):30.09 inches Hg (1019.0 mb)
Winds:calm
Visibility:7 sm (11 km)
Ceiling:600 feet AGL
Clouds:scattered clouds at 200 feet AGL, broken clouds at 600 feet AGL
QC Flag:automated observation with no human augmentation
METAR for:KCPC (Whiteville/Columbus Cnty, NC, US)
Text:KCPC 200605Z AUTO 00000KT 10SM SCT002 23/22 A3012 RMK AO2 T02280220
Conditions at:0605 UTC 20 Jul 2024
Temperature: 22.8°C ( 73°F)
Dewpoint: 22.0°C ( 72°F) [RH = 95%]
Pressure (altimeter):30.12 inches Hg (1020.1 mb)
Winds:calm
Visibility:10 or more sm (16+ km)
Ceiling:at least 12,000 feet AGL
Clouds:scattered clouds at 200 feet AGL
QC Flag:automated observation with no human augmentation
METAR for:KCGS (College Park Arpt, MD, US)
Text:KCGS 200605Z AUTO 00000KT 10SM SCT100 22/19 A3012 RMK AO2 T02180191
Conditions at:0605 UTC 20 Jul 2024
Temperature: 21.8°C ( 71°F)
Dewpoint: 19.1°C ( 66°F) [RH = 85%]
Pressure (altimeter):30.12 inches Hg (1020.1 mb)
Winds:calm
Visibility:10 or more sm (16+ km)
Ceiling:at least 12,000 feet AGL
Clouds:scattered clouds at 10000 feet AGL
QC Flag:automated observation with no human augmentation
METAR for:KCGE (Cambridge/Dorchester Rgnl, MD, US)
Text:KCGE 200605Z AUTO 16004KT 10SM CLR 20/19 A3011 RMK A01
Conditions at:0605 UTC 20 Jul 2024
Temperature: 20.0°C ( 68°F)
Dewpoint: 19.0°C ( 66°F) [RH = 94%]
Pressure (altimeter):30.11 inches Hg (1019.7 mb)
Winds:from the SSE (160 degrees) at 5 MPH (4 knots; 2.1 m/s)
Visibility:10 or more sm (16+ km)
Ceiling:at least 12,000 feet AGL
Clouds:sky clear below 12,000 feet AGL
QC Flag:automated observation with no human augmentation
METAR for:KCBE (Cumberland Arpt, MD, US)
Text:KCBE 200605Z AUTO 00000KT 10SM SCT038 SCT060 BKN110 22/19 A3015 RMK AO2 T02220190
Conditions at:0605 UTC 20 Jul 2024
Temperature: 22.2°C ( 72°F)
Dewpoint: 19.0°C ( 66°F) [RH = 82%]
Pressure (altimeter):30.15 inches Hg (1021.1 mb)
Winds:calm
Visibility:10 or more sm (16+ km)
Ceiling:11000 feet AGL
Clouds:scattered clouds at 3800 feet AGL, scattered clouds at 6000 feet AGL, broken clouds at 11000 feet AGL
QC Flag:automated observation with no human augmentation
METAR for:KASJ (Ahoskie/Tri Cnty, NC, US)
Text:KASJ 200605Z AUTO 00000KT 5SM BR SCT008 SCT013 BKN024 23/23 A3009 RMK AO2 T02260226
Conditions at:0605 UTC 20 Jul 2024
Temperature: 22.6°C ( 73°F)
Dewpoint: 22.6°C ( 73°F) [RH = 100%]
Pressure (altimeter):30.09 inches Hg (1019.0 mb)
Winds:calm
Visibility:5 sm (8 km)
Ceiling:2400 feet AGL
Clouds:scattered clouds at 800 feet AGL, scattered clouds at 1300 feet AGL, broken clouds at 2400 feet AGL
Weather:BR (mist)
QC Flag:automated observation with no human augmentation
METAR for:KANR (Green Canyon Blk 763, LA, US)
Text:KANR 200605Z AUTO 18016KT 10SM FEW023 FEW028 FEW033 31/24 A3014 RMK A01
Conditions at:0605 UTC 20 Jul 2024
Temperature: 31.0°C ( 88°F)
Dewpoint: 24.0°C ( 75°F) [RH = 66%]
Pressure (altimeter):30.14 inches Hg (1020.7 mb)
Winds:from the S (180 degrees) at 18 MPH (16 knots; 8.2 m/s)
Visibility:10 or more sm (16+ km)
Ceiling:at least 12,000 feet AGL
Clouds:few clouds at 2300 feet AGL, few clouds at 2800 feet AGL, few clouds at 3300 feet AGL
QC Flag:automated observation with no human augmentation
METAR for:KACZ (Wallace/Henderson Fld, NC, US)
Text:KACZ 200605Z AUTO 00000KT 7SM -RA BKN110 23/23 A3009 RMK AO2 T02290227
Conditions at:0605 UTC 20 Jul 2024
Temperature: 22.9°C ( 73°F)
Dewpoint: 22.7°C ( 73°F) [RH = 99%]
Pressure (altimeter):30.09 inches Hg (1019.0 mb)
Winds:calm
Visibility:7 sm (11 km)
Ceiling:11000 feet AGL
Clouds:broken clouds at 11000 feet AGL
Weather:-RA (light rain)
QC Flag:automated observation with no human augmentation
METAR for:K7W6 (Engelhard/Hyde Cnty, NC, US)
Text:K7W6 200605Z AUTO 00000KT 10SM SCT120 23/23 A3010 RMK AO2 T02320228
Conditions at:0605 UTC 20 Jul 2024
Temperature: 23.2°C ( 74°F)
Dewpoint: 22.8°C ( 73°F) [RH = 98%]
Pressure (altimeter):30.10 inches Hg (1019.4 mb)
Winds:calm
Visibility:10 or more sm (16+ km)
Ceiling:at least 12,000 feet AGL
Clouds:scattered clouds at 12000 feet AGL
QC Flag:automated observation with no human augmentation
METAR for:K2G4 (Oakland/Garrett Cnty, MD, US)
Text:K2G4 200605Z AUTO 16007KT 10SM CLR 18/16 A3018 RMK AO2
Conditions at:0605 UTC 20 Jul 2024
Temperature: 18.0°C ( 64°F)
Dewpoint: 16.0°C ( 61°F) [RH = 88%]
Pressure (altimeter):30.18 inches Hg (1022.1 mb)
Winds:from the SSE (160 degrees) at 8 MPH (7 knots; 3.6 m/s)
Visibility:10 or more sm (16+ km)
Ceiling:at least 12,000 feet AGL
Clouds:sky clear below 12,000 feet AGL
QC Flag:automated observation with no human augmentation
METAR for:K1A5 (Franklin/Macon Cnty, NC, US)
Text:K1A5 200605Z AUTO 00000KT 7SM OVC003 20/20 A3019 RMK AO2 T02040200
Conditions at:0605 UTC 20 Jul 2024
Temperature: 20.4°C ( 69°F)
Dewpoint: 20.0°C ( 68°F) [RH = 98%]
Pressure (altimeter):30.19 inches Hg (1022.4 mb)
Winds:calm
Visibility:7 sm (11 km)
Ceiling:300 feet AGL
Clouds:overcast cloud deck at 300 feet AGL
QC Flag:automated observation with no human augmentation
METAR for:K0W3 (Churchville/Hartford Cnty, MD, US)
Text:K0W3 200605Z AUTO 16004KT 10SM CLR 21/20 A3012 RMK AO2 T02080195 $
Conditions at:0605 UTC 20 Jul 2024
Temperature: 20.8°C ( 69°F)
Dewpoint: 19.5°C ( 67°F) [RH = 92%]
Pressure (altimeter):30.12 inches Hg (1020.1 mb)
Winds:from the SSE (160 degrees) at 5 MPH (4 knots; 2.1 m/s)
Visibility:10 or more sm (16+ km)
Ceiling:at least 12,000 feet AGL
Clouds:sky clear below 12,000 feet AGL
QC Flag:automated observation with no human augmentation; SOME DATA ABOVE MAY BE INACCURATE!!!"$" is an indication the sensor requires maintenance.
SPECI for:CYYD (Smithers Arpt, BC, CA)
Text:CYYD 200605Z AUTO VRB02KT 8SM CLR 18/15 A3017 RMK SLP218 DENSITY ALT 2200FT
Conditions at:0605 UTC 20 Jul 2024
Temperature: 18.0°C ( 64°F)
Dewpoint: 15.0°C ( 59°F) [RH = 83%]
Pressure (altimeter):30.17 inches Hg (1021.8 mb) [Sea level pressure: 1021.8 mb]
Winds:variable direction winds at 2 MPH (2 knots; 1.0 m/s)
Visibility:8 sm (13 km)
Ceiling:at least 12,000 feet AGL
Clouds:sky clear below 12,000 feet AGL
SPECI for:RKSQ (Yeonpyeungdo, 41, KR)
Text:RKSQ 200604Z 16003KT 0400 +TSRA FG VV002 24/24 A2974 RMK CIG002
Conditions at:0604 UTC 20 Jul 2024
Temperature: 24.0°C ( 75°F)
Dewpoint: 24.0°C ( 75°F) [RH = 100%]
Pressure (altimeter):29.74 inches Hg (1007.2 mb)
Winds:from the SSE (160 degrees) at 3 MPH (3 knots; 1.5 m/s)
Visibility:0.25 sm (0.40 km)
Ceiling:indefinite ceiling with vertical visibility of 200 feet AGL
Clouds:obscured sky
Weather:+TSRA FG (heavy rain associated with thunderstorm(s), fog)
SPECI for:KNKT (Cherry Point MCAS, NC, US)
Text:KNKT 200604Z AUTO 22005KT 10SM FEW009 23/23 A3011 RMK AO2 RAE0558 TSE0558 P0004 T02330233
Conditions at:0604 UTC 20 Jul 2024
Temperature: 23.3°C ( 74°F)
Dewpoint: 23.3°C ( 74°F) [RH = 100%]
Pressure (altimeter):30.11 inches Hg (1019.7 mb)
Winds:from the SW (220 degrees) at 6 MPH (5 knots; 2.6 m/s)
Visibility:10 or more sm (16+ km)
Ceiling:at least 12,000 feet AGL
Clouds:few clouds at 900 feet AGL
QC Flag:automated observation with no human augmentation
SPECI for:KBIV (Holland/Tulip City Arpt, MI, US)
Text:KBIV 200604Z AUTO 00000KT 3SM BR FEW002 12/12 A3014 RMK AO2 T01220122
Conditions at:0604 UTC 20 Jul 2024
Temperature: 12.2°C ( 54°F)
Dewpoint: 12.2°C ( 54°F) [RH = 100%]
Pressure (altimeter):30.14 inches Hg (1020.7 mb)
Winds:calm
Visibility:3 sm (5 km)
Ceiling:at least 12,000 feet AGL
Clouds:few clouds at 200 feet AGL
Weather:BR (mist)
QC Flag:automated observation with no human augmentation
SPECI for:CYBU (Nipawin(AUTO), SK, CA)
Text:CYBU 200604Z AUTO 29002KT 2SM BR CLR 18/18 A3006 RMK SLP186 DENSITY ALT 1800FT
Conditions at:0604 UTC 20 Jul 2024
Temperature: 18.0°C ( 64°F)
Dewpoint: 18.0°C ( 64°F) [RH = 100%]
Pressure (altimeter):30.06 inches Hg (1018.0 mb) [Sea level pressure: 1018.6 mb]
Winds:from the WNW (290 degrees) at 2 MPH (2 knots; 1.0 m/s)
Visibility:2.00 sm (3.22 km)
Ceiling:at least 12,000 feet AGL
Clouds:sky clear below 12,000 feet AGL
Weather:BR (mist)
SPECI for:UIBB (Bratsk Arpt, IR, RU)
Text:UIBB 200603Z 15004MPS 060V210 7000 TS SCT040CB 28/18 Q1000 R30/60D NOSIG RMK QFE708/0944
Conditions at:0603 UTC 20 Jul 2024
Temperature: 28.0°C ( 82°F)
Dewpoint: 18.0°C ( 64°F) [RH = 55%]
Pressure (altimeter):29.53 inches Hg (1000.0 mb)
Winds:from the SSE (150 degrees) at 9 MPH (8 knots; 4.1 m/s)
Visibility:4 sm (7 km)
Ceiling:at least 12,000 feet AGL
Clouds:scattered clouds at 4000 feet AGL
Weather:TS (thunderstorm)
METAR for:SVVL (Valera/Briceno Arpt, T, VE)
Text:SVVL 200603Z AUTO ///01KT NCD ///// Q////
Conditions at:0603 UTC 20 Jul 2024
Ceiling:at least 12,000 feet AGL
Clouds:sky clear below 12,000 feet AGL
METAR for:SVVA (Valencia Intl, G, VE)
Text:SVVA 200603Z AUTO 25003KT NCD 23/21 Q1017
Conditions at:0603 UTC 20 Jul 2024
Temperature: 23.0°C ( 73°F)
Dewpoint: 21.0°C ( 70°F) [RH = 89%]
Pressure (altimeter):30.03 inches Hg (1017.0 mb)
Winds:from the WSW (250 degrees) at 3 MPH (3 knots; 1.5 m/s)
Ceiling:at least 12,000 feet AGL
Clouds:sky clear below 12,000 feet AGL
METAR for:SVSR (San Fernando Arpt, J, VE)
Text:SVSR 200603Z AUTO NIL
Conditions at:0603 UTC 20 Jul 2024
METAR for:SVSA (San Antonio Arpt, S, VE)
Text:SVSA 200603Z AUTO 14006KT NCD 27/17 Q1013
Conditions at:0603 UTC 20 Jul 2024
Temperature: 27.0°C ( 81°F)
Dewpoint: 17.0°C ( 63°F) [RH = 54%]
Pressure (altimeter):29.91 inches Hg (1013.0 mb)
Winds:from the SE (140 degrees) at 7 MPH (6 knots; 3.1 m/s)
Ceiling:at least 12,000 feet AGL
Clouds:sky clear below 12,000 feet AGL
METAR for:SVPR (Guayana/Piar Intl, F, VE)
Text:SVPR 200603Z AUTO 12005KT NCD 25/21 Q1017
Conditions at:0603 UTC 20 Jul 2024
Temperature: 25.0°C ( 77°F)
Dewpoint: 21.0°C ( 70°F) [RH = 79%]
Pressure (altimeter):30.03 inches Hg (1017.0 mb)
Winds:from the ESE (120 degrees) at 6 MPH (5 knots; 2.6 m/s)
Ceiling:at least 12,000 feet AGL
Clouds:sky clear below 12,000 feet AGL
METAR for:SVPA (Puerto Ayacucho Arpt, Z, VE)
Text:SVPA 200603Z AUTO NIL
Conditions at:0603 UTC 20 Jul 2024
METAR for:SVMT (Maturin Intl, N, VE)
Text:SVMT 200603Z AUTO 04002KT NCD 25/25 Q1016
Conditions at:0603 UTC 20 Jul 2024
Temperature: 25.0°C ( 77°F)
Dewpoint: 25.0°C ( 77°F) [RH = 100%]
Pressure (altimeter):30.00 inches Hg (1016.0 mb)
Winds:from the NE (40 degrees) at 2 MPH (2 knots; 1.0 m/s)
Ceiling:at least 12,000 feet AGL
Clouds:sky clear below 12,000 feet AGL
METAR for:SVMI (Caracas/Bolívar Intl, A, VE)
Text:SVMI 200603Z AUTO 08002KT NCD 27/22 Q1015
Conditions at:0603 UTC 20 Jul 2024
Temperature: 27.0°C ( 81°F)
Dewpoint: 22.0°C ( 72°F) [RH = 74%]
Pressure (altimeter):29.97 inches Hg (1015.0 mb)
Winds:from the E (80 degrees) at 2 MPH (2 knots; 1.0 m/s)
Ceiling:at least 12,000 feet AGL
Clouds:sky clear below 12,000 feet AGL
METAR for:SVMG (Margarita/Manno Intl, O, VE)
Text:SVMG 200603Z AUTO 13004KT NCD 27/26 Q1016
Conditions at:0603 UTC 20 Jul 2024
Temperature: 27.0°C ( 81°F)
Dewpoint: 26.0°C ( 79°F) [RH = 94%]
Pressure (altimeter):30.00 inches Hg (1016.0 mb)
Winds:from the SE (130 degrees) at 5 MPH (4 knots; 2.1 m/s)
Ceiling:at least 12,000 feet AGL
Clouds:sky clear below 12,000 feet AGL
METAR for:SVMC (Maracaibo/La Chinita Arpt, V, VE)
Text:SVMC 200603Z AUTO 31001KT NCD 27/26 Q1012
Conditions at:0603 UTC 20 Jul 2024
Temperature: 27.0°C ( 81°F)
Dewpoint: 26.0°C ( 79°F) [RH = 94%]
Pressure (altimeter):29.88 inches Hg (1012.0 mb)
Winds:from the NW (310 degrees) at 1 MPH (1 knots; 0.5 m/s)
Ceiling:at least 12,000 feet AGL
Clouds:sky clear below 12,000 feet AGL
METAR for:SVLO (La Orchila Isla Arpt, W, VE)
Text:SVLO 200603Z AUTO NIL
Conditions at:0603 UTC 20 Jul 2024
METAR for:SVJM (San Juan los Morros, J, VE)
Text:SVJM 200603Z AUTO 05001KT NCD 22/21 Q1017
Conditions at:0603 UTC 20 Jul 2024
Temperature: 22.0°C ( 72°F)
Dewpoint: 21.0°C ( 70°F) [RH = 94%]
Pressure (altimeter):30.03 inches Hg (1017.0 mb)
Winds:from the NE (50 degrees) at 1 MPH (1 knots; 0.5 m/s)
Ceiling:at least 12,000 feet AGL
Clouds:sky clear below 12,000 feet AGL
METAR for:SVGU (Guanare Arpt, P, VE)
Text:SVGU 200603Z AUTO ///01KT NCD ///// Q1017
Conditions at:0603 UTC 20 Jul 2024
Pressure (altimeter):30.03 inches Hg (1017.0 mb)
Ceiling:at least 12,000 feet AGL
Clouds:sky clear below 12,000 feet AGL
METAR for:SVGD (Guasdualito Arpt, C, VE)
Text:SVGD 200603Z AUTO 14001KT NCD 24/24 Q1016
Conditions at:0603 UTC 20 Jul 2024
Temperature: 24.0°C ( 75°F)
Dewpoint: 24.0°C ( 75°F) [RH = 100%]
Pressure (altimeter):30.00 inches Hg (1016.0 mb)
Winds:from the SE (140 degrees) at 1 MPH (1 knots; 0.5 m/s)
Ceiling:at least 12,000 feet AGL
Clouds:sky clear below 12,000 feet AGL
METAR for:SVFM (Caracas/Miranda(AB), A, VE)
Text:SVFM 200603Z AUTO NIL
Conditions at:0603 UTC 20 Jul 2024
METAR for:SVCS (Caracas/Oscar Macha, M, VE)
Text:SVCS 200603Z AUTO NIL
Conditions at:0603 UTC 20 Jul 2024
METAR for:SVCB (Ciudad Bolivar Arpt, B, VE)
Text:SVCB 200603Z AUTO 30003KT NCD 26/23 Q1014
Conditions at:0603 UTC 20 Jul 2024
Temperature: 26.0°C ( 79°F)
Dewpoint: 23.0°C ( 73°F) [RH = 84%]
Pressure (altimeter):29.94 inches Hg (1014.0 mb)
Winds:from the WNW (300 degrees) at 3 MPH (3 knots; 1.5 m/s)
Ceiling:at least 12,000 feet AGL
Clouds:sky clear below 12,000 feet AGL
METAR for:SVBS (Maracay/Gomez Arpt, G, VE)
Text:SVBS 200603Z AUTO 11001KT NCD 22/19 Q1018
Conditions at:0603 UTC 20 Jul 2024
Temperature: 22.0°C ( 72°F)
Dewpoint: 19.0°C ( 66°F) [RH = 83%]
Pressure (altimeter):30.06 inches Hg (1018.0 mb)
Winds:from the ESE (110 degrees) at 1 MPH (1 knots; 0.5 m/s)
Ceiling:at least 12,000 feet AGL
Clouds:sky clear below 12,000 feet AGL
METAR for:SVBM (Barquisimeto Intl, K, VE)
Text:SVBM 200603Z AUTO 12011KT NCD 22/19 Q1017
Conditions at:0603 UTC 20 Jul 2024
Temperature: 22.0°C ( 72°F)
Dewpoint: 19.0°C ( 66°F) [RH = 83%]
Pressure (altimeter):30.03 inches Hg (1017.0 mb)
Winds:from the ESE (120 degrees) at 13 MPH (11 knots; 5.7 m/s)
Ceiling:at least 12,000 feet AGL
Clouds:sky clear below 12,000 feet AGL
METAR for:SVBI (Barinas Arpt, E, VE)
Text:SVBI 200603Z AUTO NIL
Conditions at:0603 UTC 20 Jul 2024
METAR for:SVBC (Barcelona Intl, B, VE)
Text:SVBC 200603Z AUTO 18001KT NCD 25/25 Q1016
Conditions at:0603 UTC 20 Jul 2024
Temperature: 25.0°C ( 77°F)
Dewpoint: 25.0°C ( 77°F) [RH = 100%]
Pressure (altimeter):30.00 inches Hg (1016.0 mb)
Winds:from the S (180 degrees) at 1 MPH (1 knots; 0.5 m/s)
Ceiling:at least 12,000 feet AGL
Clouds:sky clear below 12,000 feet AGL
SPECI for:RCKH (Kaohsiung Intl, KH, TW)
Text:RCKH 200603Z 36009KT 330V030 9999 VCTS -SHRA FEW006 FEW010CB BKN016 BKN040 31/27 Q1007 NOSIG RMK TS N MOV NW A2976
Conditions at:0603 UTC 20 Jul 2024
Temperature: 31.0°C ( 88°F)
Dewpoint: 27.0°C ( 81°F) [RH = 79%]
Pressure (altimeter):29.73 inches Hg (1007.0 mb)
Winds:from the N (360 degrees) at 10 MPH (9 knots; 4.6 m/s)
Visibility:6 or more sm (10+ km)
Ceiling:1600 feet AGL
Clouds:few clouds at 600 feet AGL, few clouds at 1000 feet AGL, broken clouds at 1600 feet AGL, broken clouds at 4000 feet AGL
Weather:VCTS -SHRA (thunderstorm in vicinity, light rain showers)
TAF for:RCKH (Kaohsiung Intl, KH, TW) issued at 0546 UTC 20 Jul 2024
Text:TAF COR RCKH 200546Z 2006/2112 25005KT 7000 FEW015 BKN032
Forecast period:0600 to 1100 UTC 20 July 2024
Forecast type:FROM: standard forecast or significant change
Winds:from the WSW (250 degrees) at 6 MPH (5 knots; 2.6 m/s)
Visibility:4 sm (7 km)
Ceiling:3200 feet AGL
Clouds:few clouds at 1500 feet AGL, broken clouds at 3200 feet AGL
Text:TEMPO 2006/2008 35008KT 3000 TSRA FEW008 BKN013 FEW020CB BKN040
Forecast period:0600 to 0800 UTC 20 July 2024
Forecast type:TEMPORARY: The following changes expected for less than half the time period
Winds:from the N (350 degrees) at 9 MPH (8 knots; 4.1 m/s)
Visibility:1.86 sm (2.99 km)
Ceiling:1300 feet AGL
Clouds:few clouds at 800 feet AGL, broken clouds at 1300 feet AGL, few clouds at 2000 feet AGL
Weather:TSRA (rain associated with thunderstorm(s))
Text:TEMPO 2008/2011 04010KT 4000 SHRA FEW010 BKN016 FEW022CB BKN040
Forecast period:0800 to 1100 UTC 20 July 2024
Forecast type:TEMPORARY: The following changes expected for less than half the time period
Winds:from the NE (40 degrees) at 12 MPH (10 knots; 5.1 m/s)
Visibility:2.49 sm (4.01 km)
Ceiling:1600 feet AGL
Clouds:few clouds at 1000 feet AGL, broken clouds at 1600 feet AGL, few clouds at 2200 feet AGL
Weather:SHRA (rain showers)
Text:BECMG 2011/2013 05005KT
Forecast period:1100 UTC 20 July 2024 to 0100 UTC 21 July 2024
Forecast type:BECOMING: Conditions expected to become as follows by 1300 UTC 20 July 2024
Winds:from the NE (50 degrees) at 6 MPH (5 knots; 2.6 m/s)
Visibility:4 sm (7 km)
Ceiling:3200 feet AGL
Clouds:few clouds at 1500 feet AGL, broken clouds at 3200 feet AGL
Text:BECMG 2101/2103 29005KT
Forecast period:0100 to 1200 UTC 21 July 2024
Forecast type:BECOMING: Conditions expected to become as follows by 0300 UTC 21 July 2024
Winds:from the WNW (290 degrees) at 6 MPH (5 knots; 2.6 m/s)
Visibility:4 sm (7 km)
Ceiling:3200 feet AGL
Clouds:few clouds at 1500 feet AGL, broken clouds at 3200 feet AGL
Text:TEMPO 2105/2109 35008KT FEW010 BKN020
Forecast period:0500 to 0900 UTC 21 July 2024
Forecast type:TEMPORARY: The following changes expected for less than half the time period
Winds:from the N (350 degrees) at 9 MPH (8 knots; 4.1 m/s)
Ceiling:2000 feet AGL
Clouds:few clouds at 1000 feet AGL, broken clouds at 2000 feet AGL
Text:TEMPO 2109/2112 04008KT 4000 SHRA FEW010 BKN018 FEW020CB BKN040
Forecast period:0900 to 1200 UTC 21 July 2024
Forecast type:TEMPORARY: The following changes expected for less than half the time period
Winds:from the NE (40 degrees) at 9 MPH (8 knots; 4.1 m/s)
Visibility:2.49 sm (4.01 km)
Ceiling:1800 feet AGL
Clouds:few clouds at 1000 feet AGL, broken clouds at 1800 feet AGL, few clouds at 2000 feet AGL
Weather:SHRA (rain showers)
SPECI for:KSMX (Santa Maria/Hancock Fld, CA, US)
Text:KSMX 200603Z AUTO 26004KT 2 1/2SM BR OVC002 14/14 A2998 RMK AO2 T01390139 $
Conditions at:0603 UTC 20 Jul 2024
Temperature: 13.9°C ( 57°F)
Dewpoint: 13.9°C ( 57°F) [RH = 100%]
Pressure (altimeter):29.98 inches Hg (1015.3 mb)
Winds:from the W (260 degrees) at 5 MPH (4 knots; 2.1 m/s)
Visibility:2.50 sm (4.02 km)
Ceiling:200 feet AGL
Clouds:overcast cloud deck at 200 feet AGL
Weather:BR (mist)
QC Flag:automated observation with no human augmentation; SOME DATA ABOVE MAY BE INACCURATE!!!"$" is an indication the sensor requires maintenance.
TAF for:KSMX (Santa Maria/Hancock Fld, CA, US) issued at 0551 UTC 20 Jul 2024
Text:KSMX 200551Z 2006/2106 VRB03KT 5SM BR OVC003
Forecast period:0600 to 0800 UTC 20 July 2024
Forecast type:FROM: standard forecast or significant change
Winds:variable direction winds at 3 MPH (3 knots; 1.5 m/s)
Visibility:5 sm (8 km)
Ceiling:300 feet AGL
Clouds:overcast cloud deck at 300 feet AGL
Weather:BR (mist)
Text:FM200800 VRB03KT 1SM BR VCFG OVC002
Forecast period:0800 to 1400 UTC 20 July 2024
Forecast type:FROM: standard forecast or significant change
Winds:variable direction winds at 3 MPH (3 knots; 1.5 m/s)
Visibility:1.00 sm (1.61 km)
Ceiling:200 feet AGL
Clouds:overcast cloud deck at 200 feet AGL
Weather:BR VCFG (mist, fog in vicinity)
Text:FM201400 VRB03KT 4SM BR BKN006
Forecast period:1400 to 1600 UTC 20 July 2024
Forecast type:FROM: standard forecast or significant change
Winds:variable direction winds at 3 MPH (3 knots; 1.5 m/s)
Visibility:4 sm (6 km)
Ceiling:600 feet AGL
Clouds:broken clouds at 600 feet AGL
Weather:BR (mist)
Text:FM201600 30006KT P6SM SKC
Forecast period:1600 to 1900 UTC 20 July 2024
Forecast type:FROM: standard forecast or significant change
Winds:from the WNW (300 degrees) at 7 MPH (6 knots; 3.1 m/s)
Visibility:6 or more sm (10+ km)
Ceiling:at least 12,000 feet AGL
Clouds:clear skies
Text:FM201900 30015KT P6SM SKC
Forecast period:1900 UTC 20 July 2024 to 0300 UTC 21 July 2024
Forecast type:FROM: standard forecast or significant change
Winds:from the WNW (300 degrees) at 17 MPH (15 knots; 7.7 m/s)
Visibility:6 or more sm (10+ km)
Ceiling:at least 12,000 feet AGL
Clouds:clear skies
Text:FM210300 30006KT 4SM BR BKN007
Forecast period:0300 to 0600 UTC 21 July 2024
Forecast type:FROM: standard forecast or significant change
Winds:from the WNW (300 degrees) at 7 MPH (6 knots; 3.1 m/s)
Visibility:4 sm (6 km)
Ceiling:700 feet AGL
Clouds:broken clouds at 700 feet AGL
Weather:BR (mist)
SPECI for:KROA (Roanoke Rgnl, VA, US)
Text:KROA 200603Z 13004KT 10SM SCT016 SCT022 BKN110 23/19 A3014 RMK AO2 T02330194
Conditions at:0603 UTC 20 Jul 2024
Temperature: 23.3°C ( 74°F)
Dewpoint: 19.4°C ( 67°F) [RH = 79%]
Pressure (altimeter):30.14 inches Hg (1020.7 mb)
Winds:from the SE (130 degrees) at 5 MPH (4 knots; 2.1 m/s)
Visibility:10 or more sm (16+ km)
Ceiling:11000 feet AGL
Clouds:scattered clouds at 1600 feet AGL, scattered clouds at 2200 feet AGL, broken clouds at 11000 feet AGL
METAR for:KPKV (Port Lavaca/Calhoun Cnty, TX, US)
Text:KPKV 200603Z AUTO 00000KT 10SM CLR 27/25 A3000 RMK AO2
Conditions at:0603 UTC 20 Jul 2024
Temperature: 27.0°C ( 81°F)
Dewpoint: 25.0°C ( 77°F) [RH = 89%]
Pressure (altimeter):30.00 inches Hg (1016.0 mb)
Winds:calm
Visibility:10 or more sm (16+ km)
Ceiling:at least 12,000 feet AGL
Clouds:sky clear below 12,000 feet AGL
QC Flag:automated observation with no human augmentation
SPECI for:KOTH (North Bend/SW Oregon Rgnl, OR, US)
Text:KOTH 200603Z AUTO 32007KT 10SM BKN007 OVC010 15/14 A3020 RMK AO2
Conditions at:0603 UTC 20 Jul 2024
Temperature: 15.0°C ( 59°F)
Dewpoint: 14.0°C ( 57°F) [RH = 94%]
Pressure (altimeter):30.20 inches Hg (1022.8 mb)
Winds:from the NW (320 degrees) at 8 MPH (7 knots; 3.6 m/s)
Visibility:10 or more sm (16+ km)
Ceiling:700 feet AGL
Clouds:broken clouds at 700 feet AGL, overcast cloud deck at 1000 feet AGL
QC Flag:automated observation with no human augmentation
TAF for:KOTH (North Bend/SW Oregon Rgnl, OR, US) issued at 0542 UTC 20 Jul 2024
Text:KOTH 200542Z 2006/2106 34006KT P6SM OVC006
Forecast period:0600 to 0800 UTC 20 July 2024
Forecast type:FROM: standard forecast or significant change
Winds:from the NNW (340 degrees) at 7 MPH (6 knots; 3.1 m/s)
Visibility:6 or more sm (10+ km)
Ceiling:600 feet AGL
Clouds:overcast cloud deck at 600 feet AGL
Text:FM200800 35005KT 1/2SM FG OVC002
Forecast period:0800 to 1700 UTC 20 July 2024
Forecast type:FROM: standard forecast or significant change
Winds:from the N (350 degrees) at 6 MPH (5 knots; 2.6 m/s)
Visibility:0.50 sm (0.80 km)
Ceiling:200 feet AGL
Clouds:overcast cloud deck at 200 feet AGL
Weather:FG (fog)
Text:FM201700 33010KT 4SM BR OVC004
Forecast period:1700 to 1800 UTC 20 July 2024
Forecast type:FROM: standard forecast or significant change
Winds:from the NNW (330 degrees) at 12 MPH (10 knots; 5.1 m/s)
Visibility:4 sm (6 km)
Ceiling:400 feet AGL
Clouds:overcast cloud deck at 400 feet AGL
Weather:BR (mist)
Text:FM201800 34016G25KT P6SM BKN010
Forecast period:1800 UTC 20 July 2024 to 0300 UTC 21 July 2024
Forecast type:FROM: standard forecast or significant change
Winds:from the NNW (340 degrees) at 18 MPH (16 knots; 8.2 m/s) gusting to 29 MPH (25 knots; 12.9 m/s)
Visibility:6 or more sm (10+ km)
Ceiling:1000 feet AGL
Clouds:broken clouds at 1000 feet AGL
Text:FM210300 35012KT P6SM VCTS BKN020 OVC150CB
Forecast period:0300 to 0600 UTC 21 July 2024
Forecast type:FROM: standard forecast or significant change
Winds:from the N (350 degrees) at 14 MPH (12 knots; 6.2 m/s)
Visibility:6 or more sm (10+ km)
Ceiling:2000 feet AGL
Clouds:broken clouds at 2000 feet AGL, overcast cloud deck at 15000 feet AGL
Weather:VCTS (thunderstorm in vicinity)
SPECI for:KAND (Anderson Rgnl, SC, US)
Text:KAND 200603Z AUTO 20005KT 10SM -RA SCT007 BKN030 BKN100 22/21 A3011 RMK AO2 P0000 T02220211
Conditions at:0603 UTC 20 Jul 2024
Temperature: 22.2°C ( 72°F)
Dewpoint: 21.1°C ( 70°F) [RH = 93%]
Pressure (altimeter):30.11 inches Hg (1019.7 mb)
Winds:from the SSW (200 degrees) at 6 MPH (5 knots; 2.6 m/s)
Visibility:10 or more sm (16+ km)
Ceiling:3000 feet AGL
Clouds:scattered clouds at 700 feet AGL, broken clouds at 3000 feet AGL, broken clouds at 10000 feet AGL
Weather:-RA (light rain)
QC Flag:automated observation with no human augmentation
TAF for:KAND (Anderson Rgnl, SC, US) issued at 0535 UTC 20 Jul 2024
Text:KAND 200535Z 2006/2106 VRB02KT P6SM SCT015 BKN025
Forecast period:0600 to 0900 UTC 20 July 2024
Forecast type:FROM: standard forecast or significant change
Winds:variable direction winds at 2 MPH (2 knots; 1.0 m/s)
Visibility:6 or more sm (10+ km)
Ceiling:2500 feet AGL
Clouds:scattered clouds at 1500 feet AGL, broken clouds at 2500 feet AGL
Text:TEMPO 2006/2009 5SM -SHRA BR BKN015 OVC025
Forecast period:0600 to 0900 UTC 20 July 2024
Forecast type:TEMPORARY: The following changes expected for less than half the time period
Visibility:5 sm (8 km)
Ceiling:1500 feet AGL
Clouds:broken clouds at 1500 feet AGL, overcast cloud deck at 2500 feet AGL
Weather:-SHRA BR (light rain showers, mist)
Text:FM200900 VRB02KT 5SM BR OVC007
Forecast period:0900 to 1400 UTC 20 July 2024
Forecast type:FROM: standard forecast or significant change
Winds:variable direction winds at 2 MPH (2 knots; 1.0 m/s)
Visibility:5 sm (8 km)
Ceiling:700 feet AGL
Clouds:overcast cloud deck at 700 feet AGL
Weather:BR (mist)
Text:TEMPO 2009/2013 2SM BR OVC004
Forecast period:0900 to 1300 UTC 20 July 2024
Forecast type:TEMPORARY: The following changes expected for less than half the time period
Visibility:2.00 sm (3.22 km)
Ceiling:400 feet AGL
Clouds:overcast cloud deck at 400 feet AGL
Weather:BR (mist)
Text:FM201400 22004KT P6SM OVC012
Forecast period:1400 to 1800 UTC 20 July 2024
Forecast type:FROM: standard forecast or significant change
Winds:from the SW (220 degrees) at 5 MPH (4 knots; 2.1 m/s)
Visibility:6 or more sm (10+ km)
Ceiling:1200 feet AGL
Clouds:overcast cloud deck at 1200 feet AGL
Text:FM201800 24007KT P6SM BKN035
Forecast period:1800 UTC 20 July 2024 to 0000 UTC 21 July 2024
Forecast type:FROM: standard forecast or significant change
Winds:from the WSW (240 degrees) at 8 MPH (7 knots; 3.6 m/s)
Visibility:6 or more sm (10+ km)
Ceiling:3500 feet AGL
Clouds:broken clouds at 3500 feet AGL
Text:PROB30 2018/2024 4SM TSRA BR OVC025CB
Forecast period:1800 UTC 20 July 2024 to 0000 UTC 21 July 2024
Forecast type:PROBABLE: 30 percent likelihood of the following during this time
Visibility:4 sm (6 km)
Ceiling:2500 feet AGL
Clouds:overcast cloud deck at 2500 feet AGL
Weather:TSRA BR (rain associated with thunderstorm(s), mist)
Text:FM210000 18003KT P6SM BKN050
Forecast period:0000 to 0600 UTC 21 July 2024
Forecast type:FROM: standard forecast or significant change
Winds:from the S (180 degrees) at 3 MPH (3 knots; 1.5 m/s)
Visibility:6 or more sm (10+ km)
Ceiling:5000 feet AGL
Clouds:broken clouds at 5000 feet AGL
SPECI for:PALU (Cape Lisburne Arpt, AK, US)
Text:PALU 200602Z AUTO 22044G58KT 170V280 2 1/2SM -DZ BR OVC003 07/06 A2995 RMK AO2 PK WND 22058/0558 SLP140
Conditions at:0602 UTC 20 Jul 2024
Temperature: 7.0°C ( 45°F)
Dewpoint: 6.0°C ( 43°F) [RH = 93%]
Pressure (altimeter):29.95 inches Hg (1014.3 mb) [Sea level pressure: 1014.0 mb]
Winds:from the SW (220 degrees) at 51 MPH (44 knots; 22.6 m/s) gusting to 67 MPH (58 knots; 29.8 m/s)
Visibility:2.50 sm (4.02 km)
Ceiling:300 feet AGL
Clouds:overcast cloud deck at 300 feet AGL
Weather:-DZ BR (light drizzle, mist)
QC Flag:automated observation with no human augmentation
METAR for:PAHX (Shageluk Arpt, AK, US)
Text:PAHX 200602Z AUTO 20005KT 10SM CLR 17/11 A3022 RMK AO2 SLP232 T01720111 10189 20172 55002
Conditions at:0602 UTC 20 Jul 2024
Temperature: 17.2°C ( 63°F)
Dewpoint: 11.1°C ( 52°F) [RH = 67%]
Pressure (altimeter):30.22 inches Hg (1023.5 mb) [Sea level pressure: 1023.2 mb]
Winds:from the SSW (200 degrees) at 6 MPH (5 knots; 2.6 m/s)
Visibility:10 or more sm (16+ km)
Ceiling:at least 12,000 feet AGL
Clouds:sky clear below 12,000 feet AGL
QC Flag:automated observation with no human augmentation
SPECI for:LTCK (Muş Arpt(AFB), MU, TR)
Text:LTCK 200602Z VRB03KT 9999 FEW040 SCT100 25/13 Q1007
Conditions at:0602 UTC 20 Jul 2024
Temperature: 25.0°C ( 77°F)
Dewpoint: 13.0°C ( 55°F) [RH = 47%]
Pressure (altimeter):29.73 inches Hg (1007.0 mb)
Winds:variable direction winds at 3 MPH (3 knots; 1.5 m/s)
Visibility:6 or more sm (10+ km)
Ceiling:at least 12,000 feet AGL
Clouds:few clouds at 4000 feet AGL, scattered clouds at 10000 feet AGL
METAR for:KSFY (Savanna/Tri-Township Arpt, IL, US)
Text:KSFY 200602Z AUTO 00000KT 10SM CLR 16/14 A3013 RMK AO2
Conditions at:0602 UTC 20 Jul 2024
Temperature: 16.0°C ( 61°F)
Dewpoint: 14.0°C ( 57°F) [RH = 88%]
Pressure (altimeter):30.13 inches Hg (1020.4 mb)
Winds:calm
Visibility:10 or more sm (16+ km)
Ceiling:at least 12,000 feet AGL
Clouds:sky clear below 12,000 feet AGL
QC Flag:automated observation with no human augmentation
SPECI for:KNZY (San Diego/North Island NAS, CA, US)
Text:KNZY 200602Z AUTO 35007KT 9SM SCT005 19/19 A2992 RMK AO2 T01940194 $
Conditions at:0602 UTC 20 Jul 2024
Temperature: 19.4°C ( 67°F)
Dewpoint: 19.4°C ( 67°F) [RH = 100%]
Pressure (altimeter):29.92 inches Hg (1013.3 mb)
Winds:from the N (350 degrees) at 8 MPH (7 knots; 3.6 m/s)
Visibility:9 sm (14 km)
Ceiling:at least 12,000 feet AGL
Clouds:scattered clouds at 500 feet AGL
QC Flag:automated observation with no human augmentation; SOME DATA ABOVE MAY BE INACCURATE!!!"$" is an indication the sensor requires maintenance.
SPECI for:KNTD (Pt Mugu (NAS), CA, US)
Text:KNTD 200602Z AUTO 33005KT 1 1/2SM BR OVC002 16/16 A2995 RMK AO2 T01610161 $
Conditions at:0602 UTC 20 Jul 2024
Temperature: 16.1°C ( 61°F)
Dewpoint: 16.1°C ( 61°F) [RH = 100%]
Pressure (altimeter):29.95 inches Hg (1014.3 mb)
Winds:from the NNW (330 degrees) at 6 MPH (5 knots; 2.6 m/s)
Visibility:1.50 sm (2.41 km)
Ceiling:200 feet AGL
Clouds:overcast cloud deck at 200 feet AGL
Weather:BR (mist)
QC Flag:automated observation with no human augmentation; SOME DATA ABOVE MAY BE INACCURATE!!!"$" is an indication the sensor requires maintenance.
SPECI for:KGSP (Greenville-Spartanburg Intl, SC, US)
Text:KGSP 200602Z AUTO 24004KT 10SM SCT003 OVC022 22/21 A3011 RMK AO2 T02220211
Conditions at:0602 UTC 20 Jul 2024
Temperature: 22.2°C ( 72°F)
Dewpoint: 21.1°C ( 70°F) [RH = 93%]
Pressure (altimeter):30.11 inches Hg (1019.7 mb)
Winds:from the WSW (240 degrees) at 5 MPH (4 knots; 2.1 m/s)
Visibility:10 or more sm (16+ km)
Ceiling:2200 feet AGL
Clouds:scattered clouds at 300 feet AGL, overcast cloud deck at 2200 feet AGL
QC Flag:automated observation with no human augmentation
TAF for:KGSP (Greenville-Spartanburg Intl, SC, US) issued at 0535 UTC 20 Jul 2024
Text:KGSP 200535Z 2006/2106 VRB02KT P6SM SCT007 OVC025
Forecast period:0600 to 0900 UTC 20 July 2024
Forecast type:FROM: standard forecast or significant change
Winds:variable direction winds at 2 MPH (2 knots; 1.0 m/s)
Visibility:6 or more sm (10+ km)
Ceiling:2500 feet AGL
Clouds:scattered clouds at 700 feet AGL, overcast cloud deck at 2500 feet AGL
Text:TEMPO 2006/2009 5SM -SHRA BR BKN007 OVC015
Forecast period:0600 to 0900 UTC 20 July 2024
Forecast type:TEMPORARY: The following changes expected for less than half the time period
Visibility:5 sm (8 km)
Ceiling:700 feet AGL
Clouds:broken clouds at 700 feet AGL, overcast cloud deck at 1500 feet AGL
Weather:-SHRA BR (light rain showers, mist)
Text:FM200900 VRB02KT P6SM OVC007
Forecast period:0900 to 1500 UTC 20 July 2024
Forecast type:FROM: standard forecast or significant change
Winds:variable direction winds at 2 MPH (2 knots; 1.0 m/s)
Visibility:6 or more sm (10+ km)
Ceiling:700 feet AGL
Clouds:overcast cloud deck at 700 feet AGL
Text:TEMPO 2009/2013 5SM BR OVC004
Forecast period:0900 to 1300 UTC 20 July 2024
Forecast type:TEMPORARY: The following changes expected for less than half the time period
Visibility:5 sm (8 km)
Ceiling:400 feet AGL
Clouds:overcast cloud deck at 400 feet AGL
Weather:BR (mist)
Text:FM201500 23005KT P6SM BKN012
Forecast period:1500 to 1700 UTC 20 July 2024
Forecast type:FROM: standard forecast or significant change
Winds:from the SW (230 degrees) at 6 MPH (5 knots; 2.6 m/s)
Visibility:6 or more sm (10+ km)
Ceiling:1200 feet AGL
Clouds:broken clouds at 1200 feet AGL
Text:FM201700 23006KT P6SM BKN025
Forecast period:1700 to 1900 UTC 20 July 2024
Forecast type:FROM: standard forecast or significant change
Winds:from the SW (230 degrees) at 7 MPH (6 knots; 3.1 m/s)
Visibility:6 or more sm (10+ km)
Ceiling:2500 feet AGL
Clouds:broken clouds at 2500 feet AGL
Text:FM201900 23007KT P6SM BKN050
Forecast period:1900 UTC 20 July 2024 to 0000 UTC 21 July 2024
Forecast type:FROM: standard forecast or significant change
Winds:from the SW (230 degrees) at 8 MPH (7 knots; 3.6 m/s)
Visibility:6 or more sm (10+ km)
Ceiling:5000 feet AGL
Clouds:broken clouds at 5000 feet AGL
Text:PROB30 2019/2024 4SM TSRA BR BKN026CB
Forecast period:1900 UTC 20 July 2024 to 0000 UTC 21 July 2024
Forecast type:PROBABLE: 30 percent likelihood of the following during this time
Visibility:4 sm (6 km)
Ceiling:2600 feet AGL
Clouds:broken clouds at 2600 feet AGL
Weather:TSRA BR (rain associated with thunderstorm(s), mist)
Text:FM210000 21003KT P6SM BKN050
Forecast period:0000 to 0600 UTC 21 July 2024
Forecast type:FROM: standard forecast or significant change
Winds:from the SSW (210 degrees) at 3 MPH (3 knots; 1.5 m/s)
Visibility:6 or more sm (10+ km)
Ceiling:5000 feet AGL
Clouds:broken clouds at 5000 feet AGL
SPECI for:KFLL (Ft Lauderdale-Hollywood Intl, FL, US)
Text:KFLL 200602Z 23005KT 10SM FEW020 SCT035 BKN060 28/24 A3011 RMK AO2 LTG DSNT NE AND W OCNL LTGIC DSNT NE-SE CB DSNT NE-SE MOV N T02830239
Conditions at:0602 UTC 20 Jul 2024
Temperature: 28.3°C ( 83°F)
Dewpoint: 23.9°C ( 75°F) [RH = 77%]
Pressure (altimeter):30.11 inches Hg (1019.7 mb)
Winds:from the SW (230 degrees) at 6 MPH (5 knots; 2.6 m/s)
Visibility:10 or more sm (16+ km)
Ceiling:6000 feet AGL
Clouds:few clouds at 2000 feet AGL, scattered clouds at 3500 feet AGL, broken clouds at 6000 feet AGL
SPECI for:KBFM (Mobile/Downtown Arpt, AL, US)
Text:KBFM 200602Z AUTO 22004KT 10SM BKN013 OVC021 26/23 A3004 RMK AO2 RAE0556 P0000 T02610228
Conditions at:0602 UTC 20 Jul 2024
Temperature: 26.1°C ( 79°F)
Dewpoint: 22.8°C ( 73°F) [RH = 82%]
Pressure (altimeter):30.04 inches Hg (1017.4 mb)
Winds:from the SW (220 degrees) at 5 MPH (4 knots; 2.1 m/s)
Visibility:10 or more sm (16+ km)
Ceiling:1300 feet AGL
Clouds:broken clouds at 1300 feet AGL, overcast cloud deck at 2100 feet AGL
QC Flag:automated observation with no human augmentation
TAF for:KBFM (Mobile/Downtown Arpt, AL, US) issued at 0552 UTC 20 Jul 2024
Text:KBFM 200552Z 2006/2106 30005KT P6SM VCTS SCT024 SCT035CB BKN050
Forecast period:0600 to 1300 UTC 20 July 2024
Forecast type:FROM: standard forecast or significant change
Winds:from the WNW (300 degrees) at 6 MPH (5 knots; 2.6 m/s)
Visibility:6 or more sm (10+ km)
Ceiling:5000 feet AGL
Clouds:scattered clouds at 2400 feet AGL, scattered clouds at 3500 feet AGL, broken clouds at 5000 feet AGL
Weather:VCTS (thunderstorm in vicinity)
Text:TEMPO 2009/2013 4SM TSRA BR BKN021CB BKN022 BKN024
Forecast period:0900 to 1300 UTC 20 July 2024
Forecast type:TEMPORARY: The following changes expected for less than half the time period
Visibility:4 sm (6 km)
Ceiling:2100 feet AGL
Clouds:broken clouds at 2100 feet AGL, broken clouds at 2200 feet AGL, broken clouds at 2400 feet AGL
Weather:TSRA BR (rain associated with thunderstorm(s), mist)
Text:FM201300 VRB03KT P6SM VCTS SCT026CB BKN090
Forecast period:1300 UTC 20 July 2024 to 0600 UTC 21 July 2024
Forecast type:FROM: standard forecast or significant change
Winds:variable direction winds at 3 MPH (3 knots; 1.5 m/s)
Visibility:6 or more sm (10+ km)
Ceiling:9000 feet AGL
Clouds:scattered clouds at 2600 feet AGL, broken clouds at 9000 feet AGL
Weather:VCTS (thunderstorm in vicinity)
Text:PROB30 2018/2024 4SM TSRA BR BKN045CB
Forecast period:1800 UTC 20 July 2024 to 0000 UTC 21 July 2024
Forecast type:PROBABLE: 30 percent likelihood of the following during this time
Visibility:4 sm (6 km)
Ceiling:4500 feet AGL
Clouds:broken clouds at 4500 feet AGL
Weather:TSRA BR (rain associated with thunderstorm(s), mist)
SPECI for:KAKH (Gastonia Muni, NC, US)
Text:KAKH 200602Z AUTO 00000KT 10SM OVC011 22/21 A3009 RMK AO2 CIG 006V012 T02170211
Conditions at:0602 UTC 20 Jul 2024
Temperature: 21.7°C ( 71°F)
Dewpoint: 21.1°C ( 70°F) [RH = 96%]
Pressure (altimeter):30.09 inches Hg (1019.0 mb)
Winds:calm
Visibility:10 or more sm (16+ km)
Ceiling:1100 feet AGL
Clouds:overcast cloud deck at 1100 feet AGL
QC Flag:automated observation with no human augmentation
SPECI for:FABL (Bloemfontein Intl, FS, ZA)
Text:FABL 200602Z AUTO 00000KT //// R02///// // ///////// 03/M04 Q1024
Conditions at:0602 UTC 20 Jul 2024
Temperature: 3.0°C ( 37°F)
Dewpoint: -4.0°C ( 25°F) [RH = 60%]
Pressure (altimeter):30.24 inches Hg (1024.0 mb)
Winds:calm
METAR for:PAFS (Nikolai Arpt, AK, US)
Text:PAFS 200601Z AUTO 00000KT 10SM CLR 20/12 A3018 RMK AO2 SLP223 T02000122 10222 20200 55000
Conditions at:0601 UTC 20 Jul 2024
Temperature: 20.0°C ( 68°F)
Dewpoint: 12.2°C ( 54°F) [RH = 61%]
Pressure (altimeter):30.18 inches Hg (1022.1 mb) [Sea level pressure: 1022.3 mb]
Winds:calm
Visibility:10 or more sm (16+ km)
Ceiling:at least 12,000 feet AGL
Clouds:sky clear below 12,000 feet AGL
QC Flag:automated observation with no human augmentation
SPECI for:KSMO (Santa Monica Muni, CA, US)
Text:KSMO 200601Z AUTO 18003KT 1 1/4SM BR OVC002 18/17 A2995 RMK AO2 T01780167
Conditions at:0601 UTC 20 Jul 2024
Temperature: 17.8°C ( 64°F)
Dewpoint: 16.7°C ( 62°F) [RH = 93%]
Pressure (altimeter):29.95 inches Hg (1014.3 mb)
Winds:from the S (180 degrees) at 3 MPH (3 knots; 1.5 m/s)
Visibility:1.25 sm (2.01 km)
Ceiling:200 feet AGL
Clouds:overcast cloud deck at 200 feet AGL
Weather:BR (mist)
QC Flag:automated observation with no human augmentation
TAF for:KSMO (Santa Monica Muni, CA, US) issued at 0551 UTC 20 Jul 2024
Text:KSMO 200551Z 2006/2106 VRB03KT 1SM BR OVC002
Forecast period:0600 to 1500 UTC 20 July 2024
Forecast type:FROM: standard forecast or significant change
Winds:variable direction winds at 3 MPH (3 knots; 1.5 m/s)
Visibility:1.00 sm (1.61 km)
Ceiling:200 feet AGL
Clouds:overcast cloud deck at 200 feet AGL
Weather:BR (mist)
Text:FM201500 VRB03KT 6SM BR SCT007
Forecast period:1500 to 1900 UTC 20 July 2024
Forecast type:FROM: standard forecast or significant change
Winds:variable direction winds at 3 MPH (3 knots; 1.5 m/s)
Visibility:6 sm (10 km)
Ceiling:at least 12,000 feet AGL
Clouds:scattered clouds at 700 feet AGL
Weather:BR (mist)
Text:FM201900 22008KT P6SM SKC
Forecast period:1900 UTC 20 July 2024 to 0200 UTC 21 July 2024
Forecast type:FROM: standard forecast or significant change
Winds:from the SW (220 degrees) at 9 MPH (8 knots; 4.1 m/s)
Visibility:6 or more sm (10+ km)
Ceiling:at least 12,000 feet AGL
Clouds:clear skies
Text:FM210200 22005KT 6SM HZ BKN008
Forecast period:0200 to 0600 UTC 21 July 2024
Forecast type:FROM: standard forecast or significant change
Winds:from the SW (220 degrees) at 6 MPH (5 knots; 2.6 m/s)
Visibility:6 sm (10 km)
Ceiling:800 feet AGL
Clouds:broken clouds at 800 feet AGL
Weather:HZ (haze)
SPECI for:KBOK (Brookings/State Arpt, OR, US)
Text:KBOK 200601Z AUTO 15005KT 1/2SM FG OVC002 14/14 RMK AO2 $
Conditions at:0601 UTC 20 Jul 2024
Temperature: 14.0°C ( 57°F)
Dewpoint: 14.0°C ( 57°F) [RH = 100%]
Winds:from the SSE (150 degrees) at 6 MPH (5 knots; 2.6 m/s)
Visibility:0.50 sm (0.80 km)
Ceiling:200 feet AGL
Clouds:overcast cloud deck at 200 feet AGL
Weather:FG (fog)
QC Flag:automated observation with no human augmentation; SOME DATA ABOVE MAY BE INACCURATE!!!"$" is an indication the sensor requires maintenance.
SPECI for:CYOJ (High Level Arpt, AB, CA)
Text:CYOJ 200601Z AUTO 22006KT 170V230 2 1/4SM HZ FEW019 22/14 A3014 RMK PRESRR SLP213 DENSITY ALT 2000FT
Conditions at:0601 UTC 20 Jul 2024
Temperature: 22.0°C ( 72°F)
Dewpoint: 14.0°C ( 57°F) [RH = 60%]
Pressure (altimeter):30.14 inches Hg (1020.7 mb) [Sea level pressure: 1021.3 mb]
Winds:from the SW (220 degrees) at 7 MPH (6 knots; 3.1 m/s)
Visibility:2.25 sm (3.62 km)
Ceiling:at least 12,000 feet AGL
Clouds:few clouds at 1900 feet AGL
Weather:HZ (haze)
TAF for:CYOJ (High Level Arpt, AB, CA) issued at 0606 UTC 20 Jul 2024
Text:TAF AMD CYOJ 200606Z 2006/2013 22006KT 1/2SM FU VV012
Forecast period:0600 to 1300 UTC 20 July 2024
Forecast type:FROM: standard forecast or significant change
Winds:from the SW (220 degrees) at 7 MPH (6 knots; 3.1 m/s)
Visibility:0.50 sm (0.80 km)
Ceiling:indefinite ceiling with vertical visibility of 1200 feet AGL
Clouds:obscured sky
Weather:FU (smoke)
Text:TEMPO 2006/2013 3SM FU SCT020 BKN120 RMK NXT FCST BY 200700Z
Forecast period:0600 to 1300 UTC 20 July 2024
Forecast type:TEMPORARY: The following changes expected for less than half the time period
Visibility:3 sm (5 km)
Ceiling:12000 feet AGL
Clouds:scattered clouds at 2000 feet AGL, broken clouds at 12000 feet AGL
Weather:FU (smoke)
METAR for:ZYTX (Shenyang/Taoxian Intl, LN, CN)
Text:ZYTX 200600Z 17005MPS 140V200 9999 FEW040 27/23 Q1001 NOSIG
Conditions at:0600 UTC 20 Jul 2024
Temperature: 27.0°C ( 81°F)
Dewpoint: 23.0°C ( 73°F) [RH = 79%]
Pressure (altimeter):29.56 inches Hg (1001.0 mb)
Winds:from the S (170 degrees) at 12 MPH (10 knots; 5.1 m/s)
Visibility:6 or more sm (10+ km)
Ceiling:at least 12,000 feet AGL
Clouds:few clouds at 4000 feet AGL
METAR for:ZYTL (Dalian/Zhoushuizi Intl, LN, CN)
Text:ZYTL 200600Z 09003MPS 8000 RA SCT006 BKN033 24/23 Q0999 BECMG TL0630 -RA
Conditions at:0600 UTC 20 Jul 2024
Temperature: 24.0°C ( 75°F)
Dewpoint: 23.0°C ( 73°F) [RH = 94%]
Pressure (altimeter):29.50 inches Hg ( 999.0 mb)
Winds:from the E (90 degrees) at 7 MPH (6 knots; 3.1 m/s)
Visibility:5 sm (8 km)
Ceiling:3300 feet AGL
Clouds:scattered clouds at 600 feet AGL, broken clouds at 3300 feet AGL
Weather:RA (moderate rain)
TAF for:ZYTL (Dalian/Zhoushuizi Intl, LN, CN) issued at 0607 UTC 20 Jul 2024
Text:TAF AMD ZYTL 200607Z 2006/2106 16004MPS 5000 BR BKN033 TX30/2006Z TN25/2020Z
Forecast period:0600 UTC 20 July 2024 to 0600 UTC 21 July 2024
Forecast type:FROM: standard forecast or significant change
Winds:from the SSE (160 degrees) at 9 MPH (8 knots; 4.1 m/s)
Visibility:3 sm (5 km)
Ceiling:3300 feet AGL
Clouds:broken clouds at 3300 feet AGL
Weather:BR (mist)
Temperature:MIN 25°C at 2000 UTC 20 Jul 2024
Temperature:MAX 30°C at 0600 UTC 20 Jul 2024
Text:TEMPO 2006/2008 SHRA BR SCT005 BKN010 OVC040 FEW040CB
Forecast period:0600 to 0800 UTC 20 July 2024
Forecast type:TEMPORARY: The following changes expected for less than half the time period
Ceiling:1000 feet AGL
Clouds:scattered clouds at 500 feet AGL, broken clouds at 1000 feet AGL, overcast cloud deck at 4000 feet AGL
Weather:SHRA BR (rain showers, mist)
METAR for:ZYHB (Harbin/Taiping Arpt, HL, CN)
Text:ZYHB 200600Z 19006MPS 150V220 9999 BKN026 29/23 Q0999 NOSIG
Conditions at:0600 UTC 20 Jul 2024
Temperature: 29.0°C ( 84°F)
Dewpoint: 23.0°C ( 73°F) [RH = 70%]
Pressure (altimeter):29.50 inches Hg ( 999.0 mb)
Winds:from the S (190 degrees) at 14 MPH (12 knots; 6.2 m/s)
Visibility:6 or more sm (10+ km)
Ceiling:2600 feet AGL
Clouds:broken clouds at 2600 feet AGL
METAR for:ZYCC (Changchun/Longjia Intl, JL, CN)
Text:ZYCC 200600Z 20005MPS 9999 FEW033 26/20 Q1002 NOSIG
Conditions at:0600 UTC 20 Jul 2024
Temperature: 26.0°C ( 79°F)
Dewpoint: 20.0°C ( 68°F) [RH = 70%]
Pressure (altimeter):29.59 inches Hg (1002.0 mb)
Winds:from the SSW (200 degrees) at 12 MPH (10 knots; 5.1 m/s)
Visibility:6 or more sm (10+ km)
Ceiling:at least 12,000 feet AGL
Clouds:few clouds at 3300 feet AGL
METAR for:ZWWW (Ürümqi/Diwopu Arpt, XJ, CN)
Text:ZWWW 200600Z 35003MPS 300V040 CAVOK 31/13 Q1007 NOSIG
Conditions at:0600 UTC 20 Jul 2024
Temperature: 31.0°C ( 88°F)
Dewpoint: 13.0°C ( 55°F) [RH = 33%]
Pressure (altimeter):29.73 inches Hg (1007.0 mb)
Winds:from the N (350 degrees) at 7 MPH (6 knots; 3.1 m/s)
Visibility:6 or more sm (10+ km)
Ceiling:ceiling and visibility are OK
Clouds:unknown
METAR for:ZWSH (Kashgar Arpt, XJ, CN)
Text:ZWSH 200600Z 11004MPS 060V150 9999 FEW040 32/05 Q1009 NOSIG
Conditions at:0600 UTC 20 Jul 2024
Temperature: 32.0°C ( 90°F)
Dewpoint: 5.0°C ( 41°F) [RH = 18%]
Pressure (altimeter):29.79 inches Hg (1009.0 mb)
Winds:from the ESE (110 degrees) at 9 MPH (8 knots; 4.1 m/s)
Visibility:6 or more sm (10+ km)
Ceiling:at least 12,000 feet AGL
Clouds:few clouds at 4000 feet AGL
METAR for:ZUUU (Chengdu/Shuangliu Intl, CQ, CN)
Text:ZUUU 200600Z 07003MPS 030V130 9999 FEW020TCU BKN020 28/24 Q1002 NOSIG
Conditions at:0600 UTC 20 Jul 2024
Temperature: 28.0°C ( 82°F)
Dewpoint: 24.0°C ( 75°F) [RH = 79%]
Pressure (altimeter):29.59 inches Hg (1002.0 mb)
Winds:from the ENE (70 degrees) at 7 MPH (6 knots; 3.1 m/s)
Visibility:6 or more sm (10+ km)
Ceiling:2000 feet AGL
Clouds:few clouds at 2000 feet AGL, broken clouds at 2000 feet AGL
METAR for:ZUTF (Chengdu/Tianfu Arpt, CQ, CN)
Text:ZUTF 200600Z 10002MPS 040V140 9999 FEW008 SCT012 26/25 Q1002 NOSIG
Conditions at:0600 UTC 20 Jul 2024
Temperature: 26.0°C ( 79°F)
Dewpoint: 25.0°C ( 77°F) [RH = 94%]
Pressure (altimeter):29.59 inches Hg (1002.0 mb)
Winds:from the E (100 degrees) at 5 MPH (4 knots; 2.1 m/s)
Visibility:6 or more sm (10+ km)
Ceiling:at least 12,000 feet AGL
Clouds:few clouds at 800 feet AGL, scattered clouds at 1200 feet AGL
METAR for:ZUGY (Guizhou/Longdongbao Arpt, GZ, CN)
Text:ZUGY 200600Z 20009MPS 9999 BKN036 29/20 Q1011 NOSIG
Conditions at:0600 UTC 20 Jul 2024
Temperature: 29.0°C ( 84°F)
Dewpoint: 20.0°C ( 68°F) [RH = 58%]
Pressure (altimeter):29.85 inches Hg (1011.0 mb)
Winds:from the SSW (200 degrees) at 20 MPH (17 knots; 8.7 m/s)
Visibility:6 or more sm (10+ km)
Ceiling:3600 feet AGL
Clouds:broken clouds at 3600 feet AGL
METAR for:ZUCK (Chongqing/Jiangbei Intl, CQ, CN)
Text:ZUCK 200600Z 18002MPS 130V210 CAVOK 34/23 Q1002 NOSIG
Conditions at:0600 UTC 20 Jul 2024
Temperature: 34.0°C ( 93°F)
Dewpoint: 23.0°C ( 73°F) [RH = 53%]
Pressure (altimeter):29.59 inches Hg (1002.0 mb)
Winds:from the S (180 degrees) at 5 MPH (4 knots; 2.1 m/s)
Visibility:6 or more sm (10+ km)
Ceiling:ceiling and visibility are OK
Clouds:unknown
METAR for:ZSSS (Shanghai/Hongqiao Intl, SH, CN)
Text:ZSSS 200600Z 22006MPS 180V240 CAVOK 39/25 Q1006 NOSIG
Conditions at:0600 UTC 20 Jul 2024
Temperature: 39.0°C (102°F)
Dewpoint: 25.0°C ( 77°F) [RH = 45%]
Pressure (altimeter):29.70 inches Hg (1006.0 mb)
Winds:from the SW (220 degrees) at 14 MPH (12 knots; 6.2 m/s)
Visibility:6 or more sm (10+ km)
Ceiling:ceiling and visibility are OK
Clouds:unknown
METAR for:ZSQD (Qingdao/Jiaodong Arpt, SD, CN)
Text:ZSQD 200600Z 26005MPS 9999 SCT007 OVC033 26/25 Q1000 NOSIG
Conditions at:0600 UTC 20 Jul 2024
Temperature: 26.0°C ( 79°F)
Dewpoint: 25.0°C ( 77°F) [RH = 94%]
Pressure (altimeter):29.53 inches Hg (1000.0 mb)
Winds:from the W (260 degrees) at 12 MPH (10 knots; 5.1 m/s)
Visibility:6 or more sm (10+ km)
Ceiling:3300 feet AGL
Clouds:scattered clouds at 700 feet AGL, overcast cloud deck at 3300 feet AGL
METAR for:ZSPD (Shanghai/Pudong Intl, SH, CN)
Text:ZSPD 200600Z 18006MPS 150V210 CAVOK 35/25 Q1006 NOSIG
Conditions at:0600 UTC 20 Jul 2024
Temperature: 35.0°C ( 95°F)
Dewpoint: 25.0°C ( 77°F) [RH = 56%]
Pressure (altimeter):29.70 inches Hg (1006.0 mb)
Winds:from the S (180 degrees) at 14 MPH (12 knots; 6.2 m/s)
Visibility:6 or more sm (10+ km)
Ceiling:ceiling and visibility are OK
Clouds:unknown
METAR for:ZSOF (Hefei/Xinqiao Intl, AH, CN)
Text:ZSOF 200600Z 18006MPS CAVOK 32/26 Q1004 NOSIG
Conditions at:0600 UTC 20 Jul 2024
Temperature: 32.0°C ( 90°F)
Dewpoint: 26.0°C ( 79°F) [RH = 71%]
Pressure (altimeter):29.65 inches Hg (1004.0 mb)
Winds:from the S (180 degrees) at 14 MPH (12 knots; 6.2 m/s)
Visibility:6 or more sm (10+ km)
Ceiling:ceiling and visibility are OK
Clouds:unknown
METAR for:ZSNJ (Nanjing/Lukou Intl, JS, CN)
Text:ZSNJ 200600Z 23005MPS CAVOK 33/27 Q1005 NOSIG
Conditions at:0600 UTC 20 Jul 2024
Temperature: 33.0°C ( 91°F)
Dewpoint: 27.0°C ( 81°F) [RH = 71%]
Pressure (altimeter):29.68 inches Hg (1005.0 mb)
Winds:from the SW (230 degrees) at 12 MPH (10 knots; 5.1 m/s)
Visibility:6 or more sm (10+ km)
Ceiling:ceiling and visibility are OK
Clouds:unknown
METAR for:ZSNB (Ningbo/Lishe Intl, ZJ, CN)
Text:ZSNB 200600Z 16008MPS 9999 FEW026 36/26 Q1006 NOSIG
Conditions at:0600 UTC 20 Jul 2024
Temperature: 36.0°C ( 97°F)
Dewpoint: 26.0°C ( 79°F) [RH = 57%]
Pressure (altimeter):29.70 inches Hg (1006.0 mb)
Winds:from the SSE (160 degrees) at 18 MPH (16 knots; 8.2 m/s)
Visibility:6 or more sm (10+ km)
Ceiling:at least 12,000 feet AGL
Clouds:few clouds at 2600 feet AGL
METAR for:ZSHC (Hangzhou/Xiaoshan Intl, ZJ, CN)
Text:ZSHC 200600Z VRB01MPS 9999 FEW033 39/26 Q1005 NOSIG
Conditions at:0600 UTC 20 Jul 2024
Temperature: 39.0°C (102°F)
Dewpoint: 26.0°C ( 79°F) [RH = 48%]
Pressure (altimeter):29.68 inches Hg (1005.0 mb)
Winds:variable direction winds at 2 MPH (2 knots; 1.0 m/s)
Visibility:6 or more sm (10+ km)
Ceiling:at least 12,000 feet AGL
Clouds:few clouds at 3300 feet AGL
METAR for:ZSFZ (Fuzhou/Changle Intl, FJ, CN)
Text:ZSFZ 200600Z 09004MPS 060V130 CAVOK 33/26 Q1008 NOSIG
Conditions at:0600 UTC 20 Jul 2024
Temperature: 33.0°C ( 91°F)
Dewpoint: 26.0°C ( 79°F) [RH = 67%]
Pressure (altimeter):29.76 inches Hg (1008.0 mb)
Winds:from the E (90 degrees) at 9 MPH (8 knots; 4.1 m/s)
Visibility:6 or more sm (10+ km)
Ceiling:ceiling and visibility are OK
Clouds:unknown
METAR for:ZSAM (Xiamen-Gaoqi Intl, FJ, CN)
Text:ZSAM 200600Z 21005MPS 170V260 9999 SCT040 36/26 Q1008 NOSIG
Conditions at:0600 UTC 20 Jul 2024
Temperature: 36.0°C ( 97°F)
Dewpoint: 26.0°C ( 79°F) [RH = 57%]
Pressure (altimeter):29.76 inches Hg (1008.0 mb)
Winds:from the SSW (210 degrees) at 12 MPH (10 knots; 5.1 m/s)
Visibility:6 or more sm (10+ km)
Ceiling:at least 12,000 feet AGL
Clouds:scattered clouds at 4000 feet AGL
METAR for:ZPPP (Kunming/Changshui Intl, YN, CN)
Text:ZPPP 200600Z 21005MPS 170V230 9999 SCT026 OVC040 23/16 Q1019 NOSIG
Conditions at:0600 UTC 20 Jul 2024
Temperature: 23.0°C ( 73°F)
Dewpoint: 16.0°C ( 61°F) [RH = 65%]
Pressure (altimeter):30.09 inches Hg (1019.0 mb)
Winds:from the SSW (210 degrees) at 12 MPH (10 knots; 5.1 m/s)
Visibility:6 or more sm (10+ km)
Ceiling:4000 feet AGL
Clouds:scattered clouds at 2600 feet AGL, overcast cloud deck at 4000 feet AGL
METAR for:ZMUB (Ulan-Bator/Khaan Arpt, 1, MN)
Text:ZMUB 200600Z 21003MPS 130V290 9999 FEW030TCU FEW033 SCT100 30/09 Q1004 NOSIG RMK QFE646.9 26 MOP
Conditions at:0600 UTC 20 Jul 2024
Temperature: 30.0°C ( 86°F)
Dewpoint: 9.0°C ( 48°F) [RH = 27%]
Pressure (altimeter):29.65 inches Hg (1004.0 mb)
Winds:from the SSW (210 degrees) at 7 MPH (6 knots; 3.1 m/s)
Visibility:6 or more sm (10+ km)
Ceiling:at least 12,000 feet AGL
Clouds:few clouds at 3000 feet AGL, few clouds at 3300 feet AGL, scattered clouds at 10000 feet AGL
METAR for:ZMCK (Ulaanbaatar Intl, 1, MN)
Text:ZMCK 200600Z VRB02MPS 9999 FEW030TCU FEW033 SCT100 29/11 Q1005 NOSIG RMK QFE639.5 33 MOP
Conditions at:0600 UTC 20 Jul 2024
Temperature: 29.0°C ( 84°F)
Dewpoint: 11.0°C ( 52°F) [RH = 33%]
Pressure (altimeter):29.68 inches Hg (1005.0 mb)
Winds:variable direction winds at 5 MPH (4 knots; 2.1 m/s)
Visibility:6 or more sm (10+ km)
Ceiling:at least 12,000 feet AGL
Clouds:few clouds at 3000 feet AGL, few clouds at 3300 feet AGL, scattered clouds at 10000 feet AGL
METAR for:ZLXY (Xianyang Intl, SN, CN)
Text:ZLXY 200600Z VRB03MPS 9999 SCT040 31/24 Q1002 NOSIG
Conditions at:0600 UTC 20 Jul 2024
Temperature: 31.0°C ( 88°F)
Dewpoint: 24.0°C ( 75°F) [RH = 66%]
Pressure (altimeter):29.59 inches Hg (1002.0 mb)
Winds:variable direction winds at 7 MPH (6 knots; 3.1 m/s)
Visibility:6 or more sm (10+ km)
Ceiling:at least 12,000 feet AGL
Clouds:scattered clouds at 4000 feet AGL
METAR for:ZLLL (Lanzhou/Zhongchuan Arpt, GS, CN)
Text:ZLLL 200600Z 13003MPS 060V190 9999 FEW023 FEW030TCU 33/11 Q1010 BECMG TL0740 04006MPS
Conditions at:0600 UTC 20 Jul 2024
Temperature: 33.0°C ( 91°F)
Dewpoint: 11.0°C ( 52°F) [RH = 26%]
Pressure (altimeter):29.82 inches Hg (1010.0 mb)
Winds:from the SE (130 degrees) at 7 MPH (6 knots; 3.1 m/s)
Visibility:6 or more sm (10+ km)
Ceiling:at least 12,000 feet AGL
Clouds:few clouds at 2300 feet AGL, few clouds at 3000 feet AGL
METAR for:ZJSY (Sanya/Phoenix Intl, HN, CN)
Text:ZJSY 200600Z 18002MPS 080V250 9999 FEW023 32/27 Q1004 NOSIG
Conditions at:0600 UTC 20 Jul 2024
Temperature: 32.0°C ( 90°F)
Dewpoint: 27.0°C ( 81°F) [RH = 75%]
Pressure (altimeter):29.65 inches Hg (1004.0 mb)
Winds:from the S (180 degrees) at 5 MPH (4 knots; 2.1 m/s)
Visibility:6 or more sm (10+ km)
Ceiling:at least 12,000 feet AGL
Clouds:few clouds at 2300 feet AGL
METAR for:ZJHK (Haikou/Meilan Intl, HI, CN)
Text:ZJHK 200600Z 04005MPS 9999 FEW023TCU SCT030 35/28 Q1005 NOSIG
Conditions at:0600 UTC 20 Jul 2024
Temperature: 35.0°C ( 95°F)
Dewpoint: 28.0°C ( 82°F) [RH = 67%]
Pressure (altimeter):29.68 inches Hg (1005.0 mb)
Winds:from the NE (40 degrees) at 12 MPH (10 knots; 5.1 m/s)
Visibility:6 or more sm (10+ km)
Ceiling:at least 12,000 feet AGL
Clouds:few clouds at 2300 feet AGL, scattered clouds at 3000 feet AGL
METAR for:ZHHH (Wuhan/Tianhe Intl, HB, CN)
Text:ZHHH 200600Z 19006MPS CAVOK 34/25 Q1003 NOSIG
Conditions at:0600 UTC 20 Jul 2024
Temperature: 34.0°C ( 93°F)
Dewpoint: 25.0°C ( 77°F) [RH = 60%]
Pressure (altimeter):29.62 inches Hg (1003.0 mb)
Winds:from the S (190 degrees) at 14 MPH (12 knots; 6.2 m/s)
Visibility:6 or more sm (10+ km)
Ceiling:ceiling and visibility are OK
Clouds:unknown
METAR for:ZHCC (Zhengzhou/Xinzheng Arpt, HA, CN)
Text:ZHCC 200600Z VRB01MPS 9999 SCT020 32/26 Q1002 NOSIG
Conditions at:0600 UTC 20 Jul 2024
Temperature: 32.0°C ( 90°F)
Dewpoint: 26.0°C ( 79°F) [RH = 71%]
Pressure (altimeter):29.59 inches Hg (1002.0 mb)
Winds:variable direction winds at 2 MPH (2 knots; 1.0 m/s)
Visibility:6 or more sm (10+ km)
Ceiling:at least 12,000 feet AGL
Clouds:scattered clouds at 2000 feet AGL
METAR for:ZGSZ (Shenzhen/Boan Intl, GD, CN)
Text:ZGSZ 200600Z 13006MPS 090V160 9999 SCT033 34/27 Q1007 NOSIG
Conditions at:0600 UTC 20 Jul 2024
Temperature: 34.0°C ( 93°F)
Dewpoint: 27.0°C ( 81°F) [RH = 67%]
Pressure (altimeter):29.73 inches Hg (1007.0 mb)
Winds:from the SE (130 degrees) at 14 MPH (12 knots; 6.2 m/s)
Visibility:6 or more sm (10+ km)
Ceiling:at least 12,000 feet AGL
Clouds:scattered clouds at 3300 feet AGL
METAR for:ZGOW (Jieyang/Chaoshan Intl, GD, CN)
Text:ZGOW 200600Z 06004MPS 040V100 8000 SHRA FEW026CB SCT040 30/26 Q1009 BECMG AT0630 19005MPS -SHRA
Conditions at:0600 UTC 20 Jul 2024
Temperature: 30.0°C ( 86°F)
Dewpoint: 26.0°C ( 79°F) [RH = 79%]
Pressure (altimeter):29.79 inches Hg (1009.0 mb)
Winds:from the ENE (60 degrees) at 9 MPH (8 knots; 4.1 m/s)
Visibility:5 sm (8 km)
Ceiling:at least 12,000 feet AGL
Clouds:few clouds at 2600 feet AGL, scattered clouds at 4000 feet AGL
Weather:SHRA (rain showers)
METAR for:ZGNN (Nanning/Wuwei Intl, GX, CN)
Text:ZGNN 200600Z 30003MPS 9999 -SHRA FEW008 FEW030CB 30/28 Q1007 NOSIG
Conditions at:0600 UTC 20 Jul 2024
Temperature: 30.0°C ( 86°F)
Dewpoint: 28.0°C ( 82°F) [RH = 89%]
Pressure (altimeter):29.73 inches Hg (1007.0 mb)
Winds:from the WNW (300 degrees) at 7 MPH (6 knots; 3.1 m/s)
Visibility:6 or more sm (10+ km)
Ceiling:at least 12,000 feet AGL
Clouds:few clouds at 800 feet AGL, few clouds at 3000 feet AGL
Weather:-SHRA (light rain showers)
METAR for:ZGKL (Guilin/Liangjiang Intl, GX, CN)
Text:ZGKL 200600Z 19004MPS 150V250 9999 FEW030 36/24 Q1007 BECMG FM0700 FEW030CB
Conditions at:0600 UTC 20 Jul 2024
Temperature: 36.0°C ( 97°F)
Dewpoint: 24.0°C ( 75°F) [RH = 50%]
Pressure (altimeter):29.73 inches Hg (1007.0 mb)
Winds:from the S (190 degrees) at 9 MPH (8 knots; 4.1 m/s)
Visibility:6 or more sm (10+ km)
Ceiling:at least 12,000 feet AGL
Clouds:few clouds at 3000 feet AGL
METAR for:ZGHA (Changsha/Huanghua Arpt, HN, CN)
Text:ZGHA 200600Z 18005MPS CAVOK 34/25 Q1005 NOSIG
Conditions at:0600 UTC 20 Jul 2024
Temperature: 34.0°C ( 93°F)
Dewpoint: 25.0°C ( 77°F) [RH = 60%]
Pressure (altimeter):29.68 inches Hg (1005.0 mb)
Winds:from the S (180 degrees) at 12 MPH (10 knots; 5.1 m/s)
Visibility:6 or more sm (10+ km)
Ceiling:ceiling and visibility are OK
Clouds:unknown
METAR for:ZGGG (Guangzhou/Baiyun Intl, GD, CN)
Text:ZGGG 200600Z 11004MPS 070V170 9999 SCT033 36/25 Q1007 BECMG AT0630 15008G15MPS 2500 TSRA SCT010 SCT030CB BKN033
Conditions at:0600 UTC 20 Jul 2024
Temperature: 36.0°C ( 97°F)
Dewpoint: 25.0°C ( 77°F) [RH = 53%]
Pressure (altimeter):29.73 inches Hg (1007.0 mb)
Winds:from the ESE (110 degrees) at 9 MPH (8 knots; 4.1 m/s)
Visibility:6 or more sm (10+ km)
Ceiling:at least 12,000 feet AGL
Clouds:scattered clouds at 3300 feet AGL
METAR for:ZBYN (Taiyuan/Wusu Intl, SX, CN)
Text:ZBYN 200600Z 21003MPS 150V250 9999 FEW040 35/11 Q1004 NOSIG
Conditions at:0600 UTC 20 Jul 2024
Temperature: 35.0°C ( 95°F)
Dewpoint: 11.0°C ( 52°F) [RH = 23%]
Pressure (altimeter):29.65 inches Hg (1004.0 mb)
Winds:from the SSW (210 degrees) at 7 MPH (6 knots; 3.1 m/s)
Visibility:6 or more sm (10+ km)
Ceiling:at least 12,000 feet AGL
Clouds:few clouds at 4000 feet AGL
METAR for:ZBTJ (Tianjin/Binhai Intl, TJ, CN)
Text:ZBTJ 200600Z 24004MPS 210V270 CAVOK 36/22 Q0997 NOSIG
Conditions at:0600 UTC 20 Jul 2024
Temperature: 36.0°C ( 97°F)
Dewpoint: 22.0°C ( 72°F) [RH = 45%]
Pressure (altimeter):29.44 inches Hg ( 997.0 mb)
Winds:from the WSW (240 degrees) at 9 MPH (8 knots; 4.1 m/s)
Visibility:6 or more sm (10+ km)
Ceiling:ceiling and visibility are OK
Clouds:unknown
METAR for:ZBSJ (Zhengding Arpt, HA, CN)
Text:ZBSJ 200600Z 17005MPS CAVOK 36/26 Q0998 NOSIG
Conditions at:0600 UTC 20 Jul 2024
Temperature: 36.0°C ( 97°F)
Dewpoint: 26.0°C ( 79°F) [RH = 57%]
Pressure (altimeter):29.47 inches Hg ( 998.0 mb)
Winds:from the S (170 degrees) at 12 MPH (10 knots; 5.1 m/s)
Visibility:6 or more sm (10+ km)
Ceiling:ceiling and visibility are OK
Clouds:unknown
METAR for:ZBHH (Hohhot/Baita Intl, NM, CN)
Text:ZBHH 200600Z 19003MPS 130V230 CAVOK 31/19 Q1005 NOSIG
Conditions at:0600 UTC 20 Jul 2024
Temperature: 31.0°C ( 88°F)
Dewpoint: 19.0°C ( 66°F) [RH = 49%]
Pressure (altimeter):29.68 inches Hg (1005.0 mb)
Winds:from the S (190 degrees) at 7 MPH (6 knots; 3.1 m/s)
Visibility:6 or more sm (10+ km)
Ceiling:ceiling and visibility are OK
Clouds:unknown
METAR for:ZBAD (Beijing/Daxing Arpt, BJ, CN)
Text:ZBAD 200600Z 22004MPS CAVOK 34/23 Q0998 NOSIG
Conditions at:0600 UTC 20 Jul 2024
Temperature: 34.0°C ( 93°F)
Dewpoint: 23.0°C ( 73°F) [RH = 53%]
Pressure (altimeter):29.47 inches Hg ( 998.0 mb)
Winds:from the SW (220 degrees) at 9 MPH (8 knots; 4.1 m/s)
Visibility:6 or more sm (10+ km)
Ceiling:ceiling and visibility are OK
Clouds:unknown
METAR for:ZBAA (Beijing Intl, BJ, CN)
Text:ZBAA 200600Z 20003MPS 130V270 CAVOK 34/22 Q0997 NOSIG
Conditions at:0600 UTC 20 Jul 2024
Temperature: 34.0°C ( 93°F)
Dewpoint: 22.0°C ( 72°F) [RH = 50%]
Pressure (altimeter):29.44 inches Hg ( 997.0 mb)
Winds:from the SSW (200 degrees) at 7 MPH (6 knots; 3.1 m/s)
Visibility:6 or more sm (10+ km)
Ceiling:ceiling and visibility are OK
Clouds:unknown
METAR for:YWLM (Williamtown/New Castle Arpt, NS, AU)
Text:YWLM 200600Z AUTO 29023KT 9999 // NCD 16/01 Q1006 RF00.0/000.0
Conditions at:0600 UTC 20 Jul 2024
Temperature: 16.0°C ( 61°F)
Dewpoint: 1.0°C ( 34°F) [RH = 36%]
Pressure (altimeter):29.70 inches Hg (1006.0 mb)
Winds:from the WNW (290 degrees) at 26 MPH (23 knots; 11.8 m/s)
Visibility:6 or more sm (10+ km)
Ceiling:at least 12,000 feet AGL
Clouds:sky clear below 12,000 feet AGL
METAR for:YSTW (Tamworth Arpt, NS, AU)
Text:YSTW 200600Z AUTO 30018KT 9999 // OVC063 15/00 Q1013 RF00.0/000.0
Conditions at:0600 UTC 20 Jul 2024
Temperature: 15.0°C ( 59°F)
Dewpoint: 0.0°C ( 32°F) [RH = 36%]
Pressure (altimeter):29.91 inches Hg (1013.0 mb)
Winds:from the WNW (300 degrees) at 21 MPH (18 knots; 9.3 m/s)
Visibility:6 or more sm (10+ km)
Ceiling:6300 feet AGL
Clouds:overcast cloud deck at 6300 feet AGL
SPECI for:YSSY (Sydney Intl, NS, AU)
Text:YSSY 200600Z 28026G36KT CAVOK 15/M00 Q1005
Conditions at:0600 UTC 20 Jul 2024
Temperature: 15.0°C ( 59°F)
Dewpoint: 0.0°C ( 32°F) [RH = 36%]
Pressure (altimeter):29.68 inches Hg (1005.0 mb)
Winds:from the W (280 degrees) at 30 MPH (26 knots; 13.4 m/s) gusting to 41 MPH (36 knots; 18.5 m/s)
Visibility:6 or more sm (10+ km)
Ceiling:ceiling and visibility are OK
Clouds:unknown
METAR for:YSRI (Richmond(RAAF), NS, AU)
Text:YSRI 200600Z AUTO 28017G27KT 9999 // FEW073 15/02 Q1006 RF00.0/000.0
Conditions at:0600 UTC 20 Jul 2024
Temperature: 15.0°C ( 59°F)
Dewpoint: 2.0°C ( 36°F) [RH = 41%]
Pressure (altimeter):29.70 inches Hg (1006.0 mb)
Winds:from the W (280 degrees) at 20 MPH (17 knots; 8.7 m/s) gusting to 31 MPH (27 knots; 13.9 m/s)
Visibility:6 or more sm (10+ km)
Ceiling:at least 12,000 feet AGL
Clouds:few clouds at 7300 feet AGL
METAR for:YSNF (Norfolk Island Arpt, NS, AU)
Text:YSNF 200600Z AUTO 29011KT 9999 // FEW038 17/09 Q1014 RF00.0/000.0
Conditions at:0600 UTC 20 Jul 2024
Temperature: 17.0°C ( 63°F)
Dewpoint: 9.0°C ( 48°F) [RH = 59%]
Pressure (altimeter):29.94 inches Hg (1014.0 mb)
Winds:from the WNW (290 degrees) at 13 MPH (11 knots; 5.7 m/s)
Visibility:6 or more sm (10+ km)
Ceiling:at least 12,000 feet AGL
Clouds:few clouds at 3800 feet AGL
METAR for:YSDU (Dubbo Rgnl, NS, AU)
Text:YSDU 200600Z AUTO 27018KT 9999 // SCT060 OVC069 12/02 Q1013
Conditions at:0600 UTC 20 Jul 2024
Temperature: 12.0°C ( 54°F)
Dewpoint: 2.0°C ( 36°F) [RH = 50%]
Pressure (altimeter):29.91 inches Hg (1013.0 mb)
Winds:from the W (270 degrees) at 21 MPH (18 knots; 9.3 m/s)
Visibility:6 or more sm (10+ km)
Ceiling:6900 feet AGL
Clouds:scattered clouds at 6000 feet AGL, overcast cloud deck at 6900 feet AGL
METAR for:YSCB (Canberra Intl, AC, AU)
Text:YSCB 200600Z AUTO 31015G28KT 9999 // FEW030 SCT035 BKN048 06/02 Q1004
Conditions at:0600 UTC 20 Jul 2024
Temperature: 6.0°C ( 43°F)
Dewpoint: 2.0°C ( 36°F) [RH = 75%]
Pressure (altimeter):29.65 inches Hg (1004.0 mb)
Winds:from the NW (310 degrees) at 17 MPH (15 knots; 7.7 m/s) gusting to 32 MPH (28 knots; 14.4 m/s)
Visibility:6 or more sm (10+ km)
Ceiling:4800 feet AGL
Clouds:few clouds at 3000 feet AGL, scattered clouds at 3500 feet AGL, broken clouds at 4800 feet AGL
METAR for:YPXM (Christmas Isl Arpt, CX, AU)
Text:YPXM 200600Z AUTO 11014KT 9999 // FEW022 27/20 Q1014 RF00.0/000.0
Conditions at:0600 UTC 20 Jul 2024
Temperature: 27.0°C ( 81°F)
Dewpoint: 20.0°C ( 68°F) [RH = 66%]
Pressure (altimeter):29.94 inches Hg (1014.0 mb)
Winds:from the ESE (110 degrees) at 16 MPH (14 knots; 7.2 m/s)
Visibility:6 or more sm (10+ km)
Ceiling:at least 12,000 feet AGL
Clouds:few clouds at 2200 feet AGL
METAR for:YPWR (Woomera Arpt(MIL), SA, AU)
Text:YPWR 200600Z AUTO 24018KT 9999 // SCT044 17/05 Q1021 RF00.0/000.0
Conditions at:0600 UTC 20 Jul 2024
Temperature: 17.0°C ( 63°F)
Dewpoint: 5.0°C ( 41°F) [RH = 45%]
Pressure (altimeter):30.15 inches Hg (1021.0 mb)
Winds:from the WSW (240 degrees) at 21 MPH (18 knots; 9.3 m/s)
Visibility:6 or more sm (10+ km)
Ceiling:at least 12,000 feet AGL
Clouds:scattered clouds at 4400 feet AGL
TAF for:YPWR (Woomera Arpt(MIL), SA, AU) issued at 0529 UTC 20 Jul 2024
Text:TAF YPWR 200529Z 2006/2100 25017G27KT 9999 FEW040
Forecast period:0600 to 0700 UTC 20 July 2024
Forecast type:FROM: standard forecast or significant change
Winds:from the WSW (250 degrees) at 20 MPH (17 knots; 8.7 m/s) gusting to 31 MPH (27 knots; 13.9 m/s)
Visibility:6 or more sm (10+ km)
Ceiling:at least 12,000 feet AGL
Clouds:few clouds at 4000 feet AGL
Text:FM200700 26014KT 9999 FEW040
Forecast period:0700 to 2000 UTC 20 July 2024
Forecast type:FROM: standard forecast or significant change
Winds:from the W (260 degrees) at 16 MPH (14 knots; 7.2 m/s)
Visibility:6 or more sm (10+ km)
Ceiling:at least 12,000 feet AGL
Clouds:few clouds at 4000 feet AGL
Text:FM202000 32007KT CAVOK
Forecast period:2000 UTC 20 July 2024 to 0000 UTC 21 July 2024
Forecast type:FROM: standard forecast or significant change
Winds:from the NW (320 degrees) at 8 MPH (7 knots; 3.6 m/s)
Visibility:6 or more sm (10+ km)
Clouds:missing
Weather:NSW (no significant weather)
METAR for:YPTN (Tindal Arpt(RAAF), NT, AU)
Text:YPTN 200600Z AUTO 10009KT 9999 // NCD 27/03 Q1015 RF00.0/000.0
Conditions at:0600 UTC 20 Jul 2024
Temperature: 27.0°C ( 81°F)
Dewpoint: 3.0°C ( 37°F) [RH = 21%]
Pressure (altimeter):29.97 inches Hg (1015.0 mb)
Winds:from the E (100 degrees) at 10 MPH (9 knots; 4.6 m/s)
Visibility:6 or more sm (10+ km)
Ceiling:at least 12,000 feet AGL
Clouds:sky clear below 12,000 feet AGL
METAR for:YPPH (Perth Intl, WA, AU)
Text:YPPH 200600Z 29017KT 9999 FEW040 BKN070 19/09 Q1022 RF00.2/000.2
Conditions at:0600 UTC 20 Jul 2024
Temperature: 19.0°C ( 66°F)
Dewpoint: 9.0°C ( 48°F) [RH = 52%]
Pressure (altimeter):30.18 inches Hg (1022.0 mb)
Winds:from the WNW (290 degrees) at 20 MPH (17 knots; 8.7 m/s)
Visibility:6 or more sm (10+ km)
Ceiling:7000 feet AGL
Clouds:few clouds at 4000 feet AGL, broken clouds at 7000 feet AGL
METAR for:YPPD (Port Hedland Intl, WA, AU)
Text:YPPD 200600Z AUTO 09008KT 9999 // ////// 28/04 Q1019 RF00.0/000.0
Conditions at:0600 UTC 20 Jul 2024
Temperature: 28.0°C ( 82°F)
Dewpoint: 4.0°C ( 39°F) [RH = 22%]
Pressure (altimeter):30.09 inches Hg (1019.0 mb)
Winds:from the E (90 degrees) at 9 MPH (8 knots; 4.1 m/s)
Visibility:6 or more sm (10+ km)
METAR for:YPLM (Learmonth Arpt, WA, AU)
Text:YPLM 200600Z AUTO 05007KT 9999 // FEW044 24/14 Q1019 RF00.0/000.0
Conditions at:0600 UTC 20 Jul 2024
Temperature: 24.0°C ( 75°F)
Dewpoint: 14.0°C ( 57°F) [RH = 54%]
Pressure (altimeter):30.09 inches Hg (1019.0 mb)
Winds:from the NE (50 degrees) at 8 MPH (7 knots; 3.6 m/s)
Visibility:6 or more sm (10+ km)
Ceiling:at least 12,000 feet AGL
Clouds:few clouds at 4400 feet AGL
METAR for:YPKU (Kununurra Arpt, WA, AU)
Text:YPKU 200600Z AUTO 09008KT 9999 // NCD 29/M01 Q1015 RF00.0/000.0
Conditions at:0600 UTC 20 Jul 2024
Temperature: 29.0°C ( 84°F)
Dewpoint: -1.0°C ( 30°F) [RH = 14%]
Pressure (altimeter):29.97 inches Hg (1015.0 mb)
Winds:from the E (90 degrees) at 9 MPH (8 knots; 4.1 m/s)
Visibility:6 or more sm (10+ km)
Ceiling:at least 12,000 feet AGL
Clouds:sky clear below 12,000 feet AGL
METAR for:YPKG (Kalgoorlie/Boulder Arpt, WA, AU)
Text:YPKG 200600Z AUTO 29009KT 270V340 9999 // FEW050 16/05 Q1023
Conditions at:0600 UTC 20 Jul 2024
Temperature: 16.0°C ( 61°F)
Dewpoint: 5.0°C ( 41°F) [RH = 48%]
Pressure (altimeter):30.21 inches Hg (1023.0 mb)
Winds:from the WNW (290 degrees) at 10 MPH (9 knots; 4.6 m/s)
Visibility:6 or more sm (10+ km)
Ceiling:at least 12,000 feet AGL
Clouds:few clouds at 5000 feet AGL
METAR for:YPJT (Perth/Jandakot Arpt, WA, AU)
Text:YPJT 200600Z AUTO 30015G25KT 9999 // FEW017 SCT043 BKN068 17/11 Q1022
Conditions at:0600 UTC 20 Jul 2024
Temperature: 17.0°C ( 63°F)
Dewpoint: 11.0°C ( 52°F) [RH = 68%]
Pressure (altimeter):30.18 inches Hg (1022.0 mb)
Winds:from the WNW (300 degrees) at 17 MPH (15 knots; 7.7 m/s) gusting to 29 MPH (25 knots; 12.9 m/s)
Visibility:6 or more sm (10+ km)
Ceiling:6800 feet AGL
Clouds:few clouds at 1700 feet AGL, scattered clouds at 4300 feet AGL, broken clouds at 6800 feet AGL
METAR for:YPGV (Gove Arpt, NT, AU)
Text:YPGV 200600Z AUTO 12015KT 010V150 9999 // SCT030 27/18 Q1014
Conditions at:0600 UTC 20 Jul 2024
Temperature: 27.0°C ( 81°F)
Dewpoint: 18.0°C ( 64°F) [RH = 58%]
Pressure (altimeter):29.94 inches Hg (1014.0 mb)
Winds:from the ESE (120 degrees) at 17 MPH (15 knots; 7.7 m/s)
Visibility:6 or more sm (10+ km)
Ceiling:at least 12,000 feet AGL
Clouds:scattered clouds at 3000 feet AGL
METAR for:YPEA (Bullsbrook/Pearce RA, WA, AU)
Text:YPEA 200600Z AUTO 30015KT 9999 // FEW044 OVC066 18/10 Q1022
Conditions at:0600 UTC 20 Jul 2024
Temperature: 18.0°C ( 64°F)
Dewpoint: 10.0°C ( 50°F) [RH = 59%]
Pressure (altimeter):30.18 inches Hg (1022.0 mb)
Winds:from the WNW (300 degrees) at 17 MPH (15 knots; 7.7 m/s)
Visibility:6 or more sm (10+ km)
Ceiling:6600 feet AGL
Clouds:few clouds at 4400 feet AGL, overcast cloud deck at 6600 feet AGL
METAR for:YPDN (Darwin Intl, NT, AU)
Text:YPDN 200600Z 30009KT CAVOK 28/13 Q1014
Conditions at:0600 UTC 20 Jul 2024
Temperature: 28.0°C ( 82°F)
Dewpoint: 13.0°C ( 55°F) [RH = 40%]
Pressure (altimeter):29.94 inches Hg (1014.0 mb)
Winds:from the WNW (300 degrees) at 10 MPH (9 knots; 4.6 m/s)
Visibility:6 or more sm (10+ km)
Ceiling:ceiling and visibility are OK
Clouds:unknown
METAR for:YPCC (Cocos Isl Intl, --, AU)
Text:YPCC 200600Z AUTO 09018KT 9999 // SCT023 SCT034 29/24 Q1013
Conditions at:0600 UTC 20 Jul 2024
Temperature: 29.0°C ( 84°F)
Dewpoint: 24.0°C ( 75°F) [RH = 74%]
Pressure (altimeter):29.91 inches Hg (1013.0 mb)
Winds:from the E (90 degrees) at 21 MPH (18 knots; 9.3 m/s)
Visibility:6 or more sm (10+ km)
Ceiling:at least 12,000 feet AGL
Clouds:scattered clouds at 2300 feet AGL, scattered clouds at 3400 feet AGL
METAR for:YPAD (Adelaide Intl, SA, AU)
Text:YPAD 200600Z 27011KT 9999 FEW022 SCT032 15/10 Q1017 RF00.0/000.6
Conditions at:0600 UTC 20 Jul 2024
Temperature: 15.0°C ( 59°F)
Dewpoint: 10.0°C ( 50°F) [RH = 72%]
Pressure (altimeter):30.03 inches Hg (1017.0 mb)
Winds:from the W (270 degrees) at 13 MPH (11 knots; 5.7 m/s)
Visibility:6 or more sm (10+ km)
Ceiling:at least 12,000 feet AGL
Clouds:few clouds at 2200 feet AGL, scattered clouds at 3200 feet AGL
METAR for:YMLT (Launceston Arpt, TA, AU)
Text:YMLT 200600Z AUTO 16015KT 9999 // OVC052 OVC065 10/08 Q0996
Conditions at:0600 UTC 20 Jul 2024
Temperature: 10.0°C ( 50°F)
Dewpoint: 8.0°C ( 46°F) [RH = 87%]
Pressure (altimeter):29.41 inches Hg ( 996.0 mb)
Winds:from the SSE (160 degrees) at 17 MPH (15 knots; 7.7 m/s)
Visibility:6 or more sm (10+ km)
Ceiling:5200 feet AGL
Clouds:overcast cloud deck at 5200 feet AGL, overcast cloud deck at 6500 feet AGL
METAR for:YMHB (Hobart Intl, TA, AU)
Text:YMHB 200600Z 17006KT 9999 BKN036 BKN250 11/07 Q0998 RF00.0/000.0
Conditions at:0600 UTC 20 Jul 2024
Temperature: 11.0°C ( 52°F)
Dewpoint: 7.0°C ( 45°F) [RH = 76%]
Pressure (altimeter):29.47 inches Hg ( 998.0 mb)
Winds:from the S (170 degrees) at 7 MPH (6 knots; 3.1 m/s)
Visibility:6 or more sm (10+ km)
Ceiling:3600 feet AGL
Clouds:broken clouds at 3600 feet AGL, broken clouds at 25000 feet AGL
METAR for:YLHI (Lord Howe Island Arpt, NS, AU)
Text:YLHI 200600Z AUTO 27019KT 9999 // SCT041 19/12 Q1006 RF00.0/000.0
Conditions at:0600 UTC 20 Jul 2024
Temperature: 19.0°C ( 66°F)
Dewpoint: 12.0°C ( 54°F) [RH = 64%]
Pressure (altimeter):29.70 inches Hg (1006.0 mb)
Winds:from the W (270 degrees) at 22 MPH (19 knots; 9.8 m/s)
Visibility:6 or more sm (10+ km)
Ceiling:at least 12,000 feet AGL
Clouds:scattered clouds at 4100 feet AGL
METAR for:YHID (Horn Island Arpt, QL, AU)
Text:YHID 200600Z AUTO 11014KT 9999 // NCD 28/17 Q1014 RF00.0/000.0
Conditions at:0600 UTC 20 Jul 2024
Temperature: 28.0°C ( 82°F)
Dewpoint: 17.0°C ( 63°F) [RH = 51%]
Pressure (altimeter):29.94 inches Hg (1014.0 mb)
Winds:from the ESE (110 degrees) at 16 MPH (14 knots; 7.2 m/s)
Visibility:6 or more sm (10+ km)
Ceiling:at least 12,000 feet AGL
Clouds:sky clear below 12,000 feet AGL
TAF for:YHID (Horn Island Arpt, QL, AU) issued at 0524 UTC 20 Jul 2024
Text:TAF YHID 200524Z 2006/2106 12016KT 9999 FEW030
Forecast period:0600 to 1100 UTC 20 July 2024
Forecast type:FROM: standard forecast or significant change
Winds:from the ESE (120 degrees) at 18 MPH (16 knots; 8.2 m/s)
Visibility:6 or more sm (10+ km)
Ceiling:at least 12,000 feet AGL
Clouds:few clouds at 3000 feet AGL
Text:FM201100 11010KT 9999 FEW025
Forecast period:1100 to 2100 UTC 20 July 2024
Forecast type:FROM: standard forecast or significant change
Winds:from the ESE (110 degrees) at 12 MPH (10 knots; 5.1 m/s)
Visibility:6 or more sm (10+ km)
Ceiling:at least 12,000 feet AGL
Clouds:few clouds at 2500 feet AGL
Text:FM202100 14018KT 9999 SCT020
Forecast period:2100 UTC 20 July 2024 to 0600 UTC 21 July 2024
Forecast type:FROM: standard forecast or significant change
Winds:from the SE (140 degrees) at 21 MPH (18 knots; 9.3 m/s)
Visibility:6 or more sm (10+ km)
Ceiling:at least 12,000 feet AGL
Clouds:scattered clouds at 2000 feet AGL
METAR for:YGLA (Gladstone Arpt, QL, AU)
Text:YGLA 200600Z AUTO 25008KT 9999 // NCD 25/01 Q1015 RF00.0/000.0
Conditions at:0600 UTC 20 Jul 2024
Temperature: 25.0°C ( 77°F)
Dewpoint: 1.0°C ( 34°F) [RH = 21%]
Pressure (altimeter):29.97 inches Hg (1015.0 mb)
Winds:from the WSW (250 degrees) at 9 MPH (8 knots; 4.1 m/s)
Visibility:6 or more sm (10+ km)
Ceiling:at least 12,000 feet AGL
Clouds:sky clear below 12,000 feet AGL
METAR for:YGEL (Geraldton Arpt, WA, AU)
Text:YGEL 200600Z AUTO 12004KT 070V150 9999 // ////// 18/07 Q1025
Conditions at:0600 UTC 20 Jul 2024
Temperature: 18.0°C ( 64°F)
Dewpoint: 7.0°C ( 45°F) [RH = 49%]
Pressure (altimeter):30.27 inches Hg (1025.0 mb)
Winds:from the ESE (120 degrees) at 5 MPH (4 knots; 2.1 m/s)
Visibility:6 or more sm (10+ km)
METAR for:YFRT (Forrest Arpt, WA, AU)
Text:YFRT 200600Z AUTO 29015KT 9999 // NCD 17/M00 Q1023 RF00.0/000.0
Conditions at:0600 UTC 20 Jul 2024
Temperature: 17.0°C ( 63°F)
Dewpoint: 0.0°C ( 32°F) [RH = 32%]
Pressure (altimeter):30.21 inches Hg (1023.0 mb)
Winds:from the WNW (290 degrees) at 17 MPH (15 knots; 7.7 m/s)
Visibility:6 or more sm (10+ km)
Ceiling:at least 12,000 feet AGL
Clouds:sky clear below 12,000 feet AGL
METAR for:YCIN (Curtin(RAAF), WA, AU)
Text:YCIN 200600Z AUTO 15006KT 120V190 9999 // NCD 30/M05 Q1015 RF00.0/000.0
Conditions at:0600 UTC 20 Jul 2024
Temperature: 30.0°C ( 86°F)
Dewpoint: -5.0°C ( 23°F) [RH = 10%]
Pressure (altimeter):29.97 inches Hg (1015.0 mb)
Winds:from the SSE (150 degrees) at 7 MPH (6 knots; 3.1 m/s)
Visibility:6 or more sm (10+ km)
Ceiling:at least 12,000 feet AGL
Clouds:sky clear below 12,000 feet AGL
METAR for:YCFS (Coffs Harbour Arpt, NS, AU)
Text:YCFS 200600Z AUTO 30014KT 9999 // NCD 22/M00 Q1007 RF00.0/000.0
Conditions at:0600 UTC 20 Jul 2024
Temperature: 22.0°C ( 72°F)
Dewpoint: 0.0°C ( 32°F) [RH = 23%]
Pressure (altimeter):29.73 inches Hg (1007.0 mb)
Winds:from the WNW (300 degrees) at 16 MPH (14 knots; 7.2 m/s)
Visibility:6 or more sm (10+ km)
Ceiling:at least 12,000 feet AGL
Clouds:sky clear below 12,000 feet AGL
METAR for:YBWW (Toowoomba/Wellcamp Arpt, QL, AU)
Text:YBWW 200600Z AUTO 27018KT 9999 // NCD 20/01 Q1013 RF00.0/000.0
Conditions at:0600 UTC 20 Jul 2024
Temperature: 20.0°C ( 68°F)
Dewpoint: 1.0°C ( 34°F) [RH = 28%]
Pressure (altimeter):29.91 inches Hg (1013.0 mb)
Winds:from the W (270 degrees) at 21 MPH (18 knots; 9.3 m/s)
Visibility:6 or more sm (10+ km)
Ceiling:at least 12,000 feet AGL
Clouds:sky clear below 12,000 feet AGL
METAR for:YBTL (Townsville Arpt, QL, AU)
Text:YBTL 200600Z AUTO 35008KT 9999 // NCD 23/10 Q1017 RF00.0/000.0
Conditions at:0600 UTC 20 Jul 2024
Temperature: 23.0°C ( 73°F)
Dewpoint: 10.0°C ( 50°F) [RH = 44%]
Pressure (altimeter):30.03 inches Hg (1017.0 mb)
Winds:from the N (350 degrees) at 9 MPH (8 knots; 4.1 m/s)
Visibility:6 or more sm (10+ km)
Ceiling:at least 12,000 feet AGL
Clouds:sky clear below 12,000 feet AGL
TAF for:YBTL (Townsville Arpt, QL, AU) issued at 0524 UTC 20 Jul 2024
Text:TAF YBTL 200524Z 2006/2106 02010KT CAVOK
Forecast period:0600 to 0900 UTC 20 July 2024
Forecast type:FROM: standard forecast or significant change
Winds:from the NNE (20 degrees) at 12 MPH (10 knots; 5.1 m/s)
Visibility:6 or more sm (10+ km)
Clouds:missing
Weather:NSW (no significant weather)
Text:FM200900 20006KT CAVOK
Forecast period:0900 UTC 20 July 2024 to 0100 UTC 21 July 2024
Forecast type:FROM: standard forecast or significant change
Winds:from the SSW (200 degrees) at 7 MPH (6 knots; 3.1 m/s)
Visibility:6 or more sm (10+ km)
Clouds:missing
Weather:NSW (no significant weather)
Text:BECMG 2101/2102 07013KT CAVOK
Forecast period:0100 to 0600 UTC 21 July 2024
Forecast type:BECOMING: Conditions expected to become as follows by 0200 UTC 21 July 2024
Winds:from the ENE (70 degrees) at 15 MPH (13 knots; 6.7 m/s)
Visibility:6 or more sm (10+ km)
Clouds:missing
Weather:NSW (no significant weather)
METAR for:YBSU (Sunshine Coast Arpt, QL, AU)
Text:YBSU 200600Z AUTO 29013KT 9999 // NCD 23/M01 Q1013 RF00.0/000.0
Conditions at:0600 UTC 20 Jul 2024
Temperature: 23.0°C ( 73°F)
Dewpoint: -1.0°C ( 30°F) [RH = 20%]
Pressure (altimeter):29.91 inches Hg (1013.0 mb)
Winds:from the WNW (290 degrees) at 15 MPH (13 knots; 6.7 m/s)
Visibility:6 or more sm (10+ km)
Ceiling:at least 12,000 feet AGL
Clouds:sky clear below 12,000 feet AGL
METAR for:YBRM (Broome Arpt, WA, AU)
Text:YBRM 200600Z AUTO 14008KT 9999 // NCD 29/01 Q1016 RF00.0/000.0
Conditions at:0600 UTC 20 Jul 2024
Temperature: 29.0°C ( 84°F)
Dewpoint: 1.0°C ( 34°F) [RH = 16%]
Pressure (altimeter):30.00 inches Hg (1016.0 mb)
Winds:from the SE (140 degrees) at 9 MPH (8 knots; 4.1 m/s)
Visibility:6 or more sm (10+ km)
Ceiling:at least 12,000 feet AGL
Clouds:sky clear below 12,000 feet AGL
METAR for:YBRK (Rockhampton Arpt, QL, AU)
Text:YBRK 200600Z AUTO 26008KT 9999 // NCD 25/01 Q1015 RF00.0/000.0
Conditions at:0600 UTC 20 Jul 2024
Temperature: 25.0°C ( 77°F)
Dewpoint: 1.0°C ( 34°F) [RH = 21%]
Pressure (altimeter):29.97 inches Hg (1015.0 mb)
Winds:from the W (260 degrees) at 9 MPH (8 knots; 4.1 m/s)
Visibility:6 or more sm (10+ km)
Ceiling:at least 12,000 feet AGL
Clouds:sky clear below 12,000 feet AGL
METAR for:YBMA (Mount Isa Arpt, QL, AU)
Text:YBMA 200600Z AUTO 17011KT 9999 // NCD 26/M03 Q1019 RF00.0/000.0
Conditions at:0600 UTC 20 Jul 2024
Temperature: 26.0°C ( 79°F)
Dewpoint: -3.0°C ( 27°F) [RH = 15%]
Pressure (altimeter):30.09 inches Hg (1019.0 mb)
Winds:from the S (170 degrees) at 13 MPH (11 knots; 5.7 m/s)
Visibility:6 or more sm (10+ km)
Ceiling:at least 12,000 feet AGL
Clouds:sky clear below 12,000 feet AGL
METAR for:YBLN (Busselton Rgnl, WA, AU)
Text:YBLN 200600Z AUTO 29016KT 9999 -SHRA FEW031 BKN067 BKN077 16/12 Q1019
Conditions at:0600 UTC 20 Jul 2024
Temperature: 16.0°C ( 61°F)
Dewpoint: 12.0°C ( 54°F) [RH = 77%]
Pressure (altimeter):30.09 inches Hg (1019.0 mb)
Winds:from the WNW (290 degrees) at 18 MPH (16 knots; 8.2 m/s)
Visibility:6 or more sm (10+ km)
Ceiling:6700 feet AGL
Clouds:few clouds at 3100 feet AGL, broken clouds at 6700 feet AGL, broken clouds at 7700 feet AGL
Weather:-SHRA (light rain showers)
TAF for:YBLN (Busselton Rgnl, WA, AU) issued at 0521 UTC 20 Jul 2024
Text:TAF YBLN 200521Z 2006/2106 29014KT 9999 -SHRA BKN040
Forecast period:0600 UTC 20 July 2024 to 0300 UTC 21 July 2024
Forecast type:FROM: standard forecast or significant change
Winds:from the WNW (290 degrees) at 16 MPH (14 knots; 7.2 m/s)
Visibility:6 or more sm (10+ km)
Ceiling:4000 feet AGL
Clouds:broken clouds at 4000 feet AGL
Weather:-SHRA (light rain showers)
Text:FM210300 30015G25KT 9999 -SHRA SCT040
Forecast period:0300 to 0600 UTC 21 July 2024
Forecast type:FROM: standard forecast or significant change
Winds:from the WNW (300 degrees) at 17 MPH (15 knots; 7.7 m/s) gusting to 29 MPH (25 knots; 12.9 m/s)
Visibility:6 or more sm (10+ km)
Ceiling:at least 12,000 feet AGL
Clouds:scattered clouds at 4000 feet AGL
Weather:-SHRA (light rain showers)
Text:INTER 2006/2012 27018G30KT 5000 SHRA SCT015 BKN025
Forecast period:0600 to 1200 UTC 20 July 2024
Forecast type:TEMPORARY: The following changes expected for less than half the time period
Winds:from the W (270 degrees) at 21 MPH (18 knots; 9.3 m/s) gusting to 34 MPH (30 knots; 15.4 m/s)
Visibility:3 sm (5 km)
Ceiling:2500 feet AGL
Clouds:scattered clouds at 1500 feet AGL, broken clouds at 2500 feet AGL
Weather:SHRA (rain showers)
METAR for:YBHM (Hamilton Island Arpt, QL, AU)
Text:YBHM 200600Z AUTO 32008KT 9999 // NCD 22/11 Q1017 RF00.0/000.0
Conditions at:0600 UTC 20 Jul 2024
Temperature: 22.0°C ( 72°F)
Dewpoint: 11.0°C ( 52°F) [RH = 50%]
Pressure (altimeter):30.03 inches Hg (1017.0 mb)
Winds:from the NW (320 degrees) at 9 MPH (8 knots; 4.1 m/s)
Visibility:6 or more sm (10+ km)
Ceiling:at least 12,000 feet AGL
Clouds:sky clear below 12,000 feet AGL
METAR for:YBCS (Cairns Intl, QL, AU)
Text:YBCS 200600Z AUTO 06008KT 9999 // NCD 24/15 Q1016 RF00.0/000.0
Conditions at:0600 UTC 20 Jul 2024
Temperature: 24.0°C ( 75°F)
Dewpoint: 15.0°C ( 59°F) [RH = 57%]
Pressure (altimeter):30.00 inches Hg (1016.0 mb)
Winds:from the ENE (60 degrees) at 9 MPH (8 knots; 4.1 m/s)
Visibility:6 or more sm (10+ km)
Ceiling:at least 12,000 feet AGL
Clouds:sky clear below 12,000 feet AGL
TAF for:YBCS (Cairns Intl, QL, AU) issued at 0524 UTC 20 Jul 2024
Text:TAF YBCS 200524Z 2006/2106 06010KT 9999 FEW050
Forecast period:0600 to 0900 UTC 20 July 2024
Forecast type:FROM: standard forecast or significant change
Winds:from the ENE (60 degrees) at 12 MPH (10 knots; 5.1 m/s)
Visibility:6 or more sm (10+ km)
Ceiling:at least 12,000 feet AGL
Clouds:few clouds at 5000 feet AGL
Text:FM200900 18005KT CAVOK
Forecast period:0900 UTC 20 July 2024 to 0000 UTC 21 July 2024
Forecast type:FROM: standard forecast or significant change
Winds:from the S (180 degrees) at 6 MPH (5 knots; 2.6 m/s)
Visibility:6 or more sm (10+ km)
Clouds:missing
Weather:NSW (no significant weather)
Text:FM210000 12010KT CAVOK
Forecast period:0000 to 0600 UTC 21 July 2024
Forecast type:FROM: standard forecast or significant change
Winds:from the ESE (120 degrees) at 12 MPH (10 knots; 5.1 m/s)
Visibility:6 or more sm (10+ km)
Clouds:missing
Weather:NSW (no significant weather)
METAR for:YBCG (Coolangatta/Gold Coast Arpt, QL, AU)
Text:YBCG 200600Z AUTO 30009KT 9999 // NCD 23/03 Q1010 RF00.0/000.0
Conditions at:0600 UTC 20 Jul 2024
Temperature: 23.0°C ( 73°F)
Dewpoint: 3.0°C ( 37°F) [RH = 27%]
Pressure (altimeter):29.82 inches Hg (1010.0 mb)
Winds:from the WNW (300 degrees) at 10 MPH (9 knots; 4.6 m/s)
Visibility:6 or more sm (10+ km)
Ceiling:at least 12,000 feet AGL
Clouds:sky clear below 12,000 feet AGL
METAR for:YBBN (Brisbane Intl, QL, AU)
Text:YBBN 200600Z 27015KT CAVOK 23/01 Q1012
Conditions at:0600 UTC 20 Jul 2024
Temperature: 23.0°C ( 73°F)
Dewpoint: 1.0°C ( 34°F) [RH = 23%]
Pressure (altimeter):29.88 inches Hg (1012.0 mb)
Winds:from the W (270 degrees) at 17 MPH (15 knots; 7.7 m/s)
Visibility:6 or more sm (10+ km)
Ceiling:ceiling and visibility are OK
Clouds:unknown
METAR for:YBAS (Alice Springs Arpt, NT, AU)
Text:YBAS 200600Z AUTO 13009KT 9999 // NCD 17/M03 Q1023 RF00.0/000.0
Conditions at:0600 UTC 20 Jul 2024
Temperature: 17.0°C ( 63°F)
Dewpoint: -3.0°C ( 27°F) [RH = 25%]
Pressure (altimeter):30.21 inches Hg (1023.0 mb)
Winds:from the SE (130 degrees) at 10 MPH (9 knots; 4.6 m/s)
Visibility:6 or more sm (10+ km)
Ceiling:at least 12,000 feet AGL
Clouds:sky clear below 12,000 feet AGL
METAR for:YAMB (Amberly(RAAF), QL, AU)
Text:YAMB 200600Z AUTO 29017KT 9999 // NCD 23/02 Q1011 RF00.0/000.0
Conditions at:0600 UTC 20 Jul 2024
Temperature: 23.0°C ( 73°F)
Dewpoint: 2.0°C ( 36°F) [RH = 25%]
Pressure (altimeter):29.85 inches Hg (1011.0 mb)
Winds:from the WNW (290 degrees) at 20 MPH (17 knots; 8.7 m/s)
Visibility:6 or more sm (10+ km)
Ceiling:at least 12,000 feet AGL
Clouds:sky clear below 12,000 feet AGL
METAR for:WSSS (Singapore/Changi Intl, 4, SG)
Text:WSSS 200600Z 18013KT 9999 FEW020 BKN300 33/25 Q1009 NOSIG
Conditions at:0600 UTC 20 Jul 2024
Temperature: 33.0°C ( 91°F)
Dewpoint: 25.0°C ( 77°F) [RH = 63%]
Pressure (altimeter):29.79 inches Hg (1009.0 mb)
Winds:from the S (180 degrees) at 15 MPH (13 knots; 6.7 m/s)
Visibility:6 or more sm (10+ km)
Ceiling:30000 feet AGL
Clouds:few clouds at 2000 feet AGL, broken clouds at 30000 feet AGL
METAR for:WSSL (Singapore/Seletar Arpt, 2, SG)
Text:WSSL 200600Z 19011KT 150V210 9999 FEW020 BKN300 33/24 Q1009
Conditions at:0600 UTC 20 Jul 2024
Temperature: 33.0°C ( 91°F)
Dewpoint: 24.0°C ( 75°F) [RH = 59%]
Pressure (altimeter):29.79 inches Hg (1009.0 mb)
Winds:from the S (190 degrees) at 13 MPH (11 knots; 5.7 m/s)
Visibility:6 or more sm (10+ km)
Ceiling:30000 feet AGL
Clouds:few clouds at 2000 feet AGL, broken clouds at 30000 feet AGL
METAR for:WSAP (Singapore/Pays(AB), 4, SG)
Text:WSAP 200600Z 15011KT 9999 FEW020 BKN300 33/23 Q1010
Conditions at:0600 UTC 20 Jul 2024
Temperature: 33.0°C ( 91°F)
Dewpoint: 23.0°C ( 73°F) [RH = 56%]
Pressure (altimeter):29.82 inches Hg (1010.0 mb)
Winds:from the SSE (150 degrees) at 13 MPH (11 knots; 5.7 m/s)
Visibility:6 or more sm (10+ km)
Ceiling:30000 feet AGL
Clouds:few clouds at 2000 feet AGL, broken clouds at 30000 feet AGL
METAR for:WMSA (Kuala Lumpur/Shah Arpt, SL, MY)
Text:WMSA 200600Z 16009KT 100V210 9999 FEW018 34/24 Q1009
Conditions at:0600 UTC 20 Jul 2024
Temperature: 34.0°C ( 93°F)
Dewpoint: 24.0°C ( 75°F) [RH = 56%]
Pressure (altimeter):29.79 inches Hg (1009.0 mb)
Winds:from the SSE (160 degrees) at 10 MPH (9 knots; 4.6 m/s)
Visibility:6 or more sm (10+ km)
Ceiling:at least 12,000 feet AGL
Clouds:few clouds at 1800 feet AGL
METAR for:WMKP (Penang Intl, 7, MY)
Text:WMKP 200600Z 18010KT 150V240 7000 FEW020 32/25 Q1008 NOSIG
Conditions at:0600 UTC 20 Jul 2024
Temperature: 32.0°C ( 90°F)
Dewpoint: 25.0°C ( 77°F) [RH = 67%]
Pressure (altimeter):29.76 inches Hg (1008.0 mb)
Winds:from the S (180 degrees) at 12 MPH (10 knots; 5.1 m/s)
Visibility:4 sm (7 km)
Ceiling:at least 12,000 feet AGL
Clouds:few clouds at 2000 feet AGL
METAR for:WMKN (Kuala Terengganu Arpt, TF, MY)
Text:WMKN 200600Z VRB05KT 9999 FEW018 33/27 Q1008
Conditions at:0600 UTC 20 Jul 2024
Temperature: 33.0°C ( 91°F)
Dewpoint: 27.0°C ( 81°F) [RH = 71%]
Pressure (altimeter):29.76 inches Hg (1008.0 mb)
Winds:variable direction winds at 6 MPH (5 knots; 2.6 m/s)
Visibility:6 or more sm (10+ km)
Ceiling:at least 12,000 feet AGL
Clouds:few clouds at 1800 feet AGL
METAR for:WMKM (Malacca Arpt, ML, MY)
Text:WMKM 200600Z 14007KT 070V220 9999 SCT020 31/26 Q1010
Conditions at:0600 UTC 20 Jul 2024
Temperature: 31.0°C ( 88°F)
Dewpoint: 26.0°C ( 79°F) [RH = 75%]
Pressure (altimeter):29.82 inches Hg (1010.0 mb)
Winds:from the SE (140 degrees) at 8 MPH (7 knots; 3.6 m/s)
Visibility:6 or more sm (10+ km)
Ceiling:at least 12,000 feet AGL
Clouds:scattered clouds at 2000 feet AGL
METAR for:WMKL (Langkawi Arpt, PS, MY)
Text:WMKL 200600Z 16007KT 100V230 9000 FEW020 32/27 Q1009
Conditions at:0600 UTC 20 Jul 2024
Temperature: 32.0°C ( 90°F)
Dewpoint: 27.0°C ( 81°F) [RH = 75%]
Pressure (altimeter):29.79 inches Hg (1009.0 mb)
Winds:from the SSE (160 degrees) at 8 MPH (7 knots; 3.6 m/s)
Visibility:6 sm (9 km)
Ceiling:at least 12,000 feet AGL
Clouds:few clouds at 2000 feet AGL
METAR for:WMKK (Kuala Lumpur Intl, SL, MY)
Text:WMKK 200600Z VRB05KT 9000 FEW017CB SCT018 32/26 Q1009 NOSIG
Conditions at:0600 UTC 20 Jul 2024
Temperature: 32.0°C ( 90°F)
Dewpoint: 26.0°C ( 79°F) [RH = 71%]
Pressure (altimeter):29.79 inches Hg (1009.0 mb)
Winds:variable direction winds at 6 MPH (5 knots; 2.6 m/s)
Visibility:6 sm (9 km)
Ceiling:at least 12,000 feet AGL
Clouds:few clouds at 1700 feet AGL, scattered clouds at 1800 feet AGL
METAR for:WMKJ (Johore Bharu/Senai Arpt, JH, MY)
Text:WMKJ 200600Z 18008KT 080V250 9999 SCT018 34/25 Q1009
Conditions at:0600 UTC 20 Jul 2024
Temperature: 34.0°C ( 93°F)
Dewpoint: 25.0°C ( 77°F) [RH = 60%]
Pressure (altimeter):29.79 inches Hg (1009.0 mb)
Winds:from the S (180 degrees) at 9 MPH (8 knots; 4.1 m/s)
Visibility:6 or more sm (10+ km)
Ceiling:at least 12,000 feet AGL
Clouds:scattered clouds at 1800 feet AGL
METAR for:WMKI (Ipoh/Azlan Shah Arpt, PK, MY)
Text:WMKI 200600Z 21008KT 160V290 9000 FEW020 34/24 Q1009
Conditions at:0600 UTC 20 Jul 2024
Temperature: 34.0°C ( 93°F)
Dewpoint: 24.0°C ( 75°F) [RH = 56%]
Pressure (altimeter):29.79 inches Hg (1009.0 mb)
Winds:from the SSW (210 degrees) at 9 MPH (8 knots; 4.1 m/s)
Visibility:6 sm (9 km)
Ceiling:at least 12,000 feet AGL
Clouds:few clouds at 2000 feet AGL
METAR for:WMKE (Kerteh Arpt, TR, MY)
Text:WMKE 200600Z VRB07KT 9999 FEW017 32/25 Q1008
Conditions at:0600 UTC 20 Jul 2024
Temperature: 32.0°C ( 90°F)
Dewpoint: 25.0°C ( 77°F) [RH = 67%]
Pressure (altimeter):29.76 inches Hg (1008.0 mb)
Winds:variable direction winds at 8 MPH (7 knots; 3.6 m/s)
Visibility:6 or more sm (10+ km)
Ceiling:at least 12,000 feet AGL
Clouds:few clouds at 1700 feet AGL
METAR for:WMKD (Kuantan Arpt, PH, MY)
Text:WMKD 200600Z 21006KT 130V240 9999 FEW019 33/24 Q1009 NOSIG
Conditions at:0600 UTC 20 Jul 2024
Temperature: 33.0°C ( 91°F)
Dewpoint: 24.0°C ( 75°F) [RH = 59%]
Pressure (altimeter):29.79 inches Hg (1009.0 mb)
Winds:from the SSW (210 degrees) at 7 MPH (6 knots; 3.1 m/s)
Visibility:6 or more sm (10+ km)
Ceiling:at least 12,000 feet AGL
Clouds:few clouds at 1900 feet AGL
METAR for:WMKC (Kota Bharu Arpt, KN, MY)
Text:WMKC 200600Z 07005KT 9999 FEW018 32/25 Q1008
Conditions at:0600 UTC 20 Jul 2024
Temperature: 32.0°C ( 90°F)
Dewpoint: 25.0°C ( 77°F) [RH = 67%]
Pressure (altimeter):29.76 inches Hg (1008.0 mb)
Winds:from the ENE (70 degrees) at 6 MPH (5 knots; 2.6 m/s)
Visibility:6 or more sm (10+ km)
Ceiling:at least 12,000 feet AGL
Clouds:few clouds at 1800 feet AGL
METAR for:WMKB (Butterworth Arpt, 7, MY)
Text:WMKB 200600Z 22008KT 160V270 8000 FEW020 32/27 Q1008 NOSIG
Conditions at:0600 UTC 20 Jul 2024
Temperature: 32.0°C ( 90°F)
Dewpoint: 27.0°C ( 81°F) [RH = 75%]
Pressure (altimeter):29.76 inches Hg (1008.0 mb)
Winds:from the SW (220 degrees) at 9 MPH (8 knots; 4.1 m/s)
Visibility:5 sm (8 km)
Ceiling:at least 12,000 feet AGL
Clouds:few clouds at 2000 feet AGL
METAR for:WMKA (Alor Setar/Halim Arpt, KD, MY)
Text:WMKA 200600Z 15006KT 100V210 8000 FEW020 33/25 Q1008
Conditions at:0600 UTC 20 Jul 2024
Temperature: 33.0°C ( 91°F)
Dewpoint: 25.0°C ( 77°F) [RH = 63%]
Pressure (altimeter):29.76 inches Hg (1008.0 mb)
Winds:from the SSE (150 degrees) at 7 MPH (6 knots; 3.1 m/s)
Visibility:5 sm (8 km)
Ceiling:at least 12,000 feet AGL
Clouds:few clouds at 2000 feet AGL
METAR for:WMBA (Sitiawan Arpt, PK, MY)
Text:WMBA 200600Z VRB06KT 9999 FEW020 34/25 Q1009
Conditions at:0600 UTC 20 Jul 2024
Temperature: 34.0°C ( 93°F)
Dewpoint: 25.0°C ( 77°F) [RH = 60%]
Pressure (altimeter):29.79 inches Hg (1009.0 mb)
Winds:variable direction winds at 7 MPH (6 knots; 3.1 m/s)
Visibility:6 or more sm (10+ km)
Ceiling:at least 12,000 feet AGL
Clouds:few clouds at 2000 feet AGL
METAR for:WMAU (Mersing Arpt, JH, MY)
Text:WMAU 200600Z 11008KT 050V150 9999 SCT020 33/28 Q1009
Conditions at:0600 UTC 20 Jul 2024
Temperature: 33.0°C ( 91°F)
Dewpoint: 28.0°C ( 82°F) [RH = 75%]
Pressure (altimeter):29.79 inches Hg (1009.0 mb)
Winds:from the ESE (110 degrees) at 9 MPH (8 knots; 4.1 m/s)
Visibility:6 or more sm (10+ km)
Ceiling:at least 12,000 feet AGL
Clouds:scattered clouds at 2000 feet AGL
METAR for:WIPP (Palembang/Badaruddin Arpt, SS, ID)
Text:WIPP 200600Z 13007KT 100V200 9999 SCT012 32/23 Q1009 NOSIG
Conditions at:0600 UTC 20 Jul 2024
Temperature: 32.0°C ( 90°F)
Dewpoint: 23.0°C ( 73°F) [RH = 59%]
Pressure (altimeter):29.79 inches Hg (1009.0 mb)
Winds:from the SE (130 degrees) at 8 MPH (7 knots; 3.6 m/s)
Visibility:6 or more sm (10+ km)
Ceiling:at least 12,000 feet AGL
Clouds:scattered clouds at 1200 feet AGL
METAR for:WIOO (Pontianak/Supadio Arpt, KB, ID)
Text:WIOO 200600Z 20002KT 9999 BKN012 33/25 Q1008 NOSIG
Conditions at:0600 UTC 20 Jul 2024
Temperature: 33.0°C ( 91°F)
Dewpoint: 25.0°C ( 77°F) [RH = 63%]
Pressure (altimeter):29.76 inches Hg (1008.0 mb)
Winds:from the SSW (200 degrees) at 2 MPH (2 knots; 1.0 m/s)
Visibility:6 or more sm (10+ km)
Ceiling:1200 feet AGL
Clouds:broken clouds at 1200 feet AGL
METAR for:WIMM (Medan/Kualanamu Intl, SU, ID)
Text:WIMM 200600Z 09007KT 9999 SCT018 32/24 Q1008 NOSIG
Conditions at:0600 UTC 20 Jul 2024
Temperature: 32.0°C ( 90°F)
Dewpoint: 24.0°C ( 75°F) [RH = 63%]
Pressure (altimeter):29.76 inches Hg (1008.0 mb)
Winds:from the E (90 degrees) at 8 MPH (7 knots; 3.6 m/s)
Visibility:6 or more sm (10+ km)
Ceiling:at least 12,000 feet AGL
Clouds:scattered clouds at 1800 feet AGL
METAR for:WILL (Bandar Lampung Intl, SS, ID)
Text:WILL 200600Z 08005KT 9999 FEW018 32/24 Q1010 NOSIG
Conditions at:0600 UTC 20 Jul 2024
Temperature: 32.0°C ( 90°F)
Dewpoint: 24.0°C ( 75°F) [RH = 63%]
Pressure (altimeter):29.82 inches Hg (1010.0 mb)
Winds:from the E (80 degrees) at 6 MPH (5 knots; 2.6 m/s)
Visibility:6 or more sm (10+ km)
Ceiling:at least 12,000 feet AGL
Clouds:few clouds at 1800 feet AGL
METAR for:WIII (Jakarta/Hatta Intl, JB, ID)
Text:WIII 200600Z 03009KT 9999 FEW020 33/21 Q1010 NOSIG
Conditions at:0600 UTC 20 Jul 2024
Temperature: 33.0°C ( 91°F)
Dewpoint: 21.0°C ( 70°F) [RH = 49%]
Pressure (altimeter):29.82 inches Hg (1010.0 mb)
Winds:from the NNE (30 degrees) at 10 MPH (9 knots; 4.6 m/s)
Visibility:6 or more sm (10+ km)
Ceiling:at least 12,000 feet AGL
Clouds:few clouds at 2000 feet AGL
METAR for:WIHH (Jakarta/Perdanakusum, JK, ID)
Text:WIHH 200600Z 07010KT 7000 SCT020 33/20 Q1009 NOSIG METAR
Conditions at:0600 UTC 20 Jul 2024
Temperature: 33.0°C ( 91°F)
Dewpoint: 20.0°C ( 68°F) [RH = 46%]
Pressure (altimeter):29.79 inches Hg (1009.0 mb)
Winds:from the ENE (70 degrees) at 12 MPH (10 knots; 5.1 m/s)
Visibility:4 sm (7 km)
Ceiling:at least 12,000 feet AGL
Clouds:scattered clouds at 2000 feet AGL
METAR for:WIEE (Padang/Minangkabau Intl, SB, ID)
Text:WIEE 200600Z 21005KT 150V270 9999 FEW020 32/26 Q1010 NOSIG
Conditions at:0600 UTC 20 Jul 2024
Temperature: 32.0°C ( 90°F)
Dewpoint: 26.0°C ( 79°F) [RH = 71%]
Pressure (altimeter):29.82 inches Hg (1010.0 mb)
Winds:from the SSW (210 degrees) at 6 MPH (5 knots; 2.6 m/s)
Visibility:6 or more sm (10+ km)
Ceiling:at least 12,000 feet AGL
Clouds:few clouds at 2000 feet AGL
METAR for:WIDD (Batam/Hang Nadim, RI, ID)
Text:WIDD 200600Z 18009KT 9999 SCT014 32/24 Q1010 NOSIG
Conditions at:0600 UTC 20 Jul 2024
Temperature: 32.0°C ( 90°F)
Dewpoint: 24.0°C ( 75°F) [RH = 63%]
Pressure (altimeter):29.82 inches Hg (1010.0 mb)
Winds:from the S (180 degrees) at 10 MPH (9 knots; 4.6 m/s)
Visibility:6 or more sm (10+ km)
Ceiling:at least 12,000 feet AGL
Clouds:scattered clouds at 1400 feet AGL
METAR for:WIBB (Pakanbaru/Kasim Arpt, RI, ID)
Text:WIBB 200600Z 18009KT 9999 SCT014 33/24 Q1008 NOSIG
Conditions at:0600 UTC 20 Jul 2024
Temperature: 33.0°C ( 91°F)
Dewpoint: 24.0°C ( 75°F) [RH = 59%]
Pressure (altimeter):29.76 inches Hg (1008.0 mb)
Winds:from the S (180 degrees) at 10 MPH (9 knots; 4.6 m/s)
Visibility:6 or more sm (10+ km)
Ceiling:at least 12,000 feet AGL
Clouds:scattered clouds at 1400 feet AGL
METAR for:WBSB (Brunei Intl, BM, BN)
Text:WBSB 200600Z 21004KT 9999 FEW016 BKN300 35/23 Q1008 NOSIG
Conditions at:0600 UTC 20 Jul 2024
Temperature: 35.0°C ( 95°F)
Dewpoint: 23.0°C ( 73°F) [RH = 50%]
Pressure (altimeter):29.76 inches Hg (1008.0 mb)
Winds:from the SSW (210 degrees) at 5 MPH (4 knots; 2.1 m/s)
Visibility:6 or more sm (10+ km)
Ceiling:30000 feet AGL
Clouds:few clouds at 1600 feet AGL, broken clouds at 30000 feet AGL
METAR for:WBKW (Tawau Arpt, SB, MY)
Text:WBKW 200600Z VRB07KT 9999 FEW016 31/25 Q1009
Conditions at:0600 UTC 20 Jul 2024
Temperature: 31.0°C ( 88°F)
Dewpoint: 25.0°C ( 77°F) [RH = 71%]
Pressure (altimeter):29.79 inches Hg (1009.0 mb)
Winds:variable direction winds at 8 MPH (7 knots; 3.6 m/s)
Visibility:6 or more sm (10+ km)
Ceiling:at least 12,000 feet AGL
Clouds:few clouds at 1600 feet AGL
METAR for:WBKT (Kudat Arpt, SB, MY)
Text:WBKT 200600Z 27010KT 210V320 9999 FEW015 33/23 Q1008
Conditions at:0600 UTC 20 Jul 2024
Temperature: 33.0°C ( 91°F)
Dewpoint: 23.0°C ( 73°F) [RH = 56%]
Pressure (altimeter):29.76 inches Hg (1008.0 mb)
Winds:from the W (270 degrees) at 12 MPH (10 knots; 5.1 m/s)
Visibility:6 or more sm (10+ km)
Ceiling:at least 12,000 feet AGL
Clouds:few clouds at 1500 feet AGL
METAR for:WBKS (Sandakan Arpt, SB, MY)
Text:WBKS 200600Z VRB04KT 9999 FEW016 34/24 Q1007
Conditions at:0600 UTC 20 Jul 2024
Temperature: 34.0°C ( 93°F)
Dewpoint: 24.0°C ( 75°F) [RH = 56%]
Pressure (altimeter):29.73 inches Hg (1007.0 mb)
Winds:variable direction winds at 5 MPH (4 knots; 2.1 m/s)
Visibility:6 or more sm (10+ km)
Ceiling:at least 12,000 feet AGL
Clouds:few clouds at 1600 feet AGL
METAR for:WBKL (Labuan Intl, SB, MY)
Text:WBKL 200600Z 21003KT 180V320 9999 FEW013 32/23 Q1008
Conditions at:0600 UTC 20 Jul 2024
Temperature: 32.0°C ( 90°F)
Dewpoint: 23.0°C ( 73°F) [RH = 59%]
Pressure (altimeter):29.76 inches Hg (1008.0 mb)
Winds:from the SSW (210 degrees) at 3 MPH (3 knots; 1.5 m/s)
Visibility:6 or more sm (10+ km)
Ceiling:at least 12,000 feet AGL
Clouds:few clouds at 1300 feet AGL
METAR for:WBKK (Kota Kinabalu Intl, SB, MY)
Text:WBKK 200600Z 25004KT 170V340 9999 FEW014 32/25 Q1008 NOSIG
Conditions at:0600 UTC 20 Jul 2024
Temperature: 32.0°C ( 90°F)
Dewpoint: 25.0°C ( 77°F) [RH = 67%]
Pressure (altimeter):29.76 inches Hg (1008.0 mb)
Winds:from the WSW (250 degrees) at 5 MPH (4 knots; 2.1 m/s)
Visibility:6 or more sm (10+ km)
Ceiling:at least 12,000 feet AGL
Clouds:few clouds at 1400 feet AGL
METAR for:WBGY (Sri Aman, SB, MY)
Text:WBGY 200600Z VRB03KT 9999 SCT022 34/26 Q1007
Conditions at:0600 UTC 20 Jul 2024
Temperature: 34.0°C ( 93°F)
Dewpoint: 26.0°C ( 79°F) [RH = 63%]
Pressure (altimeter):29.73 inches Hg (1007.0 mb)
Winds:variable direction winds at 3 MPH (3 knots; 1.5 m/s)
Visibility:6 or more sm (10+ km)
Ceiling:at least 12,000 feet AGL
Clouds:scattered clouds at 2200 feet AGL
METAR for:WBGS (Sibu Arpt, SR, MY)
Text:WBGS 200600Z VRB02KT 9999 FEW018 33/24 Q1007
Conditions at:0600 UTC 20 Jul 2024
Temperature: 33.0°C ( 91°F)
Dewpoint: 24.0°C ( 75°F) [RH = 59%]
Pressure (altimeter):29.73 inches Hg (1007.0 mb)
Winds:variable direction winds at 2 MPH (2 knots; 1.0 m/s)
Visibility:6 or more sm (10+ km)
Ceiling:at least 12,000 feet AGL
Clouds:few clouds at 1800 feet AGL
METAR for:WBGR (Miri Arpt, SR, MY)
Text:WBGR 200600Z VRB02KT 9999 FEW016 33/23 Q1007
Conditions at:0600 UTC 20 Jul 2024
Temperature: 33.0°C ( 91°F)
Dewpoint: 23.0°C ( 73°F) [RH = 56%]
Pressure (altimeter):29.73 inches Hg (1007.0 mb)
Winds:variable direction winds at 2 MPH (2 knots; 1.0 m/s)
Visibility:6 or more sm (10+ km)
Ceiling:at least 12,000 feet AGL
Clouds:few clouds at 1600 feet AGL
METAR for:WBGG (Kuching Intl, SR, MY)
Text:WBGG 200600Z VRB03KT 9999 SCT020 33/26 Q1008 NOSIG
Conditions at:0600 UTC 20 Jul 2024
Temperature: 33.0°C ( 91°F)
Dewpoint: 26.0°C ( 79°F) [RH = 67%]
Pressure (altimeter):29.76 inches Hg (1008.0 mb)
Winds:variable direction winds at 3 MPH (3 knots; 1.5 m/s)
Visibility:6 or more sm (10+ km)
Ceiling:at least 12,000 feet AGL
Clouds:scattered clouds at 2000 feet AGL
METAR for:WBGB (Bintulu Arpt, SR, MY)
Text:WBGB 200600Z 00000KT 9999 FEW016 33/26 Q1007
Conditions at:0600 UTC 20 Jul 2024
Temperature: 33.0°C ( 91°F)
Dewpoint: 26.0°C ( 79°F) [RH = 67%]
Pressure (altimeter):29.73 inches Hg (1007.0 mb)
Winds:calm
Visibility:6 or more sm (10+ km)
Ceiling:at least 12,000 feet AGL
Clouds:few clouds at 1600 feet AGL
METAR for:WAYY (Timika/Mozes Kilangin Intl, PA, ID)
Text:WAYY 200600Z 12007KT 8000 BKN013 27/23 Q1012 NOSIG
Conditions at:0600 UTC 20 Jul 2024
Temperature: 27.0°C ( 81°F)
Dewpoint: 23.0°C ( 73°F) [RH = 79%]
Pressure (altimeter):29.88 inches Hg (1012.0 mb)
Winds:from the ESE (120 degrees) at 8 MPH (7 knots; 3.6 m/s)
Visibility:5 sm (8 km)
Ceiling:1300 feet AGL
Clouds:broken clouds at 1300 feet AGL
METAR for:WATT (Kupang/El Tari Arpt, NT, ID)
Text:WATT 200600Z 11012KT 090V150 9999 FEW020 31/18 Q1013 NOSIG
Conditions at:0600 UTC 20 Jul 2024
Temperature: 31.0°C ( 88°F)
Dewpoint: 18.0°C ( 64°F) [RH = 46%]
Pressure (altimeter):29.91 inches Hg (1013.0 mb)
Winds:from the ESE (110 degrees) at 14 MPH (12 knots; 6.2 m/s)
Visibility:6 or more sm (10+ km)
Ceiling:at least 12,000 feet AGL
Clouds:few clouds at 2000 feet AGL
METAR for:WARR (Surabaya/Juanda Intl, JI, ID)
Text:WARR 200600Z 06013KT 9999 FEW020 31/21 Q1010 NOSIG
Conditions at:0600 UTC 20 Jul 2024
Temperature: 31.0°C ( 88°F)
Dewpoint: 21.0°C ( 70°F) [RH = 55%]
Pressure (altimeter):29.82 inches Hg (1010.0 mb)
Winds:from the ENE (60 degrees) at 15 MPH (13 knots; 6.7 m/s)
Visibility:6 or more sm (10+ km)
Ceiling:at least 12,000 feet AGL
Clouds:few clouds at 2000 feet AGL
METAR for:WAQQ (Juwata Intl, KU, ID)
Text:WAQQ 200600Z VRB03KT 9999 FEW015 32/27 Q1008 NOSIG
Conditions at:0600 UTC 20 Jul 2024
Temperature: 32.0°C ( 90°F)
Dewpoint: 27.0°C ( 81°F) [RH = 75%]
Pressure (altimeter):29.76 inches Hg (1008.0 mb)
Winds:variable direction winds at 3 MPH (3 knots; 1.5 m/s)
Visibility:6 or more sm (10+ km)
Ceiling:at least 12,000 feet AGL
Clouds:few clouds at 1500 feet AGL
METAR for:WAPP (Ambon/Pattimura Arpt, MA, ID)
Text:WAPP 200600Z 13006KT 070V180 7000 -RA BKN016 26/23 Q1011 NOSIG
Conditions at:0600 UTC 20 Jul 2024
Temperature: 26.0°C ( 79°F)
Dewpoint: 23.0°C ( 73°F) [RH = 84%]
Pressure (altimeter):29.85 inches Hg (1011.0 mb)
Winds:from the SE (130 degrees) at 7 MPH (6 knots; 3.1 m/s)
Visibility:4 sm (7 km)
Ceiling:1600 feet AGL
Clouds:broken clouds at 1600 feet AGL
Weather:-RA (light rain)
METAR for:WAOO (Banjarmasin/Syamsudin Noor Arpt, KS, ID)
Text:WAOO 200600Z 10010KT 9999 FEW020 33/23 Q1008 NOSIG
Conditions at:0600 UTC 20 Jul 2024
Temperature: 33.0°C ( 91°F)
Dewpoint: 23.0°C ( 73°F) [RH = 56%]
Pressure (altimeter):29.76 inches Hg (1008.0 mb)
Winds:from the E (100 degrees) at 12 MPH (10 knots; 5.1 m/s)
Visibility:6 or more sm (10+ km)
Ceiling:at least 12,000 feet AGL
Clouds:few clouds at 2000 feet AGL
METAR for:WAMM (Manado/Ratulangi Intl, SA, ID)
Text:WAMM 200600Z 17013KT 140V200 9999 FEW021 32/22 Q1012 NOSIG METAR WIDN NIL
Conditions at:0600 UTC 20 Jul 2024
Temperature: 32.0°C ( 90°F)
Dewpoint: 22.0°C ( 72°F) [RH = 56%]
Pressure (altimeter):29.88 inches Hg (1012.0 mb)
Winds:from the S (170 degrees) at 15 MPH (13 knots; 6.7 m/s)
Visibility:6 or more sm (10+ km)
Ceiling:at least 12,000 feet AGL
Clouds:few clouds at 2100 feet AGL
METAR for:WALL (Sepinggan Intl, KI, ID)
Text:WALL 200600Z 25004KT 9999 BKN018 30/24 Q1009 NOSIG
Conditions at:0600 UTC 20 Jul 2024
Temperature: 30.0°C ( 86°F)
Dewpoint: 24.0°C ( 75°F) [RH = 70%]
Pressure (altimeter):29.79 inches Hg (1009.0 mb)
Winds:from the WSW (250 degrees) at 5 MPH (4 knots; 2.1 m/s)
Visibility:6 or more sm (10+ km)
Ceiling:1800 feet AGL
Clouds:broken clouds at 1800 feet AGL
METAR for:WAKK (Merauke/Mopah Arpt, PA, ID)
Text:WAKK 200600Z 13016KT 9999 BKN015 27/21 Q1012 NOSIG
Conditions at:0600 UTC 20 Jul 2024
Temperature: 27.0°C ( 81°F)
Dewpoint: 21.0°C ( 70°F) [RH = 70%]
Pressure (altimeter):29.88 inches Hg (1012.0 mb)
Winds:from the SE (130 degrees) at 18 MPH (16 knots; 8.2 m/s)
Visibility:6 or more sm (10+ km)
Ceiling:1500 feet AGL
Clouds:broken clouds at 1500 feet AGL
METAR for:WAJJ (Jayapura/Sentani Arpt, PA, ID)
Text:WAJJ 200600Z 10009KT 9999 FEW013 30/24 Q1008
Conditions at:0600 UTC 20 Jul 2024
Temperature: 30.0°C ( 86°F)
Dewpoint: 24.0°C ( 75°F) [RH = 70%]
Pressure (altimeter):29.76 inches Hg (1008.0 mb)
Winds:from the E (100 degrees) at 10 MPH (9 knots; 4.6 m/s)
Visibility:6 or more sm (10+ km)
Ceiling:at least 12,000 feet AGL
Clouds:few clouds at 1300 feet AGL
METAR for:WAHS (Semarang/Uani Arpt, JT, ID)
Text:WAHS 200600Z 10003KT 8000 FEW014 34/18 Q1009 NOSIG
Conditions at:0600 UTC 20 Jul 2024
Temperature: 34.0°C ( 93°F)
Dewpoint: 18.0°C ( 64°F) [RH = 39%]
Pressure (altimeter):29.79 inches Hg (1009.0 mb)
Winds:from the E (100 degrees) at 3 MPH (3 knots; 1.5 m/s)
Visibility:5 sm (8 km)
Ceiling:at least 12,000 feet AGL
Clouds:few clouds at 1400 feet AGL
METAR for:WADL (Lombok Intl, NB, ID)
Text:WADL 200600Z 13011KT 080V170 9999 SCT016 30/20 Q1012 NOSIG
Conditions at:0600 UTC 20 Jul 2024
Temperature: 30.0°C ( 86°F)
Dewpoint: 20.0°C ( 68°F) [RH = 55%]
Pressure (altimeter):29.88 inches Hg (1012.0 mb)
Winds:from the SE (130 degrees) at 13 MPH (11 knots; 5.7 m/s)
Visibility:6 or more sm (10+ km)
Ceiling:at least 12,000 feet AGL
Clouds:scattered clouds at 1600 feet AGL
METAR for:WADD (Bali/Rai Intl, BA, ID)
Text:WADD 200600Z 13019KT 9999 FEW017 29/24 Q1012 NOSIG
Conditions at:0600 UTC 20 Jul 2024
Temperature: 29.0°C ( 84°F)
Dewpoint: 24.0°C ( 75°F) [RH = 74%]
Pressure (altimeter):29.88 inches Hg (1012.0 mb)
Winds:from the SE (130 degrees) at 22 MPH (19 knots; 9.8 m/s)
Visibility:6 or more sm (10+ km)
Ceiling:at least 12,000 feet AGL
Clouds:few clouds at 1700 feet AGL
METAR for:WABB (Biak/Kaisiepo Arpt, PA, ID)
Text:WABB 200600Z VRB02KT 9000 -RA SCT015 OVC090 26/24 Q1010 NOSIG
Conditions at:0600 UTC 20 Jul 2024
Temperature: 26.0°C ( 79°F)
Dewpoint: 24.0°C ( 75°F) [RH = 89%]
Pressure (altimeter):29.82 inches Hg (1010.0 mb)
Winds:variable direction winds at 2 MPH (2 knots; 1.0 m/s)
Visibility:6 sm (9 km)
Ceiling:9000 feet AGL
Clouds:scattered clouds at 1500 feet AGL, overcast cloud deck at 9000 feet AGL
Weather:-RA (light rain)
METAR for:WAAA (Makassar/Hasanuddin Intl, SN, ID)
Text:WAAA 200600Z 26009KT 220V290 9999 FEW020 32/15 Q1009 NOSIG
Conditions at:0600 UTC 20 Jul 2024
Temperature: 32.0°C ( 90°F)
Dewpoint: 15.0°C ( 59°F) [RH = 36%]
Pressure (altimeter):29.79 inches Hg (1009.0 mb)
Winds:from the W (260 degrees) at 10 MPH (9 knots; 4.6 m/s)
Visibility:6 or more sm (10+ km)
Ceiling:at least 12,000 feet AGL
Clouds:few clouds at 2000 feet AGL
METAR for:VYYY (Yangon Intl, 6, MM)
Text:VYYY 200600Z 23004KT 4000 RA BKN012 FEW016CB OVC090 28/27 Q1006
Conditions at:0600 UTC 20 Jul 2024
Temperature: 28.0°C ( 82°F)
Dewpoint: 27.0°C ( 81°F) [RH = 94%]
Pressure (altimeter):29.70 inches Hg (1006.0 mb)
Winds:from the SW (230 degrees) at 5 MPH (4 knots; 2.1 m/s)
Visibility:2.49 sm (4.01 km)
Ceiling:1200 feet AGL
Clouds:broken clouds at 1200 feet AGL, few clouds at 1600 feet AGL, overcast cloud deck at 9000 feet AGL
Weather:RA (moderate rain)
METAR for:VYNT (Naypyitaw Intl, 4, MM)
Text:VYNT 200600Z 15010KT 7000 BKN018 FEW022CB BKN110 30/25 Q1006
Conditions at:0600 UTC 20 Jul 2024
Temperature: 30.0°C ( 86°F)
Dewpoint: 25.0°C ( 77°F) [RH = 75%]
Pressure (altimeter):29.70 inches Hg (1006.0 mb)
Winds:from the SSE (150 degrees) at 12 MPH (10 knots; 5.1 m/s)
Visibility:4 sm (7 km)
Ceiling:1800 feet AGL
Clouds:broken clouds at 1800 feet AGL, few clouds at 2200 feet AGL, broken clouds at 11000 feet AGL
METAR for:VVVD (Van Don Intl, 21, VN)
Text:VVVD 200600Z AUTO 19005KT 150V220 9999 FEW018/// SCT034/// BKN042/// 30/27 Q1006 NOSIG
Conditions at:0600 UTC 20 Jul 2024
Temperature: 30.0°C ( 86°F)
Dewpoint: 27.0°C ( 81°F) [RH = 84%]
Pressure (altimeter):29.70 inches Hg (1006.0 mb)
Winds:from the S (190 degrees) at 6 MPH (5 knots; 2.6 m/s)
Visibility:6 or more sm (10+ km)
Ceiling:4200 feet AGL
Clouds:few clouds at 1800 feet AGL, scattered clouds at 3400 feet AGL, broken clouds at 4200 feet AGL
METAR for:VVTS (Ho Chi Minh/Nhat Intl, 23, VN)
Text:VVTS 200600Z 23013KT 9999 -RA SCT013 BKN022 BKN031 28/26 Q1008 NOSIG
Conditions at:0600 UTC 20 Jul 2024
Temperature: 28.0°C ( 82°F)
Dewpoint: 26.0°C ( 79°F) [RH = 89%]
Pressure (altimeter):29.76 inches Hg (1008.0 mb)
Winds:from the SW (230 degrees) at 15 MPH (13 knots; 6.7 m/s)
Visibility:6 or more sm (10+ km)
Ceiling:2200 feet AGL
Clouds:scattered clouds at 1300 feet AGL, broken clouds at 2200 feet AGL, broken clouds at 3100 feet AGL
Weather:-RA (light rain)
METAR for:VVPB (Huế/Phu Bai Arpt, BC, VN)
Text:VVPB 200600Z 06007KT 9999 FEW015 SCT050 33/25 Q1004 NOSIG
Conditions at:0600 UTC 20 Jul 2024
Temperature: 33.0°C ( 91°F)
Dewpoint: 25.0°C ( 77°F) [RH = 63%]
Pressure (altimeter):29.65 inches Hg (1004.0 mb)
Winds:from the ENE (60 degrees) at 8 MPH (7 knots; 3.6 m/s)
Visibility:6 or more sm (10+ km)
Ceiling:at least 12,000 feet AGL
Clouds:few clouds at 1500 feet AGL, scattered clouds at 5000 feet AGL
METAR for:VVNB (Hanoi/Noi Bai Intl, HI, VN)
Text:VVNB 200600Z 32004KT 280V010 9999 BKN028 31/27 Q1005 NOSIG
Conditions at:0600 UTC 20 Jul 2024
Temperature: 31.0°C ( 88°F)
Dewpoint: 27.0°C ( 81°F) [RH = 79%]
Pressure (altimeter):29.68 inches Hg (1005.0 mb)
Winds:from the NW (320 degrees) at 5 MPH (4 knots; 2.1 m/s)
Visibility:6 or more sm (10+ km)
Ceiling:2800 feet AGL
Clouds:broken clouds at 2800 feet AGL
METAR for:VVDN (Da Nang Intl, DN, VN)
Text:VVDN 200600Z 34005KT 310V020 9999 FEW015 33/23 Q1005 NOSIG
Conditions at:0600 UTC 20 Jul 2024
Temperature: 33.0°C ( 91°F)
Dewpoint: 23.0°C ( 73°F) [RH = 56%]
Pressure (altimeter):29.68 inches Hg (1005.0 mb)
Winds:from the NNW (340 degrees) at 6 MPH (5 knots; 2.6 m/s)
Visibility:6 or more sm (10+ km)
Ceiling:at least 12,000 feet AGL
Clouds:few clouds at 1500 feet AGL
METAR for:VVCT (Can Tho Intl, 2, VN)
Text:VVCT 200600Z 24008KT 9999 -RA BKN013 FEW015CB BKN050 25/25 Q1009 NOSIG
Conditions at:0600 UTC 20 Jul 2024
Temperature: 25.0°C ( 77°F)
Dewpoint: 25.0°C ( 77°F) [RH = 100%]
Pressure (altimeter):29.79 inches Hg (1009.0 mb)
Winds:from the WSW (240 degrees) at 9 MPH (8 knots; 4.1 m/s)
Visibility:6 or more sm (10+ km)
Ceiling:1300 feet AGL
Clouds:broken clouds at 1300 feet AGL, few clouds at 1500 feet AGL, broken clouds at 5000 feet AGL
Weather:-RA (light rain)
METAR for:VVCR (Cam Ranh Intl, BR, VN)
Text:VVCR 200600Z 09003KT 9999 FEW015 BKN060 28/25 Q1006 NOSIG
Conditions at:0600 UTC 20 Jul 2024
Temperature: 28.0°C ( 82°F)
Dewpoint: 25.0°C ( 77°F) [RH = 84%]
Pressure (altimeter):29.70 inches Hg (1006.0 mb)
Winds:from the E (90 degrees) at 3 MPH (3 knots; 1.5 m/s)
Visibility:6 or more sm (10+ km)
Ceiling:6000 feet AGL
Clouds:few clouds at 1500 feet AGL, broken clouds at 6000 feet AGL
METAR for:VVCI (Haiphong/Cat Bi Intl, HP, VN)
Text:VVCI 200600Z 13009KT 100V160 9999 FEW020 SCT024 31/26 Q1005 NOSIG
Conditions at:0600 UTC 20 Jul 2024
Temperature: 31.0°C ( 88°F)
Dewpoint: 26.0°C ( 79°F) [RH = 75%]
Pressure (altimeter):29.68 inches Hg (1005.0 mb)
Winds:from the SE (130 degrees) at 10 MPH (9 knots; 4.6 m/s)
Visibility:6 or more sm (10+ km)
Ceiling:at least 12,000 feet AGL
Clouds:few clouds at 2000 feet AGL, scattered clouds at 2400 feet AGL
METAR for:VTUW (Nakhon Phanom Arpt, 48, TH)
Text:VTUW 200600Z 02005KT 350V070 9999 -RA SCT030 28/27 Q1007 NOSIG
Conditions at:0600 UTC 20 Jul 2024
Temperature: 28.0°C ( 82°F)
Dewpoint: 27.0°C ( 81°F) [RH = 94%]
Pressure (altimeter):29.73 inches Hg (1007.0 mb)
Winds:from the NNE (20 degrees) at 6 MPH (5 knots; 2.6 m/s)
Visibility:6 or more sm (10+ km)
Ceiling:at least 12,000 feet AGL
Clouds:scattered clouds at 3000 feet AGL
Weather:-RA (light rain)
METAR for:VTUV (Roi Et Arpt, 45, TH)
Text:VTUV 200600Z 24007KT 200V280 9999 SCT025 31/26 Q1007 NOSIG
Conditions at:0600 UTC 20 Jul 2024
Temperature: 31.0°C ( 88°F)
Dewpoint: 26.0°C ( 79°F) [RH = 75%]
Pressure (altimeter):29.73 inches Hg (1007.0 mb)
Winds:from the WSW (240 degrees) at 8 MPH (7 knots; 3.6 m/s)
Visibility:6 or more sm (10+ km)
Ceiling:at least 12,000 feet AGL
Clouds:scattered clouds at 2500 feet AGL
METAR for:VTUU (Ubon Ratchathan Intl, 34, TH)
Text:VTUU 200600Z 27009KT 240V310 9999 BKN025 32/26 Q1007 NOSIG
Conditions at:0600 UTC 20 Jul 2024
Temperature: 32.0°C ( 90°F)
Dewpoint: 26.0°C ( 79°F) [RH = 71%]
Pressure (altimeter):29.73 inches Hg (1007.0 mb)
Winds:from the W (270 degrees) at 10 MPH (9 knots; 4.6 m/s)
Visibility:6 or more sm (10+ km)
Ceiling:2500 feet AGL
Clouds:broken clouds at 2500 feet AGL
METAR for:VTUQ (Nakhon Ratchasima Arpt, 30, TH)
Text:VTUQ 200600Z 26006KT 230V300 9999 BKN030 BKN100 33/24 Q1008 NOSIG
Conditions at:0600 UTC 20 Jul 2024
Temperature: 33.0°C ( 91°F)
Dewpoint: 24.0°C ( 75°F) [RH = 59%]
Pressure (altimeter):29.76 inches Hg (1008.0 mb)
Winds:from the W (260 degrees) at 7 MPH (6 knots; 3.1 m/s)
Visibility:6 or more sm (10+ km)
Ceiling:3000 feet AGL
Clouds:broken clouds at 3000 feet AGL, broken clouds at 10000 feet AGL
METAR for:VTUO (Buriram Arpt, 31, TH)
Text:VTUO 200600Z 26007KT 210V300 9999 VCSH FEW020TCU SCT030 32/24 Q1007 NOSIG
Conditions at:0600 UTC 20 Jul 2024
Temperature: 32.0°C ( 90°F)
Dewpoint: 24.0°C ( 75°F) [RH = 63%]
Pressure (altimeter):29.73 inches Hg (1007.0 mb)
Winds:from the W (260 degrees) at 8 MPH (7 knots; 3.6 m/s)
Visibility:6 or more sm (10+ km)
Ceiling:at least 12,000 feet AGL
Clouds:few clouds at 2000 feet AGL, scattered clouds at 3000 feet AGL
Weather:VCSH (showers in vicinity)
METAR for:VTUL (Loei Arpt, 42, TH)
Text:VTUL 200600Z 17003KT 100V210 9999 OVC030 31/26 Q1007 NOSIG
Conditions at:0600 UTC 20 Jul 2024
Temperature: 31.0°C ( 88°F)
Dewpoint: 26.0°C ( 79°F) [RH = 75%]
Pressure (altimeter):29.73 inches Hg (1007.0 mb)
Winds:from the S (170 degrees) at 3 MPH (3 knots; 1.5 m/s)
Visibility:6 or more sm (10+ km)
Ceiling:3000 feet AGL
Clouds:overcast cloud deck at 3000 feet AGL
METAR for:VTUK (Khon Kaen Arpt, 40, TH)
Text:VTUK 200600Z 23009KT 200V260 9999 BKN030 BKN060 31/25 Q1008 NOSIG
Conditions at:0600 UTC 20 Jul 2024
Temperature: 31.0°C ( 88°F)
Dewpoint: 25.0°C ( 77°F) [RH = 71%]
Pressure (altimeter):29.76 inches Hg (1008.0 mb)
Winds:from the SW (230 degrees) at 10 MPH (9 knots; 4.6 m/s)
Visibility:6 or more sm (10+ km)
Ceiling:3000 feet AGL
Clouds:broken clouds at 3000 feet AGL, broken clouds at 6000 feet AGL
METAR for:VTUI (Sakon Nakhon Arpt, 47, TH)
Text:VTUI 200600Z 27004KT 230V320 9999 SCT030 32/25 Q1006 NOSIG
Conditions at:0600 UTC 20 Jul 2024
Temperature: 32.0°C ( 90°F)
Dewpoint: 25.0°C ( 77°F) [RH = 67%]
Pressure (altimeter):29.70 inches Hg (1006.0 mb)
Winds:from the W (270 degrees) at 5 MPH (4 knots; 2.1 m/s)
Visibility:6 or more sm (10+ km)
Ceiling:at least 12,000 feet AGL
Clouds:scattered clouds at 3000 feet AGL
METAR for:VTUD (Udon Thani Arpt, 41, TH)
Text:VTUD 200600Z 26005KT 230V310 9999 SCT030 31/24 Q1007 NOSIG
Conditions at:0600 UTC 20 Jul 2024
Temperature: 31.0°C ( 88°F)
Dewpoint: 24.0°C ( 75°F) [RH = 66%]
Pressure (altimeter):29.73 inches Hg (1007.0 mb)
Winds:from the W (260 degrees) at 6 MPH (5 knots; 2.6 m/s)
Visibility:6 or more sm (10+ km)
Ceiling:at least 12,000 feet AGL
Clouds:scattered clouds at 3000 feet AGL
METAR for:VTSY (Yala/Betong Arpt, 95, TH)
Text:VTSY 200600Z 25005KT 220V280 9999 FEW030 31/23 Q1010 NOSIG
Conditions at:0600 UTC 20 Jul 2024
Temperature: 31.0°C ( 88°F)
Dewpoint: 23.0°C ( 73°F) [RH = 63%]
Pressure (altimeter):29.82 inches Hg (1010.0 mb)
Winds:from the WSW (250 degrees) at 6 MPH (5 knots; 2.6 m/s)
Visibility:6 or more sm (10+ km)
Ceiling:at least 12,000 feet AGL
Clouds:few clouds at 3000 feet AGL
METAR for:VTST (Trang Arpt, 92, TH)
Text:VTST 200600Z 21005KT 170V240 9999 VCSH SCT030 SCT050 31/26 Q1008 NOSIG
Conditions at:0600 UTC 20 Jul 2024
Temperature: 31.0°C ( 88°F)
Dewpoint: 26.0°C ( 79°F) [RH = 75%]
Pressure (altimeter):29.76 inches Hg (1008.0 mb)
Winds:from the SSW (210 degrees) at 6 MPH (5 knots; 2.6 m/s)
Visibility:6 or more sm (10+ km)
Ceiling:at least 12,000 feet AGL
Clouds:scattered clouds at 3000 feet AGL, scattered clouds at 5000 feet AGL
Weather:VCSH (showers in vicinity)
METAR for:VTSS (Hat Yai Intl, 90, TH)
Text:VTSS 200600Z 20009KT 170V240 9999 FEW020 SCT100 32/24 Q1008 NOSIG
Conditions at:0600 UTC 20 Jul 2024
Temperature: 32.0°C ( 90°F)
Dewpoint: 24.0°C ( 75°F) [RH = 63%]
Pressure (altimeter):29.76 inches Hg (1008.0 mb)
Winds:from the SSW (200 degrees) at 10 MPH (9 knots; 4.6 m/s)
Visibility:6 or more sm (10+ km)
Ceiling:at least 12,000 feet AGL
Clouds:few clouds at 2000 feet AGL, scattered clouds at 10000 feet AGL
METAR for:VTSR (Ranong Arpt, 85, TH)
Text:VTSR 200600Z 23006KT 170V260 9999 FEW025 33/25 Q1008 NOSIG
Conditions at:0600 UTC 20 Jul 2024
Temperature: 33.0°C ( 91°F)
Dewpoint: 25.0°C ( 77°F) [RH = 63%]
Pressure (altimeter):29.76 inches Hg (1008.0 mb)
Winds:from the SW (230 degrees) at 7 MPH (6 knots; 3.1 m/s)
Visibility:6 or more sm (10+ km)
Ceiling:at least 12,000 feet AGL
Clouds:few clouds at 2500 feet AGL
METAR for:VTSP (Phuket Intl, 83, TH)
Text:VTSP 200600Z 28006KT 230V340 9999 FEW020 34/24 Q1008 NOSIG
Conditions at:0600 UTC 20 Jul 2024
Temperature: 34.0°C ( 93°F)
Dewpoint: 24.0°C ( 75°F) [RH = 56%]
Pressure (altimeter):29.76 inches Hg (1008.0 mb)
Winds:from the W (280 degrees) at 7 MPH (6 knots; 3.1 m/s)
Visibility:6 or more sm (10+ km)
Ceiling:at least 12,000 feet AGL
Clouds:few clouds at 2000 feet AGL
METAR for:VTSM (Samui Intl, 80, TH)
Text:VTSM 200600Z 22004KT 170V270 9999 FEW020 33/24 Q1009 NOSIG
Conditions at:0600 UTC 20 Jul 2024
Temperature: 33.0°C ( 91°F)
Dewpoint: 24.0°C ( 75°F) [RH = 59%]
Pressure (altimeter):29.79 inches Hg (1009.0 mb)
Winds:from the SW (220 degrees) at 5 MPH (4 knots; 2.1 m/s)
Visibility:6 or more sm (10+ km)
Ceiling:at least 12,000 feet AGL
Clouds:few clouds at 2000 feet AGL
METAR for:VTSG (Krabi Arpt, 81, TH)
Text:VTSG 200600Z 18008KT 9999 SCT030 32/27 Q1009 NOSIG
Conditions at:0600 UTC 20 Jul 2024
Temperature: 32.0°C ( 90°F)
Dewpoint: 27.0°C ( 81°F) [RH = 75%]
Pressure (altimeter):29.79 inches Hg (1009.0 mb)
Winds:from the S (180 degrees) at 9 MPH (8 knots; 4.1 m/s)
Visibility:6 or more sm (10+ km)
Ceiling:at least 12,000 feet AGL
Clouds:scattered clouds at 3000 feet AGL
METAR for:VTSF (Nakhon Si Thammarat Arpt, 80, TH)
Text:VTSF 200600Z VRB02KT 9999 FEW020 32/26 Q1008 NOSIG
Conditions at:0600 UTC 20 Jul 2024
Temperature: 32.0°C ( 90°F)
Dewpoint: 26.0°C ( 79°F) [RH = 71%]
Pressure (altimeter):29.76 inches Hg (1008.0 mb)
Winds:variable direction winds at 2 MPH (2 knots; 1.0 m/s)
Visibility:6 or more sm (10+ km)
Ceiling:at least 12,000 feet AGL
Clouds:few clouds at 2000 feet AGL
METAR for:VTSE (Chumphon Arpt, 86, TH)
Text:VTSE 200600Z 24009KT 9999 FEW020 32/25 Q1008 NOSIG
Conditions at:0600 UTC 20 Jul 2024
Temperature: 32.0°C ( 90°F)
Dewpoint: 25.0°C ( 77°F) [RH = 67%]
Pressure (altimeter):29.76 inches Hg (1008.0 mb)
Winds:from the WSW (240 degrees) at 10 MPH (9 knots; 4.6 m/s)
Visibility:6 or more sm (10+ km)
Ceiling:at least 12,000 feet AGL
Clouds:few clouds at 2000 feet AGL
METAR for:VTSC (Narathiwat Arpt, 96, TH)
Text:VTSC 200600Z 05004KT 340V100 9999 FEW020 31/25 Q1009 NOSIG
Conditions at:0600 UTC 20 Jul 2024
Temperature: 31.0°C ( 88°F)
Dewpoint: 25.0°C ( 77°F) [RH = 71%]
Pressure (altimeter):29.79 inches Hg (1009.0 mb)
Winds:from the NE (50 degrees) at 5 MPH (4 knots; 2.1 m/s)
Visibility:6 or more sm (10+ km)
Ceiling:at least 12,000 feet AGL
Clouds:few clouds at 2000 feet AGL
METAR for:VTSB (Surat Thani Intl, 84, TH)
Text:VTSB 200600Z 22006KT 190V270 9999 FEW020 32/26 Q1008 NOSIG
Conditions at:0600 UTC 20 Jul 2024
Temperature: 32.0°C ( 90°F)
Dewpoint: 26.0°C ( 79°F) [RH = 71%]
Pressure (altimeter):29.76 inches Hg (1008.0 mb)
Winds:from the SW (220 degrees) at 7 MPH (6 knots; 3.1 m/s)
Visibility:6 or more sm (10+ km)
Ceiling:at least 12,000 feet AGL
Clouds:few clouds at 2000 feet AGL
METAR for:VTPT (Tak Arpt, 63, TH)
Text:VTPT 200600Z /////KT 9999 BKN026 33/23 Q1007 NOSIG
Conditions at:0600 UTC 20 Jul 2024
Temperature: 33.0°C ( 91°F)
Dewpoint: 23.0°C ( 73°F) [RH = 56%]
Pressure (altimeter):29.73 inches Hg (1007.0 mb)
Visibility:6 or more sm (10+ km)
Ceiling:2600 feet AGL
Clouds:broken clouds at 2600 feet AGL
METAR for:VTPP (Phitsanulok Arpt, 65, TH)
Text:VTPP 200600Z 14006KT 080V170 9999 BKN020 31/26 Q1006 NOSIG
Conditions at:0600 UTC 20 Jul 2024
Temperature: 31.0°C ( 88°F)
Dewpoint: 26.0°C ( 79°F) [RH = 75%]
Pressure (altimeter):29.70 inches Hg (1006.0 mb)
Winds:from the SE (140 degrees) at 7 MPH (6 knots; 3.1 m/s)
Visibility:6 or more sm (10+ km)
Ceiling:2000 feet AGL
Clouds:broken clouds at 2000 feet AGL
METAR for:VTPO (Sukhothai Arpt, 64, TH)
Text:VTPO 200600Z 22008G18KT 9999 VCSH FEW018TCU BKN020 34/25 Q1006 NOSIG
Conditions at:0600 UTC 20 Jul 2024
Temperature: 34.0°C ( 93°F)
Dewpoint: 25.0°C ( 77°F) [RH = 60%]
Pressure (altimeter):29.70 inches Hg (1006.0 mb)
Winds:from the SW (220 degrees) at 9 MPH (8 knots; 4.1 m/s) gusting to 21 MPH (18 knots; 9.3 m/s)
Visibility:6 or more sm (10+ km)
Ceiling:2000 feet AGL
Clouds:few clouds at 1800 feet AGL, broken clouds at 2000 feet AGL
Weather:VCSH (showers in vicinity)
METAR for:VTPM (Mae Sot Arpt, 63, TH)
Text:VTPM 200600Z 25008KT 9999 SCT025 OVC080 28/24 Q1008 NOSIG
Conditions at:0600 UTC 20 Jul 2024
Temperature: 28.0°C ( 82°F)
Dewpoint: 24.0°C ( 75°F) [RH = 79%]
Pressure (altimeter):29.76 inches Hg (1008.0 mb)
Winds:from the WSW (250 degrees) at 9 MPH (8 knots; 4.1 m/s)
Visibility:6 or more sm (10+ km)
Ceiling:8000 feet AGL
Clouds:scattered clouds at 2500 feet AGL, overcast cloud deck at 8000 feet AGL
METAR for:VTPH (Hua Hin Arpt, 77, TH)
Text:VTPH 200600Z VRB04KT 9999 FEW030 32/24 Q1007 NOSIG
Conditions at:0600 UTC 20 Jul 2024
Temperature: 32.0°C ( 90°F)
Dewpoint: 24.0°C ( 75°F) [RH = 63%]
Pressure (altimeter):29.73 inches Hg (1007.0 mb)
Winds:variable direction winds at 5 MPH (4 knots; 2.1 m/s)
Visibility:6 or more sm (10+ km)
Ceiling:at least 12,000 feet AGL
Clouds:few clouds at 3000 feet AGL
METAR for:VTPB (Phetchabun Arpt, 76, TH)
Text:VTPB 200600Z 17006KT 130V210 9999 BKN030 32/27 Q1007 NOSIG
Conditions at:0600 UTC 20 Jul 2024
Temperature: 32.0°C ( 90°F)
Dewpoint: 27.0°C ( 81°F) [RH = 75%]
Pressure (altimeter):29.73 inches Hg (1007.0 mb)
Winds:from the S (170 degrees) at 7 MPH (6 knots; 3.1 m/s)
Visibility:6 or more sm (10+ km)
Ceiling:3000 feet AGL
Clouds:broken clouds at 3000 feet AGL
METAR for:VTCT (Chiang Rai Intl, 57, TH)
Text:VTCT 200600Z 19007KT 160V220 9999 FEW020 SCT035 30/25 Q1007 NOSIG
Conditions at:0600 UTC 20 Jul 2024
Temperature: 30.0°C ( 86°F)
Dewpoint: 25.0°C ( 77°F) [RH = 75%]
Pressure (altimeter):29.73 inches Hg (1007.0 mb)
Winds:from the S (190 degrees) at 8 MPH (7 knots; 3.6 m/s)
Visibility:6 or more sm (10+ km)
Ceiling:at least 12,000 feet AGL
Clouds:few clouds at 2000 feet AGL, scattered clouds at 3500 feet AGL
METAR for:VTCP (Phrae Arpt, 54, TH)
Text:VTCP 200600Z 20005KT 140V230 9999 BKN045 31/25 Q1007 NOSIG
Conditions at:0600 UTC 20 Jul 2024
Temperature: 31.0°C ( 88°F)
Dewpoint: 25.0°C ( 77°F) [RH = 71%]
Pressure (altimeter):29.73 inches Hg (1007.0 mb)
Winds:from the SSW (200 degrees) at 6 MPH (5 knots; 2.6 m/s)
Visibility:6 or more sm (10+ km)
Ceiling:4500 feet AGL
Clouds:broken clouds at 4500 feet AGL
METAR for:VTCN (Nan Arpt, 55, TH)
Text:VTCN 200600Z 18005KT 110V220 9999 BKN025 28/25 Q1007 NOSIG
Conditions at:0600 UTC 20 Jul 2024
Temperature: 28.0°C ( 82°F)
Dewpoint: 25.0°C ( 77°F) [RH = 84%]
Pressure (altimeter):29.73 inches Hg (1007.0 mb)
Winds:from the S (180 degrees) at 6 MPH (5 knots; 2.6 m/s)
Visibility:6 or more sm (10+ km)
Ceiling:2500 feet AGL
Clouds:broken clouds at 2500 feet AGL
METAR for:VTCL (Lampang Arpt, 52, TH)
Text:VTCL 200600Z VRB01KT 9999 SCT045 33/24 Q1007 NOSIG
Conditions at:0600 UTC 20 Jul 2024
Temperature: 33.0°C ( 91°F)
Dewpoint: 24.0°C ( 75°F) [RH = 59%]
Pressure (altimeter):29.73 inches Hg (1007.0 mb)
Winds:variable direction winds at 1 MPH (1 knots; 0.5 m/s)
Visibility:6 or more sm (10+ km)
Ceiling:at least 12,000 feet AGL
Clouds:scattered clouds at 4500 feet AGL
METAR for:VTCH (Mae Hong Son Arpt, 58, TH)
Text:VTCH 200600Z VRB02KT 9999 -RA BKN025 31/24 Q1007
Conditions at:0600 UTC 20 Jul 2024
Temperature: 31.0°C ( 88°F)
Dewpoint: 24.0°C ( 75°F) [RH = 66%]
Pressure (altimeter):29.73 inches Hg (1007.0 mb)
Winds:variable direction winds at 2 MPH (2 knots; 1.0 m/s)
Visibility:6 or more sm (10+ km)
Ceiling:2500 feet AGL
Clouds:broken clouds at 2500 feet AGL
Weather:-RA (light rain)
METAR for:VTCC (Chiang Mai Intl, 50, TH)
Text:VTCC 200600Z VRB03KT 9999 BKN032 31/23 Q1007 NOSIG
Conditions at:0600 UTC 20 Jul 2024
Temperature: 31.0°C ( 88°F)
Dewpoint: 23.0°C ( 73°F) [RH = 63%]
Pressure (altimeter):29.73 inches Hg (1007.0 mb)
Winds:variable direction winds at 3 MPH (3 knots; 1.5 m/s)
Visibility:6 or more sm (10+ km)
Ceiling:3200 feet AGL
Clouds:broken clouds at 3200 feet AGL
METAR for:VTBU (Rayong/U-Tapao Intl, 21, TH)
Text:VTBU 200600Z 24008KT 9999 FEW020 SCT100 31/25 Q1008 NOSIG
Conditions at:0600 UTC 20 Jul 2024
Temperature: 31.0°C ( 88°F)
Dewpoint: 25.0°C ( 77°F) [RH = 71%]
Pressure (altimeter):29.76 inches Hg (1008.0 mb)
Winds:from the WSW (240 degrees) at 9 MPH (8 knots; 4.1 m/s)
Visibility:6 or more sm (10+ km)
Ceiling:at least 12,000 feet AGL
Clouds:few clouds at 2000 feet AGL, scattered clouds at 10000 feet AGL
METAR for:VTBS (Bangkok/Suvarnabhumi Arpt, 20, TH)
Text:VTBS 200600Z 24006KT 210V270 9999 FEW020 SCT035 31/23 Q1007 NOSIG
Conditions at:0600 UTC 20 Jul 2024
Temperature: 31.0°C ( 88°F)
Dewpoint: 23.0°C ( 73°F) [RH = 63%]
Pressure (altimeter):29.73 inches Hg (1007.0 mb)
Winds:from the WSW (240 degrees) at 7 MPH (6 knots; 3.1 m/s)
Visibility:6 or more sm (10+ km)
Ceiling:at least 12,000 feet AGL
Clouds:few clouds at 2000 feet AGL, scattered clouds at 3500 feet AGL
METAR for:VTBO (Trat Arpt, 23, TH)
Text:VTBO 200600Z 21004KT 7000 VCSH FEW016CB SCT018 BKN100 28/26 Q1009
Conditions at:0600 UTC 20 Jul 2024
Temperature: 28.0°C ( 82°F)
Dewpoint: 26.0°C ( 79°F) [RH = 89%]
Pressure (altimeter):29.79 inches Hg (1009.0 mb)
Winds:from the SSW (210 degrees) at 5 MPH (4 knots; 2.1 m/s)
Visibility:4 sm (7 km)
Ceiling:10000 feet AGL
Clouds:few clouds at 1600 feet AGL, scattered clouds at 1800 feet AGL, broken clouds at 10000 feet AGL
Weather:VCSH (showers in vicinity)
METAR for:VTBD (Bangkok Intl, 10, TH)
Text:VTBD 200600Z 22009KT 170V250 9999 FEW020 BKN040 32/24 Q1007 NOSIG
Conditions at:0600 UTC 20 Jul 2024
Temperature: 32.0°C ( 90°F)
Dewpoint: 24.0°C ( 75°F) [RH = 63%]
Pressure (altimeter):29.73 inches Hg (1007.0 mb)
Winds:from the SW (220 degrees) at 10 MPH (9 knots; 4.6 m/s)
Visibility:6 or more sm (10+ km)
Ceiling:4000 feet AGL
Clouds:few clouds at 2000 feet AGL, broken clouds at 4000 feet AGL
METAR for:VRMM (Velana Intl, NC, MV)
Text:VRMM 200600Z 30008KT 9999 -SHRA SCT017 FEW018CB BKN260 31/27 Q1009 CB S,SW TEMPO 5000 SHRA
Conditions at:0600 UTC 20 Jul 2024
Temperature: 31.0°C ( 88°F)
Dewpoint: 27.0°C ( 81°F) [RH = 79%]
Pressure (altimeter):29.79 inches Hg (1009.0 mb)
Winds:from the WNW (300 degrees) at 9 MPH (8 knots; 4.1 m/s)
Visibility:6 or more sm (10+ km)
Ceiling:26000 feet AGL
Clouds:scattered clouds at 1700 feet AGL, few clouds at 1800 feet AGL, broken clouds at 26000 feet AGL
Weather:-SHRA (light rain showers)
METAR for:VRMH (Hanimaadhoo Intl, --, MV)
Text:VRMH 200600Z 29007KT 9999 FEW018 BKN270 31/26 Q1009
Conditions at:0600 UTC 20 Jul 2024
Temperature: 31.0°C ( 88°F)
Dewpoint: 26.0°C ( 79°F) [RH = 75%]
Pressure (altimeter):29.79 inches Hg (1009.0 mb)
Winds:from the WNW (290 degrees) at 8 MPH (7 knots; 3.6 m/s)
Visibility:6 or more sm (10+ km)
Ceiling:27000 feet AGL
Clouds:few clouds at 1800 feet AGL, broken clouds at 27000 feet AGL
METAR for:VRMG (Gan Intl, --, MV)
Text:VRMG 200600Z 09006KT 9999 FEW018TCU BKN260 31/26 Q1009 NOSIG
Conditions at:0600 UTC 20 Jul 2024
Temperature: 31.0°C ( 88°F)
Dewpoint: 26.0°C ( 79°F) [RH = 75%]
Pressure (altimeter):29.79 inches Hg (1009.0 mb)
Winds:from the E (90 degrees) at 7 MPH (6 knots; 3.1 m/s)
Visibility:6 or more sm (10+ km)
Ceiling:26000 feet AGL
Clouds:few clouds at 1800 feet AGL, broken clouds at 26000 feet AGL
METAR for:VQPR (Paro Intl, PA, BT)
Text:VQPR 200600Z 14006KT 070V200 9999 SCT030 30/16 Q1014
Conditions at:0600 UTC 20 Jul 2024
Temperature: 30.0°C ( 86°F)
Dewpoint: 16.0°C ( 61°F) [RH = 43%]
Pressure (altimeter):29.94 inches Hg (1014.0 mb)
Winds:from the SE (140 degrees) at 7 MPH (6 knots; 3.1 m/s)
Visibility:6 or more sm (10+ km)
Ceiling:at least 12,000 feet AGL
Clouds:scattered clouds at 3000 feet AGL
METAR for:VOVZ (Vizagapatam Arpt, AP, IN)
Text:VOVZ 200600Z 22010KT 5000 BR SCT014 BKN090 28/27 Q0996 TEMPO DZ
Conditions at:0600 UTC 20 Jul 2024
Temperature: 28.0°C ( 82°F)
Dewpoint: 27.0°C ( 81°F) [RH = 94%]
Pressure (altimeter):29.41 inches Hg ( 996.0 mb)
Winds:from the SW (220 degrees) at 12 MPH (10 knots; 5.1 m/s)
Visibility:3 sm (5 km)
Ceiling:9000 feet AGL
Clouds:scattered clouds at 1400 feet AGL, broken clouds at 9000 feet AGL
Weather:BR (mist)
METAR for:VOTV (Thiruvananthapuram Intl, KL, IN)
Text:VOTV 200600Z 31012KT 5000 HZ SCT012 SCT080 30/26 Q1009 NOSIG
Conditions at:0600 UTC 20 Jul 2024
Temperature: 30.0°C ( 86°F)
Dewpoint: 26.0°C ( 79°F) [RH = 79%]
Pressure (altimeter):29.79 inches Hg (1009.0 mb)
Winds:from the NW (310 degrees) at 14 MPH (12 knots; 6.2 m/s)
Visibility:3 sm (5 km)
Ceiling:at least 12,000 feet AGL
Clouds:scattered clouds at 1200 feet AGL, scattered clouds at 8000 feet AGL
Weather:HZ (haze)
METAR for:VOTR (Tiruchchirapalli Arpt, TN, IN)
Text:VOTR 200600Z 27020G30KT 6000 FEW016 SCT020 BKN100 36/24 Q1005 NOSIG
Conditions at:0600 UTC 20 Jul 2024
Temperature: 36.0°C ( 97°F)
Dewpoint: 24.0°C ( 75°F) [RH = 50%]
Pressure (altimeter):29.68 inches Hg (1005.0 mb)
Winds:from the W (270 degrees) at 23 MPH (20 knots; 10.3 m/s) gusting to 34 MPH (30 knots; 15.4 m/s)
Visibility:4 sm (6 km)
Ceiling:10000 feet AGL
Clouds:few clouds at 1600 feet AGL, scattered clouds at 2000 feet AGL, broken clouds at 10000 feet AGL
METAR for:VOTP (Tirupati Arpt, AP, IN)
Text:VOTP 200600Z 20004KT 6000 SCT015 BKN090 30/24 Q1004 NOSIG
Conditions at:0600 UTC 20 Jul 2024
Temperature: 30.0°C ( 86°F)
Dewpoint: 24.0°C ( 75°F) [RH = 70%]
Pressure (altimeter):29.65 inches Hg (1004.0 mb)
Winds:from the SSW (200 degrees) at 5 MPH (4 knots; 2.1 m/s)
Visibility:4 sm (6 km)
Ceiling:9000 feet AGL
Clouds:scattered clouds at 1500 feet AGL, broken clouds at 9000 feet AGL
METAR for:VOTK (Tuticorin Arpt, TN, IN)
Text:VOTK 200600Z 28012G22KT 6000 SCT018 BKN100 31/23 Q1007 NOSIG
Conditions at:0600 UTC 20 Jul 2024
Temperature: 31.0°C ( 88°F)
Dewpoint: 23.0°C ( 73°F) [RH = 63%]
Pressure (altimeter):29.73 inches Hg (1007.0 mb)
Winds:from the W (280 degrees) at 14 MPH (12 knots; 6.2 m/s) gusting to 25 MPH (22 knots; 11.3 m/s)
Visibility:4 sm (6 km)
Ceiling:10000 feet AGL
Clouds:scattered clouds at 1800 feet AGL, broken clouds at 10000 feet AGL
METAR for:VOSR (Sindhudurg Arpt, MA, IN)
Text:VOSR 200600Z 25016KT 4500 -RA SCT008 SCT015 FEW025TCU OVC070 26/24 Q1006 TEMPO VIS 1500 IN MOD SHRA
Conditions at:0600 UTC 20 Jul 2024
Temperature: 26.0°C ( 79°F)
Dewpoint: 24.0°C ( 75°F) [RH = 89%]
Pressure (altimeter):29.70 inches Hg (1006.0 mb)
Winds:from the WSW (250 degrees) at 18 MPH (16 knots; 8.2 m/s)
Visibility:2.80 sm (4.51 km)
Ceiling:7000 feet AGL
Clouds:scattered clouds at 800 feet AGL, scattered clouds at 1500 feet AGL, few clouds at 2500 feet AGL, overcast cloud deck at 7000 feet AGL
Weather:-RA (light rain)
METAR for:VOSM (Salem Arpt, TN, IN)
Text:VOSM 200600Z 20003KT 7000 SCT020 SCT100 30/24 Q1007 NOSIG
Conditions at:0600 UTC 20 Jul 2024
Temperature: 30.0°C ( 86°F)
Dewpoint: 24.0°C ( 75°F) [RH = 70%]
Pressure (altimeter):29.73 inches Hg (1007.0 mb)
Winds:from the SSW (200 degrees) at 3 MPH (3 knots; 1.5 m/s)
Visibility:4 sm (7 km)
Ceiling:at least 12,000 feet AGL
Clouds:scattered clouds at 2000 feet AGL, scattered clouds at 10000 feet AGL
METAR for:VOSH (Shivamogga/Kuvempu Arpt, KA, IN)
Text:VOSH 200600Z 25012KT 5000 -DZ BR BKN006 SCT012 OVC080 24/22 Q1009
Conditions at:0600 UTC 20 Jul 2024
Temperature: 24.0°C ( 75°F)
Dewpoint: 22.0°C ( 72°F) [RH = 89%]
Pressure (altimeter):29.79 inches Hg (1009.0 mb)
Winds:from the WSW (250 degrees) at 14 MPH (12 knots; 6.2 m/s)
Visibility:3 sm (5 km)
Ceiling:600 feet AGL
Clouds:broken clouds at 600 feet AGL, scattered clouds at 1200 feet AGL, overcast cloud deck at 8000 feet AGL
Weather:-DZ BR (light drizzle, mist)
METAR for:VORY (Rajahmundry Arpt, AP, IN)
Text:VORY 200600Z 26020G30KT 5000 -RA SCT010 BKN012 OVC080 26/24 Q0999 TEMPO 4000 RA
Conditions at:0600 UTC 20 Jul 2024
Temperature: 26.0°C ( 79°F)
Dewpoint: 24.0°C ( 75°F) [RH = 89%]
Pressure (altimeter):29.50 inches Hg ( 999.0 mb)
Winds:from the W (260 degrees) at 23 MPH (20 knots; 10.3 m/s) gusting to 34 MPH (30 knots; 15.4 m/s)
Visibility:3 sm (5 km)
Ceiling:1200 feet AGL
Clouds:scattered clouds at 1000 feet AGL, broken clouds at 1200 feet AGL, overcast cloud deck at 8000 feet AGL
Weather:-RA (light rain)
METAR for:VOPC (Pondicherry Arpt, TN, IN)
Text:VOPC 200600Z 25009KT 6000 SCT020 BKN100 31/24 Q1006 NOSIG
Conditions at:0600 UTC 20 Jul 2024
Temperature: 31.0°C ( 88°F)
Dewpoint: 24.0°C ( 75°F) [RH = 66%]
Pressure (altimeter):29.70 inches Hg (1006.0 mb)
Winds:from the WSW (250 degrees) at 10 MPH (9 knots; 4.6 m/s)
Visibility:4 sm (6 km)
Ceiling:10000 feet AGL
Clouds:scattered clouds at 2000 feet AGL, broken clouds at 10000 feet AGL
METAR for:VOPB (Port Blair/Veer Savarkar Intl, AN, IN)
Text:VOPB 200600Z 21017KT 6000 SCT012 SCT080 31/26 Q1006 NOSIG
Conditions at:0600 UTC 20 Jul 2024
Temperature: 31.0°C ( 88°F)
Dewpoint: 26.0°C ( 79°F) [RH = 75%]
Pressure (altimeter):29.70 inches Hg (1006.0 mb)
Winds:from the SSW (210 degrees) at 20 MPH (17 knots; 8.7 m/s)
Visibility:4 sm (6 km)
Ceiling:at least 12,000 feet AGL
Clouds:scattered clouds at 1200 feet AGL, scattered clouds at 8000 feet AGL
METAR for:VOMY (Mysuru Arpt, KA, IN)
Text:VOMY 200600Z 26013KT 6000 SCT008 SCT012 BKN080 25/21 Q1011
Conditions at:0600 UTC 20 Jul 2024
Temperature: 25.0°C ( 77°F)
Dewpoint: 21.0°C ( 70°F) [RH = 79%]
Pressure (altimeter):29.85 inches Hg (1011.0 mb)
Winds:from the W (260 degrees) at 15 MPH (13 knots; 6.7 m/s)
Visibility:4 sm (6 km)
Ceiling:8000 feet AGL
Clouds:scattered clouds at 800 feet AGL, scattered clouds at 1200 feet AGL, broken clouds at 8000 feet AGL
METAR for:VOMM (Chennai Intl, TN, IN)
Text:VOMM 200600Z 24013KT 5000 HZ SCT018 BKN080 32/25 Q1003 NOSIG
Conditions at:0600 UTC 20 Jul 2024
Temperature: 32.0°C ( 90°F)
Dewpoint: 25.0°C ( 77°F) [RH = 67%]
Pressure (altimeter):29.62 inches Hg (1003.0 mb)
Winds:from the WSW (240 degrees) at 15 MPH (13 knots; 6.7 m/s)
Visibility:3 sm (5 km)
Ceiling:8000 feet AGL
Clouds:scattered clouds at 1800 feet AGL, broken clouds at 8000 feet AGL
Weather:HZ (haze)
METAR for:VOML (Mangaluru Arpt, KA, IN)
Text:VOML 200600Z 25010KT 6000 FEW005 SCT012 BKN080 28/25 Q1008 NOSIG
Conditions at:0600 UTC 20 Jul 2024
Temperature: 28.0°C ( 82°F)
Dewpoint: 25.0°C ( 77°F) [RH = 84%]
Pressure (altimeter):29.76 inches Hg (1008.0 mb)
Winds:from the WSW (250 degrees) at 12 MPH (10 knots; 5.1 m/s)
Visibility:4 sm (6 km)
Ceiling:8000 feet AGL
Clouds:few clouds at 500 feet AGL, scattered clouds at 1200 feet AGL, broken clouds at 8000 feet AGL
METAR for:VOKN (Kannur Intl, KL, IN)
Text:VOKN 200600Z 28008KT 3000 BR FEW002 SCT012 OVC080 27/25 Q1008 NOSIG
Conditions at:0600 UTC 20 Jul 2024
Temperature: 27.0°C ( 81°F)
Dewpoint: 25.0°C ( 77°F) [RH = 89%]
Pressure (altimeter):29.76 inches Hg (1008.0 mb)
Winds:from the W (280 degrees) at 9 MPH (8 knots; 4.1 m/s)
Visibility:1.86 sm (2.99 km)
Ceiling:8000 feet AGL
Clouds:few clouds at 200 feet AGL, scattered clouds at 1200 feet AGL, overcast cloud deck at 8000 feet AGL
Weather:BR (mist)
METAR for:VOJV (Jindal/Vijayanagar Arpt, --, IN)
Text:VOJV 200600Z 28014G24KT 7000 FEW010 SCT015 OVC080 27/22 Q1008
Conditions at:0600 UTC 20 Jul 2024
Temperature: 27.0°C ( 81°F)
Dewpoint: 22.0°C ( 72°F) [RH = 74%]
Pressure (altimeter):29.76 inches Hg (1008.0 mb)
Winds:from the W (280 degrees) at 16 MPH (14 knots; 7.2 m/s) gusting to 28 MPH (24 knots; 12.3 m/s)
Visibility:4 sm (7 km)
Ceiling:8000 feet AGL
Clouds:few clouds at 1000 feet AGL, scattered clouds at 1500 feet AGL, overcast cloud deck at 8000 feet AGL
METAR for:VOHS (Hyderabad/Gandhi Intl, AP, IN)
Text:VOHS 200600Z 26016KT 4000 RA BKN010 BKN015 OVC080 23/22 Q1006 NOSIG
Conditions at:0600 UTC 20 Jul 2024
Temperature: 23.0°C ( 73°F)
Dewpoint: 22.0°C ( 72°F) [RH = 94%]
Pressure (altimeter):29.70 inches Hg (1006.0 mb)
Winds:from the W (260 degrees) at 18 MPH (16 knots; 8.2 m/s)
Visibility:2.49 sm (4.01 km)
Ceiling:1000 feet AGL
Clouds:broken clouds at 1000 feet AGL, broken clouds at 1500 feet AGL, overcast cloud deck at 8000 feet AGL
Weather:RA (moderate rain)
METAR for:VOHB (Hubli Arpt, KA, IN)
Text:VOHB 200600Z 26014KT 6000 -DZ SCT008 SCT012 BKN080 24/23 Q1008
Conditions at:0600 UTC 20 Jul 2024
Temperature: 24.0°C ( 75°F)
Dewpoint: 23.0°C ( 73°F) [RH = 94%]
Pressure (altimeter):29.76 inches Hg (1008.0 mb)
Winds:from the W (260 degrees) at 16 MPH (14 knots; 7.2 m/s)
Visibility:4 sm (6 km)
Ceiling:8000 feet AGL
Clouds:scattered clouds at 800 feet AGL, scattered clouds at 1200 feet AGL, broken clouds at 8000 feet AGL
Weather:-DZ (light drizzle)
METAR for:VOGA (Manohar Intl, GA, IN)
Text:VOGA 200600Z 28018KT 1000 R28/0600 R10/1200 RA BKN003 BKN015 OVC080 24/24 Q1006 NOSIG
Conditions at:0600 UTC 20 Jul 2024
Temperature: 24.0°C ( 75°F)
Dewpoint: 24.0°C ( 75°F) [RH = 100%]
Pressure (altimeter):29.70 inches Hg (1006.0 mb)
Winds:from the W (280 degrees) at 21 MPH (18 knots; 9.3 m/s)
Visibility:0.62 sm (1.00 km)
Ceiling:300 feet AGL
Clouds:broken clouds at 300 feet AGL, broken clouds at 1500 feet AGL, overcast cloud deck at 8000 feet AGL
Weather:RA (moderate rain)
METAR for:VOCP (Kadapa Arpt, AP, IN)
Text:VOCP 200600Z 29014KT 6000 SCT020 BKN090 29/21 Q1004 NOSIG
Conditions at:0600 UTC 20 Jul 2024
Temperature: 29.0°C ( 84°F)
Dewpoint: 21.0°C ( 70°F) [RH = 62%]
Pressure (altimeter):29.65 inches Hg (1004.0 mb)
Winds:from the WNW (290 degrees) at 16 MPH (14 knots; 7.2 m/s)
Visibility:4 sm (6 km)
Ceiling:9000 feet AGL
Clouds:scattered clouds at 2000 feet AGL, broken clouds at 9000 feet AGL
METAR for:VOCL (Calicut Intl, KL, IN)
Text:VOCL 200600Z 28010KT 6000 FEW008 SCT012 BKN080 28/24 Q1008 NOSIG
Conditions at:0600 UTC 20 Jul 2024
Temperature: 28.0°C ( 82°F)
Dewpoint: 24.0°C ( 75°F) [RH = 79%]
Pressure (altimeter):29.76 inches Hg (1008.0 mb)
Winds:from the W (280 degrees) at 12 MPH (10 knots; 5.1 m/s)
Visibility:4 sm (6 km)
Ceiling:8000 feet AGL
Clouds:few clouds at 800 feet AGL, scattered clouds at 1200 feet AGL, broken clouds at 8000 feet AGL
METAR for:VOCI (Cochin Intl, KL, IN)
Text:VOCI 200600Z 27010KT 6000 FEW010 SCT012 FEW025CB BKN080 29/25 Q1008 NOSIG
Conditions at:0600 UTC 20 Jul 2024
Temperature: 29.0°C ( 84°F)
Dewpoint: 25.0°C ( 77°F) [RH = 79%]
Pressure (altimeter):29.76 inches Hg (1008.0 mb)
Winds:from the W (270 degrees) at 12 MPH (10 knots; 5.1 m/s)
Visibility:4 sm (6 km)
Ceiling:8000 feet AGL
Clouds:few clouds at 1000 feet AGL, scattered clouds at 1200 feet AGL, few clouds at 2500 feet AGL, broken clouds at 8000 feet AGL
METAR for:VOBZ (Vijayawada Arpt, AP, IN)
Text:VOBZ 200600Z 25008KT 6000 SCT018 BKN080 27/25 Q1000 NOSIG
Conditions at:0600 UTC 20 Jul 2024
Temperature: 27.0°C ( 81°F)
Dewpoint: 25.0°C ( 77°F) [RH = 89%]
Pressure (altimeter):29.53 inches Hg (1000.0 mb)
Winds:from the WSW (250 degrees) at 9 MPH (8 knots; 4.1 m/s)
Visibility:4 sm (6 km)
Ceiling:8000 feet AGL
Clouds:scattered clouds at 1800 feet AGL, broken clouds at 8000 feet AGL
METAR for:VOBM (Belagavi Arpt, KA, IN)
Text:VOBM 200600Z 27014G24KT 4000 -RA SCT007 SCT012 BKN080 24/22 Q1010
Conditions at:0600 UTC 20 Jul 2024
Temperature: 24.0°C ( 75°F)
Dewpoint: 22.0°C ( 72°F) [RH = 89%]
Pressure (altimeter):29.82 inches Hg (1010.0 mb)
Winds:from the W (270 degrees) at 16 MPH (14 knots; 7.2 m/s) gusting to 28 MPH (24 knots; 12.3 m/s)
Visibility:2.49 sm (4.01 km)
Ceiling:8000 feet AGL
Clouds:scattered clouds at 700 feet AGL, scattered clouds at 1200 feet AGL, broken clouds at 8000 feet AGL
Weather:-RA (light rain)
METAR for:VOBL (Bangaluru Intl, KA, IN)
Text:VOBL 200600Z 26020KT 9999 SCT008 SCT012 BKN080 24/20 Q1010 NOSIG
Conditions at:0600 UTC 20 Jul 2024
Temperature: 24.0°C ( 75°F)
Dewpoint: 20.0°C ( 68°F) [RH = 78%]
Pressure (altimeter):29.82 inches Hg (1010.0 mb)
Winds:from the W (260 degrees) at 23 MPH (20 knots; 10.3 m/s)
Visibility:6 or more sm (10+ km)
Ceiling:8000 feet AGL
Clouds:scattered clouds at 800 feet AGL, scattered clouds at 1200 feet AGL, broken clouds at 8000 feet AGL
METAR for:VOBG (Bangaluru/Hal Arpt, KA, IN)
Text:VOBG 200600Z 25015KT 8000 SCT010 SCT012 BKN080 25/21 Q1011 NOSIG
Conditions at:0600 UTC 20 Jul 2024
Temperature: 25.0°C ( 77°F)
Dewpoint: 21.0°C ( 70°F) [RH = 79%]
Pressure (altimeter):29.85 inches Hg (1011.0 mb)
Winds:from the WSW (250 degrees) at 17 MPH (15 knots; 7.7 m/s)
Visibility:5 sm (8 km)
Ceiling:8000 feet AGL
Clouds:scattered clouds at 1000 feet AGL, scattered clouds at 1200 feet AGL, broken clouds at 8000 feet AGL
METAR for:VOAT (Agatti Arpt, LD, IN)
Text:VOAT 200600Z 26013KT 6000 SCT012 29/26 Q1008 NOSIG
Conditions at:0600 UTC 20 Jul 2024
Temperature: 29.0°C ( 84°F)
Dewpoint: 26.0°C ( 79°F) [RH = 84%]
Pressure (altimeter):29.76 inches Hg (1008.0 mb)
Winds:from the W (260 degrees) at 15 MPH (13 knots; 6.7 m/s)
Visibility:4 sm (6 km)
Ceiling:at least 12,000 feet AGL
Clouds:scattered clouds at 1200 feet AGL
METAR for:VNKT (Kathmandu/Tribhuvan Intl, BA, NP)
Text:VNKT 200600Z 36004KT 8000 FEW015 SCT030 BKN100 29/22 Q1009 COR NOSIG
Conditions at:0600 UTC 20 Jul 2024
Temperature: 29.0°C ( 84°F)
Dewpoint: 22.0°C ( 72°F) [RH = 66%]
Pressure (altimeter):29.79 inches Hg (1009.0 mb)
Winds:from the N (360 degrees) at 5 MPH (4 knots; 2.1 m/s)
Visibility:5 sm (8 km)
Ceiling:10000 feet AGL
Clouds:few clouds at 1500 feet AGL, scattered clouds at 3000 feet AGL, broken clouds at 10000 feet AGL
METAR for:VMMC (Macao Intl, MO, CN)
Text:VMMC 200600Z 10009KT 060V130 9999 FEW018 32/28 Q1007 NOSIG
Conditions at:0600 UTC 20 Jul 2024
Temperature: 32.0°C ( 90°F)
Dewpoint: 28.0°C ( 82°F) [RH = 80%]
Pressure (altimeter):29.73 inches Hg (1007.0 mb)
Winds:from the E (100 degrees) at 10 MPH (9 knots; 4.6 m/s)
Visibility:6 or more sm (10+ km)
Ceiling:at least 12,000 feet AGL
Clouds:few clouds at 1800 feet AGL
METAR for:VLVT (Vientiane/Wattay Arpt, VT, LA)
Text:VLVT 200600Z 22006KT 9999 SCT016 BKN200 30/26 Q1007 NOSIG
Conditions at:0600 UTC 20 Jul 2024
Temperature: 30.0°C ( 86°F)
Dewpoint: 26.0°C ( 79°F) [RH = 79%]
Pressure (altimeter):29.73 inches Hg (1007.0 mb)
Winds:from the SW (220 degrees) at 7 MPH (6 knots; 3.1 m/s)
Visibility:6 or more sm (10+ km)
Ceiling:20000 feet AGL
Clouds:scattered clouds at 1600 feet AGL, broken clouds at 20000 feet AGL
METAR for:VLSK (Savannakhet Arpt, SV, LA)
Text:VLSK 200600Z 22004KT 8000 SCT016 BKN100 31/23 Q1007 NOSIG
Conditions at:0600 UTC 20 Jul 2024
Temperature: 31.0°C ( 88°F)
Dewpoint: 23.0°C ( 73°F) [RH = 63%]
Pressure (altimeter):29.73 inches Hg (1007.0 mb)
Winds:from the SW (220 degrees) at 5 MPH (4 knots; 2.1 m/s)
Visibility:5 sm (8 km)
Ceiling:10000 feet AGL
Clouds:scattered clouds at 1600 feet AGL, broken clouds at 10000 feet AGL
METAR for:VLPS (Pakse Intl, CH, LA)
Text:VLPS 200600Z 09004KT 9999 SCT010 BKN050 29/26 Q1006 NOSIG
Conditions at:0600 UTC 20 Jul 2024
Temperature: 29.0°C ( 84°F)
Dewpoint: 26.0°C ( 79°F) [RH = 84%]
Pressure (altimeter):29.70 inches Hg (1006.0 mb)
Winds:from the E (90 degrees) at 5 MPH (4 knots; 2.1 m/s)
Visibility:6 or more sm (10+ km)
Ceiling:5000 feet AGL
Clouds:scattered clouds at 1000 feet AGL, broken clouds at 5000 feet AGL
METAR for:VLLN (Luang Namtha Arpt, LM, LA)
Text:VLLN 200600Z 09002KT 9999 SCT020 OVC090 28/25 Q1007 NOSIG
Conditions at:0600 UTC 20 Jul 2024
Temperature: 28.0°C ( 82°F)
Dewpoint: 25.0°C ( 77°F) [RH = 84%]
Pressure (altimeter):29.73 inches Hg (1007.0 mb)
Winds:from the E (90 degrees) at 2 MPH (2 knots; 1.0 m/s)
Visibility:6 or more sm (10+ km)
Ceiling:9000 feet AGL
Clouds:scattered clouds at 2000 feet AGL, overcast cloud deck at 9000 feet AGL
METAR for:VLLB (Luang-Prabang, LP, LA)
Text:VLLB 200600Z 27004KT 9999 SCT020 BKN080 32/26 Q1006 NOSIG
Conditions at:0600 UTC 20 Jul 2024
Temperature: 32.0°C ( 90°F)
Dewpoint: 26.0°C ( 79°F) [RH = 71%]
Pressure (altimeter):29.70 inches Hg (1006.0 mb)
Winds:from the W (270 degrees) at 5 MPH (4 knots; 2.1 m/s)
Visibility:6 or more sm (10+ km)
Ceiling:8000 feet AGL
Clouds:scattered clouds at 2000 feet AGL, broken clouds at 8000 feet AGL
METAR for:VISM (Shimla Arpt, HP, IN)
Text:VISM 200600Z 23005KT 2000 BR BKN060 28/22 Q1011
Conditions at:0600 UTC 20 Jul 2024
Temperature: 28.0°C ( 82°F)
Dewpoint: 22.0°C ( 72°F) [RH = 70%]
Pressure (altimeter):29.85 inches Hg (1011.0 mb)
Winds:from the SW (230 degrees) at 6 MPH (5 knots; 2.6 m/s)
Visibility:1.24 sm (2.00 km)
Ceiling:6000 feet AGL
Clouds:broken clouds at 6000 feet AGL
Weather:BR (mist)
METAR for:VIPT (Pantnagar Arpt, PB, IN)
Text:VIPT 200600Z 17002KT 6000 FEW030 34/28 Q1000
Conditions at:0600 UTC 20 Jul 2024
Temperature: 34.0°C ( 93°F)
Dewpoint: 28.0°C ( 82°F) [RH = 71%]
Pressure (altimeter):29.53 inches Hg (1000.0 mb)
Winds:from the S (170 degrees) at 2 MPH (2 knots; 1.0 m/s)
Visibility:4 sm (6 km)
Ceiling:at least 12,000 feet AGL
Clouds:few clouds at 3000 feet AGL
METAR for:VILK (Lucknow/Singh Arpt, JK, IN)
Text:VILK 200600Z 09008KT 5000 HZ FEW020 34/28 Q0999 NOSIG
Conditions at:0600 UTC 20 Jul 2024
Temperature: 34.0°C ( 93°F)
Dewpoint: 28.0°C ( 82°F) [RH = 71%]
Pressure (altimeter):29.50 inches Hg ( 999.0 mb)
Winds:from the E (90 degrees) at 9 MPH (8 knots; 4.1 m/s)
Visibility:3 sm (5 km)
Ceiling:at least 12,000 feet AGL
Clouds:few clouds at 2000 feet AGL
Weather:HZ (haze)
METAR for:VIJP (Jaipur Intl, RJ, IN)
Text:VIJP 200600Z 10006KT 4000 HZ SCT030 33/28 Q1002 NOSIG
Conditions at:0600 UTC 20 Jul 2024
Temperature: 33.0°C ( 91°F)
Dewpoint: 28.0°C ( 82°F) [RH = 75%]
Pressure (altimeter):29.59 inches Hg (1002.0 mb)
Winds:from the E (100 degrees) at 7 MPH (6 knots; 3.1 m/s)
Visibility:2.49 sm (4.01 km)
Ceiling:at least 12,000 feet AGL
Clouds:scattered clouds at 3000 feet AGL
Weather:HZ (haze)
METAR for:VIGG (Kangra Arpt, HP, IN)
Text:VIGG 200600Z 22003KT 6000 SCT035 32/25 Q1005
Conditions at:0600 UTC 20 Jul 2024
Temperature: 32.0°C ( 90°F)
Dewpoint: 25.0°C ( 77°F) [RH = 67%]
Pressure (altimeter):29.68 inches Hg (1005.0 mb)
Winds:from the SW (220 degrees) at 3 MPH (3 knots; 1.5 m/s)
Visibility:4 sm (6 km)
Ceiling:at least 12,000 feet AGL
Clouds:scattered clouds at 3500 feet AGL
METAR for:VIDP (New Delhi/Gandhi Intl, DL, IN)
Text:VIDP 200600Z 11004KT 3000 HZ SCT035 BKN100 34/27 Q1001 NOSIG
Conditions at:0600 UTC 20 Jul 2024
Temperature: 34.0°C ( 93°F)
Dewpoint: 27.0°C ( 81°F) [RH = 67%]
Pressure (altimeter):29.56 inches Hg (1001.0 mb)
Winds:from the ESE (110 degrees) at 5 MPH (4 knots; 2.1 m/s)
Visibility:1.86 sm (2.99 km)
Ceiling:10000 feet AGL
Clouds:scattered clouds at 3500 feet AGL, broken clouds at 10000 feet AGL
Weather:HZ (haze)
METAR for:VIDN (Dehradun Arpt, UP, IN)
Text:VIDN 200600Z 28003KT 3000 BR FEW010 SCT020 BKN060 30/26 Q1004 NOSIG
Conditions at:0600 UTC 20 Jul 2024
Temperature: 30.0°C ( 86°F)
Dewpoint: 26.0°C ( 79°F) [RH = 79%]
Pressure (altimeter):29.65 inches Hg (1004.0 mb)
Winds:from the W (280 degrees) at 3 MPH (3 knots; 1.5 m/s)
Visibility:1.86 sm (2.99 km)
Ceiling:6000 feet AGL
Clouds:few clouds at 1000 feet AGL, scattered clouds at 2000 feet AGL, broken clouds at 6000 feet AGL
Weather:BR (mist)
METAR for:VIBR (Bhuntar Arpt, HP, IN)
Text:VIBR 200600Z 14006KT 6000 FEW030 35/21 Q1004
Conditions at:0600 UTC 20 Jul 2024
Temperature: 35.0°C ( 95°F)
Dewpoint: 21.0°C ( 70°F) [RH = 44%]
Pressure (altimeter):29.65 inches Hg (1004.0 mb)
Winds:from the SE (140 degrees) at 7 MPH (6 knots; 3.1 m/s)
Visibility:4 sm (6 km)
Ceiling:at least 12,000 feet AGL
Clouds:few clouds at 3000 feet AGL
METAR for:VIAR (Amritsar/Jee Intl, PB, IN)
Text:VIAR 200600Z 16003KT 4000 HZ NSC 37/31 Q1000 BECMG 5000 HZ
Conditions at:0600 UTC 20 Jul 2024
Temperature: 37.0°C ( 99°F)
Dewpoint: 31.0°C ( 88°F) [RH = 72%]
Pressure (altimeter):29.53 inches Hg (1000.0 mb)
Winds:from the SSE (160 degrees) at 3 MPH (3 knots; 1.5 m/s)
Visibility:2.49 sm (4.01 km)
Ceiling:at least 12,000 feet AGL
Clouds:sky clear below 12,000 feet AGL
Weather:HZ (haze)
METAR for:VHHH (Hong Kong Intl, HK, CN)
Text:VHHH 200600Z 10010KT 070V140 9999 FEW020 SCT030 33/26 Q1007 NOSIG
Conditions at:0600 UTC 20 Jul 2024
Temperature: 33.0°C ( 91°F)
Dewpoint: 26.0°C ( 79°F) [RH = 67%]
Pressure (altimeter):29.73 inches Hg (1007.0 mb)
Winds:from the E (100 degrees) at 12 MPH (10 knots; 5.1 m/s)
Visibility:6 or more sm (10+ km)
Ceiling:at least 12,000 feet AGL
Clouds:few clouds at 2000 feet AGL, scattered clouds at 3000 feet AGL
METAR for:VGHS (Dhaka/Shahjalal Intl, 32, BD)
Text:VGHS 200600Z 12011KT 5000 HZ SCT012 BKN100 32/26 Q1001 NOSIG
Conditions at:0600 UTC 20 Jul 2024
Temperature: 32.0°C ( 90°F)
Dewpoint: 26.0°C ( 79°F) [RH = 71%]
Pressure (altimeter):29.56 inches Hg (1001.0 mb)
Winds:from the ESE (120 degrees) at 13 MPH (11 knots; 5.7 m/s)
Visibility:3 sm (5 km)
Ceiling:10000 feet AGL
Clouds:scattered clouds at 1200 feet AGL, broken clouds at 10000 feet AGL
Weather:HZ (haze)
METAR for:VGEG (Chittogram/Amanat Intl, BA, BD)
Text:VGEG 200600Z 18010KT 7000 SCT018 BKN100 34/26 Q1001 NOSIG
Conditions at:0600 UTC 20 Jul 2024
Temperature: 34.0°C ( 93°F)
Dewpoint: 26.0°C ( 79°F) [RH = 63%]
Pressure (altimeter):29.56 inches Hg (1001.0 mb)
Winds:from the S (180 degrees) at 12 MPH (10 knots; 5.1 m/s)
Visibility:4 sm (7 km)
Ceiling:10000 feet AGL
Clouds:scattered clouds at 1800 feet AGL, broken clouds at 10000 feet AGL
METAR for:VERP (Raipur/Vivikenanda Arpt, CT, IN)
Text:VERP 200600Z 03006KT 6000 SCT018 BKN025 33/26 Q0997 NOSIG
Conditions at:0600 UTC 20 Jul 2024
Temperature: 33.0°C ( 91°F)
Dewpoint: 26.0°C ( 79°F) [RH = 67%]
Pressure (altimeter):29.44 inches Hg ( 997.0 mb)
Winds:from the NNE (30 degrees) at 7 MPH (6 knots; 3.1 m/s)
Visibility:4 sm (6 km)
Ceiling:2500 feet AGL
Clouds:scattered clouds at 1800 feet AGL, broken clouds at 2500 feet AGL
METAR for:VERK (Rourkela Arpt, OR, IN)
Text:VERK 200600Z 05011KT 6000 BKN018 BKN090 31/25 Q0997
Conditions at:0600 UTC 20 Jul 2024
Temperature: 31.0°C ( 88°F)
Dewpoint: 25.0°C ( 77°F) [RH = 71%]
Pressure (altimeter):29.44 inches Hg ( 997.0 mb)
Winds:from the NE (50 degrees) at 13 MPH (11 knots; 5.7 m/s)
Visibility:4 sm (6 km)
Ceiling:1800 feet AGL
Clouds:broken clouds at 1800 feet AGL, broken clouds at 9000 feet AGL
METAR for:VERC (Ranchi/Bursa Munda Arpt, BR, IN)
Text:VERC 200600Z 09010KT 4000 HZ SCT015 SCT025 BKN100 27/23 Q1003 NOSIG
Conditions at:0600 UTC 20 Jul 2024
Temperature: 27.0°C ( 81°F)
Dewpoint: 23.0°C ( 73°F) [RH = 79%]
Pressure (altimeter):29.62 inches Hg (1003.0 mb)
Winds:from the E (90 degrees) at 12 MPH (10 knots; 5.1 m/s)
Visibility:2.49 sm (4.01 km)
Ceiling:10000 feet AGL
Clouds:scattered clouds at 1500 feet AGL, scattered clouds at 2500 feet AGL, broken clouds at 10000 feet AGL
Weather:HZ (haze)
METAR for:VEPY (Pakyong Arpt, SK, IN)
Text:VEPY 200600Z 20004KT 3000 BR FEW015 BKN100 24/24 Q1011 NOSIG
Conditions at:0600 UTC 20 Jul 2024
Temperature: 24.0°C ( 75°F)
Dewpoint: 24.0°C ( 75°F) [RH = 100%]
Pressure (altimeter):29.85 inches Hg (1011.0 mb)
Winds:from the SSW (200 degrees) at 5 MPH (4 knots; 2.1 m/s)
Visibility:1.86 sm (2.99 km)
Ceiling:10000 feet AGL
Clouds:few clouds at 1500 feet AGL, broken clouds at 10000 feet AGL
Weather:BR (mist)
METAR for:VEPT (Patna/Narayan Intl, BR, IN)
Text:VEPT 200600Z 10010KT 5000 HZ SCT020 SCT025 BKN100 35/30 Q0998 NOSIG
Conditions at:0600 UTC 20 Jul 2024
Temperature: 35.0°C ( 95°F)
Dewpoint: 30.0°C ( 86°F) [RH = 75%]
Pressure (altimeter):29.47 inches Hg ( 998.0 mb)
Winds:from the E (100 degrees) at 12 MPH (10 knots; 5.1 m/s)
Visibility:3 sm (5 km)
Ceiling:10000 feet AGL
Clouds:scattered clouds at 2000 feet AGL, scattered clouds at 2500 feet AGL, broken clouds at 10000 feet AGL
Weather:HZ (haze)
METAR for:VEMR (Dimapur Arpt, NL, IN)
Text:VEMR 200600Z 30005KT 5000 HZ FEW010 SCT020 FEW025CB BKN100 34/28 Q1001 NOSIG
Conditions at:0600 UTC 20 Jul 2024
Temperature: 34.0°C ( 93°F)
Dewpoint: 28.0°C ( 82°F) [RH = 71%]
Pressure (altimeter):29.56 inches Hg (1001.0 mb)
Winds:from the WNW (300 degrees) at 6 MPH (5 knots; 2.6 m/s)
Visibility:3 sm (5 km)
Ceiling:10000 feet AGL
Clouds:few clouds at 1000 feet AGL, scattered clouds at 2000 feet AGL, few clouds at 2500 feet AGL, broken clouds at 10000 feet AGL
Weather:HZ (haze)
METAR for:VEMN (Dibrugarh Arpt, AS, IN)
Text:VEMN 200600Z 06004KT 5000 BR SCT020 BKN100 29/27 Q1003 NOSIG
Conditions at:0600 UTC 20 Jul 2024
Temperature: 29.0°C ( 84°F)
Dewpoint: 27.0°C ( 81°F) [RH = 89%]
Pressure (altimeter):29.62 inches Hg (1003.0 mb)
Winds:from the ENE (60 degrees) at 5 MPH (4 knots; 2.1 m/s)
Visibility:3 sm (5 km)
Ceiling:10000 feet AGL
Clouds:scattered clouds at 2000 feet AGL, broken clouds at 10000 feet AGL
Weather:BR (mist)
METAR for:VELR (N Lakhimpur/Lilabari Arpt, AS, IN)
Text:VELR 200600Z 20002KT 3500 BR FEW008 SCT018 BKN090 29/27 Q1003
Conditions at:0600 UTC 20 Jul 2024
Temperature: 29.0°C ( 84°F)
Dewpoint: 27.0°C ( 81°F) [RH = 89%]
Pressure (altimeter):29.62 inches Hg (1003.0 mb)
Winds:from the SSW (200 degrees) at 2 MPH (2 knots; 1.0 m/s)
Visibility:2.17 sm (3.49 km)
Ceiling:9000 feet AGL
Clouds:few clouds at 800 feet AGL, scattered clouds at 1800 feet AGL, broken clouds at 9000 feet AGL
Weather:BR (mist)
METAR for:VELP (Lengpui Arpt, MZ, IN)
Text:VELP 200600Z 02004KT 5000 HZ SCT015 BKN100 30/25 Q1004 NOSIG
Conditions at:0600 UTC 20 Jul 2024
Temperature: 30.0°C ( 86°F)
Dewpoint: 25.0°C ( 77°F) [RH = 75%]
Pressure (altimeter):29.65 inches Hg (1004.0 mb)
Winds:from the NNE (20 degrees) at 5 MPH (4 knots; 2.1 m/s)
Visibility:3 sm (5 km)
Ceiling:10000 feet AGL
Clouds:scattered clouds at 1500 feet AGL, broken clouds at 10000 feet AGL
Weather:HZ (haze)
METAR for:VEKO (Khajuraho Arpt, MP, IN)
Text:VEKO 200600Z 34005KT 5000 HZ SCT020 BKN100 32/26 Q0999
Conditions at:0600 UTC 20 Jul 2024
Temperature: 32.0°C ( 90°F)
Dewpoint: 26.0°C ( 79°F) [RH = 71%]
Pressure (altimeter):29.50 inches Hg ( 999.0 mb)
Winds:from the NNW (340 degrees) at 6 MPH (5 knots; 2.6 m/s)
Visibility:3 sm (5 km)
Ceiling:10000 feet AGL
Clouds:scattered clouds at 2000 feet AGL, broken clouds at 10000 feet AGL
Weather:HZ (haze)
METAR for:VEKI (Kushinagar Arpt, UP, IN)
Text:VEKI 200600Z 09010KT 5000 HZ SCT020 SCT025 BKN200 34/27 Q0999 NOSIG
Conditions at:0600 UTC 20 Jul 2024
Temperature: 34.0°C ( 93°F)
Dewpoint: 27.0°C ( 81°F) [RH = 67%]
Pressure (altimeter):29.50 inches Hg ( 999.0 mb)
Winds:from the E (90 degrees) at 12 MPH (10 knots; 5.1 m/s)
Visibility:3 sm (5 km)
Ceiling:20000 feet AGL
Clouds:scattered clouds at 2000 feet AGL, scattered clouds at 2500 feet AGL, broken clouds at 20000 feet AGL
Weather:HZ (haze)
METAR for:VEJS (Jamshedpur/Sonari Arpt, BR, IN)
Text:VEJS 200600Z 11009KT 4000 -RA SCT018 SCT025 BKN090 33/26 Q0998
Conditions at:0600 UTC 20 Jul 2024
Temperature: 33.0°C ( 91°F)
Dewpoint: 26.0°C ( 79°F) [RH = 67%]
Pressure (altimeter):29.47 inches Hg ( 998.0 mb)
Winds:from the ESE (110 degrees) at 10 MPH (9 knots; 4.6 m/s)
Visibility:2.49 sm (4.01 km)
Ceiling:9000 feet AGL
Clouds:scattered clouds at 1800 feet AGL, scattered clouds at 2500 feet AGL, broken clouds at 9000 feet AGL
Weather:-RA (light rain)
METAR for:VEJR (Jagdalpur Arpt, CT, IN)
Text:VEJR 200600Z 27004KT 3500 -RA SCT015 BKN020 OVC080 24/24 Q1000
Conditions at:0600 UTC 20 Jul 2024
Temperature: 24.0°C ( 75°F)
Dewpoint: 24.0°C ( 75°F) [RH = 100%]
Pressure (altimeter):29.53 inches Hg (1000.0 mb)
Winds:from the W (270 degrees) at 5 MPH (4 knots; 2.1 m/s)
Visibility:2.17 sm (3.49 km)
Ceiling:2000 feet AGL
Clouds:scattered clouds at 1500 feet AGL, broken clouds at 2000 feet AGL, overcast cloud deck at 8000 feet AGL
Weather:-RA (light rain)
METAR for:VEJH (Jharsuguda Arpt, OR, IN)
Text:VEJH 200600Z 09013KT 7000 SCT020 BKN100 32/26 Q0996
Conditions at:0600 UTC 20 Jul 2024
Temperature: 32.0°C ( 90°F)
Dewpoint: 26.0°C ( 79°F) [RH = 71%]
Pressure (altimeter):29.41 inches Hg ( 996.0 mb)
Winds:from the E (90 degrees) at 15 MPH (13 knots; 6.7 m/s)
Visibility:4 sm (7 km)
Ceiling:10000 feet AGL
Clouds:scattered clouds at 2000 feet AGL, broken clouds at 10000 feet AGL
METAR for:VEIM (Imphal Arpt, MN, IN)
Text:VEIM 200600Z 10008KT 5000 VCSH FEW010 SCT018 BKN090 28/27 Q1007 NOSIG
Conditions at:0600 UTC 20 Jul 2024
Temperature: 28.0°C ( 82°F)
Dewpoint: 27.0°C ( 81°F) [RH = 94%]
Pressure (altimeter):29.73 inches Hg (1007.0 mb)
Winds:from the E (100 degrees) at 9 MPH (8 knots; 4.1 m/s)
Visibility:3 sm (5 km)
Ceiling:9000 feet AGL
Clouds:few clouds at 1000 feet AGL, scattered clouds at 1800 feet AGL, broken clouds at 9000 feet AGL
Weather:VCSH (showers in vicinity)
METAR for:VEHO (UNK, --, IN)
Text:VEHO 200600Z 06004KT 3500 BR FEW010 SCT020 OVC080 30/28 Q1002 NOSIG
Conditions at:0600 UTC 20 Jul 2024
Temperature: 30.0°C ( 86°F)
Dewpoint: 28.0°C ( 82°F) [RH = 89%]
Pressure (altimeter):29.59 inches Hg (1002.0 mb)
Winds:from the ENE (60 degrees) at 5 MPH (4 knots; 2.1 m/s)
Visibility:2.17 sm (3.49 km)
Ceiling:8000 feet AGL
Clouds:few clouds at 1000 feet AGL, scattered clouds at 2000 feet AGL, overcast cloud deck at 8000 feet AGL
Weather:BR (mist)
METAR for:VEGY (Gaya Arpt, BR, IN)
Text:VEGY 200600Z 09010KT 5000 HZ SCT018 SCT025 33/25 Q0998 NOSIG
Conditions at:0600 UTC 20 Jul 2024
Temperature: 33.0°C ( 91°F)
Dewpoint: 25.0°C ( 77°F) [RH = 63%]
Pressure (altimeter):29.47 inches Hg ( 998.0 mb)
Winds:from the E (90 degrees) at 12 MPH (10 knots; 5.1 m/s)
Visibility:3 sm (5 km)
Ceiling:at least 12,000 feet AGL
Clouds:scattered clouds at 1800 feet AGL, scattered clouds at 2500 feet AGL
Weather:HZ (haze)
METAR for:VEGT (Guwahati/Bordoloi Intl, AS, IN)
Text:VEGT 200600Z 33004KT 3500 BR SCT018 BKN100 31/27 Q1001 NOSIG
Conditions at:0600 UTC 20 Jul 2024
Temperature: 31.0°C ( 88°F)
Dewpoint: 27.0°C ( 81°F) [RH = 79%]
Pressure (altimeter):29.56 inches Hg (1001.0 mb)
Winds:from the NNW (330 degrees) at 5 MPH (4 knots; 2.1 m/s)
Visibility:2.17 sm (3.49 km)
Ceiling:10000 feet AGL
Clouds:scattered clouds at 1800 feet AGL, broken clouds at 10000 feet AGL
Weather:BR (mist)
METAR for:VEDO (Deoghar Arpt, BR, IN)
Text:VEDO 200600Z 12008KT 6000 SCT018 BKN090 30/24 Q1001 NOSIG
Conditions at:0600 UTC 20 Jul 2024
Temperature: 30.0°C ( 86°F)
Dewpoint: 24.0°C ( 75°F) [RH = 70%]
Pressure (altimeter):29.56 inches Hg (1001.0 mb)
Winds:from the ESE (120 degrees) at 9 MPH (8 knots; 4.1 m/s)
Visibility:4 sm (6 km)
Ceiling:9000 feet AGL
Clouds:scattered clouds at 1800 feet AGL, broken clouds at 9000 feet AGL
METAR for:VEDG (Durgapur/Kazi Nazrul Arpt, WB, IN)
Text:VEDG 200600Z 09011KT 5000 HZ SCT018 BKN090 32/27 Q0999 NOSIG
Conditions at:0600 UTC 20 Jul 2024
Temperature: 32.0°C ( 90°F)
Dewpoint: 27.0°C ( 81°F) [RH = 75%]
Pressure (altimeter):29.50 inches Hg ( 999.0 mb)
Winds:from the E (90 degrees) at 13 MPH (11 knots; 5.7 m/s)
Visibility:3 sm (5 km)
Ceiling:9000 feet AGL
Clouds:scattered clouds at 1800 feet AGL, broken clouds at 9000 feet AGL
Weather:HZ (haze)
METAR for:VECO (Cooch Behar Arpt, WB, IN)
Text:VECO 200600Z 16005KT 5000 HZ FEW020 SCT025 33/27 Q1001 NOSIG
Conditions at:0600 UTC 20 Jul 2024
Temperature: 33.0°C ( 91°F)
Dewpoint: 27.0°C ( 81°F) [RH = 71%]
Pressure (altimeter):29.56 inches Hg (1001.0 mb)
Winds:from the SSE (160 degrees) at 6 MPH (5 knots; 2.6 m/s)
Visibility:3 sm (5 km)
Ceiling:at least 12,000 feet AGL
Clouds:few clouds at 2000 feet AGL, scattered clouds at 2500 feet AGL
Weather:HZ (haze)
METAR for:VECC (Kolkata/Bose Intl, WB, IN)
Text:VECC 200600Z 11010KT 3500 -RA SCT018 FEW030CB BKN100 30/28 Q0998 TEMPO TL0730 11010G20KT 2000 TSRA
Conditions at:0600 UTC 20 Jul 2024
Temperature: 30.0°C ( 86°F)
Dewpoint: 28.0°C ( 82°F) [RH = 89%]
Pressure (altimeter):29.47 inches Hg ( 998.0 mb)
Winds:from the ESE (110 degrees) at 12 MPH (10 knots; 5.1 m/s)
Visibility:2.17 sm (3.49 km)
Ceiling:10000 feet AGL
Clouds:scattered clouds at 1800 feet AGL, few clouds at 3000 feet AGL, broken clouds at 10000 feet AGL
Weather:-RA (light rain)
METAR for:VEBU (Bilaspur Arpt, CT, IN)
Text:VEBU 200600Z 08012KT 6000 FEW018 SCT025 33/25 Q0997 NOSIG
Conditions at:0600 UTC 20 Jul 2024
Temperature: 33.0°C ( 91°F)
Dewpoint: 25.0°C ( 77°F) [RH = 63%]
Pressure (altimeter):29.44 inches Hg ( 997.0 mb)
Winds:from the E (80 degrees) at 14 MPH (12 knots; 6.2 m/s)
Visibility:4 sm (6 km)
Ceiling:at least 12,000 feet AGL
Clouds:few clouds at 1800 feet AGL, scattered clouds at 2500 feet AGL
METAR for:VEBS (Bhubaneswar Intl, OR, IN)
Text:VEBS 200600Z 08011KT 2500 -RA BKN016 FEW030CB BKN090 29/28 Q0994 NOSIG
Conditions at:0600 UTC 20 Jul 2024
Temperature: 29.0°C ( 84°F)
Dewpoint: 28.0°C ( 82°F) [RH = 94%]
Pressure (altimeter):29.35 inches Hg ( 994.0 mb)
Winds:from the E (80 degrees) at 13 MPH (11 knots; 5.7 m/s)
Visibility:1.55 sm (2.49 km)
Ceiling:1600 feet AGL
Clouds:broken clouds at 1600 feet AGL, few clouds at 3000 feet AGL, broken clouds at 9000 feet AGL
Weather:-RA (light rain)
METAR for:VEBN (Varanasi/Shastri Intl, MH, IN)
Text:VEBN 200600Z 07008KT 4000 HZ SCT025 BKN100 36/28 Q0998 NOSIG
Conditions at:0600 UTC 20 Jul 2024
Temperature: 36.0°C ( 97°F)
Dewpoint: 28.0°C ( 82°F) [RH = 64%]
Pressure (altimeter):29.47 inches Hg ( 998.0 mb)
Winds:from the ENE (70 degrees) at 9 MPH (8 knots; 4.1 m/s)
Visibility:2.49 sm (4.01 km)
Ceiling:10000 feet AGL
Clouds:scattered clouds at 2500 feet AGL, broken clouds at 10000 feet AGL
Weather:HZ (haze)
METAR for:VEBI (Shillong Arpt, ML, IN)
Text:VEBI 200600Z 03003KT 6000 BKN020 FEW025TCU BKN090 29/23 Q1007 NOSIG
Conditions at:0600 UTC 20 Jul 2024
Temperature: 29.0°C ( 84°F)
Dewpoint: 23.0°C ( 73°F) [RH = 70%]
Pressure (altimeter):29.73 inches Hg (1007.0 mb)
Winds:from the NNE (30 degrees) at 3 MPH (3 knots; 1.5 m/s)
Visibility:4 sm (6 km)
Ceiling:2000 feet AGL
Clouds:broken clouds at 2000 feet AGL, few clouds at 2500 feet AGL, broken clouds at 9000 feet AGL
METAR for:VEAY (Ayodhya Arpt, UP, IN)
Text:VEAY 200600Z 10005KT 5000 HZ SCT025 34/25 Q0998 NOSIG
Conditions at:0600 UTC 20 Jul 2024
Temperature: 34.0°C ( 93°F)
Dewpoint: 25.0°C ( 77°F) [RH = 60%]
Pressure (altimeter):29.47 inches Hg ( 998.0 mb)
Winds:from the E (100 degrees) at 6 MPH (5 knots; 2.6 m/s)
Visibility:3 sm (5 km)
Ceiling:at least 12,000 feet AGL
Clouds:scattered clouds at 2500 feet AGL
Weather:HZ (haze)
METAR for:VDSV (Sihanoukville Intl, --, KH)
Text:VDSV 200600Z 26007KT 9999 SCT015 BKN040 30/26 Q1008
Conditions at:0600 UTC 20 Jul 2024
Temperature: 30.0°C ( 86°F)
Dewpoint: 26.0°C ( 79°F) [RH = 79%]
Pressure (altimeter):29.76 inches Hg (1008.0 mb)
Winds:from the W (260 degrees) at 8 MPH (7 knots; 3.6 m/s)
Visibility:6 or more sm (10+ km)
Ceiling:4000 feet AGL
Clouds:scattered clouds at 1500 feet AGL, broken clouds at 4000 feet AGL
METAR for:VDSA (Siem Reap-Ankr Intl, 17, KH)
Text:VDSA 200600Z 24013KT 8000 -RA SCT015 FEW017CB BKN040 29/25 Q1007 RMK CB:E/W
Conditions at:0600 UTC 20 Jul 2024
Temperature: 29.0°C ( 84°F)
Dewpoint: 25.0°C ( 77°F) [RH = 79%]
Pressure (altimeter):29.73 inches Hg (1007.0 mb)
Winds:from the WSW (240 degrees) at 15 MPH (13 knots; 6.7 m/s)
Visibility:5 sm (8 km)
Ceiling:4000 feet AGL
Clouds:scattered clouds at 1500 feet AGL, few clouds at 1700 feet AGL, broken clouds at 4000 feet AGL
Weather:-RA (light rain)
METAR for:VDPP (Phnom-Penh Intl, 12, KH)
Text:VDPP 200600Z 22011KT 9999 SCT015 BKN040 31/26 Q1007
Conditions at:0600 UTC 20 Jul 2024
Temperature: 31.0°C ( 88°F)
Dewpoint: 26.0°C ( 79°F) [RH = 75%]
Pressure (altimeter):29.73 inches Hg (1007.0 mb)
Winds:from the SW (220 degrees) at 13 MPH (11 knots; 5.7 m/s)
Visibility:6 or more sm (10+ km)
Ceiling:4000 feet AGL
Clouds:scattered clouds at 1500 feet AGL, broken clouds at 4000 feet AGL
METAR for:VCCC (Colombo/Ratmalana Arpt, WE, LK)
Text:VCCC 200600Z VRB03KT 9999 SCT017 32/25 Q1009 A2981
Conditions at:0600 UTC 20 Jul 2024
Temperature: 32.0°C ( 90°F)
Dewpoint: 25.0°C ( 77°F) [RH = 67%]
Pressure (altimeter):29.79 inches Hg (1009.0 mb)
Winds:variable direction winds at 3 MPH (3 knots; 1.5 m/s)
Visibility:6 or more sm (10+ km)
Ceiling:at least 12,000 feet AGL
Clouds:scattered clouds at 1700 feet AGL
METAR for:VAUD (Udaipur/Pratap Arpt, RJ, IN)
Text:VAUD 200600Z 17006KT 3500 BR SCT025 SCT030 BKN080 30/25 Q1003 NOSIG
Conditions at:0600 UTC 20 Jul 2024
Temperature: 30.0°C ( 86°F)
Dewpoint: 25.0°C ( 77°F) [RH = 75%]
Pressure (altimeter):29.62 inches Hg (1003.0 mb)
Winds:from the S (170 degrees) at 7 MPH (6 knots; 3.1 m/s)
Visibility:2.17 sm (3.49 km)
Ceiling:8000 feet AGL
Clouds:scattered clouds at 2500 feet AGL, scattered clouds at 3000 feet AGL, broken clouds at 8000 feet AGL
Weather:BR (mist)
METAR for:VASU (Surat Arpt, GJ, IN)
Text:VASU 200600Z 25009KT 1500 +RA BKN010 OVC080 27/26 Q1000 NOSIG
Conditions at:0600 UTC 20 Jul 2024
Temperature: 27.0°C ( 81°F)
Dewpoint: 26.0°C ( 79°F) [RH = 94%]
Pressure (altimeter):29.53 inches Hg (1000.0 mb)
Winds:from the WSW (250 degrees) at 10 MPH (9 knots; 4.6 m/s)
Visibility:0.93 sm (1.50 km)
Ceiling:1000 feet AGL
Clouds:broken clouds at 1000 feet AGL, overcast cloud deck at 8000 feet AGL
Weather:+RA (heavy rain)
METAR for:VASD (Shirdi Intl, MH, IN)
Text:VASD 200600Z 23008KT 6000 SCT020 SCT030 BKN080 28/22 Q1005 NOSIG
Conditions at:0600 UTC 20 Jul 2024
Temperature: 28.0°C ( 82°F)
Dewpoint: 22.0°C ( 72°F) [RH = 70%]
Pressure (altimeter):29.68 inches Hg (1005.0 mb)
Winds:from the SW (230 degrees) at 9 MPH (8 knots; 4.1 m/s)
Visibility:4 sm (6 km)
Ceiling:8000 feet AGL
Clouds:scattered clouds at 2000 feet AGL, scattered clouds at 3000 feet AGL, broken clouds at 8000 feet AGL
METAR for:VAPR (Porbandar Arpt, GJ, IN)
Text:VAPR 200600Z 30008KT 3000 DZ SCT012 FEW030CB OVC070 27/27 Q0998 NOSIG
Conditions at:0600 UTC 20 Jul 2024
Temperature: 27.0°C ( 81°F)
Dewpoint: 27.0°C ( 81°F) [RH = 100%]
Pressure (altimeter):29.47 inches Hg ( 998.0 mb)
Winds:from the WNW (300 degrees) at 9 MPH (8 knots; 4.1 m/s)
Visibility:1.86 sm (2.99 km)
Ceiling:7000 feet AGL
Clouds:scattered clouds at 1200 feet AGL, few clouds at 3000 feet AGL, overcast cloud deck at 7000 feet AGL
Weather:DZ (moderate drizzle)
METAR for:VANP (Nagpur/Ambedkar Intl, MM, IN)
Text:VANP 200600Z 23004KT 1500 +TSRA SCT010 SCT018 FEW030CB OVC080 25/25 Q1001 NOSIG
Conditions at:0600 UTC 20 Jul 2024
Temperature: 25.0°C ( 77°F)
Dewpoint: 25.0°C ( 77°F) [RH = 100%]
Pressure (altimeter):29.56 inches Hg (1001.0 mb)
Winds:from the SW (230 degrees) at 5 MPH (4 knots; 2.1 m/s)
Visibility:0.93 sm (1.50 km)
Ceiling:8000 feet AGL
Clouds:scattered clouds at 1000 feet AGL, scattered clouds at 1800 feet AGL, few clouds at 3000 feet AGL, overcast cloud deck at 8000 feet AGL
Weather:+TSRA (heavy rain associated with thunderstorm(s))
METAR for:VAKP (Kolhapur Arpt, MM, IN)
Text:VAKP 200600Z 24015KT 5000 DZ SCT010 SCT020 OVC080 24/22 Q1007
Conditions at:0600 UTC 20 Jul 2024
Temperature: 24.0°C ( 75°F)
Dewpoint: 22.0°C ( 72°F) [RH = 89%]
Pressure (altimeter):29.73 inches Hg (1007.0 mb)
Winds:from the WSW (240 degrees) at 17 MPH (15 knots; 7.7 m/s)
Visibility:3 sm (5 km)
Ceiling:8000 feet AGL
Clouds:scattered clouds at 1000 feet AGL, scattered clouds at 2000 feet AGL, overcast cloud deck at 8000 feet AGL
Weather:DZ (moderate drizzle)
METAR for:VAJL (Jalgaon Arpt, MM, IN)
Text:VAJL 200600Z 23004KT 7000 SCT020 BKN080 28/28 Q1002
Conditions at:0600 UTC 20 Jul 2024
Temperature: 28.0°C ( 82°F)
Dewpoint: 28.0°C ( 82°F) [RH = 100%]
Pressure (altimeter):29.59 inches Hg (1002.0 mb)
Winds:from the SW (230 degrees) at 5 MPH (4 knots; 2.1 m/s)
Visibility:4 sm (7 km)
Ceiling:8000 feet AGL
Clouds:scattered clouds at 2000 feet AGL, broken clouds at 8000 feet AGL
METAR for:VAJJ (Mumbai/Juhu Arpt, MM, IN)
Text:VAJJ 200600Z 23008KT 1500 R08/1800 +RA SCT010 SCT018 FEW030CB OVC080 27/26 Q1002 TEMPO 0800 +SHRA
Conditions at:0600 UTC 20 Jul 2024
Temperature: 27.0°C ( 81°F)
Dewpoint: 26.0°C ( 79°F) [RH = 94%]
Pressure (altimeter):29.59 inches Hg (1002.0 mb)
Winds:from the SW (230 degrees) at 9 MPH (8 knots; 4.1 m/s)
Visibility:0.93 sm (1.50 km)
Ceiling:8000 feet AGL
Clouds:scattered clouds at 1000 feet AGL, scattered clouds at 1800 feet AGL, few clouds at 3000 feet AGL, overcast cloud deck at 8000 feet AGL
Weather:+RA (heavy rain)
METAR for:VAJB (Jabalpur Arpt, MP, IN)
Text:VAJB 200600Z 35007KT 4000 HZ SCT030 BKN100 31/26 Q1000 NOSIG
Conditions at:0600 UTC 20 Jul 2024
Temperature: 31.0°C ( 88°F)
Dewpoint: 26.0°C ( 79°F) [RH = 75%]
Pressure (altimeter):29.53 inches Hg (1000.0 mb)
Winds:from the N (350 degrees) at 8 MPH (7 knots; 3.6 m/s)
Visibility:2.49 sm (4.01 km)
Ceiling:10000 feet AGL
Clouds:scattered clouds at 3000 feet AGL, broken clouds at 10000 feet AGL
Weather:HZ (haze)
METAR for:VAID (Indore Arpt, MP, IN)
Text:VAID 200600Z 27006KT 6000 SCT018 BKN100 28/24 Q1004 NOSIG
Conditions at:0600 UTC 20 Jul 2024
Temperature: 28.0°C ( 82°F)
Dewpoint: 24.0°C ( 75°F) [RH = 79%]
Pressure (altimeter):29.65 inches Hg (1004.0 mb)
Winds:from the W (270 degrees) at 7 MPH (6 knots; 3.1 m/s)
Visibility:4 sm (6 km)
Ceiling:10000 feet AGL
Clouds:scattered clouds at 1800 feet AGL, broken clouds at 10000 feet AGL
METAR for:VAHS (Rajkot Intl, GJ, IN)
Text:VAHS 200600Z 19008KT 6000 SCT020 SCT080 32/26 Q0999 NOSIG
Conditions at:0600 UTC 20 Jul 2024
Temperature: 32.0°C ( 90°F)
Dewpoint: 26.0°C ( 79°F) [RH = 71%]
Pressure (altimeter):29.50 inches Hg ( 999.0 mb)
Winds:from the S (190 degrees) at 9 MPH (8 knots; 4.1 m/s)
Visibility:4 sm (6 km)
Ceiling:at least 12,000 feet AGL
Clouds:scattered clouds at 2000 feet AGL, scattered clouds at 8000 feet AGL
METAR for:VAGD (Gondia Arpt, MA, IN)
Text:VAGD 200600Z 21005KT 5000 HZ SCT025 FEW030CB 30/28 Q0999 NOSIG
Conditions at:0600 UTC 20 Jul 2024
Temperature: 30.0°C ( 86°F)
Dewpoint: 28.0°C ( 82°F) [RH = 89%]
Pressure (altimeter):29.50 inches Hg ( 999.0 mb)
Winds:from the SSW (210 degrees) at 6 MPH (5 knots; 2.6 m/s)
Visibility:3 sm (5 km)
Ceiling:at least 12,000 feet AGL
Clouds:scattered clouds at 2500 feet AGL, few clouds at 3000 feet AGL
Weather:HZ (haze)
METAR for:VADU (Diu Arpt, DA, IN)
Text:VADU 200600Z 26016KT 3000 RA SCT010 SCT020 FEW030TCU OVC080 27/26 Q0999 NOSIG
Conditions at:0600 UTC 20 Jul 2024
Temperature: 27.0°C ( 81°F)
Dewpoint: 26.0°C ( 79°F) [RH = 94%]
Pressure (altimeter):29.50 inches Hg ( 999.0 mb)
Winds:from the W (260 degrees) at 18 MPH (16 knots; 8.2 m/s)
Visibility:1.86 sm (2.99 km)
Ceiling:8000 feet AGL
Clouds:scattered clouds at 1000 feet AGL, scattered clouds at 2000 feet AGL, few clouds at 3000 feet AGL, overcast cloud deck at 8000 feet AGL
Weather:RA (moderate rain)
METAR for:VABV (Bhavnagar Arpt, GJ, IN)
Text:VABV 200600Z 14012KT 5000 -RA HZ FEW020 SCT025 BKN080 30/28 Q0999 TEMPO 3000 RA
Conditions at:0600 UTC 20 Jul 2024
Temperature: 30.0°C ( 86°F)
Dewpoint: 28.0°C ( 82°F) [RH = 89%]
Pressure (altimeter):29.50 inches Hg ( 999.0 mb)
Winds:from the SE (140 degrees) at 14 MPH (12 knots; 6.2 m/s)
Visibility:3 sm (5 km)
Ceiling:8000 feet AGL
Clouds:few clouds at 2000 feet AGL, scattered clouds at 2500 feet AGL, broken clouds at 8000 feet AGL
Weather:-RA HZ (light rain, haze)
METAR for:VABP (Bhopal/Raja Bhoj Arpt, MP, IN)
Text:VABP 200600Z 24006KT 5000 HZ FEW010 SCT020 FEW030CB BKN100 29/29 Q1002 NOSIG
Conditions at:0600 UTC 20 Jul 2024
Temperature: 29.0°C ( 84°F)
Dewpoint: 29.0°C ( 84°F) [RH = 100%]
Pressure (altimeter):29.59 inches Hg (1002.0 mb)
Winds:from the WSW (240 degrees) at 7 MPH (6 knots; 3.1 m/s)
Visibility:3 sm (5 km)
Ceiling:10000 feet AGL
Clouds:few clouds at 1000 feet AGL, scattered clouds at 2000 feet AGL, few clouds at 3000 feet AGL, broken clouds at 10000 feet AGL
Weather:HZ (haze)
METAR for:VABO (Vadodara Arpt, GJ, IN)
Text:VABO 200600Z 18008KT 3000 REDZ HZ FEW015 SCT020 BKN080 30/26 Q0999 NOSIG
Conditions at:0600 UTC 20 Jul 2024
Temperature: 30.0°C ( 86°F)
Dewpoint: 26.0°C ( 79°F) [RH = 79%]
Pressure (altimeter):29.50 inches Hg ( 999.0 mb)
Winds:from the S (180 degrees) at 9 MPH (8 knots; 4.1 m/s)
Visibility:1.86 sm (2.99 km)
Ceiling:8000 feet AGL
Clouds:few clouds at 1500 feet AGL, scattered clouds at 2000 feet AGL, broken clouds at 8000 feet AGL
Weather:HZ (haze)
METAR for:VABB (Mumbai/Shivaji Intl, MM, IN)
Text:VABB 200600Z 24013G23KT 2200 -RA SCT010 SCT015 FEW030CB OVC080 27/25 Q1002 TEMPO 1500 RA
Conditions at:0600 UTC 20 Jul 2024
Temperature: 27.0°C ( 81°F)
Dewpoint: 25.0°C ( 77°F) [RH = 89%]
Pressure (altimeter):29.59 inches Hg (1002.0 mb)
Winds:from the WSW (240 degrees) at 15 MPH (13 knots; 6.7 m/s) gusting to 26 MPH (23 knots; 11.8 m/s)
Visibility:1.37 sm (2.20 km)
Ceiling:8000 feet AGL
Clouds:scattered clouds at 1000 feet AGL, scattered clouds at 1500 feet AGL, few clouds at 3000 feet AGL, overcast cloud deck at 8000 feet AGL
Weather:-RA (light rain)
METAR for:VAAU (Aurangabad Arpt, MM, IN)
Text:VAAU 200600Z 27004KT 5500 SCT020 SCT025 BKN100 27/24 Q1005 NOSIG
Conditions at:0600 UTC 20 Jul 2024
Temperature: 27.0°C ( 81°F)
Dewpoint: 24.0°C ( 75°F) [RH = 84%]
Pressure (altimeter):29.68 inches Hg (1005.0 mb)
Winds:from the W (270 degrees) at 5 MPH (4 knots; 2.1 m/s)
Visibility:3 sm (6 km)
Ceiling:10000 feet AGL
Clouds:scattered clouds at 2000 feet AGL, scattered clouds at 2500 feet AGL, broken clouds at 10000 feet AGL
METAR for:VAAH (Ahmadabad/Patel Intl, GJ, IN)
Text:VAAH 200600Z 11005KT 3000 HZ SCT020 SCT025 31/25 Q0999 BECMG 4000
Conditions at:0600 UTC 20 Jul 2024
Temperature: 31.0°C ( 88°F)
Dewpoint: 25.0°C ( 77°F) [RH = 71%]
Pressure (altimeter):29.50 inches Hg ( 999.0 mb)
Winds:from the ESE (110 degrees) at 6 MPH (5 knots; 2.6 m/s)
Visibility:1.86 sm (2.99 km)
Ceiling:at least 12,000 feet AGL
Clouds:scattered clouds at 2000 feet AGL, scattered clouds at 2500 feet AGL
Weather:HZ (haze)
METAR for:UWWW (Samara/Kurumoch Intl, SA, RU)
Text:UWWW 200600Z 21003MPS 180V250 CAVOK 27/14 Q1005 R15/CLRD63 NOSIG RMK QFE742/0990
Conditions at:0600 UTC 20 Jul 2024
Temperature: 27.0°C ( 81°F)
Dewpoint: 14.0°C ( 57°F) [RH = 45%]
Pressure (altimeter):29.68 inches Hg (1005.0 mb)
Winds:from the SSW (210 degrees) at 7 MPH (6 knots; 3.1 m/s)
Visibility:6 or more sm (10+ km)
Ceiling:ceiling and visibility are OK
Clouds:unknown
METAR for:UWUU (Ufa Intl, BA, RU)
Text:UWUU 200600Z VRB01MPS CAVOK 24/15 Q1006 R32L/0///60 NOSIG
Conditions at:0600 UTC 20 Jul 2024
Temperature: 24.0°C ( 75°F)
Dewpoint: 15.0°C ( 59°F) [RH = 57%]
Pressure (altimeter):29.70 inches Hg (1006.0 mb)
Winds:variable direction winds at 2 MPH (2 knots; 1.0 m/s)
Visibility:6 or more sm (10+ km)
Ceiling:ceiling and visibility are OK
Clouds:unknown
METAR for:UWSG (Saratov/Gagarin Arpt, SA, RU)
Text:UWSG 200600Z VRB01MPS CAVOK 28/18 Q1003 R26/CLRD70 NOSIG RMK QFE749/0999
Conditions at:0600 UTC 20 Jul 2024
Temperature: 28.0°C ( 82°F)
Dewpoint: 18.0°C ( 64°F) [RH = 55%]
Pressure (altimeter):29.62 inches Hg (1003.0 mb)
Winds:variable direction winds at 2 MPH (2 knots; 1.0 m/s)
Visibility:6 or more sm (10+ km)
Ceiling:ceiling and visibility are OK
Clouds:unknown
METAR for:UWPS (Saransk Arpt, MR, RU)
Text:UWPS 200600Z 33003MPS 9999 OVC005 19/18 Q1006 R20/CLRD60 NOSIG RMK QBB150 QFE737
Conditions at:0600 UTC 20 Jul 2024
Temperature: 19.0°C ( 66°F)
Dewpoint: 18.0°C ( 64°F) [RH = 94%]
Pressure (altimeter):29.70 inches Hg (1006.0 mb)
Winds:from the NNW (330 degrees) at 7 MPH (6 knots; 3.1 m/s)
Visibility:6 or more sm (10+ km)
Ceiling:500 feet AGL
Clouds:overcast cloud deck at 500 feet AGL
METAR for:UWOR (Orsk Arpt, OR, RU)
Text:UWOR 200600Z 35003MPS 310V060 9999 SCT040 23/14 Q1006 R07/CLRD65 NOSIG RMK QFE730/0974
Conditions at:0600 UTC 20 Jul 2024
Temperature: 23.0°C ( 73°F)
Dewpoint: 14.0°C ( 57°F) [RH = 57%]
Pressure (altimeter):29.70 inches Hg (1006.0 mb)
Winds:from the N (350 degrees) at 7 MPH (6 knots; 3.1 m/s)
Visibility:6 or more sm (10+ km)
Ceiling:at least 12,000 feet AGL
Clouds:scattered clouds at 4000 feet AGL
METAR for:UWOO (Orenburg Arpt, OR, RU)
Text:UWOO 200600Z VRB01MPS CAVOK 25/18 Q1005 R26/60D NOSIG RMK QFE743/0991
Conditions at:0600 UTC 20 Jul 2024
Temperature: 25.0°C ( 77°F)
Dewpoint: 18.0°C ( 64°F) [RH = 65%]
Pressure (altimeter):29.68 inches Hg (1005.0 mb)
Winds:variable direction winds at 2 MPH (2 knots; 1.0 m/s)
Visibility:6 or more sm (10+ km)
Ceiling:ceiling and visibility are OK
Clouds:unknown
METAR for:UWLW (Ulyanovsk/Vostochny Arpt, UL, RU)
Text:UWLW 200600Z VRB01MPS 9999 -SHRA BKN040CB 23/20 Q1005 R02/CLRD60 NOSIG RMK QFE747/0996
Conditions at:0600 UTC 20 Jul 2024
Temperature: 23.0°C ( 73°F)
Dewpoint: 20.0°C ( 68°F) [RH = 83%]
Pressure (altimeter):29.68 inches Hg (1005.0 mb)
Winds:variable direction winds at 2 MPH (2 knots; 1.0 m/s)
Visibility:6 or more sm (10+ km)
Ceiling:4000 feet AGL
Clouds:broken clouds at 4000 feet AGL
Weather:-SHRA (light rain showers)
METAR for:UWLL (Ulyanovsk/Barataevka, UL, RU)
Text:UWLL 200600Z 27002MPS 9999 BKN041CB 21/16 Q1005 R02/190060 NOSIG RMK QFE742/0989
Conditions at:0600 UTC 20 Jul 2024
Temperature: 21.0°C ( 70°F)
Dewpoint: 16.0°C ( 61°F) [RH = 73%]
Pressure (altimeter):29.68 inches Hg (1005.0 mb)
Winds:from the W (270 degrees) at 5 MPH (4 knots; 2.1 m/s)
Visibility:6 or more sm (10+ km)
Ceiling:4100 feet AGL
Clouds:broken clouds at 4100 feet AGL
METAR for:UWKS (Cheboksary Arpt, CU, RU)
Text:UWKS 200600Z 03002MPS 350V070 9999 SCT040CB 23/17 Q1005 R06/090060 NOSIG RMK QFE739
Conditions at:0600 UTC 20 Jul 2024
Temperature: 23.0°C ( 73°F)
Dewpoint: 17.0°C ( 63°F) [RH = 69%]
Pressure (altimeter):29.68 inches Hg (1005.0 mb)
Winds:from the NNE (30 degrees) at 5 MPH (4 knots; 2.1 m/s)
Visibility:6 or more sm (10+ km)
Ceiling:at least 12,000 feet AGL
Clouds:scattered clouds at 4000 feet AGL
METAR for:UWKE (Begishevo Arpt, TA, RU)
Text:UWKE 200600Z 19002MPS CAVOK 26/15 Q1006 R21/090070 NOSIG RMK QFE738/0984
Conditions at:0600 UTC 20 Jul 2024
Temperature: 26.0°C ( 79°F)
Dewpoint: 15.0°C ( 59°F) [RH = 51%]
Pressure (altimeter):29.70 inches Hg (1006.0 mb)
Winds:from the S (190 degrees) at 5 MPH (4 knots; 2.1 m/s)
Visibility:6 or more sm (10+ km)
Ceiling:ceiling and visibility are OK
Clouds:unknown
METAR for:UWKD (Kazan Intl, TA, RU)
Text:UWKD 200600Z 25002MPS 220V290 CAVOK 24/16 Q1005 R29/70D NOSIG RMK QFE743/0990
Conditions at:0600 UTC 20 Jul 2024
Temperature: 24.0°C ( 75°F)
Dewpoint: 16.0°C ( 61°F) [RH = 61%]
Pressure (altimeter):29.68 inches Hg (1005.0 mb)
Winds:from the WSW (250 degrees) at 5 MPH (4 knots; 2.1 m/s)
Visibility:6 or more sm (10+ km)
Ceiling:ceiling and visibility are OK
Clouds:unknown
METAR for:UWGG (Nizhny Novgorod Intl, NI, RU)
Text:UWGG 200600Z VRB01MPS 9999 -RA BKN006 19/18 Q1006 R36R/290050 NOSIG
Conditions at:0600 UTC 20 Jul 2024
Temperature: 19.0°C ( 66°F)
Dewpoint: 18.0°C ( 64°F) [RH = 94%]
Pressure (altimeter):29.70 inches Hg (1006.0 mb)
Winds:variable direction winds at 2 MPH (2 knots; 1.0 m/s)
Visibility:6 or more sm (10+ km)
Ceiling:600 feet AGL
Clouds:broken clouds at 600 feet AGL
Weather:-RA (light rain)
METAR for:UUYY (Syktyvkar Arpt, KO, RU)
Text:UUYY 200600Z 05005MPS CAVOK 20/11 Q1009 R36/61D NOSIG RMK QFE748/0997
Conditions at:0600 UTC 20 Jul 2024
Temperature: 20.0°C ( 68°F)
Dewpoint: 11.0°C ( 52°F) [RH = 56%]
Pressure (altimeter):29.79 inches Hg (1009.0 mb)
Winds:from the NE (50 degrees) at 12 MPH (10 knots; 5.1 m/s)
Visibility:6 or more sm (10+ km)
Ceiling:ceiling and visibility are OK
Clouds:unknown
METAR for:UUWW (Moscow/Vnukovo Arpt, MO, RU)
Text:UUWW 200600Z 28004MPS CAVOK 21/15 Q1009 R24/000070 NOSIG
Conditions at:0600 UTC 20 Jul 2024
Temperature: 21.0°C ( 70°F)
Dewpoint: 15.0°C ( 59°F) [RH = 69%]
Pressure (altimeter):29.79 inches Hg (1009.0 mb)
Winds:from the W (280 degrees) at 9 MPH (8 knots; 4.1 m/s)
Visibility:6 or more sm (10+ km)
Ceiling:ceiling and visibility are OK
Clouds:unknown
METAR for:UUOO (Voronez Intl, VO, RU)
Text:UUOO 200600Z 31004MPS 270V350 CAVOK 23/16 Q1009 R30/010070 NOSIG RMK QFE743
Conditions at:0600 UTC 20 Jul 2024
Temperature: 23.0°C ( 73°F)
Dewpoint: 16.0°C ( 61°F) [RH = 65%]
Pressure (altimeter):29.79 inches Hg (1009.0 mb)
Winds:from the NW (310 degrees) at 9 MPH (8 knots; 4.1 m/s)
Visibility:6 or more sm (10+ km)
Ceiling:ceiling and visibility are OK
Clouds:unknown
METAR for:UUOL (Lipetsk Arpt, LI, RU)
Text:UUOL 200600Z 33004MPS CAVOK 23/17 Q1009 R15/////// NOSIG
Conditions at:0600 UTC 20 Jul 2024
Temperature: 23.0°C ( 73°F)
Dewpoint: 17.0°C ( 63°F) [RH = 69%]
Pressure (altimeter):29.79 inches Hg (1009.0 mb)
Winds:from the NNW (330 degrees) at 9 MPH (8 knots; 4.1 m/s)
Visibility:6 or more sm (10+ km)
Ceiling:ceiling and visibility are OK
Clouds:unknown
METAR for:UUOK (Kursk/Vostochmy Arpt, KR, RU)
Text:UUOK 200600Z 35004MPS 330V030 CAVOK 23/17 Q1011 R30/090060 NOSIG RMK QFE739/0986
Conditions at:0600 UTC 20 Jul 2024
Temperature: 23.0°C ( 73°F)
Dewpoint: 17.0°C ( 63°F) [RH = 69%]
Pressure (altimeter):29.85 inches Hg (1011.0 mb)
Winds:from the N (350 degrees) at 9 MPH (8 knots; 4.1 m/s)
Visibility:6 or more sm (10+ km)
Ceiling:ceiling and visibility are OK
Clouds:unknown
METAR for:UUOB (Belgorod Intl, BE, RU)
Text:UUOB 200600Z 36002MPS 320V040 CAVOK 25/15 Q1011 R11/010070 NOSIG
Conditions at:0600 UTC 20 Jul 2024
Temperature: 25.0°C ( 77°F)
Dewpoint: 15.0°C ( 59°F) [RH = 54%]
Pressure (altimeter):29.85 inches Hg (1011.0 mb)
Winds:from the N (360 degrees) at 5 MPH (4 knots; 2.1 m/s)
Visibility:6 or more sm (10+ km)
Ceiling:ceiling and visibility are OK
Clouds:unknown
METAR for:UUEE (Moscow/Sheremetyevo Intl, MO, RU)
Text:UUEE 200600Z 32003MPS 280V010 CAVOK 22/16 Q1009 R24L/CLRD62 R24C/CLRD62 NOSIG
Conditions at:0600 UTC 20 Jul 2024
Temperature: 22.0°C ( 72°F)
Dewpoint: 16.0°C ( 61°F) [RH = 69%]
Pressure (altimeter):29.79 inches Hg (1009.0 mb)
Winds:from the NW (320 degrees) at 7 MPH (6 knots; 3.1 m/s)
Visibility:6 or more sm (10+ km)
Ceiling:ceiling and visibility are OK
Clouds:unknown
METAR for:UUDL (Yaroslav/Tunoshna Arpt, YA, RU)
Text:UUDL 200600Z 32002MPS 9999 BKN006 OVC021CB 18/17 Q1007 R23/190055 NOSIG RMK QFE747
Conditions at:0600 UTC 20 Jul 2024
Temperature: 18.0°C ( 64°F)
Dewpoint: 17.0°C ( 63°F) [RH = 94%]
Pressure (altimeter):29.73 inches Hg (1007.0 mb)
Winds:from the NW (320 degrees) at 5 MPH (4 knots; 2.1 m/s)
Visibility:6 or more sm (10+ km)
Ceiling:600 feet AGL
Clouds:broken clouds at 600 feet AGL, overcast cloud deck at 2100 feet AGL
METAR for:UUDD (Moscow/Domodedovo Arpt, MO, RU)
Text:UUDD 200600Z 32002MPS 280V020 CAVOK 21/17 Q1009 R32L/CLRD60 NOSIG
Conditions at:0600 UTC 20 Jul 2024
Temperature: 21.0°C ( 70°F)
Dewpoint: 17.0°C ( 63°F) [RH = 78%]
Pressure (altimeter):29.79 inches Hg (1009.0 mb)
Winds:from the NW (320 degrees) at 5 MPH (4 knots; 2.1 m/s)
Visibility:6 or more sm (10+ km)
Ceiling:ceiling and visibility are OK
Clouds:unknown
METAR for:UUBW (Moscow/Ramenskoye Arpt, MO, RU)
Text:UUBW 200600Z 32003MPS CAVOK 22/17 Q1008 R30/010060 NOSIG RMK QFE746
Conditions at:0600 UTC 20 Jul 2024
Temperature: 22.0°C ( 72°F)
Dewpoint: 17.0°C ( 63°F) [RH = 73%]
Pressure (altimeter):29.76 inches Hg (1008.0 mb)
Winds:from the NW (320 degrees) at 7 MPH (6 knots; 3.1 m/s)
Visibility:6 or more sm (10+ km)
Ceiling:ceiling and visibility are OK
Clouds:unknown
METAR for:UUBC (Kaluga Intl, KL, RU)
Text:UUBC 200600Z 30003MPS CAVOK 21/16 Q1010 R31/CLRD60 NOSIG RMK QFE741/0988
Conditions at:0600 UTC 20 Jul 2024
Temperature: 21.0°C ( 70°F)
Dewpoint: 16.0°C ( 61°F) [RH = 73%]
Pressure (altimeter):29.82 inches Hg (1010.0 mb)
Winds:from the WNW (300 degrees) at 7 MPH (6 knots; 3.1 m/s)
Visibility:6 or more sm (10+ km)
Ceiling:ceiling and visibility are OK
Clouds:unknown
METAR for:UTTT (Taskent Intl, TK, UZ)
Text:UTTT 200600Z 22010KT 170V240 CAVOK 32/15 Q1005 R26R/CLRD70 NOSIG
Conditions at:0600 UTC 20 Jul 2024
Temperature: 32.0°C ( 90°F)
Dewpoint: 15.0°C ( 59°F) [RH = 36%]
Pressure (altimeter):29.68 inches Hg (1005.0 mb)
Winds:from the SW (220 degrees) at 12 MPH (10 knots; 5.1 m/s)
Visibility:6 or more sm (10+ km)
Ceiling:ceiling and visibility are OK
Clouds:unknown
METAR for:UTST (Termez Arpt, SU, UZ)
Text:UTST 200600Z VRB02KT CAVOK 35/10 Q1004 R25/CLRD70 NOSIG
Conditions at:0600 UTC 20 Jul 2024
Temperature: 35.0°C ( 95°F)
Dewpoint: 10.0°C ( 50°F) [RH = 22%]
Pressure (altimeter):29.65 inches Hg (1004.0 mb)
Winds:variable direction winds at 2 MPH (2 knots; 1.0 m/s)
Visibility:6 or more sm (10+ km)
Ceiling:ceiling and visibility are OK
Clouds:unknown
METAR for:UTSS (Samarkand Arpt, SA, UZ)
Text:UTSS 200600Z 31004KT 240V010 9999 NSC 31/14 Q1007 R27/70D NOSIG
Conditions at:0600 UTC 20 Jul 2024
Temperature: 31.0°C ( 88°F)
Dewpoint: 14.0°C ( 57°F) [RH = 36%]
Pressure (altimeter):29.73 inches Hg (1007.0 mb)
Winds:from the NW (310 degrees) at 5 MPH (4 knots; 2.1 m/s)
Visibility:6 or more sm (10+ km)
Ceiling:at least 12,000 feet AGL
Clouds:sky clear below 12,000 feet AGL
METAR for:UTSK (Karshi Arpt, QA, UZ)
Text:UTSK 200600Z 31010KT 280V340 CAVOK 34/12 Q1005 R16/CLRD70
Conditions at:0600 UTC 20 Jul 2024
Temperature: 34.0°C ( 93°F)
Dewpoint: 12.0°C ( 54°F) [RH = 26%]
Pressure (altimeter):29.68 inches Hg (1005.0 mb)
Winds:from the NW (310 degrees) at 12 MPH (10 knots; 5.1 m/s)
Visibility:6 or more sm (10+ km)
Ceiling:ceiling and visibility are OK
Clouds:unknown
TAF for:UTSK (Karshi Arpt, QA, UZ) issued at 0600 UTC 20 Jul 2024
Text:TAF UTSK 200600Z 2007/2016 34008KT CAVOK TX37/2010Z TN29/2016Z
Forecast period:0700 to 1600 UTC 20 July 2024
Forecast type:FROM: standard forecast or significant change
Winds:from the NNW (340 degrees) at 9 MPH (8 knots; 4.1 m/s)
Visibility:6 or more sm (10+ km)
Clouds:missing
Temperature:MIN 29°C at 1600 UTC 20 Jul 2024
Temperature:MAX 37°C at 1000 UTC 20 Jul 2024
Text:TEMPO 2007/2016 06010G20KT
Forecast period:0700 to 1600 UTC 20 July 2024
Forecast type:TEMPORARY: The following changes expected for less than half the time period
Winds:from the ENE (60 degrees) at 12 MPH (10 knots; 5.1 m/s) gusting to 23 MPH (20 knots; 10.3 m/s)
METAR for:UTSB (Bukhara Arpt, BU, UZ)
Text:UTSB 200600Z 01006KT CAVOK 34/09 Q1005 R01/CLRD70 NOSIG
Conditions at:0600 UTC 20 Jul 2024
Temperature: 34.0°C ( 93°F)
Dewpoint: 9.0°C ( 48°F) [RH = 22%]
Pressure (altimeter):29.68 inches Hg (1005.0 mb)
Winds:from the N (10 degrees) at 7 MPH (6 knots; 3.1 m/s)
Visibility:6 or more sm (10+ km)
Ceiling:ceiling and visibility are OK
Clouds:unknown
METAR for:UTSA (Navoi Arpt, NW, UZ)
Text:UTSA 200600Z 34008KT 300V360 9999 NSC 33/05 Q1006 R25/CLRD70 NOSIG
Conditions at:0600 UTC 20 Jul 2024
Temperature: 33.0°C ( 91°F)
Dewpoint: 5.0°C ( 41°F) [RH = 17%]
Pressure (altimeter):29.70 inches Hg (1006.0 mb)
Winds:from the NNW (340 degrees) at 9 MPH (8 knots; 4.1 m/s)
Visibility:6 or more sm (10+ km)
Ceiling:at least 12,000 feet AGL
Clouds:sky clear below 12,000 feet AGL
METAR for:UTNU (Urgench Arpt, XO, UZ)
Text:UTNU 200600Z 24006KT CAVOK 34/10 Q1005 R31/CLRD70 NOSIG
Conditions at:0600 UTC 20 Jul 2024
Temperature: 34.0°C ( 93°F)
Dewpoint: 10.0°C ( 50°F) [RH = 23%]
Pressure (altimeter):29.68 inches Hg (1005.0 mb)
Winds:from the WSW (240 degrees) at 7 MPH (6 knots; 3.1 m/s)
Visibility:6 or more sm (10+ km)
Ceiling:ceiling and visibility are OK
Clouds:unknown
METAR for:UTNN (Nukus Arpt, QR, UZ)
Text:UTNN 200600Z 24008KT CAVOK 33/09 Q1005 R33/CLRD60 NOSIG
Conditions at:0600 UTC 20 Jul 2024
Temperature: 33.0°C ( 91°F)
Dewpoint: 9.0°C ( 48°F) [RH = 23%]
Pressure (altimeter):29.68 inches Hg (1005.0 mb)
Winds:from the WSW (240 degrees) at 9 MPH (8 knots; 4.1 m/s)
Visibility:6 or more sm (10+ km)
Ceiling:ceiling and visibility are OK
Clouds:unknown
METAR for:UTFN (Namangan Arpt, NG, UZ)
Text:UTFN 200600Z 15004KT 110V210 9999 FEW050CB 33/14 Q1004 R28/CLRD70 NOSIG
Conditions at:0600 UTC 20 Jul 2024
Temperature: 33.0°C ( 91°F)
Dewpoint: 14.0°C ( 57°F) [RH = 32%]
Pressure (altimeter):29.65 inches Hg (1004.0 mb)
Winds:from the SSE (150 degrees) at 5 MPH (4 knots; 2.1 m/s)
Visibility:6 or more sm (10+ km)
Ceiling:at least 12,000 feet AGL
Clouds:few clouds at 5000 feet AGL
METAR for:UTFF (Fergana Arpt, FA, UZ)
Text:UTFF 200600Z 36004KT 280V360 9999 NSC 31/14 Q1005 R18/CLRD70
Conditions at:0600 UTC 20 Jul 2024
Temperature: 31.0°C ( 88°F)
Dewpoint: 14.0°C ( 57°F) [RH = 36%]
Pressure (altimeter):29.68 inches Hg (1005.0 mb)
Winds:from the N (360 degrees) at 5 MPH (4 knots; 2.1 m/s)
Visibility:6 or more sm (10+ km)
Ceiling:at least 12,000 feet AGL
Clouds:sky clear below 12,000 feet AGL
TAF for:UTFF (Fergana Arpt, FA, UZ) issued at 0600 UTC 20 Jul 2024
Text:TAF UTFF 200600Z 2007/2016 34010KT 9999 NSC TX37/2011Z TN30/2016Z
Forecast period:0700 to 1600 UTC 20 July 2024
Forecast type:FROM: standard forecast or significant change
Winds:from the NNW (340 degrees) at 12 MPH (10 knots; 5.1 m/s)
Visibility:6 or more sm (10+ km)
Clouds:missing
Temperature:MIN 30°C at 1600 UTC 20 Jul 2024
Temperature:MAX 37°C at 1100 UTC 20 Jul 2024
Text:TEMPO 2007/2012 24014G24KT FEW060CB
Forecast period:0700 to 1200 UTC 20 July 2024
Forecast type:TEMPORARY: The following changes expected for less than half the time period
Winds:from the WSW (240 degrees) at 16 MPH (14 knots; 7.2 m/s) gusting to 28 MPH (24 knots; 12.3 m/s)
Ceiling:at least 12,000 feet AGL
Clouds:few clouds at 6000 feet AGL
METAR for:UTDT (Qurghonteppa Intl, KT, TJ)
Text:UTDT 200600Z 29002MPS 9999 NSC 35/12 Q1004 R35/CLRD70 RMK QFE714/0952
Conditions at:0600 UTC 20 Jul 2024
Temperature: 35.0°C ( 95°F)
Dewpoint: 12.0°C ( 54°F) [RH = 25%]
Pressure (altimeter):29.65 inches Hg (1004.0 mb)
Winds:from the WNW (290 degrees) at 5 MPH (4 knots; 2.1 m/s)
Visibility:6 or more sm (10+ km)
Ceiling:at least 12,000 feet AGL
Clouds:sky clear below 12,000 feet AGL
METAR for:UTDL (Khujand Arpt, GB, TJ)
Text:UTDL 200600Z 14002MPS 9999 FEW050 33/12 Q1005 R08/CLRD70 NOSIG RMK QFE715/0954
Conditions at:0600 UTC 20 Jul 2024
Temperature: 33.0°C ( 91°F)
Dewpoint: 12.0°C ( 54°F) [RH = 28%]
Pressure (altimeter):29.68 inches Hg (1005.0 mb)
Winds:from the SE (140 degrees) at 5 MPH (4 knots; 2.1 m/s)
Visibility:6 or more sm (10+ km)
Ceiling:at least 12,000 feet AGL
Clouds:few clouds at 5000 feet AGL
METAR for:UTDK (Kulob Arpt, KT, TJ)
Text:UTDK 200600Z 20003MPS 170V240 9999 NSC 35/10 Q1007 R01/09//70 RMK QFE698/0930
Conditions at:0600 UTC 20 Jul 2024
Temperature: 35.0°C ( 95°F)
Dewpoint: 10.0°C ( 50°F) [RH = 22%]
Pressure (altimeter):29.73 inches Hg (1007.0 mb)
Winds:from the SSW (200 degrees) at 7 MPH (6 knots; 3.1 m/s)
Visibility:6 or more sm (10+ km)
Ceiling:at least 12,000 feet AGL
Clouds:sky clear below 12,000 feet AGL
METAR for:UTDD (Dushanbe Arpt, DU, TJ)
Text:UTDD 200600Z VRB02MPS 9999 FEW066 33/10 Q1007 R09/D NOSIG RMK QFE688/0917
Conditions at:0600 UTC 20 Jul 2024
Temperature: 33.0°C ( 91°F)
Dewpoint: 10.0°C ( 50°F) [RH = 24%]
Pressure (altimeter):29.73 inches Hg (1007.0 mb)
Winds:variable direction winds at 5 MPH (4 knots; 2.1 m/s)
Visibility:6 or more sm (10+ km)
Ceiling:at least 12,000 feet AGL
Clouds:few clouds at 6600 feet AGL
METAR for:UTAV (Türkmenabat Arpt, L, TM)
Text:UTAV 200600Z 34008KT CAVOK 36/09 Q1005 R31/CLRD70 NOSIG
Conditions at:0600 UTC 20 Jul 2024
Temperature: 36.0°C ( 97°F)
Dewpoint: 9.0°C ( 48°F) [RH = 19%]
Pressure (altimeter):29.68 inches Hg (1005.0 mb)
Winds:from the NNW (340 degrees) at 9 MPH (8 knots; 4.1 m/s)
Visibility:6 or more sm (10+ km)
Ceiling:ceiling and visibility are OK
Clouds:unknown
METAR for:UTAT (Daşoguz Arpt, D, TM)
Text:UTAT 200600Z 24006KT 210V280 CAVOK 34/12 Q1005 R26/CLRD70 NOSIG
Conditions at:0600 UTC 20 Jul 2024
Temperature: 34.0°C ( 93°F)
Dewpoint: 12.0°C ( 54°F) [RH = 26%]
Pressure (altimeter):29.68 inches Hg (1005.0 mb)
Winds:from the WSW (240 degrees) at 7 MPH (6 knots; 3.1 m/s)
Visibility:6 or more sm (10+ km)
Ceiling:ceiling and visibility are OK
Clouds:unknown
METAR for:UTAM (Mary Arpt, M, TM)
Text:UTAM 200600Z 12004KT CAVOK 36/14 Q1004 R88/CLRD70 NOSIG
Conditions at:0600 UTC 20 Jul 2024
Temperature: 36.0°C ( 97°F)
Dewpoint: 14.0°C ( 57°F) [RH = 27%]
Pressure (altimeter):29.65 inches Hg (1004.0 mb)
Winds:from the ESE (120 degrees) at 5 MPH (4 knots; 2.1 m/s)
Visibility:6 or more sm (10+ km)
Ceiling:ceiling and visibility are OK
Clouds:unknown
METAR for:UTAK (Turkmenbashi Arpt, B, TM)
Text:UTAK 200600Z 00000KT CAVOK 33/12 Q1005 R16R/CLRD70 NOSIG
Conditions at:0600 UTC 20 Jul 2024
Temperature: 33.0°C ( 91°F)
Dewpoint: 12.0°C ( 54°F) [RH = 28%]
Pressure (altimeter):29.68 inches Hg (1005.0 mb)
Winds:calm
Visibility:6 or more sm (10+ km)
Ceiling:ceiling and visibility are OK
Clouds:unknown
METAR for:UTAA (Ashgabat Intl, S, TM)
Text:UTAA 200600Z 04004KT 9999 FEW100 34/07 Q1005 R88/70D NOSIG
Conditions at:0600 UTC 20 Jul 2024
Temperature: 34.0°C ( 93°F)
Dewpoint: 7.0°C ( 45°F) [RH = 19%]
Pressure (altimeter):29.68 inches Hg (1005.0 mb)
Winds:from the NE (40 degrees) at 5 MPH (4 knots; 2.1 m/s)
Visibility:6 or more sm (10+ km)
Ceiling:at least 12,000 feet AGL
Clouds:few clouds at 10000 feet AGL
METAR for:USTR (Tyumen/Roschino Intl, TY, RU)
Text:USTR 200600Z 30003MPS 9000 -SHRA BKN048CB 18/18 Q1002 R30/290060 R21/290060 TEMPO 2100 -TSRA BKN016CB
Conditions at:0600 UTC 20 Jul 2024
Temperature: 18.0°C ( 64°F)
Dewpoint: 18.0°C ( 64°F) [RH = 100%]
Pressure (altimeter):29.59 inches Hg (1002.0 mb)
Winds:from the WNW (300 degrees) at 7 MPH (6 knots; 3.1 m/s)
Visibility:6 sm (9 km)
Ceiling:4800 feet AGL
Clouds:broken clouds at 4800 feet AGL
Weather:-SHRA (light rain showers)
METAR for:USSS (Yekaterinburg/Koltsovo Arpt, SV, RU)
Text:USSS 200600Z 31004MPS 290V350 CAVOK 24/16 Q1004 R26L/010060 NOSIG RMK QFE733/0977
Conditions at:0600 UTC 20 Jul 2024
Temperature: 24.0°C ( 75°F)
Dewpoint: 16.0°C ( 61°F) [RH = 61%]
Pressure (altimeter):29.65 inches Hg (1004.0 mb)
Winds:from the NW (310 degrees) at 9 MPH (8 knots; 4.1 m/s)
Visibility:6 or more sm (10+ km)
Ceiling:ceiling and visibility are OK
Clouds:unknown
METAR for:USRR (Surgut Intl, KH, RU)
Text:USRR 200600Z 08007MPS 050V110 CAVOK 26/12 Q1000 R07/CLRD60 NOSIG RMK QFE745
Conditions at:0600 UTC 20 Jul 2024
Temperature: 26.0°C ( 79°F)
Dewpoint: 12.0°C ( 54°F) [RH = 42%]
Pressure (altimeter):29.53 inches Hg (1000.0 mb)
Winds:from the E (80 degrees) at 16 MPH (14 knots; 7.2 m/s)
Visibility:6 or more sm (10+ km)
Ceiling:ceiling and visibility are OK
Clouds:unknown
METAR for:USPP (Perm/Savino Arpt, PE, RU)
Text:USPP 200600Z VRB01MPS CAVOK 24/17 Q1005 R21/090060 NOSIG RMK QFE743
Conditions at:0600 UTC 20 Jul 2024
Temperature: 24.0°C ( 75°F)
Dewpoint: 17.0°C ( 63°F) [RH = 65%]
Pressure (altimeter):29.68 inches Hg (1005.0 mb)
Winds:variable direction winds at 2 MPH (2 knots; 1.0 m/s)
Visibility:6 or more sm (10+ km)
Ceiling:ceiling and visibility are OK
Clouds:unknown
METAR for:USNN (Nizhnevartovsk Arpt, KH, RU)
Text:USNN 200600Z 08006MPS CAVOK 22/14 Q0999 R03/0///65 NOSIG RMK QFE745
Conditions at:0600 UTC 20 Jul 2024
Temperature: 22.0°C ( 72°F)
Dewpoint: 14.0°C ( 57°F) [RH = 60%]
Pressure (altimeter):29.50 inches Hg ( 999.0 mb)
Winds:from the E (80 degrees) at 14 MPH (12 knots; 6.2 m/s)
Visibility:6 or more sm (10+ km)
Ceiling:ceiling and visibility are OK
Clouds:unknown
METAR for:USHH (Khanty-Mansijsk Arpt, KH, RU)
Text:USHH 200600Z 01003MPS CAVOK 24/16 Q1001 R06/010060 NOSIG
Conditions at:0600 UTC 20 Jul 2024
Temperature: 24.0°C ( 75°F)
Dewpoint: 16.0°C ( 61°F) [RH = 61%]
Pressure (altimeter):29.56 inches Hg (1001.0 mb)
Winds:from the N (10 degrees) at 7 MPH (6 knots; 3.1 m/s)
Visibility:6 or more sm (10+ km)
Ceiling:ceiling and visibility are OK
Clouds:unknown
METAR for:USDA (Sabette Arpt, YA, RU)
Text:USDA 200600Z 01003MPS 330V090 9999 FEW026 09/04 Q1015 R22/CLRD60 NOSIG RMK QFE760/1014
Conditions at:0600 UTC 20 Jul 2024
Temperature: 9.0°C ( 48°F)
Dewpoint: 4.0°C ( 39°F) [RH = 71%]
Pressure (altimeter):29.97 inches Hg (1015.0 mb)
Winds:from the N (10 degrees) at 7 MPH (6 knots; 3.1 m/s)
Visibility:6 or more sm (10+ km)
Ceiling:at least 12,000 feet AGL
Clouds:few clouds at 2600 feet AGL
METAR for:USCM (Magnitogorsk Intl, BA, RU)
Text:USCM 200600Z 36002MPS 330V070 9999 SCT040 22/14 Q1006 R36/090060 NOSIG RMK QFE716
Conditions at:0600 UTC 20 Jul 2024
Temperature: 22.0°C ( 72°F)
Dewpoint: 14.0°C ( 57°F) [RH = 60%]
Pressure (altimeter):29.70 inches Hg (1006.0 mb)
Winds:from the N (360 degrees) at 5 MPH (4 knots; 2.1 m/s)
Visibility:6 or more sm (10+ km)
Ceiling:at least 12,000 feet AGL
Clouds:scattered clouds at 4000 feet AGL
METAR for:USCC (Cheljabinsk Arpt, CH, RU)
Text:USCC 200600Z 34004MPS CAVOK 22/15 Q1004 R27/000060 NOSIG RMK QFE733
Conditions at:0600 UTC 20 Jul 2024
Temperature: 22.0°C ( 72°F)
Dewpoint: 15.0°C ( 59°F) [RH = 65%]
Pressure (altimeter):29.65 inches Hg (1004.0 mb)
Winds:from the NNW (340 degrees) at 9 MPH (8 knots; 4.1 m/s)
Visibility:6 or more sm (10+ km)
Ceiling:ceiling and visibility are OK
Clouds:unknown
METAR for:URWW (Volgograd Intl, VG, RU)
Text:URWW 200600Z 33006MPS CAVOK 25/16 Q1006 R05/010070 NOSIG
Conditions at:0600 UTC 20 Jul 2024
Temperature: 25.0°C ( 77°F)
Dewpoint: 16.0°C ( 61°F) [RH = 57%]
Pressure (altimeter):29.70 inches Hg (1006.0 mb)
Winds:from the NNW (330 degrees) at 14 MPH (12 knots; 6.2 m/s)
Visibility:6 or more sm (10+ km)
Ceiling:ceiling and visibility are OK
Clouds:unknown
METAR for:URWI (Elista Arpt, KL, RU)
Text:URWI 200600Z 02008MPS CAVOK 32/17 Q1004 NOSIG
Conditions at:0600 UTC 20 Jul 2024
Temperature: 32.0°C ( 90°F)
Dewpoint: 17.0°C ( 63°F) [RH = 41%]
Pressure (altimeter):29.65 inches Hg (1004.0 mb)
Winds:from the NNE (20 degrees) at 18 MPH (16 knots; 8.2 m/s)
Visibility:6 or more sm (10+ km)
Ceiling:ceiling and visibility are OK
Clouds:unknown
METAR for:URWA (Astrakhan Arpt, AS, RU)
Text:URWA 200600Z 22004MPS 190V250 9999 SCT///CB 32/14 Q1003 R27/010070 NOSIG RMK QFE754/1005
Conditions at:0600 UTC 20 Jul 2024
Temperature: 32.0°C ( 90°F)
Dewpoint: 14.0°C ( 57°F) [RH = 34%]
Pressure (altimeter):29.62 inches Hg (1003.0 mb)
Winds:from the SW (220 degrees) at 9 MPH (8 knots; 4.1 m/s)
Visibility:6 or more sm (10+ km)
METAR for:URSS (Sochi Intl, KD, RU)
Text:URSS 200600Z 14005MPS 9999 FEW027 BKN050CB 27/21 Q1005 R02/010070 R06/010070 NOSIG RMK R06/13005MPS MT OBSC QFE752
Conditions at:0600 UTC 20 Jul 2024
Temperature: 27.0°C ( 81°F)
Dewpoint: 21.0°C ( 70°F) [RH = 70%]
Pressure (altimeter):29.68 inches Hg (1005.0 mb)
Winds:from the SE (140 degrees) at 12 MPH (10 knots; 5.1 m/s)
Visibility:6 or more sm (10+ km)
Ceiling:5000 feet AGL
Clouds:few clouds at 2700 feet AGL, broken clouds at 5000 feet AGL
METAR for:URRP (Platov Intl, RO, RU)
Text:URRP 200600Z 03005MPS 360V060 CAVOK 28/15 Q1008 R05/CLRD70 NOSIG RMK QFE751/1001
Conditions at:0600 UTC 20 Jul 2024
Temperature: 28.0°C ( 82°F)
Dewpoint: 15.0°C ( 59°F) [RH = 45%]
Pressure (altimeter):29.76 inches Hg (1008.0 mb)
Winds:from the NNE (30 degrees) at 12 MPH (10 knots; 5.1 m/s)
Visibility:6 or more sm (10+ km)
Ceiling:ceiling and visibility are OK
Clouds:unknown
METAR for:URMT (Stavropol/Shpakovskoye Intl, ST, RU)
Text:URMT 200600Z 09004MPS 9999 SCT033CB 27/15 Q1008 R07/010070 TEMPO VRB08G14MPS 4000 -TSRA BKN020CB RMK QFE716
Conditions at:0600 UTC 20 Jul 2024
Temperature: 27.0°C ( 81°F)
Dewpoint: 15.0°C ( 59°F) [RH = 48%]
Pressure (altimeter):29.76 inches Hg (1008.0 mb)
Winds:from the E (90 degrees) at 9 MPH (8 knots; 4.1 m/s)
Visibility:6 or more sm (10+ km)
Ceiling:at least 12,000 feet AGL
Clouds:scattered clouds at 3300 feet AGL
METAR for:URMO (Vladikavkaz Arpt, SE, RU)
Text:URMO 200600Z 30003MPS 9999 BKN///CB BKN120 22/13 Q1008 R09/010070 NOSIG RMK QFE713/0950
Conditions at:0600 UTC 20 Jul 2024
Temperature: 22.0°C ( 72°F)
Dewpoint: 13.0°C ( 55°F) [RH = 57%]
Pressure (altimeter):29.76 inches Hg (1008.0 mb)
Winds:from the WNW (300 degrees) at 7 MPH (6 knots; 3.1 m/s)
Visibility:6 or more sm (10+ km)
Ceiling:12000 feet AGL
Clouds:broken clouds at 12000 feet AGL
METAR for:URMN (Nalchik Arpt, KB, RU)
Text:URMN 200600Z 19004MPS 9999 FEW///CB BKN147 29/09 Q1006 R24/010070 NOSIG RMK QFE718
Conditions at:0600 UTC 20 Jul 2024
Temperature: 29.0°C ( 84°F)
Dewpoint: 9.0°C ( 48°F) [RH = 29%]
Pressure (altimeter):29.70 inches Hg (1006.0 mb)
Winds:from the S (190 degrees) at 9 MPH (8 knots; 4.1 m/s)
Visibility:6 or more sm (10+ km)
Ceiling:14700 feet AGL
Clouds:broken clouds at 14700 feet AGL
METAR for:URMM (Mineralyne Vody Arpt, ST, RU)
Text:URMM 200600Z VRB01MPS 9999 SCT///CB 28/12 Q1006 R29/090070 NOSIG RMK QFE726/0969
Conditions at:0600 UTC 20 Jul 2024
Temperature: 28.0°C ( 82°F)
Dewpoint: 12.0°C ( 54°F) [RH = 37%]
Pressure (altimeter):29.70 inches Hg (1006.0 mb)
Winds:variable direction winds at 2 MPH (2 knots; 1.0 m/s)
Visibility:6 or more sm (10+ km)
METAR for:URML (Makhachkala/Uytash Arpt, DA, RU)
Text:URML 200600Z 14004MPS 9999 NSC 30/18 Q1004 R14/01//70 NOSIG RMK QFE753/1004
Conditions at:0600 UTC 20 Jul 2024
Temperature: 30.0°C ( 86°F)
Dewpoint: 18.0°C ( 64°F) [RH = 49%]
Pressure (altimeter):29.65 inches Hg (1004.0 mb)
Winds:from the SE (140 degrees) at 9 MPH (8 knots; 4.1 m/s)
Visibility:6 or more sm (10+ km)
Ceiling:at least 12,000 feet AGL
Clouds:sky clear below 12,000 feet AGL
METAR for:URMG (Grozny Arpt, CE, RU)
Text:URMG 200600Z 21002MPS 180V280 9999 SCT/// 27/14 Q1006 R08/090070 NOSIG RMK QFE740/0986
Conditions at:0600 UTC 20 Jul 2024
Temperature: 27.0°C ( 81°F)
Dewpoint: 14.0°C ( 57°F) [RH = 45%]
Pressure (altimeter):29.70 inches Hg (1006.0 mb)
Winds:from the SSW (210 degrees) at 5 MPH (4 knots; 2.1 m/s)
Visibility:6 or more sm (10+ km)
METAR for:URKK (Krasnodar Arpt, KD, RU)
Text:URKK 200600Z 06005MPS CAVOK 31/17 Q1004 R05R/CLRD70 NOSIG RMK QFE750
Conditions at:0600 UTC 20 Jul 2024
Temperature: 31.0°C ( 88°F)
Dewpoint: 17.0°C ( 63°F) [RH = 43%]
Pressure (altimeter):29.65 inches Hg (1004.0 mb)
Winds:from the ENE (60 degrees) at 12 MPH (10 knots; 5.1 m/s)
Visibility:6 or more sm (10+ km)
Ceiling:ceiling and visibility are OK
Clouds:unknown
METAR for:URKA (Anapa Arpt, KD, RU)
Text:URKA 200600Z 10004MPS 060V130 CAVOK 31/18 Q1005 R03/010070 NOSIG RMK QFE749/0999
Conditions at:0600 UTC 20 Jul 2024
Temperature: 31.0°C ( 88°F)
Dewpoint: 18.0°C ( 64°F) [RH = 46%]
Pressure (altimeter):29.68 inches Hg (1005.0 mb)
Winds:from the E (100 degrees) at 9 MPH (8 knots; 4.1 m/s)
Visibility:6 or more sm (10+ km)
Ceiling:ceiling and visibility are OK
Clouds:unknown
METAR for:UOOO (Norilsk/Alykel Arpt, TA, RU)
Text:UOOO 200600Z 01011MPS CAVOK 13/05 Q1005 R01/CLRD60 NOSIG RMK QFE739/0985
Conditions at:0600 UTC 20 Jul 2024
Temperature: 13.0°C ( 55°F)
Dewpoint: 5.0°C ( 41°F) [RH = 58%]
Pressure (altimeter):29.68 inches Hg (1005.0 mb)
Winds:from the N (10 degrees) at 24 MPH (21 knots; 10.8 m/s)
Visibility:6 or more sm (10+ km)
Ceiling:ceiling and visibility are OK
Clouds:unknown
METAR for:UNWW (Novokuznetsk Arpt, KE, RU)
Text:UNWW 200600Z 27003MPS 230V320 9999 SCT043 25/17 Q1003 R19/09//55 NOSIG RMK QFE725
Conditions at:0600 UTC 20 Jul 2024
Temperature: 25.0°C ( 77°F)
Dewpoint: 17.0°C ( 63°F) [RH = 61%]
Pressure (altimeter):29.62 inches Hg (1003.0 mb)
Winds:from the W (270 degrees) at 7 MPH (6 knots; 3.1 m/s)
Visibility:6 or more sm (10+ km)
Ceiling:at least 12,000 feet AGL
Clouds:scattered clouds at 4300 feet AGL
METAR for:UNTT (Tomsk/Bogashevo Arpt, TO, RU)
Text:UNTT 200600Z 28003MPS 9999 BKN012 BKN023CB 20/18 Q1000 R21/190055 NOSIG RMK QFE734
Conditions at:0600 UTC 20 Jul 2024
Temperature: 20.0°C ( 68°F)
Dewpoint: 18.0°C ( 64°F) [RH = 88%]
Pressure (altimeter):29.53 inches Hg (1000.0 mb)
Winds:from the W (280 degrees) at 7 MPH (6 knots; 3.1 m/s)
Visibility:6 or more sm (10+ km)
Ceiling:1200 feet AGL
Clouds:broken clouds at 1200 feet AGL, broken clouds at 2300 feet AGL
METAR for:UNOO (Omsk Arpt, OM, RU)
Text:UNOO 200600Z 26004MPS 220V290 9999 SCT033 23/14 Q0999 R25/CLRD60 NOSIG RMK QFE741
Conditions at:0600 UTC 20 Jul 2024
Temperature: 23.0°C ( 73°F)
Dewpoint: 14.0°C ( 57°F) [RH = 57%]
Pressure (altimeter):29.50 inches Hg ( 999.0 mb)
Winds:from the W (260 degrees) at 9 MPH (8 knots; 4.1 m/s)
Visibility:6 or more sm (10+ km)
Ceiling:at least 12,000 feet AGL
Clouds:scattered clouds at 3300 feet AGL
METAR for:UNNT (Novosibirsk/Tolmachevo Arpt, NV, RU)
Text:UNNT 200600Z 27003MPS 9999 BKN034 23/16 Q1001 R25/090070 R34/////// NOSIG RMK QFE741/0988
Conditions at:0600 UTC 20 Jul 2024
Temperature: 23.0°C ( 73°F)
Dewpoint: 16.0°C ( 61°F) [RH = 65%]
Pressure (altimeter):29.56 inches Hg (1001.0 mb)
Winds:from the W (270 degrees) at 7 MPH (6 knots; 3.1 m/s)
Visibility:6 or more sm (10+ km)
Ceiling:3400 feet AGL
Clouds:broken clouds at 3400 feet AGL
METAR for:UNKL (Krasnoyarsk Arpt, KY, RU)
Text:UNKL 200600Z 23003MPS 190V260 CAVOK 26/17 Q1001 R29/CLRD65 NOSIG RMK QFE725
Conditions at:0600 UTC 20 Jul 2024
Temperature: 26.0°C ( 79°F)
Dewpoint: 17.0°C ( 63°F) [RH = 58%]
Pressure (altimeter):29.56 inches Hg (1001.0 mb)
Winds:from the SW (230 degrees) at 7 MPH (6 knots; 3.1 m/s)
Visibility:6 or more sm (10+ km)
Ceiling:ceiling and visibility are OK
Clouds:unknown
METAR for:UNEE (Kemerovo Intl, KE, RU)
Text:UNEE 200600Z 25006MPS 9999 BKN012 20/19 Q1001 R23/////// NOSIG RMK QFE728
Conditions at:0600 UTC 20 Jul 2024
Temperature: 20.0°C ( 68°F)
Dewpoint: 19.0°C ( 66°F) [RH = 94%]
Pressure (altimeter):29.56 inches Hg (1001.0 mb)
Winds:from the WSW (250 degrees) at 14 MPH (12 knots; 6.2 m/s)
Visibility:6 or more sm (10+ km)
Ceiling:1200 feet AGL
Clouds:broken clouds at 1200 feet AGL
METAR for:UNBB (Barnaul Arpt, AL, RU)
Text:UNBB 200600Z 21002MPS 9999 FEW040 22/14 Q1003 R24/CLRD66 NOSIG RMK QFE730
Conditions at:0600 UTC 20 Jul 2024
Temperature: 22.0°C ( 72°F)
Dewpoint: 14.0°C ( 57°F) [RH = 60%]
Pressure (altimeter):29.62 inches Hg (1003.0 mb)
Winds:from the SSW (210 degrees) at 5 MPH (4 knots; 2.1 m/s)
Visibility:6 or more sm (10+ km)
Ceiling:at least 12,000 feet AGL
Clouds:few clouds at 4000 feet AGL
METAR for:UNAA (Abakan Intl, KK, RU)
Text:UNAA 200600Z 18002MPS 130V220 CAVOK 28/18 Q1001 R02/CLRD65 NOSIG RMK QFE728
Conditions at:0600 UTC 20 Jul 2024
Temperature: 28.0°C ( 82°F)
Dewpoint: 18.0°C ( 64°F) [RH = 55%]
Pressure (altimeter):29.56 inches Hg (1001.0 mb)
Winds:from the S (180 degrees) at 5 MPH (4 knots; 2.1 m/s)
Visibility:6 or more sm (10+ km)
Ceiling:ceiling and visibility are OK
Clouds:unknown
METAR for:UMOO (Mogilev Arpt, MA, BY)
Text:UMOO 200600Z 32002MPS 9999 FEW026 BKN/// 20/15 Q1014 NOSIG
Conditions at:0600 UTC 20 Jul 2024
Temperature: 20.0°C ( 68°F)
Dewpoint: 15.0°C ( 59°F) [RH = 73%]
Pressure (altimeter):29.94 inches Hg (1014.0 mb)
Winds:from the NW (320 degrees) at 5 MPH (4 knots; 2.1 m/s)
Visibility:6 or more sm (10+ km)
Ceiling:at least 12,000 feet AGL
Clouds:few clouds at 2600 feet AGL
METAR for:UMMS (Minsk Arpt, MI, BY)
Text:UMMS 200600Z 35003MPS 310V060 CAVOK 19/15 Q1014 NOSIG
Conditions at:0600 UTC 20 Jul 2024
Temperature: 19.0°C ( 66°F)
Dewpoint: 15.0°C ( 59°F) [RH = 78%]
Pressure (altimeter):29.94 inches Hg (1014.0 mb)
Winds:from the N (350 degrees) at 7 MPH (6 knots; 3.1 m/s)
Visibility:6 or more sm (10+ km)
Ceiling:ceiling and visibility are OK
Clouds:unknown
METAR for:UMMG (Hrodna Arpt, HR, BY)
Text:UMMG 200600Z 33004MPS 9999 FEW020 BKN066 17/13 Q1016 NOSIG
Conditions at:0600 UTC 20 Jul 2024
Temperature: 17.0°C ( 63°F)
Dewpoint: 13.0°C ( 55°F) [RH = 77%]
Pressure (altimeter):30.00 inches Hg (1016.0 mb)
Winds:from the NNW (330 degrees) at 9 MPH (8 knots; 4.1 m/s)
Visibility:6 or more sm (10+ km)
Ceiling:6600 feet AGL
Clouds:few clouds at 2000 feet AGL, broken clouds at 6600 feet AGL
METAR for:UMKK (Kaliningrad/Khrabrovo Arpt, KG, RU)
Text:UMKK 200600Z 26003MPS 220V280 9999 FEW018 19/16 Q1016 R24/CLRD95 NOSIG RMK QFE761/1014
Conditions at:0600 UTC 20 Jul 2024
Temperature: 19.0°C ( 66°F)
Dewpoint: 16.0°C ( 61°F) [RH = 83%]
Pressure (altimeter):30.00 inches Hg (1016.0 mb)
Winds:from the W (260 degrees) at 7 MPH (6 knots; 3.1 m/s)
Visibility:6 or more sm (10+ km)
Ceiling:at least 12,000 feet AGL
Clouds:few clouds at 1800 feet AGL
METAR for:UMIO (Orsha Arpt, VI, BY)
Text:UMIO 200600Z 34004G07MPS 300V010 9999 SCT021 20/15 Q1013 NOSIG RMK QFE742/0989
Conditions at:0600 UTC 20 Jul 2024
Temperature: 20.0°C ( 68°F)
Dewpoint: 15.0°C ( 59°F) [RH = 73%]
Pressure (altimeter):29.91 inches Hg (1013.0 mb)
Winds:from the NNW (340 degrees) at 9 MPH (8 knots; 4.1 m/s) gusting to 16 MPH (14 knots; 7.2 m/s)
Visibility:6 or more sm (10+ km)
Ceiling:at least 12,000 feet AGL
Clouds:scattered clouds at 2100 feet AGL
METAR for:UMII (Vitebsk Arpt, VI, BY)
Text:UMII 200600Z 29004G07MPS 9999 BKN018 FEW030CB 19/14 Q1012 NOSIG
Conditions at:0600 UTC 20 Jul 2024
Temperature: 19.0°C ( 66°F)
Dewpoint: 14.0°C ( 57°F) [RH = 73%]
Pressure (altimeter):29.88 inches Hg (1012.0 mb)
Winds:from the WNW (290 degrees) at 9 MPH (8 knots; 4.1 m/s) gusting to 16 MPH (14 knots; 7.2 m/s)
Visibility:6 or more sm (10+ km)
Ceiling:1800 feet AGL
Clouds:broken clouds at 1800 feet AGL, few clouds at 3000 feet AGL
METAR for:UMGG (Gomel Arpt, HO, BY)
Text:UMGG 200600Z 30003MPS CAVOK 22/16 Q1014 NOSIG
Conditions at:0600 UTC 20 Jul 2024
Temperature: 22.0°C ( 72°F)
Dewpoint: 16.0°C ( 61°F) [RH = 69%]
Pressure (altimeter):29.94 inches Hg (1014.0 mb)
Winds:from the WNW (300 degrees) at 7 MPH (6 knots; 3.1 m/s)
Visibility:6 or more sm (10+ km)
Ceiling:ceiling and visibility are OK
Clouds:unknown
METAR for:UMBB (Brest Arpt, BR, BY)
Text:UMBB 200600Z 30001MPS 8000 NSC 19/14 Q1015 NOSIG
Conditions at:0600 UTC 20 Jul 2024
Temperature: 19.0°C ( 66°F)
Dewpoint: 14.0°C ( 57°F) [RH = 73%]
Pressure (altimeter):29.97 inches Hg (1015.0 mb)
Winds:from the WNW (300 degrees) at 2 MPH (2 knots; 1.0 m/s)
Visibility:5 sm (8 km)
Ceiling:at least 12,000 feet AGL
Clouds:sky clear below 12,000 feet AGL
METAR for:ULWC (Botovo/Cherepovets Arpt, VL, RU)
Text:ULWC 200600Z 05001MPS 9999 BKN008 20/17 Q1008 R21/010060 NOSIG RMK QFE746/0994
Conditions at:0600 UTC 20 Jul 2024
Temperature: 20.0°C ( 68°F)
Dewpoint: 17.0°C ( 63°F) [RH = 83%]
Pressure (altimeter):29.76 inches Hg (1008.0 mb)
Winds:from the NE (50 degrees) at 2 MPH (2 knots; 1.0 m/s)
Visibility:6 or more sm (10+ km)
Ceiling:800 feet AGL
Clouds:broken clouds at 800 feet AGL
METAR for:ULPB (Petrozavodsk Arpt, KR, RU)
Text:ULPB 200600Z 03002MPS 350V050 9999 FEW008 20/17 Q1009 R01/CLRD70 NOSIG RMK QBB240 QFE752/1003
Conditions at:0600 UTC 20 Jul 2024
Temperature: 20.0°C ( 68°F)
Dewpoint: 17.0°C ( 63°F) [RH = 83%]
Pressure (altimeter):29.79 inches Hg (1009.0 mb)
Winds:from the NNE (30 degrees) at 5 MPH (4 knots; 2.1 m/s)
Visibility:6 or more sm (10+ km)
Ceiling:at least 12,000 feet AGL
Clouds:few clouds at 800 feet AGL
METAR for:ULOO (Pskov Arpt, PS, RU)
Text:ULOO 200600Z 27006MPS 9999 BKN017 18/15 Q1011 R19/090068 NOSIG RMK QFE754
Conditions at:0600 UTC 20 Jul 2024
Temperature: 18.0°C ( 64°F)
Dewpoint: 15.0°C ( 59°F) [RH = 83%]
Pressure (altimeter):29.85 inches Hg (1011.0 mb)
Winds:from the W (270 degrees) at 14 MPH (12 knots; 6.2 m/s)
Visibility:6 or more sm (10+ km)
Ceiling:1700 feet AGL
Clouds:broken clouds at 1700 feet AGL
METAR for:ULMM (Murmansk Arpt, MU, RU)
Text:ULMM 200600Z 12002MPS CAVOK 19/13 Q1016 R13/090070 NOSIG RMK QFE755
Conditions at:0600 UTC 20 Jul 2024
Temperature: 19.0°C ( 66°F)
Dewpoint: 13.0°C ( 55°F) [RH = 68%]
Pressure (altimeter):30.00 inches Hg (1016.0 mb)
Winds:from the ESE (120 degrees) at 5 MPH (4 knots; 2.1 m/s)
Visibility:6 or more sm (10+ km)
Ceiling:ceiling and visibility are OK
Clouds:unknown
METAR for:ULLI (St Petersburg/Pulkovo Arpt, LE, RU)
Text:ULLI 200600Z 09003MPS 9999 SCT012 BKN018CB 20/17 Q1007 R88/090060 TEMPO 2500 -TSRA SCT010 BKN016CB
Conditions at:0600 UTC 20 Jul 2024
Temperature: 20.0°C ( 68°F)
Dewpoint: 17.0°C ( 63°F) [RH = 83%]
Pressure (altimeter):29.73 inches Hg (1007.0 mb)
Winds:from the E (90 degrees) at 7 MPH (6 knots; 3.1 m/s)
Visibility:6 or more sm (10+ km)
Ceiling:1800 feet AGL
Clouds:scattered clouds at 1200 feet AGL, broken clouds at 1800 feet AGL
METAR for:ULAA (Arhangelsk/Talagi Arpt, AR, RU)
Text:ULAA 200600Z 09005MPS CAVOK 18/12 Q1013 R08/CLRD70 NOSIG RMK QFE759/1012
Conditions at:0600 UTC 20 Jul 2024
Temperature: 18.0°C ( 64°F)
Dewpoint: 12.0°C ( 54°F) [RH = 68%]
Pressure (altimeter):29.91 inches Hg (1013.0 mb)
Winds:from the E (90 degrees) at 12 MPH (10 knots; 5.1 m/s)
Visibility:6 or more sm (10+ km)
Ceiling:ceiling and visibility are OK
Clouds:unknown
METAR for:UIUU (Ulan-Ude Arpt, BU, RU)
Text:UIUU 200600Z 14003MPS 100V170 9000 NSC 32/12 Q1000 R26/CLRD60 NOSIG RMK QFE706/0942
Conditions at:0600 UTC 20 Jul 2024
Temperature: 32.0°C ( 90°F)
Dewpoint: 12.0°C ( 54°F) [RH = 30%]
Pressure (altimeter):29.53 inches Hg (1000.0 mb)
Winds:from the SE (140 degrees) at 7 MPH (6 knots; 3.1 m/s)
Visibility:6 sm (9 km)
Ceiling:at least 12,000 feet AGL
Clouds:sky clear below 12,000 feet AGL
METAR for:UIII (Irkutsk Intl, IR, RU)
Text:UIII 200600Z VRB01MPS 8000 SCT033CB 24/21 Q1000 RETS R30/290150 NOSIG RMK QFE706/0942
Conditions at:0600 UTC 20 Jul 2024
Temperature: 24.0°C ( 75°F)
Dewpoint: 21.0°C ( 70°F) [RH = 83%]
Pressure (altimeter):29.53 inches Hg (1000.0 mb)
Winds:variable direction winds at 2 MPH (2 knots; 1.0 m/s)
Visibility:5 sm (8 km)
Ceiling:at least 12,000 feet AGL
Clouds:scattered clouds at 3300 feet AGL
METAR for:UIAA (Chita/Kadala Arpt, CH, RU)
Text:UIAA 200600Z 01002MPS 290V060 9999 NSC 31/10 Q1002 R29/CLRD70 NOSIG RMK QFE693/0924
Conditions at:0600 UTC 20 Jul 2024
Temperature: 31.0°C ( 88°F)
Dewpoint: 10.0°C ( 50°F) [RH = 27%]
Pressure (altimeter):29.59 inches Hg (1002.0 mb)
Winds:from the N (10 degrees) at 5 MPH (4 knots; 2.1 m/s)
Visibility:6 or more sm (10+ km)
Ceiling:at least 12,000 feet AGL
Clouds:sky clear below 12,000 feet AGL
METAR for:UHWW (Vladivostok Intl, PR, RU)
Text:UHWW 200600Z 27003MPS 9999 FEW050CB 30/23 Q1003 R25L/0///70 NOSIG RMK QFE751
Conditions at:0600 UTC 20 Jul 2024
Temperature: 30.0°C ( 86°F)
Dewpoint: 23.0°C ( 73°F) [RH = 66%]
Pressure (altimeter):29.62 inches Hg (1003.0 mb)
Winds:from the W (270 degrees) at 7 MPH (6 knots; 3.1 m/s)
Visibility:6 or more sm (10+ km)
Ceiling:at least 12,000 feet AGL
Clouds:few clouds at 5000 feet AGL
METAR for:UHSS (Yuzhno-Sakhalinsk Arpt, SA, RU)
Text:UHSS 200600Z 17002MPS 140V210 9999 BKN020CB 24/21 Q1004 R19/70D NOSIG RMK MT OBSC QFE752/1002
Conditions at:0600 UTC 20 Jul 2024
Temperature: 24.0°C ( 75°F)
Dewpoint: 21.0°C ( 70°F) [RH = 83%]
Pressure (altimeter):29.65 inches Hg (1004.0 mb)
Winds:from the S (170 degrees) at 5 MPH (4 knots; 2.1 m/s)
Visibility:6 or more sm (10+ km)
Ceiling:2000 feet AGL
Clouds:broken clouds at 2000 feet AGL
METAR for:UHPP (Petropavlovsk-Kamchatsky Arpt, KA, RU)
Text:UHPP 200600Z 19005MPS 9999 FEW040CB BKN069 22/13 Q1010 R16R/CLRD60 NOSIG RMK MT OBSC QFE754/1006
Conditions at:0600 UTC 20 Jul 2024
Temperature: 22.0°C ( 72°F)
Dewpoint: 13.0°C ( 55°F) [RH = 57%]
Pressure (altimeter):29.82 inches Hg (1010.0 mb)
Winds:from the S (190 degrees) at 12 MPH (10 knots; 5.1 m/s)
Visibility:6 or more sm (10+ km)
Ceiling:6900 feet AGL
Clouds:few clouds at 4000 feet AGL, broken clouds at 6900 feet AGL
METAR for:UHMM (Magadan/Sokol Arpt, MA, RU)
Text:UHMM 200600Z 00000MPS 9999 -SHRA FEW010 SCT040CB 16/14 Q1011 R10/290160 NOSIG RMK MT OBSC QFE744 R28/25001MPS
Conditions at:0600 UTC 20 Jul 2024
Temperature: 16.0°C ( 61°F)
Dewpoint: 14.0°C ( 57°F) [RH = 88%]
Pressure (altimeter):29.85 inches Hg (1011.0 mb)
Winds:calm
Visibility:6 or more sm (10+ km)
Ceiling:at least 12,000 feet AGL
Clouds:few clouds at 1000 feet AGL, scattered clouds at 4000 feet AGL
Weather:-SHRA (light rain showers)
METAR for:UHMA (Anadyr Arpt, CH, RU)
Text:UHMA 200600Z 13008MPS CAVOK 19/08 Q1012 R02/////// NOSIG RMK MID 13008G11MPS END R02/11009G12MPS QFE755/1007
Conditions at:0600 UTC 20 Jul 2024
Temperature: 19.0°C ( 66°F)
Dewpoint: 8.0°C ( 46°F) [RH = 49%]
Pressure (altimeter):29.88 inches Hg (1012.0 mb)
Winds:from the SE (130 degrees) at 18 MPH (16 knots; 8.2 m/s)
Visibility:6 or more sm (10+ km)
Ceiling:ceiling and visibility are OK
Clouds:unknown
METAR for:UHHH (Khabarovsk/Novy Arpt, KH, RU)
Text:UHHH 200600Z 23007MPS 9999 SCT041CB 29/19 Q0999 R23R/090060 NOSIG RMK QFE743/0991
Conditions at:0600 UTC 20 Jul 2024
Temperature: 29.0°C ( 84°F)
Dewpoint: 19.0°C ( 66°F) [RH = 55%]
Pressure (altimeter):29.50 inches Hg ( 999.0 mb)
Winds:from the SW (230 degrees) at 16 MPH (14 knots; 7.2 m/s)
Visibility:6 or more sm (10+ km)
Ceiling:at least 12,000 feet AGL
Clouds:scattered clouds at 4100 feet AGL
METAR for:UHBB (Blagoveshchensk Arpt, AM, RU)
Text:UHBB 200600Z 20003MPS 160V240 9999 SCT033CB 24/21 Q0995 R36/090056 TEMPO 3100 -SHRA BKN020CB RMK QFE729/0972
Conditions at:0600 UTC 20 Jul 2024
Temperature: 24.0°C ( 75°F)
Dewpoint: 21.0°C ( 70°F) [RH = 83%]
Pressure (altimeter):29.38 inches Hg ( 995.0 mb)
Winds:from the SSW (200 degrees) at 7 MPH (6 knots; 3.1 m/s)
Visibility:6 or more sm (10+ km)
Ceiling:at least 12,000 feet AGL
Clouds:scattered clouds at 3300 feet AGL
METAR for:UGTB (Tbilisi Intl, TB, GE)
Text:UGTB 200600Z 31011KT 9999 SCT036CB 21/18 Q1009 NOSIG
Conditions at:0600 UTC 20 Jul 2024
Temperature: 21.0°C ( 70°F)
Dewpoint: 18.0°C ( 64°F) [RH = 83%]
Pressure (altimeter):29.79 inches Hg (1009.0 mb)
Winds:from the NW (310 degrees) at 13 MPH (11 knots; 5.7 m/s)
Visibility:6 or more sm (10+ km)
Ceiling:at least 12,000 feet AGL
Clouds:scattered clouds at 3600 feet AGL
METAR for:UGSB (Batumi Intl, AJ, GE)
Text:UGSB 200600Z 22009KT 9999 SCT017CB BKN054 25/22 Q1005 NOSIG
Conditions at:0600 UTC 20 Jul 2024
Temperature: 25.0°C ( 77°F)
Dewpoint: 22.0°C ( 72°F) [RH = 83%]
Pressure (altimeter):29.68 inches Hg (1005.0 mb)
Winds:from the SW (220 degrees) at 10 MPH (9 knots; 4.6 m/s)
Visibility:6 or more sm (10+ km)
Ceiling:5400 feet AGL
Clouds:scattered clouds at 1700 feet AGL, broken clouds at 5400 feet AGL
TAF for:UGSB (Batumi Intl, AJ, GE) issued at 0549 UTC 20 Jul 2024
Text:TAF AMD UGSB 200549Z 2006/2106 24007KT 9999 FEW023CB BKN065 TX26/2013Z TN21/2101Z
Forecast period:0600 to 1500 UTC 20 July 2024
Forecast type:FROM: standard forecast or significant change
Winds:from the WSW (240 degrees) at 8 MPH (7 knots; 3.6 m/s)
Visibility:6 or more sm (10+ km)
Ceiling:6500 feet AGL
Clouds:few clouds at 2300 feet AGL, broken clouds at 6500 feet AGL
Temperature:MIN 21°C at 0100 UTC 21 Jul 2024
Temperature:MAX 26°C at 1300 UTC 20 Jul 2024
Text:TEMPO 2006/2015 VRB15KT 3000 TSRA SCT010 BKN025CB
Forecast period:0600 to 1500 UTC 20 July 2024
Forecast type:TEMPORARY: The following changes expected for less than half the time period
Winds:variable direction winds at 17 MPH (15 knots; 7.7 m/s)
Visibility:1.86 sm (2.99 km)
Ceiling:2500 feet AGL
Clouds:scattered clouds at 1000 feet AGL, broken clouds at 2500 feet AGL
Weather:TSRA (rain associated with thunderstorm(s))
Text:BECMG 2015/2018 12007KT FEW030 SCT100
Forecast period:1500 UTC 20 July 2024 to 0600 UTC 21 July 2024
Forecast type:BECOMING: Conditions expected to become as follows by 1800 UTC 20 July 2024
Winds:from the ESE (120 degrees) at 8 MPH (7 knots; 3.6 m/s)
Visibility:6 or more sm (10+ km)
Ceiling:at least 12,000 feet AGL
Clouds:few clouds at 3000 feet AGL, scattered clouds at 10000 feet AGL
METAR for:UGMS (Mestia/Tamar Arpt, SZ, GE)
Text:UGMS 200600Z 23003KT 180V270 9999 OVC070 14/13 Q1016
Conditions at:0600 UTC 20 Jul 2024
Temperature: 14.0°C ( 57°F)
Dewpoint: 13.0°C ( 55°F) [RH = 94%]
Pressure (altimeter):30.00 inches Hg (1016.0 mb)
Winds:from the SW (230 degrees) at 3 MPH (3 knots; 1.5 m/s)
Visibility:6 or more sm (10+ km)
Ceiling:7000 feet AGL
Clouds:overcast cloud deck at 7000 feet AGL
METAR for:UGKO (Kutaisi/Kopitnarii Intl, IM, GE)
Text:UGKO 200600Z 08007KT 9999 BKN089 25/20 Q1004 NOSIG
Conditions at:0600 UTC 20 Jul 2024
Temperature: 25.0°C ( 77°F)
Dewpoint: 20.0°C ( 68°F) [RH = 74%]
Pressure (altimeter):29.65 inches Hg (1004.0 mb)
Winds:from the E (80 degrees) at 8 MPH (7 knots; 3.6 m/s)
Visibility:6 or more sm (10+ km)
Ceiling:8900 feet AGL
Clouds:broken clouds at 8900 feet AGL
METAR for:UGAM (Ambrolauri Arpt, IM, GE)
Text:UGAM 200600Z AUTO VRB02KT //// ////// 19/17 Q1009
Conditions at:0600 UTC 20 Jul 2024
Temperature: 19.0°C ( 66°F)
Dewpoint: 17.0°C ( 63°F) [RH = 88%]
Pressure (altimeter):29.79 inches Hg (1009.0 mb)
Winds:variable direction winds at 2 MPH (2 knots; 1.0 m/s)
METAR for:UERR (Mirny Arpt, SA, RU)
Text:UERR 200600Z VRB01MPS CAVOK 24/05 Q1006 R07/CLRD60 NOSIG RMK QFE724/0966
Conditions at:0600 UTC 20 Jul 2024
Temperature: 24.0°C ( 75°F)
Dewpoint: 5.0°C ( 41°F) [RH = 29%]
Pressure (altimeter):29.70 inches Hg (1006.0 mb)
Winds:variable direction winds at 2 MPH (2 knots; 1.0 m/s)
Visibility:6 or more sm (10+ km)
Ceiling:ceiling and visibility are OK
Clouds:unknown
METAR for:UEEE (Yakutsk Arpt, SA, RU)
Text:UEEE 200600Z 31003MPS 9999 SCT050CB 21/16 Q0999 R23/290156 NOSIG RMK QFE740
Conditions at:0600 UTC 20 Jul 2024
Temperature: 21.0°C ( 70°F)
Dewpoint: 16.0°C ( 61°F) [RH = 73%]
Pressure (altimeter):29.50 inches Hg ( 999.0 mb)
Winds:from the NW (310 degrees) at 7 MPH (6 knots; 3.1 m/s)
Visibility:6 or more sm (10+ km)
Ceiling:at least 12,000 feet AGL
Clouds:scattered clouds at 5000 feet AGL
METAR for:UDYZ (Yerevan/Zvartnots Intl, ER, AM)
Text:UDYZ 200600Z 26002KT 9999 TS BKN043CB 24/16 Q1008 TEMPO -TSRA
Conditions at:0600 UTC 20 Jul 2024
Temperature: 24.0°C ( 75°F)
Dewpoint: 16.0°C ( 61°F) [RH = 61%]
Pressure (altimeter):29.76 inches Hg (1008.0 mb)
Winds:from the W (260 degrees) at 2 MPH (2 knots; 1.0 m/s)
Visibility:6 or more sm (10+ km)
Ceiling:4300 feet AGL
Clouds:broken clouds at 4300 feet AGL
Weather:TS (thunderstorm)
METAR for:UDSG (Gyumri/Shirak Intl, SH, AM)
Text:UDSG 200600Z 07011KT 9999 SCT040CB 20/13 Q1013 NOSIG
Conditions at:0600 UTC 20 Jul 2024
Temperature: 20.0°C ( 68°F)
Dewpoint: 13.0°C ( 55°F) [RH = 64%]
Pressure (altimeter):29.91 inches Hg (1013.0 mb)
Winds:from the ENE (70 degrees) at 13 MPH (11 knots; 5.7 m/s)
Visibility:6 or more sm (10+ km)
Ceiling:at least 12,000 feet AGL
Clouds:scattered clouds at 4000 feet AGL
METAR for:UCFO (Osh Intl, O, KG)
Text:UCFO 200600Z 32003MPS 280V010 9999 FEW050 31/14 Q1007 NOSIG
Conditions at:0600 UTC 20 Jul 2024
Temperature: 31.0°C ( 88°F)
Dewpoint: 14.0°C ( 57°F) [RH = 36%]
Pressure (altimeter):29.73 inches Hg (1007.0 mb)
Winds:from the NW (320 degrees) at 7 MPH (6 knots; 3.1 m/s)
Visibility:6 or more sm (10+ km)
Ceiling:at least 12,000 feet AGL
Clouds:few clouds at 5000 feet AGL
METAR for:UCFM (Bishkek/Manas Intl, C, KG)
Text:UCFM 200600Z 34007MPS 310V010 9999 FEW066CB 30/12 Q1006 TEMPO 33010G15MPS
Conditions at:0600 UTC 20 Jul 2024
Temperature: 30.0°C ( 86°F)
Dewpoint: 12.0°C ( 54°F) [RH = 33%]
Pressure (altimeter):29.70 inches Hg (1006.0 mb)
Winds:from the NNW (340 degrees) at 16 MPH (14 knots; 7.2 m/s)
Visibility:6 or more sm (10+ km)
Ceiling:at least 12,000 feet AGL
Clouds:few clouds at 6600 feet AGL
METAR for:UCFL (Tamchy/Issyk-Kul Intl, Y, KG)
Text:UCFL 200600Z 14004MPS 110V180 9999 SCT030CB 22/13 Q1014
Conditions at:0600 UTC 20 Jul 2024
Temperature: 22.0°C ( 72°F)
Dewpoint: 13.0°C ( 55°F) [RH = 57%]
Pressure (altimeter):29.94 inches Hg (1014.0 mb)
Winds:from the SE (140 degrees) at 9 MPH (8 knots; 4.1 m/s)
Visibility:6 or more sm (10+ km)
Ceiling:at least 12,000 feet AGL
Clouds:scattered clouds at 3000 feet AGL
METAR for:UBEE (Yevlakh Arpt, YE, AZ)
Text:UBEE 200600Z 14006KT 9999 FEW043 BKN100 29/19 Q1005 NOSIG
Conditions at:0600 UTC 20 Jul 2024
Temperature: 29.0°C ( 84°F)
Dewpoint: 19.0°C ( 66°F) [RH = 55%]
Pressure (altimeter):29.68 inches Hg (1005.0 mb)
Winds:from the SE (140 degrees) at 7 MPH (6 knots; 3.1 m/s)
Visibility:6 or more sm (10+ km)
Ceiling:10000 feet AGL
Clouds:few clouds at 4300 feet AGL, broken clouds at 10000 feet AGL
METAR for:UBBZ (Zangilan Intl, EZ, AZ)
Text:UBBZ 200600Z VRB02KT 9999 BKN070 27/17 Q1009 NOSIG
Conditions at:0600 UTC 20 Jul 2024
Temperature: 27.0°C ( 81°F)
Dewpoint: 17.0°C ( 63°F) [RH = 54%]
Pressure (altimeter):29.79 inches Hg (1009.0 mb)
Winds:variable direction winds at 2 MPH (2 knots; 1.0 m/s)
Visibility:6 or more sm (10+ km)
Ceiling:7000 feet AGL
Clouds:broken clouds at 7000 feet AGL
METAR for:UBBY (Zakataly Intl, BA, AZ)
Text:UBBY 200600Z 00000KT 9999 BKN100 24/21 Q1011 NOSIG
Conditions at:0600 UTC 20 Jul 2024
Temperature: 24.0°C ( 75°F)
Dewpoint: 21.0°C ( 70°F) [RH = 83%]
Pressure (altimeter):29.85 inches Hg (1011.0 mb)
Winds:calm
Visibility:6 or more sm (10+ km)
Ceiling:10000 feet AGL
Clouds:broken clouds at 10000 feet AGL
METAR for:UBBQ (Qabala Intl, QA, AZ)
Text:UBBQ 200600Z 31004KT 9999 BKN090 28/17 Q1007 NOSIG RMK MT OBSC
Conditions at:0600 UTC 20 Jul 2024
Temperature: 28.0°C ( 82°F)
Dewpoint: 17.0°C ( 63°F) [RH = 51%]
Pressure (altimeter):29.73 inches Hg (1007.0 mb)
Winds:from the NW (310 degrees) at 5 MPH (4 knots; 2.1 m/s)
Visibility:6 or more sm (10+ km)
Ceiling:9000 feet AGL
Clouds:broken clouds at 9000 feet AGL
METAR for:UBBN (Nakhchivan Arpt, NX, AZ)
Text:UBBN 200600Z 10010KT 9999 FEW046 SCT100 28/12 Q1006 NOSIG RMK QFE680
Conditions at:0600 UTC 20 Jul 2024
Temperature: 28.0°C ( 82°F)
Dewpoint: 12.0°C ( 54°F) [RH = 37%]
Pressure (altimeter):29.70 inches Hg (1006.0 mb)
Winds:from the E (100 degrees) at 12 MPH (10 knots; 5.1 m/s)
Visibility:6 or more sm (10+ km)
Ceiling:at least 12,000 feet AGL
Clouds:few clouds at 4600 feet AGL, scattered clouds at 10000 feet AGL
METAR for:UBBL (Lenkoran Intl, LA, AZ)
Text:UBBL 200600Z 14005KT 9999 SCT070 29/17 Q1006 NOSIG
Conditions at:0600 UTC 20 Jul 2024
Temperature: 29.0°C ( 84°F)
Dewpoint: 17.0°C ( 63°F) [RH = 48%]
Pressure (altimeter):29.70 inches Hg (1006.0 mb)
Winds:from the SE (140 degrees) at 6 MPH (5 knots; 2.6 m/s)
Visibility:6 or more sm (10+ km)
Ceiling:at least 12,000 feet AGL
Clouds:scattered clouds at 7000 feet AGL
METAR for:UBBG (Gyanca Intl, GY, AZ)
Text:UBBG 200600Z 35006KT 330V030 9999 FEW040CB BKN083 25/18 Q1007 NOSIG
Conditions at:0600 UTC 20 Jul 2024
Temperature: 25.0°C ( 77°F)
Dewpoint: 18.0°C ( 64°F) [RH = 65%]
Pressure (altimeter):29.73 inches Hg (1007.0 mb)
Winds:from the N (350 degrees) at 7 MPH (6 knots; 3.1 m/s)
Visibility:6 or more sm (10+ km)
Ceiling:8300 feet AGL
Clouds:few clouds at 4000 feet AGL, broken clouds at 8300 feet AGL
METAR for:UBBF (Fuzuli Intl, FZ, AZ)
Text:UBBF 200600Z 36006KT 9999 BKN073 26/16 Q1007 NOSIG
Conditions at:0600 UTC 20 Jul 2024
Temperature: 26.0°C ( 79°F)
Dewpoint: 16.0°C ( 61°F) [RH = 54%]
Pressure (altimeter):29.73 inches Hg (1007.0 mb)
Winds:from the N (360 degrees) at 7 MPH (6 knots; 3.1 m/s)
Visibility:6 or more sm (10+ km)
Ceiling:7300 feet AGL
Clouds:broken clouds at 7300 feet AGL
METAR for:UBBB (Baku/Aliyev Intl, BA, AZ)
Text:UBBB 200600Z VRB02KT CAVOK 33/19 Q1005 NOSIG
Conditions at:0600 UTC 20 Jul 2024
Temperature: 33.0°C ( 91°F)
Dewpoint: 19.0°C ( 66°F) [RH = 44%]
Pressure (altimeter):29.68 inches Hg (1005.0 mb)
Winds:variable direction winds at 2 MPH (2 knots; 1.0 m/s)
Visibility:6 or more sm (10+ km)
Ceiling:ceiling and visibility are OK
Clouds:unknown
METAR for:UAUU (Kostanay Arpt, KU, KZ)
Text:UAUU 200600Z 31006MPS CAVOK 24/16 Q1003 NOSIG RMK QFE737/0983
Conditions at:0600 UTC 20 Jul 2024
Temperature: 24.0°C ( 75°F)
Dewpoint: 16.0°C ( 61°F) [RH = 61%]
Pressure (altimeter):29.62 inches Hg (1003.0 mb)
Winds:from the NW (310 degrees) at 14 MPH (12 knots; 6.2 m/s)
Visibility:6 or more sm (10+ km)
Ceiling:ceiling and visibility are OK
Clouds:unknown
TAF for:UAUU (Kostanay Arpt, KU, KZ) issued at 0529 UTC 20 Jul 2024
Text:TAF UAUU 200529Z 2006/2015 30005MPS 9999 SCT030
Forecast period:0600 to 1500 UTC 20 July 2024
Forecast type:FROM: standard forecast or significant change
Winds:from the WNW (300 degrees) at 12 MPH (10 knots; 5.1 m/s)
Visibility:6 or more sm (10+ km)
Ceiling:at least 12,000 feet AGL
Clouds:scattered clouds at 3000 feet AGL
Text:TEMPO 2006/2012 36007G13MPS 3100 -TSRA SCT030CB
Forecast period:0600 to 1200 UTC 20 July 2024
Forecast type:TEMPORARY: The following changes expected for less than half the time period
Winds:from the N (360 degrees) at 16 MPH (14 knots; 7.2 m/s) gusting to 29 MPH (25 knots; 12.9 m/s)
Visibility:1.93 sm (3.11 km)
Ceiling:at least 12,000 feet AGL
Clouds:scattered clouds at 3000 feet AGL
Weather:-TSRA (light rain associated with thunderstorm(s))
METAR for:UATT (Aktjubinsk/Atkobe Arpt, AK, KZ)
Text:UATT 200600Z 04002MPS CAVOK 25/14 Q1006 NOSIG RMK QFE734/0979
Conditions at:0600 UTC 20 Jul 2024
Temperature: 25.0°C ( 77°F)
Dewpoint: 14.0°C ( 57°F) [RH = 50%]
Pressure (altimeter):29.70 inches Hg (1006.0 mb)
Winds:from the NE (40 degrees) at 5 MPH (4 knots; 2.1 m/s)
Visibility:6 or more sm (10+ km)
Ceiling:ceiling and visibility are OK
Clouds:unknown
METAR for:UATG (Atyrau Arpt, AT, KZ)
Text:UATG 200600Z 05003MPS 340V090 9999 SCT050CB 32/12 Q1003 NOSIG RMK QFE754/1006
Conditions at:0600 UTC 20 Jul 2024
Temperature: 32.0°C ( 90°F)
Dewpoint: 12.0°C ( 54°F) [RH = 30%]
Pressure (altimeter):29.62 inches Hg (1003.0 mb)
Winds:from the NE (50 degrees) at 7 MPH (6 knots; 3.1 m/s)
Visibility:6 or more sm (10+ km)
Ceiling:at least 12,000 feet AGL
Clouds:scattered clouds at 5000 feet AGL
METAR for:UATE (Aktau Arpt, MA, KZ)
Text:UATE 200600Z 29003MPS 260V350 CAVOK 31/18 Q1006 NOSIG RMK QFE753/1004
Conditions at:0600 UTC 20 Jul 2024
Temperature: 31.0°C ( 88°F)
Dewpoint: 18.0°C ( 64°F) [RH = 46%]
Pressure (altimeter):29.70 inches Hg (1006.0 mb)
Winds:from the WNW (290 degrees) at 7 MPH (6 knots; 3.1 m/s)
Visibility:6 or more sm (10+ km)
Ceiling:ceiling and visibility are OK
Clouds:unknown
METAR for:UASS (Semey Arpt, VO, KZ)
Text:UASS 200600Z 23003MPS 170V300 9999 BKN046 26/17 Q1001 NOSIG RMK QFE733/0977
Conditions at:0600 UTC 20 Jul 2024
Temperature: 26.0°C ( 79°F)
Dewpoint: 17.0°C ( 63°F) [RH = 58%]
Pressure (altimeter):29.56 inches Hg (1001.0 mb)
Winds:from the SW (230 degrees) at 7 MPH (6 knots; 3.1 m/s)
Visibility:6 or more sm (10+ km)
Ceiling:4600 feet AGL
Clouds:broken clouds at 4600 feet AGL
METAR for:UASP (Pavlodar Arpt, PA, KZ)
Text:UASP 200600Z 18003MPS 140V240 9999 BKN026CB 25/15 Q1000 NOSIG RMK QFE739/0986
Conditions at:0600 UTC 20 Jul 2024
Temperature: 25.0°C ( 77°F)
Dewpoint: 15.0°C ( 59°F) [RH = 54%]
Pressure (altimeter):29.53 inches Hg (1000.0 mb)
Winds:from the S (180 degrees) at 7 MPH (6 knots; 3.1 m/s)
Visibility:6 or more sm (10+ km)
Ceiling:2600 feet AGL
Clouds:broken clouds at 2600 feet AGL
METAR for:UASK (Ust-Kamenogorsk Arpt, VO, KZ)
Text:UASK 200600Z 13005MPS 9999 BKN041CB BKN083 24/19 Q1002 NOSIG RMK QFE727/0969
Conditions at:0600 UTC 20 Jul 2024
Temperature: 24.0°C ( 75°F)
Dewpoint: 19.0°C ( 66°F) [RH = 74%]
Pressure (altimeter):29.59 inches Hg (1002.0 mb)
Winds:from the SE (130 degrees) at 12 MPH (10 knots; 5.1 m/s)
Visibility:6 or more sm (10+ km)
Ceiling:4100 feet AGL
Clouds:broken clouds at 4100 feet AGL, broken clouds at 8300 feet AGL
METAR for:UARR (Uralsk Arpt, ZA, KZ)
Text:UARR 200600Z 02003MPS 320V060 CAVOK 28/14 Q1005 NOSIG RMK QFE750/1000
Conditions at:0600 UTC 20 Jul 2024
Temperature: 28.0°C ( 82°F)
Dewpoint: 14.0°C ( 57°F) [RH = 42%]
Pressure (altimeter):29.68 inches Hg (1005.0 mb)
Winds:from the NNE (20 degrees) at 7 MPH (6 knots; 3.1 m/s)
Visibility:6 or more sm (10+ km)
Ceiling:ceiling and visibility are OK
Clouds:unknown
METAR for:UAOO (Kzylorda Arpt, KZ, KZ)
Text:UAOO 200600Z 29006MPS 250V310 CAVOK 30/13 Q1003 NOSIG RMK QFE741/0988
Conditions at:0600 UTC 20 Jul 2024
Temperature: 30.0°C ( 86°F)
Dewpoint: 13.0°C ( 55°F) [RH = 35%]
Pressure (altimeter):29.62 inches Hg (1003.0 mb)
Winds:from the WNW (290 degrees) at 14 MPH (12 knots; 6.2 m/s)
Visibility:6 or more sm (10+ km)
Ceiling:ceiling and visibility are OK
Clouds:unknown
METAR for:UAKK (Karaganda Arpt, KA, KZ)
Text:UAKK 200600Z 29003MPS 9999 SCT050CB 25/14 Q1003 NOSIG RMK QFE706/0941
Conditions at:0600 UTC 20 Jul 2024
Temperature: 25.0°C ( 77°F)
Dewpoint: 14.0°C ( 57°F) [RH = 50%]
Pressure (altimeter):29.62 inches Hg (1003.0 mb)
Winds:from the WNW (290 degrees) at 7 MPH (6 knots; 3.1 m/s)
Visibility:6 or more sm (10+ km)
Ceiling:at least 12,000 feet AGL
Clouds:scattered clouds at 5000 feet AGL
METAR for:UAKD (Zhezkazgan Arpt, KA, KZ)
Text:UAKD 200600Z 27006MPS 230V310 CAVOK 27/09 Q1002 NOSIG RMK QFE718/0958
Conditions at:0600 UTC 20 Jul 2024
Temperature: 27.0°C ( 81°F)
Dewpoint: 9.0°C ( 48°F) [RH = 32%]
Pressure (altimeter):29.59 inches Hg (1002.0 mb)
Winds:from the W (270 degrees) at 14 MPH (12 knots; 6.2 m/s)
Visibility:6 or more sm (10+ km)
Ceiling:ceiling and visibility are OK
Clouds:unknown
METAR for:UAIT (Turkistan Arpt, YU, KZ)
Text:UAIT 200600Z 29007MPS 270V330 9999 SCT046 32/07 Q1004 NOSIG RMK QFE726/0968
Conditions at:0600 UTC 20 Jul 2024
Temperature: 32.0°C ( 90°F)
Dewpoint: 7.0°C ( 45°F) [RH = 21%]
Pressure (altimeter):29.65 inches Hg (1004.0 mb)
Winds:from the WNW (290 degrees) at 16 MPH (14 knots; 7.2 m/s)
Visibility:6 or more sm (10+ km)
Ceiling:at least 12,000 feet AGL
Clouds:scattered clouds at 4600 feet AGL
METAR for:UAII (Shymkent Intl, YU, KZ)
Text:UAII 200600Z 29008MPS CAVOK 33/14 Q1004 NOSIG RMK QFE716/0955
Conditions at:0600 UTC 20 Jul 2024
Temperature: 33.0°C ( 91°F)
Dewpoint: 14.0°C ( 57°F) [RH = 32%]
Pressure (altimeter):29.65 inches Hg (1004.0 mb)
Winds:from the WNW (290 degrees) at 18 MPH (16 knots; 8.2 m/s)
Visibility:6 or more sm (10+ km)
Ceiling:ceiling and visibility are OK
Clouds:unknown
METAR for:UACP (Petropavlovsk Arpt, SE, KZ)
Text:UACP 200600Z 29006MPS 9999 SCT022CB 19/15 Q1000 NOSIG RMK QFE737/0983
Conditions at:0600 UTC 20 Jul 2024
Temperature: 19.0°C ( 66°F)
Dewpoint: 15.0°C ( 59°F) [RH = 78%]
Pressure (altimeter):29.53 inches Hg (1000.0 mb)
Winds:from the WNW (290 degrees) at 14 MPH (12 knots; 6.2 m/s)
Visibility:6 or more sm (10+ km)
Ceiling:at least 12,000 feet AGL
Clouds:scattered clouds at 2200 feet AGL
METAR for:UACK (Kokshetau Arpt, AK, KZ)
Text:UACK 200600Z 29004MPS 260V320 CAVOK 23/14 Q1001 NOSIG RMK QFE727/0970
Conditions at:0600 UTC 20 Jul 2024
Temperature: 23.0°C ( 73°F)
Dewpoint: 14.0°C ( 57°F) [RH = 57%]
Pressure (altimeter):29.56 inches Hg (1001.0 mb)
Winds:from the WNW (290 degrees) at 9 MPH (8 knots; 4.1 m/s)
Visibility:6 or more sm (10+ km)
Ceiling:ceiling and visibility are OK
Clouds:unknown
METAR for:UACC (Astana Intl, AK, KZ)
Text:UACC 200600Z 28004MPS 250V310 9999 FEW040CB BKN040 23/13 Q1002 NOSIG RMK QFE721/0961
Conditions at:0600 UTC 20 Jul 2024
Temperature: 23.0°C ( 73°F)
Dewpoint: 13.0°C ( 55°F) [RH = 53%]
Pressure (altimeter):29.59 inches Hg (1002.0 mb)
Winds:from the W (280 degrees) at 9 MPH (8 knots; 4.1 m/s)
Visibility:6 or more sm (10+ km)
Ceiling:4000 feet AGL
Clouds:few clouds at 4000 feet AGL, broken clouds at 4000 feet AGL
METAR for:UAAT (Taldykorgan Arpt, AL, KZ)
Text:UAAT 200600Z 24005MPS 9999 FEW050 SCT100 31/12 Q1005 NOSIG RMK QFE703/0937
Conditions at:0600 UTC 20 Jul 2024
Temperature: 31.0°C ( 88°F)
Dewpoint: 12.0°C ( 54°F) [RH = 31%]
Pressure (altimeter):29.68 inches Hg (1005.0 mb)
Winds:from the WSW (240 degrees) at 12 MPH (10 knots; 5.1 m/s)
Visibility:6 or more sm (10+ km)
Ceiling:at least 12,000 feet AGL
Clouds:few clouds at 5000 feet AGL, scattered clouds at 10000 feet AGL
METAR for:UAAH (Balkhash Arpt, KA, KZ)
Text:UAAH 200600Z 19006MPS 9999 SCT040 26/17 Q1003 NOSIG RMK QFE714/0952
Conditions at:0600 UTC 20 Jul 2024
Temperature: 26.0°C ( 79°F)
Dewpoint: 17.0°C ( 63°F) [RH = 58%]
Pressure (altimeter):29.62 inches Hg (1003.0 mb)
Winds:from the S (190 degrees) at 14 MPH (12 knots; 6.2 m/s)
Visibility:6 or more sm (10+ km)
Ceiling:at least 12,000 feet AGL
Clouds:scattered clouds at 4000 feet AGL
METAR for:UAAA (Almaty Intl, AL, KZ)
Text:UAAA 200600Z 01003MPS 280V090 9999 FEW050 SCT100 28/18 Q1006 NOSIG
Conditions at:0600 UTC 20 Jul 2024
Temperature: 28.0°C ( 82°F)
Dewpoint: 18.0°C ( 64°F) [RH = 55%]
Pressure (altimeter):29.70 inches Hg (1006.0 mb)
Winds:from the N (10 degrees) at 7 MPH (6 knots; 3.1 m/s)
Visibility:6 or more sm (10+ km)
Ceiling:at least 12,000 feet AGL
Clouds:few clouds at 5000 feet AGL, scattered clouds at 10000 feet AGL
METAR for:TTPP (Port of Spain/Piarco Arpt, TU, TT)
Text:TTPP 200600Z 00000KT 9999 FEW016 26/23 Q1014 NOSIG
Conditions at:0600 UTC 20 Jul 2024
Temperature: 26.0°C ( 79°F)
Dewpoint: 23.0°C ( 73°F) [RH = 84%]
Pressure (altimeter):29.94 inches Hg (1014.0 mb)
Winds:calm
Visibility:6 or more sm (10+ km)
Ceiling:at least 12,000 feet AGL
Clouds:few clouds at 1600 feet AGL
METAR for:TTCP (Tobago/Crown Pt Arpt, WT, TT)
Text:TTCP 200600Z 00000KT 9999 FEW016 26/24 Q1014 NOSIG
Conditions at:0600 UTC 20 Jul 2024
Temperature: 26.0°C ( 79°F)
Dewpoint: 24.0°C ( 75°F) [RH = 89%]
Pressure (altimeter):29.94 inches Hg (1014.0 mb)
Winds:calm
Visibility:6 or more sm (10+ km)
Ceiling:at least 12,000 feet AGL
Clouds:few clouds at 1600 feet AGL
METAR for:TNCM (St Maarten Intl, --, SX)
Text:TNCM 200600Z 07011KT 9999 SCT016 29/27 Q1019
Conditions at:0600 UTC 20 Jul 2024
Temperature: 29.0°C ( 84°F)
Dewpoint: 27.0°C ( 81°F) [RH = 89%]
Pressure (altimeter):30.09 inches Hg (1019.0 mb)
Winds:from the ENE (70 degrees) at 13 MPH (11 knots; 5.7 m/s)
Visibility:6 or more sm (10+ km)
Ceiling:at least 12,000 feet AGL
Clouds:scattered clouds at 1600 feet AGL
METAR for:TNCC (Curacao/Hato Intl, --, CW)
Text:TNCC 200600Z 11011KT 9999 FEW018 28/25 Q1013 NOSIG
Conditions at:0600 UTC 20 Jul 2024
Temperature: 28.0°C ( 82°F)
Dewpoint: 25.0°C ( 77°F) [RH = 84%]
Pressure (altimeter):29.91 inches Hg (1013.0 mb)
Winds:from the ESE (110 degrees) at 13 MPH (11 knots; 5.7 m/s)
Visibility:6 or more sm (10+ km)
Ceiling:at least 12,000 feet AGL
Clouds:few clouds at 1800 feet AGL
METAR for:TNCA (Aruba/Beatrix Intl, --, AW)
Text:TNCA 200600Z 09020KT 9999 FEW018 29/25 Q1012 NOSIG
Conditions at:0600 UTC 20 Jul 2024
Temperature: 29.0°C ( 84°F)
Dewpoint: 25.0°C ( 77°F) [RH = 79%]
Pressure (altimeter):29.88 inches Hg (1012.0 mb)
Winds:from the E (90 degrees) at 23 MPH (20 knots; 10.3 m/s)
Visibility:6 or more sm (10+ km)
Ceiling:at least 12,000 feet AGL
Clouds:few clouds at 1800 feet AGL
METAR for:TLPL (St Lucia/Hewanorra Intl, VF, LC)
Text:TLPL 200600Z 10015KT 9999 SCT021 27/26 Q1016 TEMPO SHRA
Conditions at:0600 UTC 20 Jul 2024
Temperature: 27.0°C ( 81°F)
Dewpoint: 26.0°C ( 79°F) [RH = 94%]
Pressure (altimeter):30.00 inches Hg (1016.0 mb)
Winds:from the E (100 degrees) at 17 MPH (15 knots; 7.7 m/s)
Visibility:6 or more sm (10+ km)
Ceiling:at least 12,000 feet AGL
Clouds:scattered clouds at 2100 feet AGL
METAR for:TFFR (Guadeloupe/Pitre Intl, --, GP)
Text:TFFR 200600Z AUTO 09006KT 9999 FEW024/// BKN034/// BKN049/// ///TCU 28/25 Q1016 TEMPO 4000 SHRA SCT010 FEW013CB BKN020TCU
Conditions at:0600 UTC 20 Jul 2024
Temperature: 28.0°C ( 82°F)
Dewpoint: 25.0°C ( 77°F) [RH = 84%]
Pressure (altimeter):30.00 inches Hg (1016.0 mb)
Winds:from the E (90 degrees) at 7 MPH (6 knots; 3.1 m/s)
Visibility:6 or more sm (10+ km)
Ceiling:3400 feet AGL
Clouds:few clouds at 2400 feet AGL, broken clouds at 3400 feet AGL, broken clouds at 4900 feet AGL
METAR for:TFFJ (St Barthelemy/Gustav Arpt, --, BL)
Text:TFFJ 200600Z AUTO 09009KT 040V120 7000 BKN019 29/25 Q1017
Conditions at:0600 UTC 20 Jul 2024
Temperature: 29.0°C ( 84°F)
Dewpoint: 25.0°C ( 77°F) [RH = 79%]
Pressure (altimeter):30.03 inches Hg (1017.0 mb)
Winds:from the E (90 degrees) at 10 MPH (9 knots; 4.6 m/s)
Visibility:4 sm (7 km)
Ceiling:1900 feet AGL
Clouds:broken clouds at 1900 feet AGL
METAR for:TFFF (Le Lamentin/Cesaire Intl, FD, MQ)
Text:TFFF 200600Z AUTO 12009KT 9999 FEW019/// SCT028/// BKN036/// ///TCU 27/25 Q1016 TEMPO 3500 SHRA SCT010 FEW015CB BKN018TCU
Conditions at:0600 UTC 20 Jul 2024
Temperature: 27.0°C ( 81°F)
Dewpoint: 25.0°C ( 77°F) [RH = 89%]
Pressure (altimeter):30.00 inches Hg (1016.0 mb)
Winds:from the ESE (120 degrees) at 10 MPH (9 knots; 4.6 m/s)
Visibility:6 or more sm (10+ km)
Ceiling:3600 feet AGL
Clouds:few clouds at 1900 feet AGL, scattered clouds at 2800 feet AGL, broken clouds at 3600 feet AGL
METAR for:TBPB (Bridgetown/Adams Intl, 1, BB)
Text:TBPB 200600Z 09015KT 9999 FEW018 BKN040 28/26 Q1015 NOSIG
Conditions at:0600 UTC 20 Jul 2024
Temperature: 28.0°C ( 82°F)
Dewpoint: 26.0°C ( 79°F) [RH = 89%]
Pressure (altimeter):29.97 inches Hg (1015.0 mb)
Winds:from the E (90 degrees) at 17 MPH (15 knots; 7.7 m/s)
Visibility:6 or more sm (10+ km)
Ceiling:4000 feet AGL
Clouds:few clouds at 1800 feet AGL, broken clouds at 4000 feet AGL
METAR for:SUMU (Carrasco Intl, CA, UY)
Text:SUMU 200600Z 15007KT 9999 BKN013 08/07 Q1030 NOSIG
Conditions at:0600 UTC 20 Jul 2024
Temperature: 8.0°C ( 46°F)
Dewpoint: 7.0°C ( 45°F) [RH = 93%]
Pressure (altimeter):30.41 inches Hg (1030.0 mb)
Winds:from the SSE (150 degrees) at 8 MPH (7 knots; 3.6 m/s)
Visibility:6 or more sm (10+ km)
Ceiling:1300 feet AGL
Clouds:broken clouds at 1300 feet AGL
TAF for:SUMU (Carrasco Intl, CA, UY) issued at 0530 UTC 20 Jul 2024
Text:TAF SUMU 200530Z 2006/2106 15010KT 9999 BKN015 BKN070 TX12/2018Z TN07/2011Z
Forecast period:0600 to 1400 UTC 20 July 2024
Forecast type:FROM: standard forecast or significant change
Winds:from the SSE (150 degrees) at 12 MPH (10 knots; 5.1 m/s)
Visibility:6 or more sm (10+ km)
Ceiling:1500 feet AGL
Clouds:broken clouds at 1500 feet AGL, broken clouds at 7000 feet AGL
Temperature:MAX 12°C at 1800 UTC 20 Jul 2024
Temperature:MIN 7°C at 1100 UTC 20 Jul 2024
Text:BECMG 2014/2016 08010KT
Forecast period:1400 UTC 20 July 2024 to 0600 UTC 21 July 2024
Forecast type:BECOMING: Conditions expected to become as follows by 1600 UTC 20 July 2024
Winds:from the E (80 degrees) at 12 MPH (10 knots; 5.1 m/s)
Visibility:6 or more sm (10+ km)
Ceiling:1500 feet AGL
Clouds:broken clouds at 1500 feet AGL, broken clouds at 7000 feet AGL
Text:TEMPO 2018/2102 3000 RA OVC008
Forecast period:1800 UTC 20 July 2024 to 0200 UTC 21 July 2024
Forecast type:TEMPORARY: The following changes expected for less than half the time period
Visibility:1.86 sm (2.99 km)
Ceiling:800 feet AGL
Clouds:overcast cloud deck at 800 feet AGL
Weather:RA (moderate rain)
METAR for:SULS (Maldonado Intl, MA, UY)
Text:SULS 200600Z 14007KT 9999 BKN010 08/06 Q1030
Conditions at:0600 UTC 20 Jul 2024
Temperature: 8.0°C ( 46°F)
Dewpoint: 6.0°C ( 43°F) [RH = 87%]
Pressure (altimeter):30.41 inches Hg (1030.0 mb)
Winds:from the SE (140 degrees) at 8 MPH (7 knots; 3.6 m/s)
Visibility:6 or more sm (10+ km)
Ceiling:1000 feet AGL
Clouds:broken clouds at 1000 feet AGL
TAF for:SULS (Maldonado Intl, MA, UY) issued at 0530 UTC 20 Jul 2024
Text:TAF SULS 200530Z 2006/2106 16010KT 9999 BKN012 BKN070 TX12/2018Z TN06/2011Z
Forecast period:0600 to 1400 UTC 20 July 2024
Forecast type:FROM: standard forecast or significant change
Winds:from the SSE (160 degrees) at 12 MPH (10 knots; 5.1 m/s)
Visibility:6 or more sm (10+ km)
Ceiling:1200 feet AGL
Clouds:broken clouds at 1200 feet AGL, broken clouds at 7000 feet AGL
Temperature:MAX 12°C at 1800 UTC 20 Jul 2024
Temperature:MIN 6°C at 1100 UTC 20 Jul 2024
Text:BECMG 2014/2016 07010KT
Forecast period:1400 UTC 20 July 2024 to 0600 UTC 21 July 2024
Forecast type:BECOMING: Conditions expected to become as follows by 1600 UTC 20 July 2024
Winds:from the ENE (70 degrees) at 12 MPH (10 knots; 5.1 m/s)
Visibility:6 or more sm (10+ km)
Ceiling:1200 feet AGL
Clouds:broken clouds at 1200 feet AGL, broken clouds at 7000 feet AGL
Text:TEMPO 2018/2104 3000 RA OVC008
Forecast period:1800 UTC 20 July 2024 to 0400 UTC 21 July 2024
Forecast type:TEMPORARY: The following changes expected for less than half the time period
Visibility:1.86 sm (2.99 km)
Ceiling:800 feet AGL
Clouds:overcast cloud deck at 800 feet AGL
Weather:RA (moderate rain)
METAR for:SPZO (Cuzco/Astete Arpt, CU, PE)
Text:SPZO 200600Z 00000KT 9999 NSC 03/M06 Q1037 RMK PP000
Conditions at:0600 UTC 20 Jul 2024
Temperature: 3.0°C ( 37°F)
Dewpoint: -6.0°C ( 21°F) [RH = 52%]
Pressure (altimeter):30.62 inches Hg (1037.0 mb)
Winds:calm
Visibility:6 or more sm (10+ km)
Ceiling:at least 12,000 feet AGL
Clouds:sky clear below 12,000 feet AGL
METAR for:SPUR (Piura/Iberico Intl, PI, PE)
Text:SPUR 200600Z 17011KT 9999 BKN020 18/15 Q1016 RMK PP000
Conditions at:0600 UTC 20 Jul 2024
Temperature: 18.0°C ( 64°F)
Dewpoint: 15.0°C ( 59°F) [RH = 83%]
Pressure (altimeter):30.00 inches Hg (1016.0 mb)
Winds:from the S (170 degrees) at 13 MPH (11 knots; 5.7 m/s)
Visibility:6 or more sm (10+ km)
Ceiling:2000 feet AGL
Clouds:broken clouds at 2000 feet AGL
METAR for:SPTN (Tacna Arpt, TA, PE)
Text:SPTN 200600Z 27004KT 220V310 4000 BR OVC020 12/10 Q1017 RMK PP000
Conditions at:0600 UTC 20 Jul 2024
Temperature: 12.0°C ( 54°F)
Dewpoint: 10.0°C ( 50°F) [RH = 88%]
Pressure (altimeter):30.03 inches Hg (1017.0 mb)
Winds:from the W (270 degrees) at 5 MPH (4 knots; 2.1 m/s)
Visibility:2.49 sm (4.01 km)
Ceiling:2000 feet AGL
Clouds:overcast cloud deck at 2000 feet AGL
Weather:BR (mist)
METAR for:SPSO (Pisco Intl, IC, PE)
Text:SPSO 200600Z VRB01KT 9999 OVC018 16/13 Q1016 RMK PP000
Conditions at:0600 UTC 20 Jul 2024
Temperature: 16.0°C ( 61°F)
Dewpoint: 13.0°C ( 55°F) [RH = 82%]
Pressure (altimeter):30.00 inches Hg (1016.0 mb)
Winds:variable direction winds at 1 MPH (1 knots; 0.5 m/s)
Visibility:6 or more sm (10+ km)
Ceiling:1800 feet AGL
Clouds:overcast cloud deck at 1800 feet AGL
METAR for:SPRU (Trujillo Arpt, LA, PE)
Text:SPRU 200600Z 15006KT 6000 BCFG BKN012 16/14 Q1015 RMK PP000
Conditions at:0600 UTC 20 Jul 2024
Temperature: 16.0°C ( 61°F)
Dewpoint: 14.0°C ( 57°F) [RH = 88%]
Pressure (altimeter):29.97 inches Hg (1015.0 mb)
Winds:from the SSE (150 degrees) at 7 MPH (6 knots; 3.1 m/s)
Visibility:4 sm (6 km)
Ceiling:1200 feet AGL
Clouds:broken clouds at 1200 feet AGL
Weather:BCFG (patches of fog)
METAR for:SPQT (Iquitos/Vignetta Arpt, LO, PE)
Text:SPQT 200600Z 00000KT 9999 FEW003 BKN100 24/23 Q1015 NOSIG RMK PP000
Conditions at:0600 UTC 20 Jul 2024
Temperature: 24.0°C ( 75°F)
Dewpoint: 23.0°C ( 73°F) [RH = 94%]
Pressure (altimeter):29.97 inches Hg (1015.0 mb)
Winds:calm
Visibility:6 or more sm (10+ km)
Ceiling:10000 feet AGL
Clouds:few clouds at 300 feet AGL, broken clouds at 10000 feet AGL
METAR for:SPJC (Lima/Chávez Intl, LI, PE)
Text:SPJC 200600Z 17008KT 9999 OVC017 16/12 Q1015 NOSIG RMK PP000
Conditions at:0600 UTC 20 Jul 2024
Temperature: 16.0°C ( 61°F)
Dewpoint: 12.0°C ( 54°F) [RH = 77%]
Pressure (altimeter):29.97 inches Hg (1015.0 mb)
Winds:from the S (170 degrees) at 9 MPH (8 knots; 4.1 m/s)
Visibility:6 or more sm (10+ km)
Ceiling:1700 feet AGL
Clouds:overcast cloud deck at 1700 feet AGL
METAR for:SPHI (Chiclayo Arpt, LA, PE)
Text:SPHI 200600Z 18010KT 9999 FEW008 16/14 Q1015 RMK BIRD HAZARD RWY 19/01 PP000
Conditions at:0600 UTC 20 Jul 2024
Temperature: 16.0°C ( 61°F)
Dewpoint: 14.0°C ( 57°F) [RH = 88%]
Pressure (altimeter):29.97 inches Hg (1015.0 mb)
Winds:from the S (180 degrees) at 12 MPH (10 knots; 5.1 m/s)
Visibility:6 or more sm (10+ km)
Ceiling:at least 12,000 feet AGL
Clouds:few clouds at 800 feet AGL
METAR for:SPCL (Pucallpa/Rengifo Intl, UC, PE)
Text:SPCL 200600Z 00000KT 9999 SCT017 23/21 Q1016 RMK PP000
Conditions at:0600 UTC 20 Jul 2024
Temperature: 23.0°C ( 73°F)
Dewpoint: 21.0°C ( 70°F) [RH = 89%]
Pressure (altimeter):30.00 inches Hg (1016.0 mb)
Winds:calm
Visibility:6 or more sm (10+ km)
Ceiling:at least 12,000 feet AGL
Clouds:scattered clouds at 1700 feet AGL
METAR for:SOCA (Cayenne/Rochambeau Arpt, CA, GF)
Text:SOCA 200600Z AUTO VRB01KT 9999 FEW001 OVC160 25/25 Q1013 TEMPO 2000 SHRA SCT015 BKN018TCU
Conditions at:0600 UTC 20 Jul 2024
Temperature: 25.0°C ( 77°F)
Dewpoint: 25.0°C ( 77°F) [RH = 100%]
Pressure (altimeter):29.91 inches Hg (1013.0 mb)
Winds:variable direction winds at 1 MPH (1 knots; 0.5 m/s)
Visibility:6 or more sm (10+ km)
Ceiling:16000 feet AGL
Clouds:few clouds at 100 feet AGL, overcast cloud deck at 16000 feet AGL
METAR for:SMJP (Paramaribo/Pengel Intl, PA, SR)
Text:SMJP 200600Z 11002KT 9999 FEW004 25/24 Q1014 NOSIG
Conditions at:0600 UTC 20 Jul 2024
Temperature: 25.0°C ( 77°F)
Dewpoint: 24.0°C ( 75°F) [RH = 94%]
Pressure (altimeter):29.94 inches Hg (1014.0 mb)
Winds:from the ESE (110 degrees) at 2 MPH (2 knots; 1.0 m/s)
Visibility:6 or more sm (10+ km)
Ceiling:at least 12,000 feet AGL
Clouds:few clouds at 400 feet AGL
METAR for:SLVR (Santa Cruz/Viru Intl, S, BO)
Text:SLVR 200600Z 25007KT 9999 NSC 18/14 Q1019
Conditions at:0600 UTC 20 Jul 2024
Temperature: 18.0°C ( 64°F)
Dewpoint: 14.0°C ( 57°F) [RH = 77%]
Pressure (altimeter):30.09 inches Hg (1019.0 mb)
Winds:from the WSW (250 degrees) at 8 MPH (7 knots; 3.6 m/s)
Visibility:6 or more sm (10+ km)
Ceiling:at least 12,000 feet AGL
Clouds:sky clear below 12,000 feet AGL
METAR for:SLLP (La Paz/El Alto Intl, L, BO)
Text:SLLP 200600Z VRB02KT 9999 NSC M05/M23 Q1040
Conditions at:0600 UTC 20 Jul 2024
Temperature: -5.0°C ( 23°F)
Dewpoint:-23.0°C ( -9°F) [RH = 23%]
Pressure (altimeter):30.71 inches Hg (1040.0 mb)
Winds:variable direction winds at 2 MPH (2 knots; 1.0 m/s)
Visibility:6 or more sm (10+ km)
Ceiling:at least 12,000 feet AGL
Clouds:sky clear below 12,000 feet AGL
METAR for:SLCB (Cochabamba/Wilstermann Intl, C, BO)
Text:SLCB 200600Z 00000KT 9999 NSC 06/M06 Q1029
Conditions at:0600 UTC 20 Jul 2024
Temperature: 6.0°C ( 43°F)
Dewpoint: -6.0°C ( 21°F) [RH = 42%]
Pressure (altimeter):30.38 inches Hg (1029.0 mb)
Winds:calm
Visibility:6 or more sm (10+ km)
Ceiling:at least 12,000 feet AGL
Clouds:sky clear below 12,000 feet AGL
METAR for:SKSP (San Andres Island Arpt, SA, CO)
Text:SKSP 200600Z 09006KT 060V130 9999 SCT016 29/26 Q1012
Conditions at:0600 UTC 20 Jul 2024
Temperature: 29.0°C ( 84°F)
Dewpoint: 26.0°C ( 79°F) [RH = 84%]
Pressure (altimeter):29.88 inches Hg (1012.0 mb)
Winds:from the E (90 degrees) at 7 MPH (6 knots; 3.1 m/s)
Visibility:6 or more sm (10+ km)
Ceiling:at least 12,000 feet AGL
Clouds:scattered clouds at 1600 feet AGL
METAR for:SKSM (Santa Marta/Bolivar Arpt, MA, CO)
Text:SKSM 200600Z AUTO 04004KT //// R01///// // ////// 25/24 Q1012
Conditions at:0600 UTC 20 Jul 2024
Temperature: 25.0°C ( 77°F)
Dewpoint: 24.0°C ( 75°F) [RH = 94%]
Pressure (altimeter):29.88 inches Hg (1012.0 mb)
Winds:from the NE (40 degrees) at 5 MPH (4 knots; 2.1 m/s)
METAR for:SKRG (Rionegro/Cordova Intl, AN, CO)
Text:SKRG 200600Z 34003KT 260V020 9999 FEW008 14/14 Q1027 NOSIG
Conditions at:0600 UTC 20 Jul 2024
Temperature: 14.0°C ( 57°F)
Dewpoint: 14.0°C ( 57°F) [RH = 100%]
Pressure (altimeter):30.32 inches Hg (1027.0 mb)
Winds:from the NNW (340 degrees) at 3 MPH (3 knots; 1.5 m/s)
Visibility:6 or more sm (10+ km)
Ceiling:at least 12,000 feet AGL
Clouds:few clouds at 800 feet AGL
METAR for:SKPE (Pereira/Matecana Arpt, RI, CO)
Text:SKPE 200600Z AUTO 11007KT CAVOK 20/17 Q1019
Conditions at:0600 UTC 20 Jul 2024
Temperature: 20.0°C ( 68°F)
Dewpoint: 17.0°C ( 63°F) [RH = 83%]
Pressure (altimeter):30.09 inches Hg (1019.0 mb)
Winds:from the ESE (110 degrees) at 8 MPH (7 knots; 3.6 m/s)
Visibility:6 or more sm (10+ km)
Ceiling:ceiling and visibility are OK
Clouds:unknown
METAR for:SKLT (Leticia/Cobo Intl, AM, CO)
Text:SKLT 200600Z VRB02KT CAVOK 24/24 Q1014
Conditions at:0600 UTC 20 Jul 2024
Temperature: 24.0°C ( 75°F)
Dewpoint: 24.0°C ( 75°F) [RH = 100%]
Pressure (altimeter):29.94 inches Hg (1014.0 mb)
Winds:variable direction winds at 2 MPH (2 knots; 1.0 m/s)
Visibility:6 or more sm (10+ km)
Ceiling:ceiling and visibility are OK
Clouds:unknown
METAR for:SKCL (Cali/Aragon Arpt, VD, CO)
Text:SKCL 200600Z 02006KT 9999 SCT030 BKN100 22/19 Q1016 NOSIG
Conditions at:0600 UTC 20 Jul 2024
Temperature: 22.0°C ( 72°F)
Dewpoint: 19.0°C ( 66°F) [RH = 83%]
Pressure (altimeter):30.00 inches Hg (1016.0 mb)
Winds:from the NNE (20 degrees) at 7 MPH (6 knots; 3.1 m/s)
Visibility:6 or more sm (10+ km)
Ceiling:10000 feet AGL
Clouds:scattered clouds at 3000 feet AGL, broken clouds at 10000 feet AGL
METAR for:SKCG (Cartagena/Nunez Intl, BO, CO)
Text:SKCG 200600Z VRB01KT 9999 FEW017 27/26 Q1011
Conditions at:0600 UTC 20 Jul 2024
Temperature: 27.0°C ( 81°F)
Dewpoint: 26.0°C ( 79°F) [RH = 94%]
Pressure (altimeter):29.85 inches Hg (1011.0 mb)
Winds:variable direction winds at 1 MPH (1 knots; 0.5 m/s)
Visibility:6 or more sm (10+ km)
Ceiling:at least 12,000 feet AGL
Clouds:few clouds at 1700 feet AGL
METAR for:SKBQ (Barranquilla/Cortissoz Arpt, AT, CO)
Text:SKBQ 200600Z 28003KT 240V330 8000 VCFG SCT012 26/25 Q1011 NOSIG
Conditions at:0600 UTC 20 Jul 2024
Temperature: 26.0°C ( 79°F)
Dewpoint: 25.0°C ( 77°F) [RH = 94%]
Pressure (altimeter):29.85 inches Hg (1011.0 mb)
Winds:from the W (280 degrees) at 3 MPH (3 knots; 1.5 m/s)
Visibility:5 sm (8 km)
Ceiling:at least 12,000 feet AGL
Clouds:scattered clouds at 1200 feet AGL
Weather:VCFG (fog in vicinity)
METAR for:SKBO (Bogota/El Dorado Arpt, CA, CO)
Text:SKBO 200600Z 02003KT 9999 BKN020 11/10 Q1029 NOSIG
Conditions at:0600 UTC 20 Jul 2024
Temperature: 11.0°C ( 52°F)
Dewpoint: 10.0°C ( 50°F) [RH = 94%]
Pressure (altimeter):30.38 inches Hg (1029.0 mb)
Winds:from the NNE (20 degrees) at 3 MPH (3 knots; 1.5 m/s)
Visibility:6 or more sm (10+ km)
Ceiling:2000 feet AGL
Clouds:broken clouds at 2000 feet AGL
METAR for:SKBG (Bucaramango/Palonegro Arpt, SA, CO)
Text:SKBG 200600Z AUTO 13003KT //// OVC067/// 21/20 Q1018
Conditions at:0600 UTC 20 Jul 2024
Temperature: 21.0°C ( 70°F)
Dewpoint: 20.0°C ( 68°F) [RH = 94%]
Pressure (altimeter):30.06 inches Hg (1018.0 mb)
Winds:from the SE (130 degrees) at 3 MPH (3 knots; 1.5 m/s)
Ceiling:6700 feet AGL
Clouds:overcast cloud deck at 6700 feet AGL
METAR for:SGES (Guarani Intl, 10, PY)
Text:SGES 200600Z 13002KT CAVOK 16/16 Q1021
Conditions at:0600 UTC 20 Jul 2024
Temperature: 16.0°C ( 61°F)
Dewpoint: 16.0°C ( 61°F) [RH = 100%]
Pressure (altimeter):30.15 inches Hg (1021.0 mb)
Winds:from the SE (130 degrees) at 2 MPH (2 knots; 1.0 m/s)
Visibility:6 or more sm (10+ km)
Ceiling:ceiling and visibility are OK
Clouds:unknown
METAR for:SGAS (Asuncion/Pettriossi, 11, PY)
Text:SGAS 200600Z 00000KT CAVOK 18/14 Q1019
Conditions at:0600 UTC 20 Jul 2024
Temperature: 18.0°C ( 64°F)
Dewpoint: 14.0°C ( 57°F) [RH = 77%]
Pressure (altimeter):30.09 inches Hg (1019.0 mb)
Winds:calm
Visibility:6 or more sm (10+ km)
Ceiling:ceiling and visibility are OK
Clouds:unknown
METAR for:SEQM (Quito/New Intl, P, EC)
Text:SEQM 200600Z 09002KT 9999 BKN030 12/09 Q1027 NOSIG RMK A3034
Conditions at:0600 UTC 20 Jul 2024
Temperature: 12.0°C ( 54°F)
Dewpoint: 9.0°C ( 48°F) [RH = 82%]
Pressure (altimeter):30.32 inches Hg (1027.0 mb)
Winds:from the E (90 degrees) at 2 MPH (2 knots; 1.0 m/s)
Visibility:6 or more sm (10+ km)
Ceiling:3000 feet AGL
Clouds:broken clouds at 3000 feet AGL
TAF for:SEQM (Quito/New Intl, P, EC) issued at 0525 UTC 20 Jul 2024
Text:SEQM 200525Z 2006/2106 VRB03KT 9999 BKN030
Forecast period:0600 to 1200 UTC 20 July 2024
Forecast type:FROM: standard forecast or significant change
Winds:variable direction winds at 3 MPH (3 knots; 1.5 m/s)
Visibility:6 or more sm (10+ km)
Ceiling:3000 feet AGL
Clouds:broken clouds at 3000 feet AGL
Text:BECMG 2012/2014 24004KT SCT033
Forecast period:1200 to 1700 UTC 20 July 2024
Forecast type:BECOMING: Conditions expected to become as follows by 1400 UTC 20 July 2024
Winds:from the WSW (240 degrees) at 5 MPH (4 knots; 2.1 m/s)
Visibility:6 or more sm (10+ km)
Ceiling:at least 12,000 feet AGL
Clouds:scattered clouds at 3300 feet AGL
Text:BECMG 2017/2018 15012KT
Forecast period:1700 UTC 20 July 2024 to 0000 UTC 21 July 2024
Forecast type:BECOMING: Conditions expected to become as follows by 1800 UTC 20 July 2024
Winds:from the SSE (150 degrees) at 14 MPH (12 knots; 6.2 m/s)
Visibility:6 or more sm (10+ km)
Ceiling:at least 12,000 feet AGL
Clouds:scattered clouds at 3300 feet AGL
Text:TEMPO 2019/2021 14012G24KT
Forecast period:1900 to 2100 UTC 20 July 2024
Forecast type:TEMPORARY: The following changes expected for less than half the time period
Winds:from the SE (140 degrees) at 14 MPH (12 knots; 6.2 m/s) gusting to 28 MPH (24 knots; 12.3 m/s)
Text:BECMG 2100/2102 32004KT BKN030 TX26/2019Z TN11/2011Z
Forecast period:0000 to 0600 UTC 21 July 2024
Forecast type:BECOMING: Conditions expected to become as follows by 0200 UTC 21 July 2024
Winds:from the NW (320 degrees) at 5 MPH (4 knots; 2.1 m/s)
Visibility:6 or more sm (10+ km)
Ceiling:3000 feet AGL
Clouds:broken clouds at 3000 feet AGL
Temperature:MAX 26°C at 1900 UTC 20 Jul 2024
Temperature:MIN 11°C at 1100 UTC 20 Jul 2024
METAR for:SEMT (Manta/Alfaro Intl, M, EC)
Text:SEMT 200600Z 19006KT 170V230 9999 OVC020 23/21 Q1012 RMK A2989
Conditions at:0600 UTC 20 Jul 2024
Temperature: 23.0°C ( 73°F)
Dewpoint: 21.0°C ( 70°F) [RH = 89%]
Pressure (altimeter):29.88 inches Hg (1012.0 mb)
Winds:from the S (190 degrees) at 7 MPH (6 knots; 3.1 m/s)
Visibility:6 or more sm (10+ km)
Ceiling:2000 feet AGL
Clouds:overcast cloud deck at 2000 feet AGL
TAF for:SEMT (Manta/Alfaro Intl, M, EC) issued at 0525 UTC 20 Jul 2024
Text:SEMT 200525Z 2006/2106 18005KT 9999 BKN020
Forecast period:0600 to 1900 UTC 20 July 2024
Forecast type:FROM: standard forecast or significant change
Winds:from the S (180 degrees) at 6 MPH (5 knots; 2.6 m/s)
Visibility:6 or more sm (10+ km)
Ceiling:2000 feet AGL
Clouds:broken clouds at 2000 feet AGL
Text:BECMG 2019/2021 27010KT SCT023
Forecast period:1900 UTC 20 July 2024 to 0000 UTC 21 July 2024
Forecast type:BECOMING: Conditions expected to become as follows by 2100 UTC 20 July 2024
Winds:from the W (270 degrees) at 12 MPH (10 knots; 5.1 m/s)
Visibility:6 or more sm (10+ km)
Ceiling:at least 12,000 feet AGL
Clouds:scattered clouds at 2300 feet AGL
Text:BECMG 2100/2102 18006KT BKN020 TX27/2020Z TN22/2010Z
Forecast period:0000 to 0600 UTC 21 July 2024
Forecast type:BECOMING: Conditions expected to become as follows by 0200 UTC 21 July 2024
Winds:from the S (180 degrees) at 7 MPH (6 knots; 3.1 m/s)
Visibility:6 or more sm (10+ km)
Ceiling:2000 feet AGL
Clouds:broken clouds at 2000 feet AGL
Temperature:MIN 22°C at 1000 UTC 20 Jul 2024
Temperature:MAX 27°C at 2000 UTC 20 Jul 2024
METAR for:SEGU (Guayaquil/Olmedo Intl, G, EC)
Text:SEGU 200600Z 21011KT 9999 FEW023 23/20 Q1012 NOSIG RMK A2989
Conditions at:0600 UTC 20 Jul 2024
Temperature: 23.0°C ( 73°F)
Dewpoint: 20.0°C ( 68°F) [RH = 83%]
Pressure (altimeter):29.88 inches Hg (1012.0 mb)
Winds:from the SSW (210 degrees) at 13 MPH (11 knots; 5.7 m/s)
Visibility:6 or more sm (10+ km)
Ceiling:at least 12,000 feet AGL
Clouds:few clouds at 2300 feet AGL
TAF for:SEGU (Guayaquil/Olmedo Intl, G, EC) issued at 0525 UTC 20 Jul 2024
Text:SEGU 200525Z 2006/2106 22010KT 9999 FEW010 BKN023
Forecast period:0600 to 1400 UTC 20 July 2024
Forecast type:FROM: standard forecast or significant change
Winds:from the SW (220 degrees) at 12 MPH (10 knots; 5.1 m/s)
Visibility:6 or more sm (10+ km)
Ceiling:2300 feet AGL
Clouds:few clouds at 1000 feet AGL, broken clouds at 2300 feet AGL
Text:BECMG 2014/2016 BKN023 SCT100
Forecast period:1400 to 1800 UTC 20 July 2024
Forecast type:BECOMING: Conditions expected to become as follows by 1600 UTC 20 July 2024
Winds:from the SW (220 degrees) at 12 MPH (10 knots; 5.1 m/s)
Visibility:6 or more sm (10+ km)
Ceiling:2300 feet AGL
Clouds:broken clouds at 2300 feet AGL, scattered clouds at 10000 feet AGL
Text:BECMG 2018/2020 15006KT SCT023 SCT100
Forecast period:1800 UTC 20 July 2024 to 0000 UTC 21 July 2024
Forecast type:BECOMING: Conditions expected to become as follows by 2000 UTC 20 July 2024
Winds:from the SSE (150 degrees) at 7 MPH (6 knots; 3.1 m/s)
Visibility:6 or more sm (10+ km)
Ceiling:at least 12,000 feet AGL
Clouds:scattered clouds at 2300 feet AGL, scattered clouds at 10000 feet AGL
Text:BECMG 2100/2102 22010KT BKN023 BKN100 TX31/2020Z TN22/2010Z
Forecast period:0000 to 0600 UTC 21 July 2024
Forecast type:BECOMING: Conditions expected to become as follows by 0200 UTC 21 July 2024
Winds:from the SW (220 degrees) at 12 MPH (10 knots; 5.1 m/s)
Visibility:6 or more sm (10+ km)
Ceiling:2300 feet AGL
Clouds:broken clouds at 2300 feet AGL, broken clouds at 10000 feet AGL
Temperature:MIN 22°C at 1000 UTC 20 Jul 2024
Temperature:MAX 31°C at 2000 UTC 20 Jul 2024
METAR for:SCVM (Concon/Vina Del Mar Arpt, VS, CL)
Text:SCVM 200600Z 00000KT 8000 BKN010 09/08 Q1016
Conditions at:0600 UTC 20 Jul 2024
Temperature: 9.0°C ( 48°F)
Dewpoint: 8.0°C ( 46°F) [RH = 93%]
Pressure (altimeter):30.00 inches Hg (1016.0 mb)
Winds:calm
Visibility:5 sm (8 km)
Ceiling:1000 feet AGL
Clouds:broken clouds at 1000 feet AGL
METAR for:SCVD (Valdivia/Pichoy Arpt, LL, CL)
Text:SCVD 200600Z AUTO 36003KT 320V050 9000 NCD M01/M01 Q1023
Conditions at:0600 UTC 20 Jul 2024
Temperature: -1.0°C ( 30°F)
Dewpoint: -1.0°C ( 30°F) [RH = 100%]
Pressure (altimeter):30.21 inches Hg (1023.0 mb)
Winds:from the N (360 degrees) at 3 MPH (3 knots; 1.5 m/s)
Visibility:6 sm (9 km)
Ceiling:at least 12,000 feet AGL
Clouds:sky clear below 12,000 feet AGL
METAR for:SCTN (Chaitén Arpt, LL, CL)
Text:SCTN 200600Z AUTO VRB02KT CAVOK M00/M01 Q1026
Conditions at:0600 UTC 20 Jul 2024
Temperature: 0.0°C ( 32°F)
Dewpoint: -1.0°C ( 30°F) [RH = 93%]
Pressure (altimeter):30.30 inches Hg (1026.0 mb)
Winds:variable direction winds at 2 MPH (2 knots; 1.0 m/s)
Visibility:6 or more sm (10+ km)
Ceiling:ceiling and visibility are OK
Clouds:unknown
METAR for:SCTE (Puerto Montt/Tepua Arpt, AR, CL)
Text:SCTE 200600Z 00000KT CAVOK 01/M00 Q1025 NOSIG
Conditions at:0600 UTC 20 Jul 2024
Temperature: 1.0°C ( 34°F)
Dewpoint: 0.0°C ( 32°F) [RH = 93%]
Pressure (altimeter):30.27 inches Hg (1025.0 mb)
Winds:calm
Visibility:6 or more sm (10+ km)
Ceiling:ceiling and visibility are OK
Clouds:unknown
METAR for:SCSN (Santo Domingo Aprt, VS, CL)
Text:SCSN 200600Z AUTO VRB02KT 9999 NCD 02/02 Q1016
Conditions at:0600 UTC 20 Jul 2024
Temperature: 2.0°C ( 36°F)
Dewpoint: 2.0°C ( 36°F) [RH = 100%]
Pressure (altimeter):30.00 inches Hg (1016.0 mb)
Winds:variable direction winds at 2 MPH (2 knots; 1.0 m/s)
Visibility:6 or more sm (10+ km)
Ceiling:at least 12,000 feet AGL
Clouds:sky clear below 12,000 feet AGL
METAR for:SCSE (La Serena/La Florida Arpt, CO, CL)
Text:SCSE 200600Z 30004KT 9999 OVC015 11/09 Q1016
Conditions at:0600 UTC 20 Jul 2024
Temperature: 11.0°C ( 52°F)
Dewpoint: 9.0°C ( 48°F) [RH = 87%]
Pressure (altimeter):30.00 inches Hg (1016.0 mb)
Winds:from the WNW (300 degrees) at 5 MPH (4 knots; 2.1 m/s)
Visibility:6 or more sm (10+ km)
Ceiling:1500 feet AGL
Clouds:overcast cloud deck at 1500 feet AGL
METAR for:SCRM (Teniente Marsh Arpt, CH, AQ)
Text:SCRM 200600Z 02023KT 1200 BLSN OVC010 M01/M02 Q0966
Conditions at:0600 UTC 20 Jul 2024
Temperature: -1.0°C ( 30°F)
Dewpoint: -2.0°C ( 28°F) [RH = 93%]
Pressure (altimeter):28.52 inches Hg ( 966.0 mb)
Winds:from the NNE (20 degrees) at 26 MPH (23 knots; 11.8 m/s)
Visibility:0.75 sm (1.21 km)
Ceiling:1000 feet AGL
Clouds:overcast cloud deck at 1000 feet AGL
Weather:BLSN (blowing snow)
METAR for:SCQP (Temuco Arpt, LL, CL)
Text:SCQP 200600Z 16009KT CAVOK 07/M01 Q1019
Conditions at:0600 UTC 20 Jul 2024
Temperature: 7.0°C ( 45°F)
Dewpoint: -1.0°C ( 30°F) [RH = 57%]
Pressure (altimeter):30.09 inches Hg (1019.0 mb)
Winds:from the SSE (160 degrees) at 10 MPH (9 knots; 4.6 m/s)
Visibility:6 or more sm (10+ km)
Ceiling:ceiling and visibility are OK
Clouds:unknown
METAR for:SCPQ (Monopulli Arpt, LL, CL)
Text:SCPQ 200600Z AUTO 17008KT 130V210 CAVOK 04/02 Q1025
Conditions at:0600 UTC 20 Jul 2024
Temperature: 4.0°C ( 39°F)
Dewpoint: 2.0°C ( 36°F) [RH = 87%]
Pressure (altimeter):30.27 inches Hg (1025.0 mb)
Winds:from the S (170 degrees) at 9 MPH (8 knots; 4.1 m/s)
Visibility:6 or more sm (10+ km)
Ceiling:ceiling and visibility are OK
Clouds:unknown
METAR for:SCJO (Osorno/Siebert Arpt, LL, CL)
Text:SCJO 200600Z AUTO 18006KT 150V210 CAVOK 04/03 Q1024
Conditions at:0600 UTC 20 Jul 2024
Temperature: 4.0°C ( 39°F)
Dewpoint: 3.0°C ( 37°F) [RH = 93%]
Pressure (altimeter):30.24 inches Hg (1024.0 mb)
Winds:from the S (180 degrees) at 7 MPH (6 knots; 3.1 m/s)
Visibility:6 or more sm (10+ km)
Ceiling:ceiling and visibility are OK
Clouds:unknown
METAR for:SCIP (Pascua Island Arpt, VS, CL)
Text:SCIP 200600Z 08009KT 9999 SCT020 SCT037 18/15 Q1030 RERA NOSIG
Conditions at:0600 UTC 20 Jul 2024
Temperature: 18.0°C ( 64°F)
Dewpoint: 15.0°C ( 59°F) [RH = 83%]
Pressure (altimeter):30.41 inches Hg (1030.0 mb)
Winds:from the E (80 degrees) at 10 MPH (9 knots; 4.6 m/s)
Visibility:6 or more sm (10+ km)
Ceiling:at least 12,000 feet AGL
Clouds:scattered clouds at 2000 feet AGL, scattered clouds at 3700 feet AGL
METAR for:SCIE (Concepcion/Sur Intl, BI, CL)
Text:SCIE 200600Z 20005KT 8000 NSC 03/02 Q1017
Conditions at:0600 UTC 20 Jul 2024
Temperature: 3.0°C ( 37°F)
Dewpoint: 2.0°C ( 36°F) [RH = 93%]
Pressure (altimeter):30.03 inches Hg (1017.0 mb)
Winds:from the SSW (200 degrees) at 6 MPH (5 knots; 2.6 m/s)
Visibility:5 sm (8 km)
Ceiling:at least 12,000 feet AGL
Clouds:sky clear below 12,000 feet AGL
METAR for:SCIC (Curico/Freire Arpt, ML, CL)
Text:SCIC 200600Z AUTO 02002KT //// R/////// // NCD 02/02 Q1016
Conditions at:0600 UTC 20 Jul 2024
Temperature: 2.0°C ( 36°F)
Dewpoint: 2.0°C ( 36°F) [RH = 100%]
Pressure (altimeter):30.00 inches Hg (1016.0 mb)
Winds:from the NNE (20 degrees) at 2 MPH (2 knots; 1.0 m/s)
Ceiling:at least 12,000 feet AGL
Clouds:sky clear below 12,000 feet AGL
METAR for:SCFT (Futaleufú Arpt, LL, CL)
Text:SCFT 200600Z AUTO 29003KT 2900 BR BKN001/// OVC004/// M03/M03 Q1027
Conditions at:0600 UTC 20 Jul 2024
Temperature: -3.0°C ( 27°F)
Dewpoint: -3.0°C ( 27°F) [RH = 100%]
Pressure (altimeter):30.32 inches Hg (1027.0 mb)
Winds:from the WNW (290 degrees) at 3 MPH (3 knots; 1.5 m/s)
Visibility:1.80 sm (2.90 km)
Ceiling:100 feet AGL
Clouds:broken clouds at 100 feet AGL, overcast cloud deck at 400 feet AGL
Weather:BR (mist)
METAR for:SCFA (Antofagasta/Sabella Arpt, AN, CL)
Text:SCFA 200600Z 24002KT 9999 OVC028 14/10 Q1017 NOSIG
Conditions at:0600 UTC 20 Jul 2024
Temperature: 14.0°C ( 57°F)
Dewpoint: 10.0°C ( 50°F) [RH = 77%]
Pressure (altimeter):30.03 inches Hg (1017.0 mb)
Winds:from the WSW (240 degrees) at 2 MPH (2 knots; 1.0 m/s)
Visibility:6 or more sm (10+ km)
Ceiling:2800 feet AGL
Clouds:overcast cloud deck at 2800 feet AGL
METAR for:SCEL (Santiago/Benítez Intl, RM, CL)
Text:SCEL 200600Z 04003KT 330V110 3000 BR NSC 06/06 Q1015 NOSIG
Conditions at:0600 UTC 20 Jul 2024
Temperature: 6.0°C ( 43°F)
Dewpoint: 6.0°C ( 43°F) [RH = 100%]
Pressure (altimeter):29.97 inches Hg (1015.0 mb)
Winds:from the NE (40 degrees) at 3 MPH (3 knots; 1.5 m/s)
Visibility:1.86 sm (2.99 km)
Ceiling:at least 12,000 feet AGL
Clouds:sky clear below 12,000 feet AGL
Weather:BR (mist)
METAR for:SCDA (Iquique/Diego Aracena Arpt, TA, CL)
Text:SCDA 200600Z 27003KT 9999 OVC022 15/10 Q1017
Conditions at:0600 UTC 20 Jul 2024
Temperature: 15.0°C ( 59°F)
Dewpoint: 10.0°C ( 50°F) [RH = 72%]
Pressure (altimeter):30.03 inches Hg (1017.0 mb)
Winds:from the W (270 degrees) at 3 MPH (3 knots; 1.5 m/s)
Visibility:6 or more sm (10+ km)
Ceiling:2200 feet AGL
Clouds:overcast cloud deck at 2200 feet AGL
METAR for:SCCI (Punta Arenas Arpt, MA, CL)
Text:SCCI 200600Z 33011KT 9999 SCT041 BKN051 07/02 Q0996 NOSIG
Conditions at:0600 UTC 20 Jul 2024
Temperature: 7.0°C ( 45°F)
Dewpoint: 2.0°C ( 36°F) [RH = 70%]
Pressure (altimeter):29.41 inches Hg ( 996.0 mb)
Winds:from the NNW (330 degrees) at 13 MPH (11 knots; 5.7 m/s)
Visibility:6 or more sm (10+ km)
Ceiling:5100 feet AGL
Clouds:scattered clouds at 4100 feet AGL, broken clouds at 5100 feet AGL
METAR for:SCCH (Chillan/OHiggins Arpt, BI, CL)
Text:SCCH 200600Z AUTO VRB02KT 8000 NCD M01/M02 Q1017
Conditions at:0600 UTC 20 Jul 2024
Temperature: -1.0°C ( 30°F)
Dewpoint: -2.0°C ( 28°F) [RH = 93%]
Pressure (altimeter):30.03 inches Hg (1017.0 mb)
Winds:variable direction winds at 2 MPH (2 knots; 1.0 m/s)
Visibility:5 sm (8 km)
Ceiling:at least 12,000 feet AGL
Clouds:sky clear below 12,000 feet AGL
METAR for:SCCF (Calama/El Loa Intl, AN, CL)
Text:SCCF 200600Z 12013KT CAVOK 08/M15 Q1026
Conditions at:0600 UTC 20 Jul 2024
Temperature: 8.0°C ( 46°F)
Dewpoint:-15.0°C ( 5°F) [RH = 18%]
Pressure (altimeter):30.30 inches Hg (1026.0 mb)
Winds:from the ESE (120 degrees) at 15 MPH (13 knots; 6.7 m/s)
Visibility:6 or more sm (10+ km)
Ceiling:ceiling and visibility are OK
Clouds:unknown
METAR for:SCAT (Desierto Atacama Arpt, AT, CL)
Text:SCAT 200600Z AUTO 11004KT 9999 SCT007/// 06/05 Q1016
Conditions at:0600 UTC 20 Jul 2024
Temperature: 6.0°C ( 43°F)
Dewpoint: 5.0°C ( 41°F) [RH = 93%]
Pressure (altimeter):30.00 inches Hg (1016.0 mb)
Winds:from the ESE (110 degrees) at 5 MPH (4 knots; 2.1 m/s)
Visibility:6 or more sm (10+ km)
Ceiling:at least 12,000 feet AGL
Clouds:scattered clouds at 700 feet AGL
METAR for:SCAR (Arica/Chacalluta Arpt, TA, CL)
Text:SCAR 200600Z VRB02KT 9999 OVC020 16/11 Q1016
Conditions at:0600 UTC 20 Jul 2024
Temperature: 16.0°C ( 61°F)
Dewpoint: 11.0°C ( 52°F) [RH = 72%]
Pressure (altimeter):30.00 inches Hg (1016.0 mb)
Winds:variable direction winds at 2 MPH (2 knots; 1.0 m/s)
Visibility:6 or more sm (10+ km)
Ceiling:2000 feet AGL
Clouds:overcast cloud deck at 2000 feet AGL
METAR for:SBVT (Vitoria/Salles Arpt, ES, BR)
Text:SBVT 200600Z 34003KT CAVOK 16/16 Q1023
Conditions at:0600 UTC 20 Jul 2024
Temperature: 16.0°C ( 61°F)
Dewpoint: 16.0°C ( 61°F) [RH = 100%]
Pressure (altimeter):30.21 inches Hg (1023.0 mb)
Winds:from the NNW (340 degrees) at 3 MPH (3 knots; 1.5 m/s)
Visibility:6 or more sm (10+ km)
Ceiling:ceiling and visibility are OK
Clouds:unknown
METAR for:SBUR (Uberaba Arpt, MG, BR)
Text:SBUR 200600Z 04006KT CAVOK 18/09 Q1024
Conditions at:0600 UTC 20 Jul 2024
Temperature: 18.0°C ( 64°F)
Dewpoint: 9.0°C ( 48°F) [RH = 56%]
Pressure (altimeter):30.24 inches Hg (1024.0 mb)
Winds:from the NE (40 degrees) at 7 MPH (6 knots; 3.1 m/s)
Visibility:6 or more sm (10+ km)
Ceiling:ceiling and visibility are OK
Clouds:unknown
METAR for:SBUL (Uberlandia Arpt, MG, BR)
Text:SBUL 200600Z 10007KT CAVOK 17/08 Q1025
Conditions at:0600 UTC 20 Jul 2024
Temperature: 17.0°C ( 63°F)
Dewpoint: 8.0°C ( 46°F) [RH = 55%]
Pressure (altimeter):30.27 inches Hg (1025.0 mb)
Winds:from the E (100 degrees) at 8 MPH (7 knots; 3.6 m/s)
Visibility:6 or more sm (10+ km)
Ceiling:ceiling and visibility are OK
Clouds:unknown
METAR for:SBTU (Tucuruí Arpt, PA, BR)
Text:SBTU 200600Z AUTO /////KT ///V/// //// // ///////// ///// Q////
Conditions at:0600 UTC 20 Jul 2024
METAR for:SBTE (Teresina Arpt, PI, BR)
Text:SBTE 200600Z 00000KT 9999 BKN040 26/20 Q1014
Conditions at:0600 UTC 20 Jul 2024
Temperature: 26.0°C ( 79°F)
Dewpoint: 20.0°C ( 68°F) [RH = 70%]
Pressure (altimeter):29.94 inches Hg (1014.0 mb)
Winds:calm
Visibility:6 or more sm (10+ km)
Ceiling:4000 feet AGL
Clouds:broken clouds at 4000 feet AGL
METAR for:SBSV (Salvador/Magalhaes Intl, BA, BR)
Text:SBSV 200600Z 15013KT 120V180 9999 SCT020 SCT070 25/18 Q1019
Conditions at:0600 UTC 20 Jul 2024
Temperature: 25.0°C ( 77°F)
Dewpoint: 18.0°C ( 64°F) [RH = 65%]
Pressure (altimeter):30.09 inches Hg (1019.0 mb)
Winds:from the SSE (150 degrees) at 15 MPH (13 knots; 6.7 m/s)
Visibility:6 or more sm (10+ km)
Ceiling:at least 12,000 feet AGL
Clouds:scattered clouds at 2000 feet AGL, scattered clouds at 7000 feet AGL
METAR for:SBSR (Sao Jose do Rio Preto Arpt, SP, BR)
Text:SBSR 200600Z 18005KT CAVOK 18/09 Q1023
Conditions at:0600 UTC 20 Jul 2024
Temperature: 18.0°C ( 64°F)
Dewpoint: 9.0°C ( 48°F) [RH = 56%]
Pressure (altimeter):30.21 inches Hg (1023.0 mb)
Winds:from the S (180 degrees) at 6 MPH (5 knots; 2.6 m/s)
Visibility:6 or more sm (10+ km)
Ceiling:ceiling and visibility are OK
Clouds:unknown
METAR for:SBSP (Sao Paulo/Congonhas, SP, BR)
Text:SBSP 200600Z AUTO 14003KT 110V220 0450 R17/0500N FG SCT000 OVC002 11/11 Q1026
Conditions at:0600 UTC 20 Jul 2024
Temperature: 11.0°C ( 52°F)
Dewpoint: 11.0°C ( 52°F) [RH = 100%]
Pressure (altimeter):30.30 inches Hg (1026.0 mb)
Winds:from the SE (140 degrees) at 3 MPH (3 knots; 1.5 m/s)
Visibility:0.28 sm (0.45 km)
Ceiling:200 feet AGL
Clouds:scattered clouds at 0 feet AGL, overcast cloud deck at 200 feet AGL
Weather:FG (fog)
METAR for:SBSN (Santarem Intl, PA, BR)
Text:SBSN 200600Z 16002KT CAVOK 24/24 Q1013
Conditions at:0600 UTC 20 Jul 2024
Temperature: 24.0°C ( 75°F)
Dewpoint: 24.0°C ( 75°F) [RH = 100%]
Pressure (altimeter):29.91 inches Hg (1013.0 mb)
Winds:from the SSE (160 degrees) at 2 MPH (2 knots; 1.0 m/s)
Visibility:6 or more sm (10+ km)
Ceiling:ceiling and visibility are OK
Clouds:unknown
METAR for:SBSL (Sao Luis/Machado Intl, MA, BR)
Text:SBSL 200600Z 03003KT CAVOK 25/24 Q1016
Conditions at:0600 UTC 20 Jul 2024
Temperature: 25.0°C ( 77°F)
Dewpoint: 24.0°C ( 75°F) [RH = 94%]
Pressure (altimeter):30.00 inches Hg (1016.0 mb)
Winds:from the NNE (30 degrees) at 3 MPH (3 knots; 1.5 m/s)
Visibility:6 or more sm (10+ km)
Ceiling:ceiling and visibility are OK
Clouds:unknown
METAR for:SBSJ (Sao Jose dos Campos Arpt, SP, BR)
Text:SBSJ 200600Z 14003KT 4000 BR NSC 11/11 Q1026
Conditions at:0600 UTC 20 Jul 2024
Temperature: 11.0°C ( 52°F)
Dewpoint: 11.0°C ( 52°F) [RH = 100%]
Pressure (altimeter):30.30 inches Hg (1026.0 mb)
Winds:from the SE (140 degrees) at 3 MPH (3 knots; 1.5 m/s)
Visibility:2.49 sm (4.01 km)
Ceiling:at least 12,000 feet AGL
Clouds:sky clear below 12,000 feet AGL
Weather:BR (mist)
METAR for:SBSG (Natal/Alves Intl, RN, BR)
Text:SBSG 200600Z 20004KT 170V250 CAVOK 21/19 Q1017
Conditions at:0600 UTC 20 Jul 2024
Temperature: 21.0°C ( 70°F)
Dewpoint: 19.0°C ( 66°F) [RH = 88%]
Pressure (altimeter):30.03 inches Hg (1017.0 mb)
Winds:from the SSW (200 degrees) at 5 MPH (4 knots; 2.1 m/s)
Visibility:6 or more sm (10+ km)
Ceiling:ceiling and visibility are OK
Clouds:unknown
METAR for:SBSC (Santa Cruz/Gusmao Arpt, RJ, BR)
Text:SBSC 200600Z 36001KT 9999 FEW015 15/15 Q1024
Conditions at:0600 UTC 20 Jul 2024
Temperature: 15.0°C ( 59°F)
Dewpoint: 15.0°C ( 59°F) [RH = 100%]
Pressure (altimeter):30.24 inches Hg (1024.0 mb)
Winds:from the N (360 degrees) at 1 MPH (1 knots; 0.5 m/s)
Visibility:6 or more sm (10+ km)
Ceiling:at least 12,000 feet AGL
Clouds:few clouds at 1500 feet AGL
METAR for:SBRP (Ribeirao Preto/Lopes Arpt, SP, BR)
Text:SBRP 200600Z 11005KT CAVOK 16/09 Q1023
Conditions at:0600 UTC 20 Jul 2024
Temperature: 16.0°C ( 61°F)
Dewpoint: 9.0°C ( 48°F) [RH = 63%]
Pressure (altimeter):30.21 inches Hg (1023.0 mb)
Winds:from the ESE (110 degrees) at 6 MPH (5 knots; 2.6 m/s)
Visibility:6 or more sm (10+ km)
Ceiling:ceiling and visibility are OK
Clouds:unknown
METAR for:SBRJ (Rio de Janeiro/Dumont Arpt, RJ, BR)
Text:SBRJ 200600Z 00000KT 9999 FEW025 19/14 Q1024
Conditions at:0600 UTC 20 Jul 2024
Temperature: 19.0°C ( 66°F)
Dewpoint: 14.0°C ( 57°F) [RH = 73%]
Pressure (altimeter):30.24 inches Hg (1024.0 mb)
Winds:calm
Visibility:6 or more sm (10+ km)
Ceiling:at least 12,000 feet AGL
Clouds:few clouds at 2500 feet AGL
METAR for:SBRF (Recife Arpt, PE, BR)
Text:SBRF 200600Z 14013KT 9999 SCT025 SCT070 26/21 Q1017
Conditions at:0600 UTC 20 Jul 2024
Temperature: 26.0°C ( 79°F)
Dewpoint: 21.0°C ( 70°F) [RH = 74%]
Pressure (altimeter):30.03 inches Hg (1017.0 mb)
Winds:from the SE (140 degrees) at 15 MPH (13 knots; 6.7 m/s)
Visibility:6 or more sm (10+ km)
Ceiling:at least 12,000 feet AGL
Clouds:scattered clouds at 2500 feet AGL, scattered clouds at 7000 feet AGL
METAR for:SBRB (Rio Branco Intl, AC, BR)
Text:SBRB 200600Z 00000KT CAVOK 21/20 Q1016
Conditions at:0600 UTC 20 Jul 2024
Temperature: 21.0°C ( 70°F)
Dewpoint: 20.0°C ( 68°F) [RH = 94%]
Pressure (altimeter):30.00 inches Hg (1016.0 mb)
Winds:calm
Visibility:6 or more sm (10+ km)
Ceiling:ceiling and visibility are OK
Clouds:unknown
METAR for:SBPV (Porto Velho Intl, RO, BR)
Text:SBPV 200600Z 00000KT CAVOK 22/19 Q1014
Conditions at:0600 UTC 20 Jul 2024
Temperature: 22.0°C ( 72°F)
Dewpoint: 19.0°C ( 66°F) [RH = 83%]
Pressure (altimeter):29.94 inches Hg (1014.0 mb)
Winds:calm
Visibility:6 or more sm (10+ km)
Ceiling:ceiling and visibility are OK
Clouds:unknown
METAR for:SBPS (Porto Seguro Arpt, BA, BR)
Text:SBPS 200600Z 25003KT 9999 SCT020 BKN040 21/19 Q1021
Conditions at:0600 UTC 20 Jul 2024
Temperature: 21.0°C ( 70°F)
Dewpoint: 19.0°C ( 66°F) [RH = 88%]
Pressure (altimeter):30.15 inches Hg (1021.0 mb)
Winds:from the WSW (250 degrees) at 3 MPH (3 knots; 1.5 m/s)
Visibility:6 or more sm (10+ km)
Ceiling:4000 feet AGL
Clouds:scattered clouds at 2000 feet AGL, broken clouds at 4000 feet AGL
METAR for:SBPL (Petrolina Arpt, PE, BR)
Text:SBPL 200600Z 16009KT 9999 FEW020 21/17 Q1020
Conditions at:0600 UTC 20 Jul 2024
Temperature: 21.0°C ( 70°F)
Dewpoint: 17.0°C ( 63°F) [RH = 78%]
Pressure (altimeter):30.12 inches Hg (1020.0 mb)
Winds:from the SSE (160 degrees) at 10 MPH (9 knots; 4.6 m/s)
Visibility:6 or more sm (10+ km)
Ceiling:at least 12,000 feet AGL
Clouds:few clouds at 2000 feet AGL
METAR for:SBPJ (Palmas/Rodrigues Arpt, TP, BR)
Text:SBPJ 200600Z 10003KT CAVOK 22/15 Q1017
Conditions at:0600 UTC 20 Jul 2024
Temperature: 22.0°C ( 72°F)
Dewpoint: 15.0°C ( 59°F) [RH = 65%]
Pressure (altimeter):30.03 inches Hg (1017.0 mb)
Winds:from the E (100 degrees) at 3 MPH (3 knots; 1.5 m/s)
Visibility:6 or more sm (10+ km)
Ceiling:ceiling and visibility are OK
Clouds:unknown
METAR for:SBOI (Oiapoque Arpt, AP, BR)
Text:SBOI 200600Z AUTO 19001KT 9999 // OVC089/// 24/24 Q1014
Conditions at:0600 UTC 20 Jul 2024
Temperature: 24.0°C ( 75°F)
Dewpoint: 24.0°C ( 75°F) [RH = 100%]
Pressure (altimeter):29.94 inches Hg (1014.0 mb)
Winds:from the S (190 degrees) at 1 MPH (1 knots; 0.5 m/s)
Visibility:6 or more sm (10+ km)
Ceiling:8900 feet AGL
Clouds:overcast cloud deck at 8900 feet AGL
METAR for:SBNT (Natal/Severo Arpt, RN, BR)
Text:SBNT 200600Z 19005KT CAVOK 21/20 Q1016
Conditions at:0600 UTC 20 Jul 2024
Temperature: 21.0°C ( 70°F)
Dewpoint: 20.0°C ( 68°F) [RH = 94%]
Pressure (altimeter):30.00 inches Hg (1016.0 mb)
Winds:from the S (190 degrees) at 6 MPH (5 knots; 2.6 m/s)
Visibility:6 or more sm (10+ km)
Ceiling:ceiling and visibility are OK
Clouds:unknown
METAR for:SBMS (Mossoro Arpt, RN, BR)
Text:SBMS 200600Z 14007KT CAVOK 25/19 Q1016
Conditions at:0600 UTC 20 Jul 2024
Temperature: 25.0°C ( 77°F)
Dewpoint: 19.0°C ( 66°F) [RH = 69%]
Pressure (altimeter):30.00 inches Hg (1016.0 mb)
Winds:from the SE (140 degrees) at 8 MPH (7 knots; 3.6 m/s)
Visibility:6 or more sm (10+ km)
Ceiling:ceiling and visibility are OK
Clouds:unknown
METAR for:SBMQ (Macapá Intl, AP, BR)
Text:SBMQ 200600Z 27007KT 9999 VCSH BKN017 FEW045TCU SCT100 26/26 Q1014
Conditions at:0600 UTC 20 Jul 2024
Temperature: 26.0°C ( 79°F)
Dewpoint: 26.0°C ( 79°F) [RH = 100%]
Pressure (altimeter):29.94 inches Hg (1014.0 mb)
Winds:from the W (270 degrees) at 8 MPH (7 knots; 3.6 m/s)
Visibility:6 or more sm (10+ km)
Ceiling:1700 feet AGL
Clouds:broken clouds at 1700 feet AGL, few clouds at 4500 feet AGL, scattered clouds at 10000 feet AGL
Weather:VCSH (showers in vicinity)
METAR for:SBMO (Maceio/Palmares Arpt, AL, BR)
Text:SBMO 200600Z 28003KT 9999 FEW011 BKN023 BKN070 22/21 Q1018
Conditions at:0600 UTC 20 Jul 2024
Temperature: 22.0°C ( 72°F)
Dewpoint: 21.0°C ( 70°F) [RH = 94%]
Pressure (altimeter):30.06 inches Hg (1018.0 mb)
Winds:from the W (280 degrees) at 3 MPH (3 knots; 1.5 m/s)
Visibility:6 or more sm (10+ km)
Ceiling:2300 feet AGL
Clouds:few clouds at 1100 feet AGL, broken clouds at 2300 feet AGL, broken clouds at 7000 feet AGL
METAR for:SBMN (Manaus/Ponta Peleda, AM, BR)
Text:SBMN 200600Z 07002KT CAVOK 25/22 Q1014
Conditions at:0600 UTC 20 Jul 2024
Temperature: 25.0°C ( 77°F)
Dewpoint: 22.0°C ( 72°F) [RH = 83%]
Pressure (altimeter):29.94 inches Hg (1014.0 mb)
Winds:from the ENE (70 degrees) at 2 MPH (2 knots; 1.0 m/s)
Visibility:6 or more sm (10+ km)
Ceiling:ceiling and visibility are OK
Clouds:unknown
METAR for:SBMG (Maringa Rgnl, PR, BR)
Text:SBMG 200600Z AUTO 09007KT CAVOK 18/11 Q1023
Conditions at:0600 UTC 20 Jul 2024
Temperature: 18.0°C ( 64°F)
Dewpoint: 11.0°C ( 52°F) [RH = 64%]
Pressure (altimeter):30.21 inches Hg (1023.0 mb)
Winds:from the E (90 degrees) at 8 MPH (7 knots; 3.6 m/s)
Visibility:6 or more sm (10+ km)
Ceiling:ceiling and visibility are OK
Clouds:unknown
METAR for:SBME (Macae Arpt, RJ, BR)
Text:SBME 200600Z 34002KT CAVOK 15/14 Q1024
Conditions at:0600 UTC 20 Jul 2024
Temperature: 15.0°C ( 59°F)
Dewpoint: 14.0°C ( 57°F) [RH = 94%]
Pressure (altimeter):30.24 inches Hg (1024.0 mb)
Winds:from the NNW (340 degrees) at 2 MPH (2 knots; 1.0 m/s)
Visibility:6 or more sm (10+ km)
Ceiling:ceiling and visibility are OK
Clouds:unknown
METAR for:SBMA (Marabá Arpt, PA, BR)
Text:SBMA 200600Z 00000KT CAVOK ///// Q1015
Conditions at:0600 UTC 20 Jul 2024
Pressure (altimeter):29.97 inches Hg (1015.0 mb)
Winds:calm
Visibility:6 or more sm (10+ km)
Ceiling:ceiling and visibility are OK
Clouds:unknown
METAR for:SBLO (Londrina Arpt, PR, BR)
Text:SBLO 200600Z 21005KT CAVOK 15/12 Q1024
Conditions at:0600 UTC 20 Jul 2024
Temperature: 15.0°C ( 59°F)
Dewpoint: 12.0°C ( 54°F) [RH = 82%]
Pressure (altimeter):30.24 inches Hg (1024.0 mb)
Winds:from the SSW (210 degrees) at 6 MPH (5 knots; 2.6 m/s)
Visibility:6 or more sm (10+ km)
Ceiling:ceiling and visibility are OK
Clouds:unknown
METAR for:SBLE (Chapada/Lencois Arpt, LE, BR)
Text:SBLE 200600Z AUTO /////KT ///V/// //// // ///////// ///// Q////
Conditions at:0600 UTC 20 Jul 2024
METAR for:SBKP (Campinas/Viracopos Arpt, SP, BR)
Text:SBKP 200600Z 15008KT 4000 BR NSC 14/13 Q1025
Conditions at:0600 UTC 20 Jul 2024
Temperature: 14.0°C ( 57°F)
Dewpoint: 13.0°C ( 55°F) [RH = 94%]
Pressure (altimeter):30.27 inches Hg (1025.0 mb)
Winds:from the SSE (150 degrees) at 9 MPH (8 knots; 4.1 m/s)
Visibility:2.49 sm (4.01 km)
Ceiling:at least 12,000 feet AGL
Clouds:sky clear below 12,000 feet AGL
Weather:BR (mist)
METAR for:SBKG (Campina Grande Arpt, PB, BR)
Text:SBKG 200600Z 13003KT CAVOK 19/18 Q1020
Conditions at:0600 UTC 20 Jul 2024
Temperature: 19.0°C ( 66°F)
Dewpoint: 18.0°C ( 64°F) [RH = 94%]
Pressure (altimeter):30.12 inches Hg (1020.0 mb)
Winds:from the SE (130 degrees) at 3 MPH (3 knots; 1.5 m/s)
Visibility:6 or more sm (10+ km)
Ceiling:ceiling and visibility are OK
Clouds:unknown
METAR for:SBJU (Juazeiro do Norte/Menezes Arpt, CE, BR)
Text:SBJU 200600Z 16003KT 9999 FEW020 22/18 Q1019
Conditions at:0600 UTC 20 Jul 2024
Temperature: 22.0°C ( 72°F)
Dewpoint: 18.0°C ( 64°F) [RH = 78%]
Pressure (altimeter):30.09 inches Hg (1019.0 mb)
Winds:from the SSE (160 degrees) at 3 MPH (3 knots; 1.5 m/s)
Visibility:6 or more sm (10+ km)
Ceiling:at least 12,000 feet AGL
Clouds:few clouds at 2000 feet AGL
METAR for:SBJP (Joao Pessoa/Pinto Arpt, PB, BR)
Text:SBJP 200600Z 20004KT 9999 FEW020 SCT070 22/22 Q1017
Conditions at:0600 UTC 20 Jul 2024
Temperature: 22.0°C ( 72°F)
Dewpoint: 22.0°C ( 72°F) [RH = 100%]
Pressure (altimeter):30.03 inches Hg (1017.0 mb)
Winds:from the SSW (200 degrees) at 5 MPH (4 knots; 2.1 m/s)
Visibility:6 or more sm (10+ km)
Ceiling:at least 12,000 feet AGL
Clouds:few clouds at 2000 feet AGL, scattered clouds at 7000 feet AGL
METAR for:SBIZ (Imperatriz Arpt, TO, BR)
Text:SBIZ 200600Z 17002KT CAVOK 24/14 Q1015
Conditions at:0600 UTC 20 Jul 2024
Temperature: 24.0°C ( 75°F)
Dewpoint: 14.0°C ( 57°F) [RH = 54%]
Pressure (altimeter):29.97 inches Hg (1015.0 mb)
Winds:from the S (170 degrees) at 2 MPH (2 knots; 1.0 m/s)
Visibility:6 or more sm (10+ km)
Ceiling:ceiling and visibility are OK
Clouds:unknown
METAR for:SBIP (Ipatinga/Usiminas Arpt, MG, BR)
Text:SBIP 200600Z AUTO 00000KT CAVOK 13/11 Q1024
Conditions at:0600 UTC 20 Jul 2024
Temperature: 13.0°C ( 55°F)
Dewpoint: 11.0°C ( 52°F) [RH = 88%]
Pressure (altimeter):30.24 inches Hg (1024.0 mb)
Winds:calm
Visibility:6 or more sm (10+ km)
Ceiling:ceiling and visibility are OK
Clouds:unknown
METAR for:SBGR (Sao Paulo Intl, PR, BR)
Text:SBGR 200600Z 00000KT 0300 R10L/0400N R28R/0400N R28L/0600D R10R/1700D FG OVC002 12/12 Q1026
Conditions at:0600 UTC 20 Jul 2024
Temperature: 12.0°C ( 54°F)
Dewpoint: 12.0°C ( 54°F) [RH = 100%]
Pressure (altimeter):30.30 inches Hg (1026.0 mb)
Winds:calm
Visibility:0.19 sm (0.31 km)
Ceiling:200 feet AGL
Clouds:overcast cloud deck at 200 feet AGL
Weather:FG (fog)
METAR for:SBGO (Goiania/Genoveva Arpt, GO, BR)
Text:SBGO 200600Z 00000KT CAVOK 17/10 Q1023
Conditions at:0600 UTC 20 Jul 2024
Temperature: 17.0°C ( 63°F)
Dewpoint: 10.0°C ( 50°F) [RH = 63%]
Pressure (altimeter):30.21 inches Hg (1023.0 mb)
Winds:calm
Visibility:6 or more sm (10+ km)
Ceiling:ceiling and visibility are OK
Clouds:unknown
METAR for:SBGL (Rio de Janeiro/Galeão Intl, RJ, BR)
Text:SBGL 200600Z 23003KT 7000 FEW008 16/14 Q1024
Conditions at:0600 UTC 20 Jul 2024
Temperature: 16.0°C ( 61°F)
Dewpoint: 14.0°C ( 57°F) [RH = 88%]
Pressure (altimeter):30.24 inches Hg (1024.0 mb)
Winds:from the SW (230 degrees) at 3 MPH (3 knots; 1.5 m/s)
Visibility:4 sm (7 km)
Ceiling:at least 12,000 feet AGL
Clouds:few clouds at 800 feet AGL
METAR for:SBFZ (Fortaleza/Martins Intl, GO, BR)
Text:SBFZ 200600Z 14012KT 9999 SCT020 SCT070 26/20 Q1015
Conditions at:0600 UTC 20 Jul 2024
Temperature: 26.0°C ( 79°F)
Dewpoint: 20.0°C ( 68°F) [RH = 70%]
Pressure (altimeter):29.97 inches Hg (1015.0 mb)
Winds:from the SE (140 degrees) at 14 MPH (12 knots; 6.2 m/s)
Visibility:6 or more sm (10+ km)
Ceiling:at least 12,000 feet AGL
Clouds:scattered clouds at 2000 feet AGL, scattered clouds at 7000 feet AGL
METAR for:SBFN (Fernando de Noronha Arpt, RN, BR)
Text:SBFN 200600Z AUTO 15014KT 9999 FEW024 25/21 Q1016
Conditions at:0600 UTC 20 Jul 2024
Temperature: 25.0°C ( 77°F)
Dewpoint: 21.0°C ( 70°F) [RH = 79%]
Pressure (altimeter):30.00 inches Hg (1016.0 mb)
Winds:from the SSE (150 degrees) at 16 MPH (14 knots; 7.2 m/s)
Visibility:6 or more sm (10+ km)
Ceiling:at least 12,000 feet AGL
Clouds:few clouds at 2400 feet AGL
METAR for:SBFL (Florianopolis Intl, SC, BR)
Text:SBFL 200600Z 33005KT 0100 R14/0600N R32/0600N FG VV001 15/14 Q1024
Conditions at:0600 UTC 20 Jul 2024
Temperature: 15.0°C ( 59°F)
Dewpoint: 14.0°C ( 57°F) [RH = 94%]
Pressure (altimeter):30.24 inches Hg (1024.0 mb)
Winds:from the NNW (330 degrees) at 6 MPH (5 knots; 2.6 m/s)
Visibility:0.06 sm (0.10 km)
Ceiling:indefinite ceiling with vertical visibility of 100 feet AGL
Clouds:obscured sky
Weather:FG (fog)
METAR for:SBFI (Foz do Iguacu Arpt, PR, BR)
Text:SBFI 200600Z 14004KT CAVOK 18/16 Q1022
Conditions at:0600 UTC 20 Jul 2024
Temperature: 18.0°C ( 64°F)
Dewpoint: 16.0°C ( 61°F) [RH = 88%]
Pressure (altimeter):30.18 inches Hg (1022.0 mb)
Winds:from the SE (140 degrees) at 5 MPH (4 knots; 2.1 m/s)
Visibility:6 or more sm (10+ km)
Ceiling:ceiling and visibility are OK
Clouds:unknown
METAR for:SBEG (Manaus/Gomes Intl, AM, BR)
Text:SBEG 200600Z 00000KT CAVOK 24/22 Q1014
Conditions at:0600 UTC 20 Jul 2024
Temperature: 24.0°C ( 75°F)
Dewpoint: 22.0°C ( 72°F) [RH = 89%]
Pressure (altimeter):29.94 inches Hg (1014.0 mb)
Winds:calm
Visibility:6 or more sm (10+ km)
Ceiling:ceiling and visibility are OK
Clouds:unknown
METAR for:SBDN (Presidente Prudente Arpt, SP, BR)
Text:SBDN 200600Z 13007KT CAVOK 17/10 Q1022
Conditions at:0600 UTC 20 Jul 2024
Temperature: 17.0°C ( 63°F)
Dewpoint: 10.0°C ( 50°F) [RH = 63%]
Pressure (altimeter):30.18 inches Hg (1022.0 mb)
Winds:from the SE (130 degrees) at 8 MPH (7 knots; 3.6 m/s)
Visibility:6 or more sm (10+ km)
Ceiling:ceiling and visibility are OK
Clouds:unknown
METAR for:SBCZ (Cruzeiro Do Sul Intl, AC, BR)
Text:SBCZ 200600Z 00000KT CAVOK 20/19 Q1016
Conditions at:0600 UTC 20 Jul 2024
Temperature: 20.0°C ( 68°F)
Dewpoint: 19.0°C ( 66°F) [RH = 94%]
Pressure (altimeter):30.00 inches Hg (1016.0 mb)
Winds:calm
Visibility:6 or more sm (10+ km)
Ceiling:ceiling and visibility are OK
Clouds:unknown
METAR for:SBCY (Cuiabá/Rondon Arpt, MT, BR)
Text:SBCY 200600Z 32002KT CAVOK 18/13 Q1017
Conditions at:0600 UTC 20 Jul 2024
Temperature: 18.0°C ( 64°F)
Dewpoint: 13.0°C ( 55°F) [RH = 73%]
Pressure (altimeter):30.03 inches Hg (1017.0 mb)
Winds:from the NW (320 degrees) at 2 MPH (2 knots; 1.0 m/s)
Visibility:6 or more sm (10+ km)
Ceiling:ceiling and visibility are OK
Clouds:unknown
METAR for:SBCT (Curitiba/Pena Intl, PR, BR)
Text:SBCT 200600Z 20004KT 150V220 4000 BR FEW002 07/07 Q1027
Conditions at:0600 UTC 20 Jul 2024
Temperature: 7.0°C ( 45°F)
Dewpoint: 7.0°C ( 45°F) [RH = 100%]
Pressure (altimeter):30.32 inches Hg (1027.0 mb)
Winds:from the SSW (200 degrees) at 5 MPH (4 knots; 2.1 m/s)
Visibility:2.49 sm (4.01 km)
Ceiling:at least 12,000 feet AGL
Clouds:few clouds at 200 feet AGL
Weather:BR (mist)
METAR for:SBCO (Porto Alegre/Canoas(, RS, BR)
Text:SBCO 200600Z 15002KT 9999 OVC008 14/12 Q1026
Conditions at:0600 UTC 20 Jul 2024
Temperature: 14.0°C ( 57°F)
Dewpoint: 12.0°C ( 54°F) [RH = 88%]
Pressure (altimeter):30.30 inches Hg (1026.0 mb)
Winds:from the SSE (150 degrees) at 2 MPH (2 knots; 1.0 m/s)
Visibility:6 or more sm (10+ km)
Ceiling:800 feet AGL
Clouds:overcast cloud deck at 800 feet AGL
METAR for:SBCG (Campo Grande Intl, MS, BR)
Text:SBCG 200600Z 08010KT CAVOK 21/08 Q1022
Conditions at:0600 UTC 20 Jul 2024
Temperature: 21.0°C ( 70°F)
Dewpoint: 8.0°C ( 46°F) [RH = 43%]
Pressure (altimeter):30.18 inches Hg (1022.0 mb)
Winds:from the E (80 degrees) at 12 MPH (10 knots; 5.1 m/s)
Visibility:6 or more sm (10+ km)
Ceiling:ceiling and visibility are OK
Clouds:unknown
METAR for:SBCF (Belo Horizonte/Neves Intl, MG, BR)
Text:SBCF 200600Z 15003KT CAVOK 15/10 Q1025
Conditions at:0600 UTC 20 Jul 2024
Temperature: 15.0°C ( 59°F)
Dewpoint: 10.0°C ( 50°F) [RH = 72%]
Pressure (altimeter):30.27 inches Hg (1025.0 mb)
Winds:from the SSE (150 degrees) at 3 MPH (3 knots; 1.5 m/s)
Visibility:6 or more sm (10+ km)
Ceiling:ceiling and visibility are OK
Clouds:unknown
METAR for:SBBV (Boa Vista Arpt, RR, BR)
Text:SBBV 200600Z 00000KT 9999 VCTS FEW015 SCT025 FEW035CB 25/24 Q1014
Conditions at:0600 UTC 20 Jul 2024
Temperature: 25.0°C ( 77°F)
Dewpoint: 24.0°C ( 75°F) [RH = 94%]
Pressure (altimeter):29.94 inches Hg (1014.0 mb)
Winds:calm
Visibility:6 or more sm (10+ km)
Ceiling:at least 12,000 feet AGL
Clouds:few clouds at 1500 feet AGL, scattered clouds at 2500 feet AGL, few clouds at 3500 feet AGL
Weather:VCTS (thunderstorm in vicinity)
METAR for:SBBR (Brasília Intl, DF, BR)
Text:SBBR 200600Z 29002KT CAVOK 12/09 Q1024
Conditions at:0600 UTC 20 Jul 2024
Temperature: 12.0°C ( 54°F)
Dewpoint: 9.0°C ( 48°F) [RH = 82%]
Pressure (altimeter):30.24 inches Hg (1024.0 mb)
Winds:from the WNW (290 degrees) at 2 MPH (2 knots; 1.0 m/s)
Visibility:6 or more sm (10+ km)
Ceiling:ceiling and visibility are OK
Clouds:unknown
METAR for:SBBG (Bage/Kraemer Arpt, RS, BR)
Text:SBBG 200600Z AUTO 09009KT 9999 OVC010 12/10 Q1026
Conditions at:0600 UTC 20 Jul 2024
Temperature: 12.0°C ( 54°F)
Dewpoint: 10.0°C ( 50°F) [RH = 88%]
Pressure (altimeter):30.30 inches Hg (1026.0 mb)
Winds:from the E (90 degrees) at 10 MPH (9 knots; 4.6 m/s)
Visibility:6 or more sm (10+ km)
Ceiling:1000 feet AGL
Clouds:overcast cloud deck at 1000 feet AGL
METAR for:SBBE (Belem/Val de Cans Arpt, PA, BR)
Text:SBBE 200600Z 05005KT CAVOK 26/24 Q1014
Conditions at:0600 UTC 20 Jul 2024
Temperature: 26.0°C ( 79°F)
Dewpoint: 24.0°C ( 75°F) [RH = 89%]
Pressure (altimeter):29.94 inches Hg (1014.0 mb)
Winds:from the NE (50 degrees) at 6 MPH (5 knots; 2.6 m/s)
Visibility:6 or more sm (10+ km)
Ceiling:ceiling and visibility are OK
Clouds:unknown
METAR for:SBAR (Aracaju/Santa Maria Intl, SP, BR)
Text:SBAR 200600Z 24005KT 4000 SHRA FEW011 BKN023 BKN030 23/21 Q1018
Conditions at:0600 UTC 20 Jul 2024
Temperature: 23.0°C ( 73°F)